ENHM 230650Z 35024KT 9999 SCT028 BKN110 12/06 Q1003 W14/S4 UUOK 230700Z 34006MPS 9999 BKN040 17/08 Q1017 NOSIG RMK 12CLRD70 KIWI 230653Z AUTO 00000KT 10SM OVC031 15/14 A3013 RMK AO2 SLP203 T01500139 KJMR 230713Z AUTO 00000KT 10SM OVC022 18/17 A3005 RMK AO2 KJMS 230656Z AUTO 04008KT 10SM OVC025 17/15 A3007 RMK AO2 SLP180 T01720150 KIXA 230715Z AUTO 00000KT 7SM SCT042 BKN050 BKN090 22/21 A2994 RMK AO2 UUOO 230700Z 33003MPS 7000 -SHRA BKN021CB 14/12 Q1015 NOSIG RMK 30290250 KIXD 230653Z AUTO 17008KT 10SM CLR 25/22 A2992 RMK AO2 SLP116 T02500222 ENHV 222050Z 28008KT 9999 BKN030 08/02 Q1008 KM63 230656Z AUTO 06007KT 10SM CLR 19/17 A3009 RMK AO2 SLP128 T01910166 402420172 PPIZ 230700Z AUTO 20026G31KT 3SM -RA BR FEW004 10/08 A3002 RMK AO2 TSNO P0000 PK WND 20029/0659 $ KIYA 230715Z AUTO 00000KT 10SM CLR 24/24 A3001 RMK AO2 T02430241 ENKB 230650Z 10003KT 060V150 9999 FEW018 12/10 Q1002 KJNX 230715Z AUTO 00000KT 10SM CLR 23/23 A2993 RMK AO2 OYMB 230700Z 00000KT 9999 FEW030 36/06 Q1011 KIZA 230715Z AUTO 25003KT 10SM CLR 15/12 A2996 RMK AO2 ENLA 230650Z AUTO 31024KT 9999NDV BKN059/// 13/09 Q1005 W///S4 KJOT 230715Z AUTO 00000KT 5SM BR SCT065 23/22 A2997 RMK AO2 T02300220 FDST 230700Z AUTO 34004KT //// // ////// 13/M06 Q//// KJQF 230715Z AUTO 00000KT 10SM CLR 23/22 A2998 RMK AO2 LBGO 230700Z 00000MPS CAVOK 25/22 Q1016 NOSIG KIZG 230712Z AUTO 00000KT 9SM FEW003 OVC046 13/13 A3014 RMK AO2 T01330128 ENKR 230650Z 33010KT 9999 BKN027 08/03 Q1008 RMK WIND 775FT 32014KT ENLK 230650Z 01010KT 9999 FEW015 BKN080 11/08 Q1006 KN03 230715Z AUTO 00000KT 10SM OVC016 17/16 A3007 RMK AO2 ENMH 230450Z 26010KT 9999 BKN023 07/03 Q1007 KLAA 230653Z AUTO 14003KT 10SM BKN110 19/17 A2996 RMK AO2 SLP095 T01890167 403390156 ENNA 230650Z VRB01KT 9999 BKN037 09/05 Q1008 RMK WIND 1800FT 36002KT FDUS 230700Z AUTO 00000KT //// // ////// ///// Q0993 ENML 230650Z 09004KT 040V120 9999 FEW005 12/10 Q1002 ENNE 230650Z 06015KT 9999 FEW012 SCT035 12/10 Q1005 W12/S/ KLAF 230717Z AUTO 00000KT 1/2SM FG VV002 21/21 A2996 RMK AO2 T02060206 $ ENOA 230650Z 34031KT 9000 -RA FEW015CB BKN035 11/10 Q1001 W///S4 ENMS 230650Z 11003KT 2000 BR VV008 11/11 Q1005 RMK WIND 412FT VRB01KT KLBB 230653Z 24008KT 10SM SCT075 SCT120 BKN270 24/15 A3006 RMK AO2 SLP120 T02440150 ENNK 230650Z 06003KT 9999 FEW020 BKN070 12/09 Q1007 KJTC 230715Z AUTO 22004KT 10SM CLR 09/06 A3027 RMK AO2 KLAL 230715Z AUTO 00000KT 10SM CLR 24/24 A2998 RMK AO2 KLAM 230715Z AUTO 00000KT 10SM SCT090 13/09 A3025 RMK AO2 T01280094 ENNM 230650Z 04005KT CAVOK 13/10 Q1004 KLAN 230653Z 06003KT 10SM OVC031 22/19 A3002 RMK AO2 SLP160 T02220189 KLBE 230715Z AUTO 00000KT 3SM BR OVC002 21/21 A2999 RMK A02 P000 KLBF 230653Z AUTO 12014G20KT 10SM BKN003 BKN110 19/19 A2988 RMK AO2 RAE47 SLP092 P0006 T01940189 KJSO 230715Z AUTO 19006KT 10SM CLR 25/22 A3003 RMK AO2 T02500227 ENNO 221550Z 11006KT 9999 VCSH FEW058TCU BKN065 14/12 Q1003 LATI 230720Z 17003KT 140V210 CAVOK 26/16 Q1015 NOSIG KLAR 230653Z AUTO 16012KT 10SM FEW070 BKN090 12/11 A3008 RMK AO2 SLP081 T01220106 402170100 VMMC 230700Z 17009KT 9999 FEW018 SCT025 31/25 Q1008 NOSIG KLAS 230656Z 18017G25KT 10SM CLR 29/10 A2981 RMK AO2 PK WND 19027/0646 SLP066 T02890100 KJST 230654Z AUTO 17006KT 5SM BR OVC007 20/18 A3003 RMK AO2 SLP155 T02000183 KLBL 230715Z AUTO 21009KT 10SM CLR 21/16 A2997 RMK AO1 ENOL 230650Z 09005KT 9999 FEW012 BKN085 12/11 Q1003 NOSIG KJSV 230715Z AUTO 09003KT 10SM CLR 24/22 A2998 RMK AO2 KLAW 230653Z 19007KT 10SM CLR 27/13 A2994 RMK AO2 SLP123 T02720128 KLAX 230653Z VRB04KT 10SM OVC013 20/17 A2996 RMK AO2 SLP143 T02000167 KLCG 230715Z AUTO 14004KT 10SM -VCTSRA SCT080 BKN110 21/20 A2998 RMK AO2 LTG DSNT ALQS P0001 T02050196 KLCH 230653Z AUTO 00000KT 10SM CLR 26/25 A2999 RMK AO2 SLP164 T02610250 KLCI 230715Z AUTO 00000KT 10SM OVC085 16/13 A3012 RMK AO1 KLBR 230715Z AUTO 11003KT 4SM BKN001 25/21 A2999 RMK AO1 T02480210 KN38 230715Z AUTO 18005KT 1 3/4SM BR OVC004 19/19 A3005 RMK AO2 ENQA 230650Z AUTO 10006KT 9999NDV BKN049/// 12/09 Q1001 RERA W13/S4 KLBT 230654Z AUTO 00000KT 10SM FEW095 24/23 A2991 RMK AO2 SLP126 T02440228 KLCK 230715Z AUTO 00000KT 1/4SM FG OVC004 21/19 A2997 RMK AO2 T02120190 ENQC 230650Z AUTO 10009KT 9999NDV -SHRA BKN041/// 13/11 Q1001 RESHRA W///S4 ENOV 230650Z 00000KT 9999 FEW015 SCT120 BKN200 10/10 Q1002 RMK WIND 2175FT 06003KT KLBX 230653Z AUTO 00000KT 10SM CLR 24/23 A2999 RMK AO2 SLP156 T02440233 KLCQ 230715Z AUTO 00000KT 10SM CLR 25/23 A2998 RMK AO2 VLVT 230700Z 36002KT 9999 SCT020 FEW050 32/26 Q1008 NOSIG KLDJ 230715Z AUTO 11006KT 10SM SCT043 22/16 A3005 RMK AO2 T02230158 KKLS 230715Z AUTO 00000KT 10SM CLR 16/12 A3012 RMK AO1 ENRA 230650Z 34003KT 9999 SCT045 BKN080 11/09 Q1006 KLEB 230653Z AUTO 00000KT 8SM BKN001 OVC065 16/14 A3012 RMK AO2 SLP195 T01610144 KJVL 230715Z AUTO 11003KT 4SM BR CLR 23/22 A2997 RMK AO2 OYRN 230700Z 16007KT 140V200 7000 FEW018 31/26 Q1005 KLDM 230714Z AUTO 11005KT 10SM BKN038 21/19 A3002 RMK AO2 T02080185 KLEE 230653Z AUTO 00000KT 10SM CLR 25/23 A3000 RMK AO2 SLP157 T02500228 OYSH 230700Z 09006KT 9999 FEW030 28/06 Q//// KJWG 230715Z AUTO 17006KT 10SM CLR 25/15 A2994 RMK AO2 T02510151 ENQR 230650Z AUTO 03024KT 8000NDV -SHRA /// ///// Q//// W///S4 KN60 230652Z AUTO 07010G18KT 17/14 A3011 RMK AO1 SLP194 T01670144 UUWW 230700Z VRB02MPS 9999 FEW033 17/08 Q1017 NOSIG ENSB 230650Z 34003KT 310V020 9999 FEW020 06/00 Q1008 RMK WIND 1400FT 03006KT OYSN 230700Z 06009KT 9999 SCT030 27/03 Q1023 NOSIG ENSD 221920Z 29007KT 260V350 9999 FEW075 14/08 Q1002 RMK WIND 1138FT 15003KT 100V180 UWGG 230600Z 33004MPS 9999 BKN022 BKN100 16/11 Q1014 NOSIG 36290050 RMK QFE753 ENRM 230620Z 08004KT 9999 VCSH FEW040 SCT080 12/11 Q1004 LCEN 230650Z 14004KT 070V180 CAVOK 34/13 Q1008 NOSIG RMK RWY11 16004KT 060V210 KJVW 230715Z AUTO 00000KT 5SM HZ CLR 23/20 A3002 RMK AO2 ENSE 230650Z AUTO 01024KT 9999NDV FEW025/// SCT041/// 12/09 Q1003 W///S4 OYSQ 230700Z 19030KT 9999 FEW018 31/23 Q1005 ENRO 230650Z AUTO VRB03KT 9999NDV FEW010/// BKN041/// OVC060/// 09/08 Q1003 ENSF 230650Z AUTO 36027KT 9999NDV SCT015/// BKN048/// BKN056/// 12/10 Q1003 W///S4 ENSG 230650Z 06006KT 9999 FEW/// BKN055 08/08 Q1001 RMK WIND 3901FT /////KT ENSH 230350Z 01009KT 9999 VCSH FEW024 BKN060 10/05 Q1006 KLFI 230703Z AUTO 09007KT 10SM SCT015 24/23 A2994 RMK AO2 KJXI 230715Z AUTO 18003KT 10SM CLR 26/23 A3001 RMK AO2 KLGA 230651Z 09009KT 10SM SCT060 20/15 A3004 RMK AO2 SLP172 T02000150 ENRS 230650Z 01014KT 9999 FEW006 SCT035 10/09 Q1006 KLFK 230653Z AUTO 18003KT 10SM CLR 26/23 A3001 RMK AO2 SLP157 T02610228 KLGB 230653Z 00000KT 10SM OVC016 21/17 A2995 RMK AO2 SLP142 T02060167 ENSK 221950Z 05007KT 9999 SCT020 BKN075 10/07 Q1007 KLGC 230715Z AUTO 00000KT 1SM BR VV007 25/25 A3000 RMK AO2 VIS 1/2V5 T02490247 EPBC 230600Z 16005KT CAVOK 16/12 Q1013= ENTC 230650Z 02007KT 9999 BKN019 09/05 Q1008 NOSIG RMK WIND 2600FT 30003KT ENSL 230650Z 32026KT 9999 -SHRA BKN033 12/09 Q1005 W09/S4 KLGD 230715Z AUTO 03006KT 10SM FEW065 OVC110 13/04 A3005 RMK AO1 LBPD 230700Z 00000MPS 8000 FEW013 SCT023 25/22 Q1017 NOSIG KJXN 230712Z 00000KT 10SM SCT016 22/19 A3002 RMK AO2 T02170194 KLEW 230715Z AUTO 36004KT 10SM FEW050 OVC070 14/13 A3013 RMK AO1 ENSN 221720Z 12004KT 9999 FEW007 BKN037 12/11 Q1003 KLEX 230654Z 00000KT 10SM CLR 22/21 A3001 RMK AO2 SLP151 T02220206 OYSY 230700Z AUTO 28004KT 220V320 //// ////// 37/14 Q1007 ENSO 221750Z VRB01KT 9999 FEW015CB SCT050 BKN075 12/10 Q1002 KJYG 230715Z AUTO 07003KT 5SM BR CLR 21/19 A3000 RMK AO2 KJWY 230715Z AUTO 15005KT 10SM CLR 25/19 A2999 RMK AO2 T02510190 ENRY 230650Z VRB02KT 9999 FEW002 BKN060 12/11 Q1002 REDZ ENSR 221850Z 02009KT 9999 FEW022 BKN045 09/06 Q1008 RMK WIND 1119FT 05010KT ENSS 230650Z 30008KT 9999 SCT026 BKN034 08/03 Q1007 RMK WIND 500FT 30006KT KLFT 230653Z AUTO 00000KT 10SM CLR 27/25 A3001 RMK AO2 SLP162 T02670250 KLHB 230715Z AUTO 13005KT 10SM 26/23 A3000 RMK AO2 T02570227 ENST 230650Z VRB02KT 9999 FEW045 BKN080 13/12 Q1005 RMK WIND 300FT 06003KT KJYL 230715Z AUTO 00000KT 10SM CLR 24/24 A2994 RMK AO2 T02410237 KJYM 230715Z AUTO 11003KT 7SM SCT034 21/20 A3002 RMK AO2 T02080204 UUYY 230700Z 25003MPS 9999 BKN018CB OVC066 13/11 Q1006 TEMPO 2000 TSRA 1919//55 RMK QFE746/0995 EPCE 230630Z 22006KT 190V250 9999 OVC104 14/08 Q1009 RMK 143 065 8/8= KJYO 230715Z AUTO 13003KT 10SM OVC016 23/22 A3000 RMK AO2 OYTZ 230700Z 00000KT CAVOK 30/05 Q1015 ENTO 230650Z 36006KT 9999 VCFG FEW003 BKN032 12/11 Q1002 KJZI 230735Z AUTO 00000KT 10SM CLR 28/26 A2992 RMK A02 P000 KJYR 230715Z AUTO 07011KT 10SM SCT110 20/ A2995 RMK AO2 LTG DSNT NE AND E EPDA 230700Z 21007KT 180V280 9999 BKN063 BKN092 14/11 Q1009 RMK 142 081 7/5 = ENVA 230650Z 10003KT 9999 FEW001 BKN083 11/10 Q1004 NOSIG RMK WIND 670FT 08004KT FGBT 230600Z 00000KT 8000 FEW010 BKN120 24/22 Q1014 NOSIG KLGU 230651Z AUTO 08009KT 10SM FEW060 SCT070 BKN110 13/09 A3000 RMK AO2 RAE47 SLP121 P0011 T01330094 402000122 KLIC 230655Z AUTO 27004KT 10SM CLR 13/13 A3003 RMK AO2 SLP102 T01330133 402610128 KLHM 230715Z AUTO 17006KT 10SM CLR 17/12 A2986 RMK AO1 ENVD 230650Z 28008KT 9999 BKN033 09/02 Q1007 EPDE 230630Z VRB02KT CAVOK 16/12 Q1015 RMK 155 080 7/2= EPBY 230700Z 22006KT CAVOK 16/10 Q1011 KLHQ 230653Z AUTO 00000KT 1/4SM FG VV001 22/21 A2997 RMK AO2 SLP141 T02170206 ENVH 230650Z AUTO 30016KT 9999NDV FEW020/// BKN050/// 12/09 Q1006 W///S3 UWKD 230700Z 31009MPS 9999 BKN050CB BKN070 22/14 Q1011 R29/CLRD70 TEMPO VRB15MPS TSRA RMK QFE747/0996 UWKE 230700Z 30005MPS 9999 FEW030 23/15 Q1010 NOSIG RMK QFE741/0988 21090070 KMAE 230653Z AUTO 10SM CLR 22/13 A2986 RMK AO2 SLP107 T02220128 $ KLHW 230718Z AUTO 23003KT 5SM R33/4500FT HZ CLR 27/23 A2993 RMK AO2 KMAF 230653Z AUTO 14006KT 10SM SCT100 26/11 A3003 RMK AO2 SLP118 T02560111 KLHX 230653Z AUTO 18004KT 10SM CLR 18/17 A2999 RMK AO2 SLP096 T01830167 403170178 KLJF 230712Z AUTO 07003KT 10SM SCT085 21/21 A3001 RMK AO2 LBSF 230700Z 09004MPS 9000 FEW021 BKN024 24/20 Q1018 NOSIG DXNG 230700Z 27005KT 240V300 9999 BKN005 21/20 Q1017 NOSIG KLHZ 230715Z AUTO 00000KT 7SM SCT050 22/22 A2995 RMK AO2 VOCB 230700Z 23012KT 6000 FEW015 FEW020TCU SCT080 30/22 Q1009 NOSIG KMAI 230653Z AUTO 00000KT 9SM CLR 26/26 A2998 RMK AO2 SLP149 T02610256 VOBL 230700Z 16006KT 120V280 9999 SCT015 32/22 Q1012 NOSIG KLIT 230653Z 20004KT 10SM CLR 26/23 A2999 RMK AO2 SLP154 T02610228 KO22 230715Z AUTO 00000KT 10SM CLR 16/08 A2993 RMK AO1 KMAN 230715Z AUTO 28008KT 10SM CLR 15/07 A2998 RMK AO1 KMAO 230715Z AUTO 00000KT 5SM BR CLR 24/23 A2991 RMK AO2 VOCI 230700Z 20004KT 3000 -RA SCT004 SCT015 OVC080 25/24 Q1009 NOSIG KMBG 230709Z AUTO 08014G23KT 10SM VCTS -RA FEW010 BKN048 OVC060 19/18 A2997 RMK AO2 LTG DSNT SW RAB02 P0000 T01940183 UWKS 230700Z 28003MPS 9999 BKN010CB BKN066 19/16 Q1011 NOSIG RMK QFE744 24CLRD60 VNKT 230650Z 20004KT 8000 FEW020 FEW025CB SCT030 BKN100 27/22 Q1014 NOSIG CB TO N VOCL 230700Z 00000KT 8000 SCT012 SCT018 BKN090 28/25 Q1008 NOSIG KMCB 230653Z AUTO 00000KT 10SM CLR 25/23 A3002 RMK AO2 SLP158 T02500233 KMBL 230715Z AUTO 11004KT 10SM CLR 19/17 A3003 RMK AO1 KMCD 230718Z AUTO 11004KT 4SM BR CLR 17/17 A3006 RMK AO2 T01680168 KMCE 230653Z AUTO 31007KT 10SM CLR 23/11 A2986 RMK AO2 SLP110 T02280111 EPGD 230700Z 23007KT CAVOK 16/08 Q1010 KMCF 230658Z AUTO 11002KT 10SM CLR 24/23 A2998 RMK AO2 SLP155 T02410231 $ KLKR 230715Z AUTO 00000KT 10SM CLR 24/24 A2994 RMK AO2 KMCI 230653Z 15007KT 10SM BKN150 26/21 A2991 RMK AO2 SLP114 T02560206 KMBS 230653Z 03003KT 10SM CLR 18/16 A3004 RMK AO2 SLP171 T01780161 KLLJ 230655Z AUTO 17003KT 10SM OVC100 08/06 A3008 RMK AO2 SLP164 T00780061 401440067 KMCJ 230715Z AUTO 00000KT 10SM CLR 27/24 A2997 RMK AO1 KMCK 230653Z AUTO 07005KT 10SM CLR 19/18 A2990 RMK AO2 SLP095 T01940183 LCLK 230700Z 12005KT 9999 FEW008 31/23 Q1007 NOSIG UWLW 230700Z 26002MPS 8000 SCT100 25/17 Q1010 20CLRD60 NOSIG RMK QFE752 KLKU 230715Z AUTO 09005KT 4SM BR BKN004 OVC010 22/21 A2997 RMK AO2 KLKV 230715Z AUTO 36008KT 10SM CLR 12/M02 A3014 RMK AO1 KMDD 230715Z AUTO 15008KT 10SM CLR 27/08 A3004 RMK AO2 LTG DSNT W T02700084 KMCN 230653Z AUTO 00000KT 10SM CLR 23/23 A2997 RMK AO2 SLP143 T02330233 TSNO $ KMCO 230653Z 17003KT 10SM CLR 23/22 A2999 RMK AO2 SLP152 T02330222 KMDH 230652Z AUTO 20004KT 10SM FEW100 26/24 A2995 RMK AO2 SLP135 T02610239 KLLQ 230653Z AUTO 24004KT 10SM CLR 27/22 A3000 RMK AO2 SLP154 T02670222 KMDJ 230715Z AUTO VRB03KT 10SM CLR 30/24 A3004 RMK A01 KMEB 230652Z AUTO 35005KT 10SM SCT065 25/22 A2995 RMK AO2 SLP138 T02500222 TSNO KLNC 230715Z AUTO 18007KT 10SM CLR 28/20 A2998 RMK AO2 T02760197 KLND 230721Z AUTO 00000KT 2 1/2SM RA BR OVC055 12/11 A3003 RMK AO2 P0004 T01170111 TSNO KMCW 230653Z AUTO 04007KT 6SM BR SCT050 22/21 A2999 RMK AO2 SLP142 T02170211 KLMO 230714Z AUTO 00000KT 10SM BKN046 18/15 A3004 RMK AO2 T01750150 KO54 230715Z AUTO 00000KT 10SM OVC021 15/07 A2997 RMK AO1 KMCX 230715Z AUTO 00000KT 5SM BR SCT002 22/22 A2997 RMK AO2 T02150215 KMEH 230656Z AUTO 00000KT 10SM SCT090 BKN100 09/08 A3009 RMK AO2 SLP178 T00890078 KMDQ 230715Z AUTO 00000KT 10SM CLR 22/19 A3003 RMK AO2 KMEI 230658Z AUTO 00000KT 10SM CLR 23/22 A3001 RMK AO2 SLP157 T02330217 KMDS 230710Z AUTO 07009KT 10SM FEW005 20/20 A2997 RMK AO2 KLMT 230653Z AUTO 03006KT 10SM CLR 14/04 A3009 RMK AO2 SLP157 T01390039 KLNK 230718Z AUTO 02012KT 3SM +TSRA BR SCT006 SCT024 OVC039 21/20 A2996 RMK AO2 LTG DSNT ALQDS RAB09 TSB04 P0011 T02110200 KMDT 230656Z 10006KT 10SM OVC025 22/17 A3000 RMK AO2 SLP158 T02170167 LDDU 230700Z 11004KT 080V140 CAVOK 25/18 Q1015 NOSIG KLNL 230715Z AUTO 00000KT 5SM BR OVC002 20/20 A3006 RMK AO2 T02000200 UWOO 230700Z 26007MPS P5000 BKN040CB 27/15 Q1009 26CLRD65 NOSIG RMK QFE747/0996 KMFD 230716Z 33003KT 1SM BR VV003 19/19 A3000 RMK AO2 KMEM 230654Z 21005KT 10SM CLR 27/22 A2999 RMK AO2 SLP151 T02670222 ENZV 230650Z 16003KT 9999 -SHRA SCT015CB BKN048 11/10 Q1002 KMDW 230651Z 00000KT 8SM BKN300 26/23 A2996 RMK AO2 SLP133 T02610233 KMFE 230653Z AUTO 13004KT 10SM CLR 27/24 A2999 RMK AO2 SLP154 T02720239 LBWN 230700Z 09005MPS 060V120 9999 TS FEW018 SCT026CB BKN040 25/21 Q1017 TEMPO 6000 TSRA SCT030CB UWOR 230700Z 29005MPS CAVOK 29/12 Q1010 25CLRD65 NOSIG RMK QFE734/0979 KLNP 230715Z AUTO 00000KT 7SM SCT049 20/20 A3010 RMK AO2 KMDZ 230715Z AUTO 02006KT 1SM BR OVC003 20/20 A3002 RMK AO2 T02000200 KMFI 230654Z AUTO 10004KT 3SM BR OVC003 23/22 A2999 RMK AO2 SLP149 T02330222 KMER 230715Z AUTO 33007KT 10SM CLR 21/11 A2986 RMK AO1 KLNR 230656Z AUTO 00000KT 5SM HZ SCT036 26/23 A2996 RMK AO2 SLP133 T02560228 EPIR 230630Z 22008KT CAVOK 15/12 Q1011 RMK 153 078 6/3= KLNS 230653Z 14005KT 10SM BKN047 OVC060 19/16 A3002 RMK AO2 SLP162 T01940156 KO69 222150Z AUTO 27011G17KT 10SM CLR 25/14 A2992 RMK AO1 DXSK 230600Z 28002KT 9999 SCT010 BKN120 BKN260 21/21 Q//// KLOL 230653Z AUTO 01014G23KT 10SM CLR 21/M03 A2999 RMK AO2 SLP113 T02111033 KLPC 230715Z AUTO 22003KT 10SM OVC008 16/13 A2997 RMK AO1 KMGC 230715Z AUTO 00000KT 1/2SM FG VV005 21/21 A2998 RMK AO2 KLOM 230715Z AUTO 00000KT 10SM SCT015 SCT060 BKN085 17/17 A3003 RMK AO1 KMEV 230715Z AUTO 10003KT 10SM CLR 13/04 A3010 RMK AO2 KMGE 230658Z AUTO 27003KT 10SM CLR 24/22 A3002 RMK AO2 SLP154 T02410222 $ KMGG 230715Z AUTO 03003KT 7SM OVC004 20/20 A3002 RMK AO2 T02010196 KMEZ 230715Z AUTO 00000KT 10SM CLR 28/22 A3003 RMK AO2 LCPH 230700Z 15006KT CAVOK 31/24 Q1007 KLOR 230653Z AUTO 00000KT 6SM BR CLR 24/23 A2998 RMK AO2 SLP149 T02390228 TSNO $ KMFR 230653Z AUTO 00000KT 10SM CLR 19/09 A3001 RMK AO2 SLP153 T01940089 KMGJ 230654Z AUTO 03004KT 10SM FEW036 18/16 A3006 RMK AO2 SLP178 T01780161 TSNO KLOT 230715Z AUTO 00000KT 4SM BR CLR 22/22 A2997 RMK AO2 T02160216 TSNO KLOU 230653Z AUTO 00000KT 6SM BR SCT035 23/22 A2999 RMK AO2 SLP150 T02280222 EPKK 230700Z 21003KT 150V260 9999 FEW040 15/12 Q1016 KMGM 230653Z AUTO 24003KT 10SM CLR 27/22 A2999 RMK AO2 SLP150 T02720222 KMFV 230715Z AUTO 06004KT 10SM CLR 20/18 A2995 RMK AO2 KMHE 230653Z AUTO 07008KT 10SM CLR 23/21 A2993 RMK AO2 SLP125 T02280211 KMGN 230715Z AUTO 00000KT 10SM CLR 19/17 A3006 RMK AO2 T01930172 FHAW 230550Z 13011KT 9999 FEW025 SCT045 23/17 Q1016 BLU VOHS 230640Z 13006KT 8000 SCT015 SCT025 31/17 Q1010 NOSIG KLOZ 230653Z AUTO 29003KT 10SM FEW034 25/22 A3003 RMK AO2 SLP154 T02500222 KO86 230715Z AUTO 00000KT 8SM CLR 17/03 A2999 RMK AO1 KLPR 230653Z AUTO 31003KT 3SM BR OVC065 22/20 A2999 RMK AO2 SLP149 T02220200 TSNO KMGR 230715Z AUTO 00000KT 10SM CLR 25/23 A2998 RMK AO2 LCRA 230650Z 08006KT 9999 FEW008 30/26 Q1007 NOSIG KMIA 230653Z 09003KT 10SM FEW020 27/22 A2996 RMK AO2 SLP144 T02670217 EPKS 230630Z 21006KT CAVOK 14/10 Q1012 RMK 140 079 6/6= KMIB 230713Z AUTO 06008KT 10SM BKN012 OVC035 15/15 A3014 RMK AO2 CIG 012V035 BKN V SCT $ KLQK 230715Z AUTO 00000KT 7SM CLR 21/ A2998 RMK AO2 T0213 KMHK 230652Z AUTO 20006KT 10SM CLR 28/21 A2987 RMK AO2 SLP101 T02830206 EPMB 230630Z 18008KT 9999 SCT070 BKN100 16/11 Q1010 RMK 158 073 6/3= KMIC 230653Z AUTO 02004KT 7SM CLR 21/19 A2998 RMK AO2 SLP147 T02060189 EPKT 230700Z 23007KT 200V260 CAVOK 16/13 Q1015 EPLL 230700Z 23009KT CAVOK 17/12 Q1013 KLRD 230656Z AUTO 14011KT 10SM CLR 28/21 A3001 RMK AO2 T02770211 SLP147 VOHY 230640Z 17004KT 6000 SCT015 SCT025 34/19 Q1010 NOSIG KMGW 230706Z AUTO 05003KT 7SM BKN003 BKN010 OVC021 22/20 A3000 RMK AO2 T02220200 TSNO KMIE 230717Z AUTO 00000KT 3/4SM BR VV003 21/20 A2999 RMK AO2 T02110200 KLRF 230658Z AUTO 00000KT 10SM CLR 26/24 A2999 RMK AO2 SLP155 T02570243 KMGY 230653Z AUTO 31003KT 9SM CLR 23/22 A2999 RMK AO2 SLP145 T02280222 KMHR 230545Z 16004KT 10SM SKC 16/13 A2988 EPMI 230600Z VRB02KT CAVOK 10/07 Q1011 RMK 100 080 5/5= KMHS 230656Z AUTO 04003KT 10SM CLR 16/05 A3005 RMK AO2 SLP164 T01560050 KLRJ 230715Z AUTO 10008G15KT 10SM CLR 24/22 A2995 RMK AO2 LEAB 230700Z 18003KT CAVOK 17/11 Q1020 NOSIG KMHT 230653Z 36004KT 10SM FEW080 OVC100 17/13 A3010 RMK AO2 SLP205 T01670128 KLSB 230715Z AUTO 00000KT 10SM SCT090 20/13 A3011 RMK AO2 KMHV 230715Z AUTO 25013KT 10SM CLR 23/08 A2998 RMK AO1 EPMM 230630Z 18004KT CAVOK 19/12 Q1014 RMK 194 063 5/5= KLSE 230653Z AUTO 34005KT 10SM CLR 23/21 A2996 RMK AO2 SLP135 T02280211 KLRO 230715Z AUTO 24004KT 7SM CLR 28/26 A2991 RMK AO2 KLSF 230658Z AUTO 15002KT 10SM CLR 24/23 A2997 RMK AO2 SLP149 T02360230 EPMO 230700Z 21008KT CAVOK 16/12 Q1013 LEAG 230700Z AUTO 00000KT CAVOK 23/15 Q1015 EPLY 230700Z 25008KT CAVOK 16/12 Q1013 RMK 163 074 3/1= UWSS 230700Z 01004MPS 9999 FEW050CB BKN100 24/13 Q1013 300///60 TEMPO -TSRA RMK QFE746 LEBA 230700Z 00000KT CAVOK 19/11 Q1017 KMIS 230715Z AUTO 29006KT 10SM CLR 30/23 A3001 RMK A01 LEBB 230700Z 14004KT 100V170 9999 FEW030 BKN060 15/13 Q1021 NOSIG KNAK 230654Z AUTO 06004KT 10SM 22/18 A2999 RMK AO2 SLP157 T02170183 $ KMKC 230654Z 00000KT 10SM CLR 27/21 A2990 RMK AO2 SLP114 T02720211 KNBC 230656Z AUTO 00000KT 10SM CLR 27/24 A2993 RMK AO2 SLP135 T02720239 KLRU 230715Z AUTO 25006KT 10SM CLR 20/16 A3011 RMK AO2 T01960160 PWINO LEAL 230700Z 30005KT 260V340 9999 FEW013 26/18 Q1016 NOSIG LEAM 230700Z 05008KT 020V080 9999 FEW020 26/18 Q1015 KMIV 230654Z AUTO 03004KT 10SM CLR 18/17 A3000 RMK AO2 SLP159 T01830167 KMKE 230652Z 10003KT 1/8SM FG VV002 21/20 A2999 RMK AO2 TWR VIS 1/2 SLP151 T02060200 RVRNO KMIW 230653Z AUTO 14008KT 10SM FEW110 23/21 A2995 RMK AO2 LTG DSNT E AND SE RAE12 TSE0558 SLP133 P0000 T02280211 LEAO 230700Z VRB01KT CAVOK 19/08 Q1019 LEBG 230700Z 00000KT CAVOK 10/09 Q1021 KNBG 230655Z AUTO 00000KT CLR 26/24 A3001 RMK AO2 SLP160 T02610239 PNO $ KMKG 230655Z AUTO 10006KT 10SM FEW075 22/19 A3001 RMK AO2 SLP157 T02170189 KMJQ 230714Z AUTO 07003KT 7SM CLR 20/18 A3000 RMK AO2 LEAS 230700Z VRB02KT 9999 FEW030 BKN048 15/12 Q1021 NOSIG KNCA 230656Z AUTO 25004KT 10SM SCT048 SCT065 24/22 A2993 RMK AO2 SLP137 T02390222 KLUA 230715Z AUTO 00000KT 5SM BR OVC032 21/21 A2998 RMK AO2 KMKJ 230715Z AUTO 25008KT 10SM OVC003 A3010 RMK AO2 KP28 230656Z AUTO 16005KT 26/16 A2989 RMK AO1 SLP100 T02610156 KMLB 230653Z AUTO 00000KT 10SM CLR 26/24 A2998 RMK AO2 SLP151 T02610239 EPOK 230700Z 21011KT 9999 BKN113 17/08 Q1009 RMK 167 058 6/6 = KMLC 230653Z AUTO 18004KT 10SM CLR 27/21 A2998 RMK AO2 SLP139 T02670206 KMKL 230653Z AUTO 20003KT 10SM CLR 24/23 A2999 RMK AO2 SLP151 T02440228 LEBL 230700Z 32006KT 290V350 9999 FEW022 BKN035 20/18 Q1017 NOSIG KLUD 230715Z AUTO 17009KT 10SM CLR 28/18 A2997 RMK AO2 T02810178 KLSV 230658Z AUTO 17017KT 10SM CLR 29/11 A2981 RMK AO2 PK WND 17026/12 SLP071 T02920112 $ KMKN 230715Z AUTO 19011KT 10SM CLR 28/14 A3000 RMK AO2 T02800142 KMLE 230715Z AUTO 30013G17KT 10SM -TSRA SCT009 BKN050 OVC100 22/21 A2995 RMK AO2 LTG DSNT ALQS T02230207 KMLF 230652Z AUTO 13015G20KT 10SM -RA FEW050 SCT075 OVC110 14/13 A3002 RMK AO2 LTG DSNT E AND SE AND NW SLP105 P0016 T01440128 402890133 KMKO 230653Z AUTO 16006KT 10SM CLR 24/21 A2997 RMK AO2 SLP139 T02390211 KMJX 230715Z AUTO 07005KT 10SM FEW019 SCT027 BKN033 21/17 A3002 RMK AO1 KLUF 230658Z AUTO 22002KT 10SM CLR 27/20 A2988 RMK AO2 SLP106 T02740198 403320211 VISNO RWY03 CHINO RWY03 $ KMLI 230652Z AUTO 00000KT 10SM OVC110 24/23 A2994 RMK AO2 SLP134 T02390228 $ LEDA 222300Z VRB01KT 8000 BKN022 BKN040 18/17 Q1017 RERA KMLJ 230715Z AUTO 00000KT 10SM CLR 25/24 A2997 RMK AO2 UWUU 230700Z 31003G06MPS 9999 BKN031CB OVC031 23/19 Q1008 320///60 NOSIG RMK QFE744/0992 KLTS 230658Z AUTO 16007KT 10SM CLR 22/10 A2995 RMK AO2 SLP124 T02170104 $ KMKS 230715Z AUTO 24005KT 7SM 27/26 A2991 RMK AO2 VOMM 230710Z 16007KT 6000 SCT018 FEW025TCU BKN100 30/25 Q1006 NOSIG KLUK 230720Z AUTO 00000KT 1 1/4SM R21L/2000VP6000FT BR FEW002 22/22 A2999 RMK AO2 VIS 1/2V4 T02170217 KMKT 230715Z AUTO 10004KT 10SM CLR 21/17 A3000 RMK AO1 KNBT 230656Z AUTO 06005KT 10SM FEW021 BKN075 28/24 A2992 RMK AO2 SLP137 T02780244 PNO KLUM 230715Z AUTO 02003KT 10SM BKN027 22/20 A3000 RMK AO2 T02150201 LDLO 230700Z 05010KT 9999 SCT010 BKN020 21/18 Q1013 LECO 230700Z VRB02KT 9999 FEW040 10/10 Q1021 NOSIG EPPO 230700Z 23006KT CAVOK 14/10 Q1012 DXXX 230700Z 23011KT 200V260 8000 SCT010 24/24 Q1014 NOSIG KMLP 230710Z AUTO 00000KT 10SM SCT009 BKN014 OVC070 06/06 A3017 RMK AO2 T00610056 KMKY 230715Z AUTO 00000KT 10SM CLR 24/22 A2996 RMK AO1 LEBZ 230700Z 25002KT CAVOK 16/12 Q1018 KMMH 230715Z AUTO 18004KT 10SM CLR 10/01 A3019 RMK AO1 KMMI 230715Z AUTO 00000KT 9SM CLR 21/21 A3004 RMK EPPR 230600Z 20004KT 9999 BKN083 14/10 Q1010 RMK 144 075 3/3= KMLS 230702Z AUTO 05008KT 6SM BR BKN004 BKN095 17/16 A2997 RMK AO2 CIG 003V013 T01720161 KLVJ 230653Z AUTO 00000KT 10SM CLR 26/23 A3001 RMK AO2 SLP161 T02560228 KLWA 230716Z AUTO 09005KT 4SM BR SCT026 22/22 A2998 RMK AO2 T02240224 EPRA 230630Z 19006KT 9999 SCT040 BKN100 16/12 Q1014 RMK 157 079 7/3= KMLT 230653Z AUTO 00000KT 10SM FEW032 OVC070 16/14 A3015 RMK AO2 SLP214 T01610139 KMMK 230653Z AUTO 03007KT 10SM SCT049 OVC070 19/14 A3007 RMK AO2 SLP182 T01890144 TSNO KLVK 230653Z AUTO 29007KT 10SM CLR 16/13 A2991 RMK AO2 SLP126 T01560128 KLWB 230715Z AUTO 00000KT 7SM SCT015 BKN080 OVC090 21/20 A3005 RMK AO2 T02060195 LEEC 221400Z 19008KT 170V230 CAVOK 31/11 Q1014 KLWC 230652Z AUTO 12006KT 10SM CLR 25/21 A2990 RMK AO2 SLP113 T02500211 KMLU 230653Z AUTO 00000KT 8SM CLR 23/22 A3001 RMK AO2 SLP161 T02280217 KMML 230715Z AUTO 10007KT 10SM FEW029 22/19 A2998 RMK AO1 KLVL 230715Z AUTO 00000KT 7SM SCT050 BKN090 22/21 A2995 RMK AO1 T02200214 LECV 230700Z 00000KT CAVOK 18/09 Q1021 KLWD 230653Z AUTO 13003KT 7SM BKN100 25/24 A2992 RMK AO2 SLP122 T02500239 KLVM 230653Z AUTO 02003KT 8SM FEW016 BKN025 OVC055 12/11 A3005 RMK AO2 RAE30 SLP148 P0001 T01220106 401780117 KLVN 230711Z AUTO 00000KT 5SM BR CLR 19/19 A3000 RMK AO2 KMNE 230715Z AUTO 00000KT 10SM 25/22 A3001 RMK AO2 KP53 230656Z AUTO 00000KT 21/17 A3003 RMK AO1 SLP168 T02110172 EPPW 230630Z 21006KT CAVOK 15/11 Q1012 RMK 150 075 6/3= KLUX 230715Z AUTO 34004KT 10SM CLR 23/ A2996 RMK AO2 KMNH 230713Z AUTO 24007KT 10SM OVC003 12/11 A3011 RMK AO2 KMNI 230715Z AUTO 00000KT 7SM CLR 25/ A2991 RMK AO2 KP58 230651Z AUTO 06004KT 18/17 A3003 RMK AO1 SLP162 T01780167 KLVS 230653Z AUTO 18009KT 10SM CLR 11/07 A3019 RMK AO2 SLP129 T01060072 402330106 KP60 230656Z AUTO 29003KT 07/05 A3014 RMK AO1 SLP154 T00670050 401110061 KMOB 230656Z AUTO 26004KT 8SM CLR 26/24 A3001 RMK AO2 SLP157 T02560244 KP59 230651Z AUTO 00000KT 13/11 A3006 RMK AO1 SLP176 T01280111 KMMT 230658Z AUTO 33001KT 10SM CLR 23/22 A2992 RMK AO2 SLP132 T02290224 $ UWWW 230700Z 25003MPS 210V300 CAVOK 26/11 Q1011 23CLRD60 15//99// NOSIG RMK QFE747/0996 KMMU 230715Z AUTO 00000KT 10SM CLR 16/14 A3005 RMK AO2 EPSC 230700Z 24009KT 210V280 9999 FEW017 14/10 Q1010 KMMV 230653Z AUTO 28004KT 10SM CLR 17/11 A3007 RMK AO2 SLP180 T01670111 KMOD 230653Z AUTO 33007KT 10SM CLR 21/09 A2986 RMK AO2 SLP112 T02060094 KLWM 230711Z AUTO 01003KT 10SM BKN010 OVC100 15/14 A3013 RMK AO2 T01500139 KMNM 230715Z AUTO 00000KT 3SM BKN022 BKN060 19/18 A3000 RMK AO1 KNFE 230656Z AUTO 35003KT 10SM CLR 24/22 A2994 RMK AO2 SLP142 T02440217 KMNN 230717Z AUTO 03005KT 2SM BR CLR 20/19 A2999 RMK AO2 T02000189 TSNO KNFG 230654Z AUTO 00000KT 6SM BR CLR 17/15 A2995 RMK AO2 SLP141 T01720150 KNDZ 230656Z AUTO 30004KT 10SM CLR 27/24 A2999 RMK AO2 SLP140 T02670239 $ LEGA 230600Z 18003KT CAVOK 16/09 Q1019 KP68 230653Z AUTO 04005KT 12/04 A3008 RMK AO1 SLP111 T01220044 $ KLWS 230656Z AUTO 11004KT 10SM CLR 16/14 A3004 RMK AO2 SLP166 T01610139 $ KLWT 230717Z AUTO 36008KT 5SM RA BR BKN014 OVC021 13/11 A3006 RMK AO2 RAB0655 P0002 T01280111 KP69 230652Z AUTO 00000KT 14/13 A3007 RMK AO1 SLP165 T01390133 $ KLXL 230718Z AUTO 09003KT 5SM BR OVC003 18/17 A3004 RMK AO2 KNFL 230656Z AUTO 27007KT 10SM CLR 19/02 A3000 RMK AO2 SLP129 T01890017 FGSL 230700Z 00000KT 9999 FEW009 FEW020CB BKN080 23/22 Q1015 NOSIG KLWV 230653Z AUTO 13004KT 3SM BR FEW007 SCT034 24/24 A2997 RMK AO2 SLP145 T02440239 LEGE 230713Z 02003KT 350V050 4000 1500N BCFG SCT002 16/16 Q1018 KNEW 230653Z AUTO 23007KT 10SM CLR 29/24 A3001 RMK AO2 SLP156 T02890244 TSNO KLXN 230715Z AUTO 06005KT 10SM CLR 20/19 A2990 RMK AO2 LTG DSNT E T01950188 EPSN 230630Z 22008KT CAVOK 14/09 Q1010 RMK 136 075 4/2= KMOP 230717Z AUTO 00000KT 3SM BR CLR 17/17 A3004 RMK AO2 T01690165 KLYH 230715Z AUTO 03003KT 7SM SCT005 BKN018 OVC037 A2999 RMK AO2 KMNZ 230715Z AUTO 17012G20KT 10SM CLR 28/15 A3002 RMK AO2 T02750151 KMOR 230715Z AUTO 00000KT 10SM 23/22 A3004 RMK EPRZ 230700Z 20005KT CAVOK 18/12 Q1016 LDOS 230700Z VRB02KT CAVOK 19/16 Q1016 KLXT 230653Z AUTO 17004KT 10SM CLR 26/20 A2993 RMK AO2 SLP122 T02610200 KMOT 230654Z AUTO 03007KT 10SM OVC039 16/13 A3013 RMK AO2 SLP205 T01560128 KMQB 230715Z AUTO 13003KT 4SM BR CLR 24/23 A2996 RMK AO2 T02350233 LEHC 221600Z 26015KT 230V290 9999 FEW030 SCT055 23/17 Q1014 LDPL 230700Z 09010KT 9999 FEW030 20/18 Q1013 NOSIG KLXV 230713Z AUTO 00000KT 10SM SCT014 SCT046 BKN075 07/06 A3029 RMK AO2 T00720061 EPTM 230600Z 20006KT CAVOK 15/12 Q1014 RMK 146 085 4/1= KMQE 230654Z AUTO 04007KT 17/16 A3009 RMK AO1 SLP196 T01670156 KNFW 230652Z AUTO 17011KT 10SM CLR 31/18 A3000 RMK AO2 SLP141 T03110178 CHINO N VISNO N $ KMOX 230707Z AUTO 01005KT 7SM CLR 21/20 A3000 RMK AO2 KMPO 230720Z AUTO 10008KT 3/4SM BR SCT012 OVC034 16/14 A3007 RMK AO2 VIS 1/4V5 T01560144 TSNO KNGP 230656Z AUTO 15008KT 10SM CLR 28/26 A2998 RMK AO2 SLP151 T02780261 KLXY 230715Z AUTO 17004KT 10SM CLR 26/22 A2999 RMK AO2 T02560217 LEGR 230700Z 00000KT CAVOK 17/10 Q1019 KMQI 230721Z AUTO 03004KT 10SM SCT012 24/22 A2994 RMK AO2 KMQJ 230715Z AUTO 11003KT 2 1/2SM SCT001 20/ A2999 RMK AO1 LEGT 230700Z 06006KT CAVOK 18/11 Q1019 KNHK 230652Z AUTO 10007KT 10SM BKN012 22/19 A2997 RMK AO2 SLP150 T02170194 KMRB 230653Z 00000KT 8SM BKN029 OVC034 22/19 A2999 RMK AO2 SLP151 T02220194 LEIB 230700Z 02007KT 9999 FEW025 26/21 Q1016 NOSIG KMRC 230715Z AUTO 00000KT 10SM CLR 23/23 A3001 RMK KNGU 230659Z 07006KT 10SM SCT012 BKN020 25/22 A2996 RMK AO2 SLP146 T02500217 KP92 230653Z AUTO 00000KT 31/25 A3000 RMK AO1 SLP160 T03110250 KMPV 230712Z AUTO 00000KT 10SM OVC031 14/14 A3017 RMK AO2 T01440139 KLYV 230715Z AUTO 00000KT 10SM SCT042 22/20 A2997 RMK AO2 KNID 230656Z AUTO 00000KT 10SM CLR 28/04 A2984 RMK AO2 SLP077 T02830039 $ KMRF 230715Z AUTO 33008KT 10SM FEW050 OVC095 19/16 A3018 RMK AO1 LTG DSNT NW TSE15 KMPZ 230715Z AUTO 00000KT 2 1/2SM BR CLR 24/23 A2994 RMK AO2 T02370230 KMRH 230658Z AUTO 02003KT 10SM SCT065 26/23 A2992 RMK AO2 SLP133 T02610233 TSNO LDRI 230700Z 36004KT 7000 -RA FEW010 SCT027 BKN040 18/17 Q1014 KMQS 230715Z AUTO 08006KT 10SM OVC038 19/19 A3003 RMK AO2 KMRJ 230715Z AUTO 00000KT 1/4SM FG OVC003 24/23 A2999 RMK AO2 LDSB 230700Z 13009KT CAVOK 22/19 Q1017 EPWA 230700Z 22009KT CAVOK 17/12 Q1013 NOSIG KLZU 230045Z 00000KT 10SM CLR 29/19 A3002 RMK JW KMRN 230715Z AUTO 00000KT 10SM CLR 23/21 A3004 RMK AO2 T02280207 KNIP 230653Z 25007KT 10SM CLR 28/22 A2998 RMK AO2 SLP146 T02830222 KMQY 230656Z AUTO 15003KT 10SM CLR 24/23 A3002 RMK AO2 T02380227 SLP169 KLZZ 230715Z AUTO 19005KT 10SM CLR 27/17 A3001 RMK AO2 T02700166 LFBA 230700Z AUTO 21003KT 170V280 9999 NSC 14/13 Q1020 KOAJ 230715Z AUTO 00000KT 10SM CLR 23/21 A2993 RMK AO1 KMRT 230714Z AUTO 00000KT 3SM CLR 21/20 A3000 RMK AO2 T02130200 KOAK 230653Z 27005KT 10SM BKN012 17/13 A2993 RMK AO2 SLP135 T01670128 KNJK 230656Z AUTO 25009KT 10SM CLR 27/11 A2983 RMK AO2 SLP115 T02670111 KMSL 230653Z AUTO 00000KT 9SM CLR 23/22 A3002 RMK AO2 SLP159 T02330217 KMTC 230713Z AUTO 35006KT 7SM R01/5500FT BKN004 OVC060 18/17 A3000 RMK AO2 LFBC 230700Z AUTO 17007KT 9999 NSC 17/16 Q1019 KNJM 230657Z AUTO 33004KT 10SM 25/22 A2993 RMK AO2 SLP139 T02500217 $ LFBD 230700Z AUTO 20006KT 9999 FEW040 OVC076 16/14 Q1019 LFBE 230700Z AUTO VRB02KT 9999 BKN033 BKN039 OVC078 15/13 Q1019 KMSN 230721Z AUTO 15003KT 5SM BR BKN023 24/22 A2997 RMK AO2 T02390222 KOBE 230715Z AUTO 24/23 A2998 RMK AO2 KMSO 230653Z 00000KT 10SM -RA BKN065 BKN075 OVC100 14/10 A3011 RMK AO2 SLP187 P0001 T01440100 401940117 VOTR 230710Z 24005KT 6000 SCT016 SCT020 BKN100 34/23 Q1007 NOSIG KMSP 230653Z 00000KT 10SM SCT170 21/20 A2999 RMK AO2 SLP151 T02110200 KMRY 230705Z AUTO VRB03KT 10SM OVC011 16/13 A2996 RMK AO2 LDSP 230700Z 07004KT 030V130 CAVOK 24/19 Q1015 NOSIG LFBG 230700Z AUTO 26003KT 210V300 9999 FEW030 SCT052 OVC080 16/14 Q1019 LFAQ 230700Z AUTO 31006KT 9999 -RA NSC 12/10 Q1014 KMTH 230653Z AUTO 09005KT 10SM CLR 28/23 A2994 RMK AO2 SLP139 T02830228 LFBH 230700Z AUTO 34008KT 310V010 9999 FEW029/// BKN070/// OVC086/// ///TCU 17/13 Q1018 LEJR 230700Z 00000KT CAVOK 18/15 Q1016 LFBI 230700Z AUTO 22006KT 9999 FEW018 BKN082 15/13 Q1018 EPWR 230700Z 23006KT 200V280 CAVOK 19/11 Q1014 KMSS 230653Z AUTO 06004KT 10SM SCT047 OVC055 17/16 A3009 RMK AO2 SLP188 T01720161 KMTJ 230653Z AUTO 11003KT 10SM OVC100 14/11 A3011 RMK AO2 SLP129 T01440111 402330139 VOTV 230710Z 25006KT 4000 HZ SCT015 FEW025CB BKN090 27/24 Q1009 BECMG 5000 HZ LFAT 230700Z AUTO VRB02KT 9999 FEW028 BKN038 BKN054 11/10 Q1014 LELC 230700Z 06014KT 030V100 9999 FEW020 26/21 Q1016 NOSIG KNLC 230656Z AUTO 31009KT 10SM CLR 24/09 A2986 RMK AO2 SLP109 T02390089 LFBL 230700Z AUTO 20003KT 170V240 9999 FEW013 OVC066 13/11 Q1019 KMSV 230715Z AUTO 10006KT 7SM OVC004 16/16 A3009 RMK AO1 LFBM 230700Z AUTO VRB02KT 9999 NSC 14/13 Q1020 KMTN 230721Z AUTO 07004KT 10SM CLR 21/18 A3002 RMK AO2 KMTO 230653Z AUTO 18005KT 5SM BR CLR 25/24 A2996 RMK AO2 SLP138 T02500239 KOCF 230715Z AUTO 00000KT 9SM CLR 23/22 A2999 RMK AO1 LFBO 230700Z AUTO 24003KT 200V280 9999 NSC 16/13 Q1020 KMTP 230654Z AUTO 03006KT 19/17 A3007 RMK AO1 SLP181 T01890167 KMSY 230653Z 23007KT 10SM SCT055 28/24 A3001 RMK AO2 SLP165 T02780244 LFBP 230700Z 00000KT 4000 BR FEW066 13/13 Q1020 BECMG 9999 NSW KOCH 230715Z AUTO 19003KT 10SM CLR 24/22 A3002 RMK AO1 KMUI 230710Z AUTO 06004KT 10SM OVC030 18/18 A3003 RMK AO2 DZE0710 $ LFCK 230700Z AUTO 29008KT 9999 BKN011 BKN016 OVC062 15/13 Q1021 KNKT 230654Z 27004KT 9SM CLR 25/23 A2994 RMK AO2 SLP134 T02500233 LFBT 230700Z AUTO 00000KT 9999 NSC 15/13 Q1020 LELL 230700Z 26004KT 9999 FEW010 BKN035 19/17 Q1018 LFBU 230700Z AUTO 20003KT 160V240 9999 SCT035 BKN046 OVC060 15/12 Q1019 KMTV 230715Z AUTO 00000KT 2 1/2SM BR BKN080 OVC090 24/24 A2999 RMK AO2 T02380237 LEMD 230700Z VRB01KT CAVOK 17/10 Q1020 NOSIG LELN 230700Z 00000KT 9999 OVC020 11/09 Q1022 KMVE 230714Z AUTO 00000KT 10SM SCT029 21/21 A3000 RMK AO2 KMTW 230721Z AUTO 00000KT 1/4SM FG BKN007 OVC011 19/18 A3000 RMK AO2 CIG 004V009 LELO 230700Z 28003KT 240V300 9999 FEW050 13/10 Q1021 KNKX 230655Z 34004KT 10SM FEW020 19/17 A2996 RMK AO2 SLP140 T01890167 KMUO 230658Z AUTO 11007KT 10SM FEW120 14/08 A2998 RMK AO2 SLP137 T01430075 402730140 LEMG 230700Z 27016KT CAVOK 26/10 Q1014 NOSIG LFBY 230700Z AUTO 16004KT 140V210 9999 // NCD 14/13 Q1020 EPZG 230700Z 25009KT CAVOK 16/09 Q1012 LEMH 230700Z 03011KT 010V070 9999 SCT020 24/18 Q1016 KOCQ 230715Z AUTO 00000KT 2 1/2SM SCT003 BKN045 OVC090 20/20 A3001 RMK AO1 T01970197 LFBZ 230700Z 16002KT 9999 FEW020 SCT030 BKN060 15/12 Q1020 NOSIG LFCR 230700Z AUTO 29004KT 9999 BKN006 BKN010 OVC054 13/11 Q1020 KMWA 230715Z AUTO 21005KT 10SM SCT120 27/25 A2996 RMK AO2 KOEB 230714Z AUTO 13003KT 5SM BR SCT007 BKN016 OVC034 24/23 A3000 RMK AO2 T02360225 KMUT 230715Z AUTO 00000KT 4SM BR BKN080 24/23 A2994 RMK AO2 KMVL 230718Z AUTO 00000KT 6SM BR BKN002 OVC095 15/14 A3015 RMK AO2 T01500144 KMWC 230715Z AUTO 00000KT 1/4SM FG OVC001 20/19 A3000 RMK AO2 KNMM 230656Z AUTO 00000KT 10SM CLR 24/22 A3001 RMK AO2 SLP169 T02390222 CHINO SOUTH $ KMVN 230715Z AUTO 00000KT 8SM CLR 25/22 A2996 RMK AO1 KOCW 230715Z AUTO 00000KT 10SM SCT060 SCT090 SCT110 23/22 A2994 RMK AO2 T02310220 KODO 230653Z AUTO 16007KT 10SM CLR 26/09 A3004 RMK AO2 SLP121 T02610094 LEMO 230700Z 00000KT CAVOK 20/11 Q1017 NOSIG KMWH 230652Z AUTO 36009KT 10SM OVC095 18/11 A3007 RMK AO2 SLP176 T01830106 KMWK 230715Z AUTO 00000KT OVC120 23/21 A3000 RMK AO2 T02300212 PWINO KMWL 230653Z AUTO 16008KT 10SM CLR 27/16 A2996 RMK AO2 SLP128 T02720161 KMWM 230714Z AUTO 09005KT 5SM BR CLR 21/19 A3001 RMK AO2 LTG DSNT S KMWN 230649Z 08011KT 1/16SM FG BKN000 05/05 RMK FG BKN000 STARS DMLY VSBL KODX 230653Z AUTO 16005KT 8SM RA FEW110 19/18 A2994 RMK AO2 SLP125 P0013 T01940183 KMWO 230715Z AUTO 00000KT 1 3/4SM BR VV007 21/19 A3000 RMK AO2 T02090191 KMXF 230658Z AUTO 00000KT 10SM CLR 25/24 A2998 RMK AO2 SLP153 T02540243 KOFF 230710Z AUTO 32010KT 5SM +TSRA BR BKN020 22/22 A2990 RMK AO2 LTG DSNT N-E AND SW-W CIG 013V020 CIG 011 RWY30 KOEO 230715Z AUTO 06004KT 10SM OVC007 21/21 A3003 RMK AO2 T02050205 KMVY 230653Z 03008KT 10SM FEW015 SCT026 SCT037 18/16 A3005 RMK AO2 SLP175 T01830161 KNOG 230656Z AUTO 17005KT 10SM CLR 26/24 A3001 RMK AO2 SLP139 T02610239 PNO $ PTKK 230650Z VRB04KT 15SM FEW014 SCT120 BKN280 29/26 A2978 RMK SLP088 T02940258 KMWS 230700Z 15508G10KT 15/M10 RMK SNOW DEPTH M KNPA 230656Z AUTO 00000KT 10SM CLR 27/25 A2999 RMK AO2 SLP155 T02670250 KOGA 230715Z AUTO 07004KT 10SM BKN013 OVC020 17/17 A2991 RMK AO2 T01740165 LEPA 230700Z 05009KT 9999 FEW020 25/18 Q1016 NOSIG KMWT 230653Z AUTO 00000KT 6SM BR CLR 23/22 A2999 RMK AO2 SLP143 T02330222 KOGB 230653Z AUTO 22003KT 10SM CLR 24/22 A2993 RMK AO2 SLP131 T02440222 KOFK 230717Z AUTO 11005KT 9SM -RA BKN100 OVC120 20/19 A2995 RMK AO2 LTG DSNT E-S TSE02 P0004 T02000189 KOGD 230708Z 10005KT 10SM VCTS -RA FEW050 SCT065 BKN075 14/10 A3000 RMK AO2 LTG DSNT SE AND S RAB0654 P0000 T01390100 KMYF 230653Z AUTO 34005KT 10SM CLR 20/17 A2997 RMK AO2 SLP143 T02000172 TSNO KMXO 230715Z AUTO 00000KT 7SM CLR 23/23 A2996 RMK AO2 KOFP 230654Z AUTO 00000KT 5SM BR FEW004 FEW100 22/21 A2998 RMK AO2 SLP151 T02170211 $ PTKR 230650Z 34005KT 15SM FEW018 SCT120 BKN300 30/26 A2980 RMK SLP090 T03000255 LFGJ 230700Z AUTO 21006KT 9999 NSC 15/11 Q1017 KNQA 230715Z AUTO 00000KT 10SM CLR 26/24 A2998 RMK LDZA 230700Z 26004KT 230V310 3500 -RA BR SCT003 17/16 Q1015 NOSIG KMYL 230651Z AUTO 00000KT 10SM CLR 07/06 A3005 RMK AO2 SLP156 T00720056 401940044 LDZD 230700Z 12007KT 060V160 CAVOK 24/20 Q1014 NOSIG LEPP 230700Z 00000KT 9999 FEW045 12/11 Q1021 ESCF 230650Z AUTO 19006KT 9999NDV BKN047/// OVC062/// 12/11 Q1004 KMYP 230653Z AUTO 23017KT M1/4SM FG OVC002 04/03 A3053 RMK AO2 KMZG 230715Z AUTO 15009G16KT 10SM CLR 30/25 A2998 RMK A01 KMZH 230714Z AUTO 04003KT 1 1/4SM BR OVC001 16/15 A3002 RMK AO2 KMYR 230715Z 00000KT 10SM CLR 28/25 A2991 RMK AO1 KNQI 230721Z AUTO 17003KT 10SM BKN018 27/25 A2999 RMK AO2 T02670250 $ GABS 230700Z 26010KT 9999 -TSRA SCT025 SCT030CB BKN090 22/22 Q1014 TEMPO 06015G25KT 4000 RA KNRB 230652Z AUTO 22004KT 10SM CLR 27/23 A2997 RMK AO2 SLP146 T02670233 $ KMYV 230653Z AUTO 16006KT 10SM CLR 18/14 A2986 RMK AO2 SLP115 T01780139 ESDF 230650Z AUTO 24006KT 9999NDV FEW008/// BKN009/// BKN012/// OVC045/// 13/12 Q1005 FJDG 230655Z 17009KT 9000 BR FEW020 BKN050 OVC080 27/25 A2982 RMK SLP095 T02710252 KMYZ 230715Z AUTO 00000KT 7SM VCTS CLR 23/23 A2988 RMK AO2 LTG DSNT NE LERI 230700Z 00000KT 6000 SCT025 25/20 Q1016 NOSIG WIBB 230600Z 18006KT 9000 SCT015 32/23 Q1008 NSW LESA 230700Z 00000KT CAVOK 12/10 Q1020 KOJA 230715Z AUTO 20005KT 10SM CLR A2995 RMK AO2 KOJC 230653Z AUTO 17004KT 10SM CLR 24/21 A2992 RMK AO2 SLP117 T02390211 LGAD 230650Z 00000KT 9999 FEW018 25/21 Q1014 KPAE 230653Z AUTO 00000KT 10SM CLR 17/11 A3012 RMK AO2 SLP197 T01670111 KNSE 230656Z AUTO 30004KT 8SM CLR 26/23 A2999 RMK AO2 SLP140 T02560233 PWINO $ KNQX 230653Z AUTO 09008KT 10SM CLR 29/22 A2995 RMK AO2 SLP140 T02890222 $ KPAH 230653Z AUTO 22004KT 9SM CLR 27/24 A2996 RMK AO2 SLP138 T02720239 FIMP 230700Z 07010KT 9999 VCSH FEW010 SCT014 BKN050 24/20 Q1017 KMZZ 230715Z AUTO 00000KT 4SM BR BKN002 20/20 A2999 RMK AO2 T01970195 KNSI 230657Z AUTO 31007KT 10SM OVC005 A2997 RMK AO2 SLPNO $ FIMR 230700Z 08011KT 9999 -SHRA SCT016 BKN050 23/22 Q1018 LERS 230700Z 28005KT 9999 FEW020 19/13 Q1018 KNRS 230656Z AUTO 31004KT 10SM CLR 21/18 A2996 RMK AO2 SLP144 T02060183 LERT 230700Z 34005KT 310V010 CAVOK 20/13 Q1016 NOSIG KOKB 230652Z AUTO 00000KT 10SM CLR 18/15 A2995 RMK AO2 SLP140 T01780150 LFKB 230700Z VRB02KT 9999 FEW026 BKN120 23/18 Q1013 NOSIG LGAL 230650Z /////KT CAVOK 28/21 Q1014 KOKC 230652Z 18009KT 10SM CLR 25/16 A2995 RMK AO2 SLP122 T02500161 $ LFKC 230700Z 17003KT 130V230 9999 FEW033 BKN100 23/15 Q1014 NOSIG LFJL 230700Z AUTO 19004KT 9999 FEW023/// BKN029/// BKN047/// ///TCU 12/11 Q1015 KNTD 230656Z AUTO 33005KT 10SM OVC008 21/16 A2995 RMK AO2 SLP144 T02060161 $ KPAM 230718Z AUTO 31001KT 10SM CLR 26/26 A2998 RMK AO2 KPAN 230715Z AUTO 00000KT 10SM CLR 16/11 A3017 RMK AO2 KPAO 230347Z 33012KT 10SM FEW020 16/14 A2992 RMK LAST LESO 230700Z 16005KT 130V190 9999 FEW044 SCT068 16/13 Q1020 KPBF 230653Z AUTO 00000KT 9SM CLR 24/23 A2999 RMK AO2 SLP154 T02390228 LFKF 230700Z AUTO VRB02KT 9999 FEW026/// BKN180/// 24/17 Q1013 KPBG 230653Z AUTO 00000KT 7SM OVC120 16/16 A3011 RMK AO2 SLP194 T01610156 KPBH 230715Z AUTO 36003KT 3SM BR OVC004 18/18 A3003 RMK AO2 T01800180 LFJR 230700Z AUTO 25004KT 9999 BKN034 BKN042 OVC056 13/13 Q1018 KPBI 230653Z 30003KT 10SM FEW020 27/24 A2996 RMK AO2 SLP144 T02670239 LFKJ 230700Z 20004KT 160V220 9999 FEW023 BKN100 23/16 Q1014 NOSIG WIDD 230700Z AUTO VRB04KT 0500NDV R04/0700N R22/P2000U -RA OVC003 24/24 Q1009 METAR WADD 230700Z 11012KT 090V150 9999 SCT016 28/23 Q1010 NOSIG LEST 230700Z 06003KT 020V110 9999 VCFG NSC 12/10 Q1021 NOSIG KOKK 230715Z AUTO 08004KT 3/4SM VV005 21/19 A2998 RMK AO1 LFLB 230700Z VRB02KT 9999 FEW060 BKN083 17/14 Q1017 NOSIG KNUC 222256Z 25007KT 10SM FEW018 22/16 A2997 RMK SLP149 LAST T02170156 LETL 230700Z AUTO 33005KT 280V010 9999 BKN005/// 12/10 Q1022 LGBL 230650Z 08004KT CAVOK 28/18 Q1014 NOSIG LFLC 230700Z 00000KT 9999 FEW033 BKN070 15/10 Q1018 NOSIG PTPN 230453Z 03006KT 15SM FEW018 SCT300 31/25 A2976 RMK LAST LGAV 230650Z VRB03KT CAVOK 29/19 Q1014 NOSIG KOKM 230715Z AUTO 13003KT 10SM CLR 25/21 A2996 RMK AO2 T02460206 KOLE 230715Z AUTO 10004KT 5SM BR OVC006 17/17 A3004 RMK AO2 LETO 230700Z 04003KT CAVOK 16/11 Q1020 NOSIG KOLF 230653Z AUTO 06018G23KT 10SM OVC021 17/13 A3009 RMK AO2 PK WND 08026/0629 SLP188 T01670128 402170156 KOLG 230715Z AUTO 02005KT 7SM SCT004 OVC014 16/16 A3004 RMK AO1 ESGG 230720Z 22008KT 190V250 9999 -SHRA SCT020CB 12/10 Q1003 KNUI 230653Z AUTO 07006KT 10SM FEW022 22/18 A2996 RMK AO2 SLP145 T02220183 KOMA 230716Z 30019G29KT 4SM +TSRA BR SCT018 BKN040CB OVC080 23/21 A2994 RMK AO2 PK WND 28029/0711 PRESFR CONS LTGICCCCACG TS ALQDS AND OHD MOV NE P0024 T02280211 $ LFKS 230700Z AUTO VRB03KT 9999 FEW020 OVC031 24/17 Q1013 ESGJ 230720Z AUTO 22006KT 9999 -RA FEW005/// 11/10 Q1003 KNTU 230656Z 05005KT 10SM BKN035 23/22 A2994 RMK AO2 SLP140 T02330217 KPDC 230715Z AUTO 34003KT 7SM CLR 25/23 A2995 RMK AO2 T02500232 LEVC 230700Z 06004KT 9999 FEW020 BKN035 24/16 Q1018 NOSIG LFMC 230700Z AUTO 26008KT 220V290 9999 ////// 21/13 Q1014 LFLL 230700Z 30004KT 250V050 CAVOK 17/09 Q1018 NOSIG LEVD 230700Z 07008KT CAVOK 12/08 Q1020 LFMD 230700Z AUTO 36003KT 310V040 9999 BKN096 BKN180 21/15 Q1012 KOLM 230654Z AUTO 00000KT 10SM CLR 14/11 A3011 RMK AO2 SLP194 T01440111 KOKV 230715Z AUTO 12004KT 7SM OVC015 22/21 A2999 RMK AO2 LFLN 230700Z AUTO VRB02KT 9999 SCT036 OVC074 15/12 Q1018 LFLP 230700Z AUTO 35002KT 9999 OVC054 14/10 Q1018 LFMH 230700Z VRB01KT CAVOK 14/08 Q1018 NOSIG ESGP 230720Z 24008KT 9999 SCT22TCU 14/10 Q1002 KOKZ 230715Z AUTO 00000KT 10SM CLR 24/22 A2999 RMK AO2 T02350222 KNUQ 230717Z 02004KT 10SM BKN013 17/13 A2993 RMK AO2 KOMH 230715Z AUTO 05003KT 7SM BKN005 OVC011 21/20 A2999 RMK AO2 PTSA 222350Z 04008KT 10SM BKN024 BKN300 31/24 A2985 LFMI 230700Z AUTO 34012KT 9999 NSC 20/10 Q1015 ESGR 230650Z AUTO 17005KT 9999 -DZ FEW011/// BKN062/// 12/12 Q1003 KONA 230716Z AUTO 00000KT 10SM SCT010 SCT014 22/21 A2998 RMK AO2 KOLS 230654Z AUTO 09003KT 10SM CLR 19/16 A3011 RMK AO2 SLP132 T01940161 402890167 KPEA 230715Z AUTO 00000KT 2SM BR 25/25 A2995 RMK AO2 SKY OBSCURED T02470245 LFLS 230700Z AUTO 33004KT 300V030 9999 BKN056 OVC082 16/08 Q1018 LFMK 230700Z AUTO 29009KT 9999 FEW021 OVC049 16/12 Q1020 KOMK 230653Z AUTO 29004KT 10SM CLR 15/11 A3011 RMK AO2 SLP192 T01500111 KPDK 230653Z AUTO 00000KT 9SM CLR 24/22 A3001 RMK AO2 SLP141 T02440217 TSNO KNY0 230715Z AUTO 07003KT 10SM OVC020 15/15 A3010 RMK AO2 T01530145 ESGT 221750Z 16007KT 9999 VCSH FEW015 SCT020CB 13/// Q1004 ESIB 230650Z AUTO 20007KT 9999NDV BKN006/// OVC056/// 12/12 Q1002 KOLU 230715Z AUTO 07005KT 10SM FEW038 FEW055 OVC095 20/19 A2998 RMK AO1 P0003 LFML 230700Z 30008KT CAVOK 19/13 Q1015 NOSIG KOLV 230715Z AUTO 19005KT 6SM CLR 24/24 A3000 RMK A01 P000 KOMN 222250Z 12005KT 7SM SKC 33/23 A2999 RMK LAST LFLW 230700Z AUTO 30003KT 9999 FEW006 12/11 Q1020 PTRO 230654Z 29009KT 14SM SCT016TCU BKN120 BKN300 29/27 A2980 RMK TCU VC ALQDS KPCW 230713Z AUTO 04003KT 10SM BKN010 BKN055 OVC075 22/21 A2998 RMK AO2 KNUW 230656Z 18003KT 10SM CLR 14/11 A3010 RMK AO2 SLP198 T01390106 402060122 $ LFMN 230700Z 31007KT 280V340 9999 FEW026 BKN086 23/17 Q1012 NOSIG LFMO 230700Z AUTO 34013KT 9999 BKN062 19/09 Q1016 LFLX 230700Z 25007KT CAVOK 15/12 Q1018 NOSIG KOLY 230716Z AUTO 00000KT 4SM BR CLR 25/24 A2997 RMK AO2 LFMP 230700Z 32010KT 290V350 9999 FEW003 SCT110 19/12 Q1018 NOSIG LFLY 230700Z AUTO VRB01KT 9999 NSC 18/08 Q1018 KPCZ 230715Z AUTO 08005KT 2 1/2SM BR OVC004 22/21 A3000 RMK AO2 T02220213 KOLZ 230715Z AUTO 08004KT 6SM BR OVC010 24/24 A2998 RMK AO2 LEVS 230700Z VRB01KT CAVOK 19/10 Q1020 KOOA 230715Z AUTO 16004KT 4SM BR CLR 24/23 A2994 RMK AO2 T02370231 LFOA 230700Z AUTO 24006KT 9999 NSC 14/12 Q1018 LEVT 230700Z 00000KT 1200 R04/P2000 BR BKN002 08/08 Q1022 KPDT 230653Z AUTO 10009KT 10SM CLR 14/07 A3001 RMK AO2 SLP150 T01440072 LFMT 230700Z 29006KT CAVOK 19/13 Q1016 NOSIG LFOB 230700Z AUTO 25007KT 9999 FEW011 BKN054 BKN080 13/11 Q1015 LGEL 230650Z 17005KT CAVOK 31/12 Q1013 NOSIG KONL 230715Z AUTO 17010KT 10SM RA SCT025 SCT049 OVC060 20/19 A2993 RMK AO2 LTG DSNT SE AND W P0002 T02000193 LFOC 230700Z AUTO 26006KT 9999 FEW006 OVC088 14/13 Q1017 LFMU 230700Z AUTO 27009KT 9999 NSC 19/13 Q1018 KONM 230715Z AUTO 15004KT 10SM SCT006 16/16 A3015 RMK AO2 T01610155 LFMV 230700Z AUTO 33013KT 9999 NSC 20/10 Q1015 ETAD 230711Z AUTO 23007KT 9999 BKN011 BKN022 OVC028 13/10 A2996 RMK AO2 $ LFOE 230700Z AUTO 26008KT 9999 BKN045 BKN056 13/10 Q1016 KONO 230653Z AUTO 32009KT 10SM CLR 17/06 A3000 RMK AO2 SLP146 T01670061 403000111 KPDX 230653Z 32006KT 10SM CLR 18/13 A3006 RMK AO2 SLP179 T01830133 KPEO 230653Z AUTO 00000KT 3SM BR OVC019 20/19 A3002 RMK AO2 SLP160 T02000189 KNXF 230656Z AUTO 00000KT 8SM FEW014 19/16 A2995 RMK AO2 SLP226 T01940161 LEVX 230700Z 00000KT CAVOK 15/12 Q1020 NOSIG RCKH 230700Z 26009KT 220V290 9999 FEW015 SCT025 BKN250 32/25 Q1009 NOSIG RMK 28011KT/R09 A2981 KONP 230715Z AUTO 00000KT 7SM CLR 10/10 A3011 RMK AO2 LFMY 230700Z AUTO 32009KT 270V360 9999 NSC 19/11 Q1015 KPEQ 230715Z AUTO 00000KT 10SM -VCTSRA CLR 22/18 A3002 RMK AO2 LTG DSNT ALQS T02180181 LFOH 230700Z AUTO 32011KT 9999 FEW026/// ///CB 15/09 Q1015 LEXJ 230700Z VRB01KT 9999 FEW030 SCT058 17/14 Q1020 KPGA 230653Z AUTO 21004KT 10SM CLR 24/08 A2999 RMK AO2 SLP091 T02390083 402830172 LFOJ 230700Z AUTO 25007KT 9999 BKN009 OVC086 14/12 Q1017 KONT 230653Z 23004KT 10SM CLR 21/16 A2997 RMK AO2 SLP131 T02060161 LFOK 230700Z AUTO 23008KT 9999 BKN003 OVC013 13/13 Q1015 LFPB 230700Z AUTO 28009KT 9999 NSC 14/11 Q1015 KNYC 230651Z AUTO VRB04KT 10SM BKN085 20/14 A3007 RMK AO2 SLP174 T02000144 $ LFPC 230700Z AUTO 23007KT 9999 FEW008 BKN082 BKN110 12/11 Q1015 KPGD 230653Z AUTO 09003KT 10SM CLR 25/23 A2998 RMK AO2 SLP151 T02500228 WIHH 230700Z 09010KT 6000 FEW017 32/21 Q1009 NOSIG PTTP 230652Z 03005KT 15SM FEW019 SCT300 29/24 A2982 RMK SLP098 T02890235 KOPF 230653Z AUTO 02003KT 10SM CLR 27/22 A2996 RMK AO2 SLP146 T02720217 $ KPEX 230714Z AUTO 36003KT 5SM BR CLR 18/18 A3002 RMK AO2 T01810182 KONX 230715Z AUTO 00000KT 10SM CLR 24/21 A2994 RMK AO2 T02370213 VQPR 230550Z 33010KT 8000 SCT015 SCT030 SCT070 24/13 Q1018 NOSIG KNYG 230707Z AUTO 10006KT 10SM FEW008 BKN019 OVC070 23/21 A2998 RMK AO2 T02280206 KNXP 230656Z AUTO 23014KT 10SM CLR 26/03 A2996 RMK AO2 SLP108 T02610028 LFPG 230700Z 26008KT CAVOK 14/11 Q1016 NOSIG LFOP 230700Z AUTO 23005KT 9999 SCT032 BKN047 BKN060 12/11 Q1015 KONZ 230714Z AUTO 04005KT 10SM OVC050 21/18 A2999 RMK AO2 KPEZ 230715Z AUTO 14005KT 10SM CLR 25/22 A3001 RMK AO2 T02520223 ETAR 230717Z AUTO 25007KT 9999 FEW043 BKN070 13/10 A2997 RMK AO2 LFQA 230700Z AUTO 23003KT 190V260 9999 FEW012 SCT030 BKN035 14/13 Q1015 LFOT 230700Z AUTO VRB02KT 9999 NSC 13/12 Q1017 LFQB 230700Z AUTO 24006KT 9999 -RA SCT013/// BKN030/// BKN035/// ///TCU 13/12 Q1016 KOPL 230715Z AUTO 00000KT 7SM CLR 39/37 A3001 RMK AO2 T03890370 KNYL 230657Z AUTO 28004KT 10SM CLR 29/17 A2985 RMK AO2 SLP104 T02890172 403610222 LFPM 230700Z AUTO 23008KT 9999 NSC 14/13 Q1016 LFOV 230700Z AUTO VRB03KT 9999 FEW040 SCT048 BKN054 13/11 Q1018 KPHD 230653Z AUTO 30003KT 1/4SM FG VV001 20/20 A2998 RMK AO2 SLP143 T02000200 KOPM 230715Z AUTO 13016KT 7SM FEW019 29/25 A2998 RMK A01 LFPN 230700Z AUTO 26006KT 9999 FEW008 SCT084 BKN150 14/12 Q1016 KOPN 230715Z AUTO 00000KT 10SM CLR 25/23 A3001 RMK AO2 ESKN 230650Z 15008KT 9999 FEW020 SCT050 14/11 Q1004 KPHF 230654Z 06004KT 10SM CLR 24/21 A2995 RMK AO2 SLP141 T02440211 KQA4 230655Z VRB03KT 9999 CLR 37/M04 A2985 RMK SLP017 WND DATA ESTMD ALSTG/SLP ESTMD Q1010 LFPO 230700Z 27007KT 240V300 9999 SCT009 14/12 Q1016 NOSIG LFQG 230700Z AUTO 22004KT 190V260 9999 NSC 14/12 Q1017 LEZG 230700Z 34006KT CAVOK 16/09 Q1020 WIII 230700Z 06014KT 9999 FEW022 33/23 Q1007 NOSIG LGHI 230650Z VRB02KT CAVOK 28/21 Q1012 KPIA 230654Z 15005KT 10SM CLR 26/23 A2995 RMK AO2 SLP135 T02560228 LFPT 230700Z AUTO VRB03KT 9999 NSC 13/11 Q1015 KORB 230713Z AUTO 00000KT 7SM SCT011 OVC025 18/17 A3005 RMK AO2 KPIB 230715Z AUTO 00000KT 8SM CLR 24/21 A3002 RMK AO1 LFRB 230700Z 25002KT CAVOK 12/09 Q1018 NOSIG GAMB 230600Z 36012KT 9999 -RA FEW030 OVC150 22/21 Q1013 LFRC 230700Z AUTO 29009KT 260V320 9999 NSC 14/08 Q1016 KPHL 230654Z 07005KT 10SM SCT040 BKN110 19/17 A3002 RMK AO2 SLP164 T01940167 $ KORC 230715Z AUTO 09007KT 10SM CLR 24/21 A2996 RMK AO2 LEZL 230700Z 00000KT CAVOK 20/14 Q1016 NOSIG LFRD 230700Z AUTO 23004KT 9999 BKN036 BKN047 14/09 Q1017 KORD 230651Z 02004KT 6SM HZ OVC250 24/21 A2997 RMK AO2 SLP142 T02440211 KPGV 230715Z AUTO 00000KT 7SM SCT050 24/23 A2995 RMK AO2 LFPV 230700Z AUTO 26005KT 220V280 9999 SCT010 BKN082 BKN150 13/12 Q1016 KORE 230652Z AUTO 35004KT 10SM BKN060 OVC080 16/14 A3012 RMK AO2 SLP198 T01610144 KPIE 230653Z AUTO 00000KT 10SM CLR 27/24 A2998 RMK AO2 SLP150 T02670244 KPHN 230715Z AUTO 01003KT 1/2SM FG OVC003 18/18 A3001 RMK AO2 KORF 230651Z AUTO 06005KT 10SM SCT016 24/21 A2995 RMK AO2 SLP140 T02390211 TSNO RCMQ 230700Z 28006KT 9999 FEW012 BKN200 31/22 Q1009 NOSIG RMK A2982 LFRG 230700Z AUTO 28006KT 250V330 9999 BKN039 BKN050 14/10 Q1016 KPHP 230655Z AUTO 09008KT 10SM OVC090 20/18 A2994 RMK AO2 SLP120 T02000178 402890178 KORG 230715Z AUTO 00000KT 10SM CLR 25/25 A3001 RMK AO2 T02460246 GAKY 230600Z 22008KT 9999 FEW030 BKN133 26/22 Q1012 LFRH 230700Z AUTO 34004KT 9999 NSC 14/10 Q1019 KPIH 230653Z AUTO 00000KT 10SM FEW033 BKN110 12/11 A3002 RMK AO2 RAE16 SLP139 P0000 T01170111 401720111 KORH 230654Z AUTO 04006KT 10SM OVC004 15/14 A3011 RMK AO2 SLP195 T01500139 LFQQ 230700Z 27004KT 9999 FEW035 BKN080 12/11 Q1014 NOSIG LFRI 230700Z AUTO VRB03KT 9000 FEW007 SCT018 BKN043 14/13 Q1018 KOSA 230715Z AUTO 13003KT 10SM CLR 24/21 A3000 RMK AO1 T02420210 LFRJ 230700Z AUTO 25003KT 9999 NSC 12/09 Q1018 LFRK 230700Z AUTO 28008KT 9999 NSC 13/09 Q1016 LFSB 230700Z 25004KT 9999 FEW040 BKN073 15/11 Q1017 NOSIG KOQT 230653Z AUTO 00000KT 10SM CLR 24/22 A3003 RMK AO2 SLP149 T02390222 KPHT 230715Z AUTO 00000KT 10SM CLR 22/21 A3000 RMK KOQU 230050Z 06012KT 10SM BKN040 OVC110 20/15 A3009 ESMK 222120Z AUTO 10004KT 9999NDV BKN051/// 12/11 Q1007 RERA REDZ ETEB 230658Z AUTO 20004KT 9999 BKN048 OVC060 12/08 A2998 RMK AO2 SLP160 T01190080 KPIL 230653Z AUTO 14008KT 9SM CLR 28/25 A2998 RMK AO2 SLP153 T02830250 KORL 230653Z AUTO 19004KT 10SM CLR 26/22 A2998 RMK AO2 SLP155 T02610222 KOSC 230714Z AUTO 36003KT 1/2SM FG OVC003 16/16 A3004 RMK AO2 T01650165 LFRL 230700Z AUTO 00000KT 9999 NSC 14/09 Q1019 LFSD 230700Z AUTO 21005KT 9999 NSC 15/11 Q1017 LFRM 230700Z AUTO VRB03KT 9999 OVC006 14/13 Q1017 LFRN 230700Z AUTO 29005KT 9999 NSC 13/10 Q1018 LFRO 230700Z AUTO 19003KT 9999 NSC 13/09 Q1018 LGIO 230650Z 00000KT CAVOK 22/09 Q1017 KPHX 230651Z 00000KT 10SM CLR 28/18 A2988 RMK AO2 SLP101 T02830178 403390222 LFSG 230700Z AUTO VRB06KT 9999 SCT029 BKN045 OVC052 14/10 Q1016 KNZY 230652Z AUTO 34006KT 10SM CLR 21/18 A2995 RMK AO2 SLP141 T02110178 LFRQ 230700Z AUTO 32003KT 9999 NSC 13/10 Q1019 ESNG 230650Z AUTO VRB03KT 9999 FEW026/// OVC037/// 09/05 Q1007 KOSH 230653Z 11003KT 4SM BR FEW011 FEW044 BKN065 22/21 A2999 RMK AO2 SLP140 T02170211 LGIR 230650Z VRB03KT CAVOK 30/18 Q1012 NOSIG PTYA 230652Z 00000KT 10SM -SHRA SCT016TCU BKN130 OVC300 25/24 A2982 RMK SHRAE20B50 TCU SW-W SLP100 T02510242 ESMQ 230720Z AUTO 22010KT 9999 FEW012/// SCT020/// BKN062/// 14/12 Q1005 KPIR 230653Z AUTO 08009KT 10SM BKN120 21/20 A2992 RMK AO2 RAE04 SLP119 P0000 T02060200 LFSI 230700Z AUTO 20005KT 9999 FEW027 BKN044 BKN068 14/11 Q1016 KORS 230715Z AUTO 19004KT 10SM CLR 15/12 A3007 RMK AO2 LFRS 230700Z 00000KT 9999 SCT023 BKN043 14/13 Q1018 NOSIG LFRT 230700Z AUTO 26006KT 9999 NSC 13/09 Q1018 KPIT 230651Z 32003KT 1/4SM R28R/1800V2800FT FG VV001 21/21 A2998 RMK AO2 SLP149 T02060206 ESMS 230720Z 26013KT 9999 FEW016 13/11 Q1006 KPKB 230653Z AUTO 00000KT 6SM BR OVC005 23/22 A2999 RMK AO2 SLP148 T02330222 LGKC 221450Z 27010KT CAVOK 31/19 Q1016 ESNK 230650Z AUTO 02004KT 9999 R17///// R35///// -DZ OVC011/// 13/12 Q1005 REDZ ESMT 230720Z AUTO 26009KT 9999 FEW021/// SCT072/// 13/// Q1004 LHBC 230545Z 00000KT CAVOK 17/14 Q1017 LFSL 230700Z AUTO VRB01KT 9999 FEW025 OVC068 14/11 Q1019 LFRV 230700Z AUTO 32006KT 9999 NSC 13/10 Q1018 ESNL 230650Z AUTO 33003KT 290V020 9999 BKN062/// 12/08 Q1006 KPKD 230653Z AUTO 00000KT 1/2SM FG VV002 19/19 A3003 RMK AO2 SLP166 T01890189 TSNO LFSN 230700Z AUTO 20005KT 160V220 9999 BKN045 OVC100 14/10 Q1015 LGKF 230650Z 00000KT 9999 FEW016 26/23 Q1015 ESOE 230650Z AUTO 13004KT 9999NDV FEW007/// BKN066/// 13/11 Q1003 ESNN 230650Z 34001KT 9999 SCT008 BKN055 BKN066 14/12 Q1005 KQBF 230655Z AUTO 34005KT 9999 SCT007 BKN009 BKN013 22/20 A3002 RMK AO2 SLP156 T02210202 LFSO 230700Z AUTO 22010KT 9999 FEW035 12/10 Q1016 KS25 230715Z AUTO 06013G17KT 10SM OVC009 15/14 A3007 RMK AO2 ESNO 230650Z AUTO 02005KT 9999 FEW048/// OVC072/// 11/09 Q1006 ESMX 230720Z AUTO 23009KT 9999 FEW005/// SCT009/// 12/10 Q1004 KOTG 230715Z 09007KT 8SM 21/20 A3000 RMK AO1 LFTH 230700Z AUTO VRB02KT 9999 NSC 22/15 Q1013 LFRZ 230700Z AUTO VRB03KT 9999 NSC 15/13 Q1018 KOTH 230715Z 34003KT 10SM CLR 13/13 A3007 RMK AO1 ESNQ 230650Z VRB02KT 9999 OVC048 09/04 Q1007 KQAR 230655Z AUTO VRB05KT 8000 CLR 34/01 A2990 RMK AO2 SLP055 T03380008 GANR 230600Z 22006KT CAVOK 27/24 Q//// KQBK 221256Z AUTO 07012G19KT 9000 CLR 46/04 A2956 RMK AO2 SLP840 T04570043 LFST 230700Z AUTO 18007KT 140V210 9999 NSC 17/11 Q1015 ESPA 230650Z 35005KT 320V020 9999 OVC006 11/10 Q1006 ESNS 230650Z 33006KT 300V360 9999 OVC011 11/09 Q1006 LGKL 230650Z 35004KT CAVOK 29/07 Q1013 ESOK 230650Z AUTO 13003KT 9999 DZ FEW003/// SCT046/// 12/11 Q1002 KOSU 230653Z AUTO 01004KT 3/4SM BR OVC002 23/22 A2998 RMK AO2 SLP143 T02280222 KQCC 230655Z AUTO VRB04KT 10SM FEW190 34/10 A2989 RMK AO2 SLP060 T03370104 KQBL 230656Z AUTO 00000KT 10SM FEW055 26/24 A3000 RMK AO2 SLP165 T02620242 KOTM 230719Z AUTO 00000KT 1 3/4SM BR FEW031 24/24 A2993 RMK AO2 T02440239 ESNU 230650Z 35006KT 9999 FEW010 BKN070 12/09 Q1006 LGKO 230650Z 35008KT CAVOK 30/14 Q1012 ESPE 230650Z AUTO 32005KT 9999NDV FEW010/// OVC015/// 10/07 Q1007 LFSX 230700Z AUTO VRB02KT 9999 NSC 15/11 Q1016 LGKP 230650Z 30020KT 9999 FEW018 28/22 Q1009 ESNX 230650Z AUTO 36005KT 9999NDV BKN023/// 09/05 Q1007 KQAY 230655Z AUTO 35010G17KT 8000 CLR 44/M01 A2960 RMK AO2 SLP018 T04391015 $ LHBP 230700Z VRB01KT 9999 SCT038 BKN059 18/12 Q1017 NOSIG KQAZ 221459Z AUTO 12015KT 6000 HZ CLR 33/18 A2977 RMK CDP03565 CLR ETGG 230620Z 20009KT 9999 FEW025 12/10 Q1008 BLU+ LGKR 230650Z 15004KT 9999 SCT015 26/21 Q1014 NOSIG ESNZ 230650Z 10006KT 9999 OVC003 11/09 Q1004 ETHA 230620Z AUTO 19001KT //// // ////// 13/10 Q1016 /// VRMM 230600Z 27015KT 9999 SCT018TCU BKN120 30/26 Q1011 NOSIG WIMM 230700Z 25005KT 4500 -RA BKN015 25/24 Q1010 ETHB 230620Z 24006KT 8000 FEW008 12/10 Q1012 BLACKBLU+ LHDC 230645Z 08003KT CAVOK 17/12 Q1016 NOSIG ETHC 230620Z 24007KT 6000 SCT010 SCT060 12/11 Q1012 WHT LGKV 230650Z 00000KT CAVOK 26/21 Q1014 LGLM 230650Z 03008KT CAVOK 29/22 Q1013 KPMD 230653Z AUTO 23013KT 10SM CLR 23/04 A2998 RMK AO2 SLP121 T02280044 KPKV 230715Z AUTO 16004KT 10SM CLR 25/24 A2999 RMK AO2 T02500236 LFTW 230700Z AUTO 35006KT 9999 NSC 19/12 Q1016 KOVE 230653Z AUTO 16007KT 10SM CLR 22/13 A2988 RMK AO2 SLP117 T02170133 KPLN 230711Z AUTO 00000KT 5SM BR OVC075 17/17 A3006 RMK AO2 T01720167 KOUN 230715Z AUTO 17008KT 10SM CLR 25/17 A2996 RMK AO2 ETHE 230620Z AUTO 21003KT 0550 // ////// 11/10 Q1012 /// ESOW 230650Z AUTO 15006KT 9999NDV FEW089/// 14/11 Q1005 ETHF 230620Z 20006KT 9999 SCT031 SCT080 13/11 Q1013 BLU+ LGKZ 230650Z 00000KT CAVOK 25/14 Q1018 ETGQ 230420Z AUTO VRB02KT //// // ////// 14/11 Q1013 /// LGLR 230650Z 00000KT CAVOK 28/18 Q1014 NOSIG BLU KQEA 230655Z AUTO 12010KT 9999 BKN038 30/21 A2978 RMK AO2 LTG DSNT N SLP082 T03040214 KOWA 230715Z AUTO 11003KT 7SM CLR 20/19 A3001 RMK AO2 LTG DSNT S KPNA 230715Z AUTO 24008KT 10SM SCT120 07/07 A3011 RMK AO2 LGMK 230650Z 01010KT CAVOK 27/20 Q1012 KOWB 230656Z AUTO 16004KT 5SM -TSRA BR FEW003 SCT035 BKN046 23/23 A2999 RMK AO2 T02270227 LTG DSNT ALQDS P0021 PRESFR SLP152 KQEB 230655Z AUTO 00000KT 9999 BKN120 20/13 Q1023 RMK AO2 SLP170 T02040126 KPNC 230653Z AUTO 17007KT 10SM CLR 28/17 A2991 RMK AO2 SLP112 T02830167 KOVL 230713Z AUTO 10004KT 7SM CLR 21/19 A2999 RMK AO2 ETHL 230620Z AUTO 23003KT 9999 // ////// 12/09 Q1016 /// KOWD 230700Z AUTO 05003KT 10SM BKN015 OVC021 18/16 A3008 RMK AO2 T01830156 ETIC 230704Z AUTO 00000KT 9999 FEW047 BKN070 BKN120 10/ A2997 RMK AO2 $ KPNE 230654Z 08005KT 10SM SCT110 19/16 A3003 RMK AO2 SLP169 T01940161 ETHN 230620Z 22006KT 9999 FEW060 SCT100 12/08 Q1015 BLU+ LFVP 222100Z 02015KT 9999 FEW023 SCT041 BKN230 19/13 Q1016 NOSIG KPMP 230653Z AUTO 12003KT 10SM 29/22 A2996 RMK AO2 SLP146 T02890222 $ KQEI 230720Z AUTO 20002KT 3200 HZ CLR 28/20 A2983 RMK A02 TSNO ETIH 230658Z AUTO VRB02KT 9999 BKN160 15/08 A2998 RMK AO2 SLP148 KQEJ 222050Z AUTO 08001KT 0800 BR OVC025 20/18 A2984 RMK A02 TSNO KOVS 230713Z AUTO 00000KT 3/4SM BR FEW004 SCT060 24/23 A2996 RMK AO2 T02440233 PWAK 230658Z AUTO 07011KT 9999 CLR 29/23 A2992 RMK AO2 SLPNO T02900231 ETHS 230620Z 26007KT 8000 BKN008 11/10 Q1011 GRN LGMT 230650Z VRB02KT CAVOK 28/20 Q1013 ESSA 230650Z 15007KT CAVOK 14/12 Q1005 NOSIG KOXB 230653Z AUTO 07005KT 10SM BKN025 23/19 A2997 RMK AO2 SLP149 T02280194 TSNO KPOB 230658Z AUTO 00000KT 10SM FEW070 SCT090 BKN170 25/22 A2994 RMK AO2 CIG 090 RWY05 SLP139 T02500216 KQFB 230720Z AUTO 28004KT 9999 CLR 29/15 A2984 RMK A02 TSNO KPOC 230347Z 22007KT 10SM CLR 22/16 A2998 ESSB 230650Z 15006KT 110V190 CAVOK 16/13 Q1005 KQEL 230720Z AUTO 21004KT 2800 HZ FEW032 28/20 A2984 RMK A02 TSNO KOXC 230715Z 05005KT 10SM OVC065 17/13 A3009 RMK AO1 ETIK 230658Z AUTO 23006KT 9999 FEW100 BKN160 15/08 A2997 RMK AO2 SLP148 T01450084 KPNM 230701Z AUTO 02004KT 7SM CLR 19/18 A3002 RMK AO2 WIOO 230600Z 00000KT 9999 BKN012 32/24 Q1008 NSW KPMV 230715Z AUTO 28017KT 5SM -TSRA SCT009 OVC025 23/21 A2996 RMK AO2 LTG DSNT ALQS P0010 T02250210 ESSD 230650Z AUTO 12005KT 9000 BR FEW003/// OVC004/// 11/10 Q1004 KQEN 230720Z AUTO 24005G15KT 4800 HZ CLR 24/17 A2985 RMK A02 TSNO KPOE 230655Z AUTO 00000KT 10SM CLR 26/23 A3001 RMK AO2 SLP163 T02560228 KPOF 230653Z AUTO 00000KT 9SM CLR 26/22 A2995 RMK AO2 SLP137 T02560222 KQEP 230720Z AUTO 4000 BR CLR / / RMK A02 TSNO KQFG 230655Z AUTO 11007G14KT 090V200 9999 FEW210 33/12 A2985 RMK AO2 SLP061 T03280118 KOWP 230715Z AUTO 18007KT 10SM CLR 28/20 A2995 RMK AO2 T02790195 KQEQ 230720Z AUTO 27005KT 9999 FEW025 27/20 A2967 RMK A02 TSNO RCSS 230700Z 11004KT 070V180 9999 FEW025 BKN200 32/24 Q1008 NOSIG RMK A2978 KQER 230720Z AUTO 27002KT / /CLR 25/20 A2978 RMK A02 TSNO KOXI 230715Z AUTO 00000KT M1/4SM VV000 20/19 A2997 RMK AO1 T01990188 LGPA 230650Z 36009KT CAVOK 31/20 Q1012 KQES 230720Z AUTO 32009KT 6000 HZ CLR 24/20 A2984 RMK A02 TSNO KPNS 230653Z AUTO 29006KT 10SM CLR 27/24 A2999 RMK AO2 SLP155 T02670239 KPPA 230715Z AUTO 19007KT 10SM CLR 19/15 A3001 RMK AO2 T01860148 ESTA 230720Z 20009KT 160V250 9999 FEW009 SCT015 BKN023 13/11 Q1005 KPNT 230715Z AUTO 00000KT 5SM BR CLR 22/22 A2997 RMK AO2 ESSL 230650Z AUTO 15007KT 9999NDV FEW050/// BKN082/// 14/10 Q1004 KQEV 230720Z AUTO 26003KT 9000 HZ CLR 29/17 A2980 RMK A02 TSNO WIPP 230700Z 12003KT 9999 BKN013 30/24 Q1007 FKKD 230700Z 00000KT 9999 FEW003 BKN013 FEW016CB BKN100 24/23 Q1015 NOSIG KQEW 230720Z AUTO 27004KT 9999 CLR 29/18 A2979 RMK A02 TSNO RCTP 230700Z 30009KT 270V340 9999 FEW025 SCT120 BKN200 32/21 Q1009 NOSIG RMK A2980 LGNX 230650Z 34010KT CAVOK 27/23 Q1012 KPPF 230652Z AUTO 17005KT 10SM CLR 26/21 A2994 RMK AO2 SLP127 T02610211 KQEX 230720Z AUTO 35002KT 6000 HZ CLR 30/17 A2982 RMK A02 TSNO KQEY 230720Z AUTO 31006KT 9999 CLR 29/17 A2982 RMK A02 TSNO KQFQ 230655Z AUTO VRB05KT 3SM BR CLR 28/22 A2977 RMK AO2 SLP078 T02830223 $ ESSP 230650Z 14006KT 9999 FEW038 BKN054 14/11 Q1004 WIPT 230700Z 27005KT 230V300 9999 SCT020 31/25 Q1007 KOXR 230651Z AUTO 33004KT 9SM OVC007 18/16 A2995 RMK AO2 SLP142 T01780156 KOZA 230715Z AUTO 17010G14KT 10SM CLR 26/11 A3006 RMK AO2 KQFT 230720Z AUTO 18004KT 4800 HZ FEW065 29/19 A2978 RMK A02 TSNO KQFU 230720Z AUTO 07006G12KT 2000 // CLR 27/19 A2981 RMK A02 TSNO KPOU 230653Z AUTO 04003KT 10SM BKN070 OVC090 19/17 A3005 RMK AO2 SLP172 T01890167 KQFV 230720Z AUTO 23002KT 2800 HZ CLR 26/19 A2981 RMK A02 TSNO ESTL 230720Z AUTO 23009KT 9999NDV FEW012/// SCT017/// OVC064/// 14/12 Q1005 KPOV 230719Z AUTO 00000KT 5SM HZ 19/ A2999 RMK AO2 T0187 KOXV 230715Z AUTO 10003KT 1/2SM BR BKN001 25/24 A2993 RMK AO2 ESUD 230650Z AUTO 06004KT 030V100 9999 SCT022/// BKN035/// 12/06 Q1007 ESSV 230650Z 15008KT CAVOK 15/12 Q1006 KQFW 230720Z AUTO 30006KT 3200 HZ CLR 28/19 A2980 RMK A02 TSNO FKKN 230700Z 00000KT 9999 BKN016 BKN110 19/18 Q1020 KQFX 230720Z AUTO 29002KT 2800 HZ CLR 29/19 A2980 RMK A02 TSNO KPPO 230715Z AUTO 00000KT 1/2SM FG VV005 20/20 A2999 RMK AO2 T02020202 KPOY 230715Z AUTO 34012KT 10SM -DZ BKN075 11/10 A3000 RMK AO2 KPPQ 230715Z AUTO 15003KT 5SM BR CLR 25/23 A2994 RMK AO2 LTG DSNT NW T02470232 KPQI 230715Z AUTO 00000KT 10SM BKN060 13/11 A3014 RMK AO1 LFYR 230700Z AUTO VRB02KT 9999 FEW011 OVC019 13/12 Q1017 FKKR 230300Z 00000KT 9999 FEW016 BKN120 BKN300 23/22 Q1013 KPRB 230653Z AUTO 31004KT 10SM CLR 17/13 A2994 RMK AO2 SLP131 T01720128 KPQL 230653Z AUTO 00000KT 5SM BR CLR 24/24 A2999 RMK AO2 SLP158 T02440239 TSNO KPRC 230653Z 17004KT 10SM CLR 14/11 A3013 RMK AO2 SLP135 T01440106 402440144 $ KQGV 230655Z 33019G25KT 9999 CLR 44/M01 A2961 RMK PK WND 33026/51 SLPNO QNH1003MB PA +753 KPQN 230714Z AUTO 08004KT 10SM CLR 22/20 A2999 RMK AO2 KQGX 230658Z AUTO M M CLR M M RMK AO2 SLPNO RVRNO PNO $ KPRG 230715Z AUTO 00000KT 3/4SM BR VV005 22/22 A2998 RMK AO2 T02180218 LGPZ 230650Z 00000KT CAVOK 26/18 Q1015 NOSIG KOZR 230658Z AUTO 00000KT 10SM CLR 25/24 A2999 RMK AO2 SLP154 T02530238 RVRNO LGSA 230650Z 30006KT CAVOK 33/04 Q1013 VTBD 230700Z 26006KT 220V300 9999 FEW020TCU BKN300 34/25 Q1008 NOSIG ESUT 230650Z AUTO 16006KT 9999 OVC061/// 11/08 Q1006 KPSC 230653Z AUTO 33011KT 10SM CLR 19/12 A3001 RMK AO2 SLP159 T01890117 KRAC 230653Z AUTO 00000KT 1/4SM FG VV002 21/21 A3000 RMK AO2 SLP154 T02110206 ETND 221020Z 22015KT 9999 FEW030 SCT120 18/09 Q1010 BLU+ KOZW 230715Z AUTO 00000KT 10SM BKN055 BKN070 20/18 A3002 RMK AO2 T01980178 KPRN 230656Z AUTO 00000KT 10SM CLR 25/23 A3000 RMK AO2 SLP150 T02500228 ETMN 230620Z 23008KT 9999 FEW022CB 12/10 Q1009 BLU+ KPSF 230654Z AUTO 07005KT 10SM BKN041 OVC050 16/14 A3010 RMK AO2 SLP174 T01610139 KPRO 230715Z AUTO 00000KT 3SM BR SCT003 OVC055 23/23 A2995 RMK AO2 T02300225 LGRP 230650Z 24010KT CAVOK 31/19 Q1010 NOSIG KQHY 230656Z AUTO 28002KT 10SM FEW055 27/ A3001 RMK AO2 SLP169 $ KQL5 230655Z 09005KT 9999 FEW120 FEW200 34/13 A2982 RMK SLP055 T03390130 ETNH 230620Z 18009KT 9999 -SHRA SCT030TCU BKN110 11/09 Q1008 BLU BLU TEMPO WHT KQIR 230658Z 11007KT 9999 CLR 38/27 A2960 RMK AO2A SLP024 T03790269 $ LIBA 221755Z 12008KT 9999 SCT030 26/21 Q1013 RMK SCT VIS MIN 9999 WIND THR29 10008KT BLU VTCC 230700Z 28004KT 9999 SCT035 32/20 Q1011 A2986 NOSIG KPRS 230715Z AUTO 05006KT 10SM CLR 24/19 A3001 RMK AO2 LTG DSNT NW T02380188 LGSK 230650Z 02006KT 9999 SCT018 28/23 Q1014 KPTB 230715Z AUTO 08004KT 5SM BR SCT007 OVC031 22/21 A2996 RMK AO2 T02210211 KPSK 230715Z AUTO 00000KT 10SM SCT070 BKN110 21/21 A3007 RMK AO2 T02100206 KT20 230715Z AUTO 00000KT 10SM SCT011 26/25 A3000 RMK AO2 T02600246 LIBC 230650Z 02004KT 320V060 CAVOK 28/17 Q1015 KRAL 230653Z AUTO 28003KT 10SM CLR 20/17 A2997 RMK AO2 SLP132 T02000167 ETNL 230705Z 25011KT 9999 FEW013 BKN015 13/09 Q1010 WHT WHT BECMG BLU+ VTBO 230700Z 22013KT 8000 FEW020 31/24 Q1009 LGSM 230650Z 00000KT CAVOK 30/20 Q1012 LIBD 230650Z VRB02KT 9999 FEW030 26/20 Q1014 KRBD 230653Z 17008KT 10SM CLR 29/20 A2997 RMK AO2 SLP137 T02890200 KPSM 230658Z 36006KT 10SM BKN100 15/13 A3011 RMK AO2A SLP200 T01500129 LHKE 230715Z 13002MPS 9999 FEW045 SCT083 20/10 Q1016 NOSIG RMK BLU KPSN 230715Z AUTO 17004KT 10SM CLR 26/23 A3001 RMK AO2 T02640231 LIBF 230650Z VRB02KT CAVOK 26/16 Q1014 ETNN 230620Z AUTO 18002KT 9999 // ////// 12/10 Q1013 /// VTCH 230700Z VRB04KT 9999 SCT028 32/19 Q1008 A2978 INFO LGRX 230650Z VRB03KT 5000 2000S BR SCT006 24/23 Q1014 NOSIG LGSO 230650Z 09004KT CAVOK 28/22 Q1013 KPRX 230715Z 17005KT 10SM CLR 24/19 A2999 RMK AO1 KPSO 230715Z AUTO 00000KT 10SM 10/09 A3027 RMK AO2 T01030092 LIBG 230650Z 00000KT CAVOK 27/23 Q1014 KRAP 230652Z AUTO 09010KT 10SM -RA SCT060 BKN075 OVC090 19/18 A2996 RMK AO2 RAB48 SLP122 P0000 T01890178 402500161 KPSP 230653Z 31010KT 10SM CLR 31/01 A2985 RMK AO2 SLP103 T03060011 KRBG 230653Z AUTO 00000KT 10SM CLR 19/11 A3003 RMK AO2 SLP167 T01940111 LGTG 230620Z 00000KT CAVOK 29/11 Q1014 NOSIG BLU LIBH 230655Z 30003KT CAVOK 27/19 Q1014 RMK SKC QUK / QUL / VIS MAR 20 KM VIS MIN 9999 VTBS 230700Z 25010KT 210V290 9000 -TSRA FEW018CB SCT030 BKN300 30/24 Q1009 TEMPO 5000 TSRA LGSR 230650Z 35007KT CAVOK 29/21 Q1012 NOSIG VTCL 230600Z VRB05KT 9999 FEW025 SCT120 SCT300 33/24 Q1010 A2984 INFO LICA 230650Z 09004KT CAVOK 26/20 Q1015 VTBU 230700Z 26008KT 9999 VCSH FEW020TCU BKN300 31/23 Q1009 A2980 TCU NE W KRCA 230711Z AUTO 09007KT 10SM -RA OVC006 19/18 A2996 RMK AO2 DZB0702 $ KRAS 230715Z AUTO 16005KT 10SM CLR 27/25 A2998 RMK AO2 T02730253 ETNS 230620Z AUTO 22008KT 9999 // ////// 11/09 Q1008 /// LICB 230650Z 36003KT CAVOK 27/19 Q1016 KPTK 230653Z AUTO 05003KT 10SM OVC060 20/16 A3001 RMK AO2 SLP157 T02000156 KPUB 230653Z AUTO 28004KT 10SM CLR 14/11 A3001 RMK AO2 SLP106 T01440111 402780144 ETNT 230620Z 23008KT 9999 FEW020CB 11/09 Q1010 BLU+ VTCN 230500Z 20007KT 9999 FEW020TCU SCT022 31/20 Q1010 A2985 TCU ALQDS RWY/02 INFO/F LICC 230650Z 24007KT CAVOK 27/17 Q1015 KPUC 230653Z AUTO 30007KT 10SM FEW048 BKN075 OVC110 14/07 A3006 RMK AO2 RAB16E29 SLP116 P0000 T01440072 402610128 KRBL 230654Z AUTO 23003KT 10SM CLR 24/12 A2987 RMK AO2 SLP110 T02390122 LICD 230650Z 06007KT 9999 FEW015 26/24 Q1015 VTCP 230600Z 23005KT 9999 FEW018CB SCT025 33/23 Q1009 A2981 RWY 01 INFO F LIBN 230655Z VRB01KT 8000 SCT010 25/24 Q1015 RMK SCT VIS MIN 8000 WIND THR14 VRB01KT BLU KPTN 230715Z AUTO 00000KT 10SM CLR 26/25 A3004 RMK AO1 KRCE 230715Z AUTO 19011KT CLR 25/15 A2996 RMK AO2 ETNW 230620Z AUTO 22007KT 5000 // ////// 12/10 Q1012 /// LICF 230655Z 07004KT CAVOK 26/22 Q1015 RMK SKC QUK 1 QUL 0 VIS MAR 12 KM MON LIB NC VIS MIN 9999 KPSX 230653Z AUTO 16007KT 10SM CLR 28/25 A2999 RMK AO2 SLP156 T02830250 KRBO 230715Z AUTO 18003KT 10SM CLR 27/24 A2999 RMK AO2 T02650237 LIBP 230650Z VRB01KT CAVOK 22/18 Q1014 LICG 230655Z 21007KT CAVOK 28/26 Q1014 LGSY 230650Z 31006KT 9999 SCT020 27/22 Q1012 NOSIG BLU KT35 230715Z AUTO 18006KT 10SM CLR 27/23 A2999 RMK AO2 T02710233 VTCT 230700Z 26004KT 9999 SCT025 29/23 Q1010 A2982 RMK/RWY03 INFO H LIBR 230645Z 16003KT 9999 SCT030 27/23 Q1014 NOSIG LGTS 230650Z 28005KT CAVOK 27/20 Q1014 NOSIG LICJ 230650Z 01002KT CAVOK 27/23 Q1015 KPUJ 230715Z AUTO 29003KT 10SM CLR 23/23 A3004 RMK AO2 KPTS 230715Z AUTO 20007KT 10SM CLR 27/23 A2994 RMK AO2 T02730225 KPTT 230715Z AUTO 18011KT 10SM CLR 25/13 A2992 RMK AO2 KPVB 230715Z AUTO 00000KT 4SM CLR 24/23 A2998 RMK AO1 T02360230 LICL 230655Z 06002KT 4000 BR NSC 27/22 Q1014 RMK SKC QUK 0 QUL 0 VIS MAR 4 KM VIS MIN 4000 KPVC 230715Z 10SM BKN017 18/16 A3008 RMK AO1 KQKV 222100Z AUTO 17002KT //// CLR 33/16 A3008 RMK CDP03576 CLR KRDD 221553Z 00000KT 10SM CLR 25/12 A2989 RMK AO2 SLP115 T02500122 KRCM 230655Z AUTO 14003KT 10SM CLR 23/21 A2992 RMK AO2 LTG DSNT NW LIBV 230655Z 02001KT CAVOK 24/19 Q1014 RMK FEW FEW060 VIS MIN 9999 WIND THR32 00000KT WIND THR14 35001KT BLU KPVD 230651Z AUTO 03008KT 10SM FEW110 18/16 A3008 RMK AO2 SLP186 T01780156 KPTV 230715Z AUTO 15005KT 10SM CLR 23/08 A2988 RMK AO1 ETOU 230658Z AUTO 25006KT 9999 SCT075 BKN100 14/11 A2995 RMK AO2 SLP143 T01400106 GCGM 230700Z VRB01KT 9999 FEW009 22/19 Q1017 RMK CAB09 230700Z 27009KT GCFV 230700Z 01012KT 9999 FEW020 22/18 Q1016 KPTW 230654Z AUTO 00000KT 10SM OVC044 18/16 A3004 RMK AO2 SLP169 T01830156 KPVE 230715Z AUTO 00000KT 5SM CLR 23/22 A3000 RMK KRBW 230715Z AUTO 00000KT 10SM CLR 26/ A2993 RMK AO2 KPVF 221035Z AUTO 14004KT 10SM FEW047 19/07 A3000 RMK AO1 LIBY 230655Z 12003KT 9000 SCT015 26/23 Q1014 RMK SCT QUK 1 QUL 0 VIS MAR 9 KM VIS MIN 9000 KRDG 230654Z 11004KT 10SM -RA OVC041 21/15 A3001 RMK AO2 RAB54 SLP165 P0000 T02060150 KQLQ 230655Z 31011G15KT 290V350 9999 CLR 26/M06 A3022 RMK AO2A SLP100 WND DATA ESTMD ALTSG/SLP DATA ESTMD T02611064 LICR 230650Z 20003KT 160V220 CAVOK 26/14 Q1015 KRCR 230715Z AUTO 00000KT 5SM BR CLR 22/22 A2998 RMK AO2 GCHI 230700Z 36015KT 9999 SCT015 23/20 Q1018 LIEA 230650Z VRB02KT CAVOK 23/17 Q1014 KPWA 230653Z AUTO 18011KT 10SM CLR 27/16 A2994 RMK AO2 SLP119 T02720156 KPVJ 230715Z AUTO 16003KT 10SM CLR 24/17 A2995 RMK AO2 T02440173 LIEB 230706Z 25003KT 9999 -TSRA FEW020CB FEW030TCU 23/21 Q1012 RMK BKN SCT080 QUK 2 QUL 0 VIS MAR 16 KM MON W CIME INC VIS MIN 9999S LICT 230655Z 15013KT 9999 FEW015 27/23 Q1014 KRDK 230715Z AUTO 00000KT 2SM BR BKN004 BKN039 OVC070 23/23 A2990 RMK AO2 PWINO LIEC 230655Z 06003KT 9999 FEW020 26/24 Q1014 RMK SCT SCT070 QUK 1 QUL 0 VIS MAR 20 KM VIS MIN 9999 KPWC 230713Z AUTO 13004KT 10SM BKN006 OVC014 19/19 A3007 RMK AO2 LIED 230655Z 33005KT 9999 SCT010 FEW020CB 24/20 Q1014 RMK BKN SCT100 VIS MIN 9999 WIND THR35 35004KT WIND THR17 35005KT BLU KRCV 230710Z AUTO 26003KT 10SM SCT004 OVC010 10/09 A3027 RMK AO2 T01000091 KRDM 230656Z AUTO 35006KT 10SM BKN070 BKN090 16/07 A3012 RMK AO2 SLP182 T01560067 LIEE 230650Z 31009KT 9999 FEW015 23/21 Q1015 KPUW 230653Z AUTO 07003KT 10SM SCT080 SCT120 14/10 A3008 RMK AO2 SLP175 T01390100 FLHN 230700Z 24006KT CAVOK 20/03 Q1022 NOSIG KRCX 230715Z AUTO 04005KT 5SM BR OVC004 19/18 A3005 RMK AO2 T01900183 KPWG 230715Z AUTO 19009KT 10SM CLR 28/17 A3000 RMK AO1 LICZ 230655Z 27004KT 9000 NSC 27/21 Q1015 RMK SKC VIS MIN 9000 WIND THR28 27005KT A2998 BLU KRCZ 230715Z AUTO 07004KT 10SM -RA SCT006 23/23 A2992 RMK AO2 P0001 T02330225 KRDR 230658Z AUTO 01008KT 10SM OVC006 16/16 A3009 RMK AO2 SLP194 P0001 T01640164 ETSA 230620Z AUTO 20004KT 6000 // ////// 13/10 Q1016 /// KPWK 230707Z AUTO 00000KT 4SM BR OVC003 24/22 A2999 RMK AO2 T02390222 ETSB 230620Z AUTO 25007KT 9000 // ////// 11/10 Q1014 /// KRDU 230651Z 00000KT 10SM FEW050 SCT140 BKN170 24/22 A2995 RMK AO2 SLP136 T02440222 KPVU 230715Z AUTO 15006KT 10SM BKN065 14/11 A3004 RMK AO1 KPWM 230651Z AUTO 28005KT 10SM CLR 13/12 A3012 RMK AO2 SLP199 T01280122 KRFD 230654Z 14003KT 8SM BKN027 OVC250 24/22 A2998 RMK AO2 SLP146 T02390222 KPVW 230715Z AUTO 22006KT 10SM SCT075 SCT120 21/16 A3005 RMK AO2 T02110159 KPXE 230715Z AUTO 00000KT 10SM CLR 25/23 A2998 RMK AO2 T02510232 ETSE 230620Z AUTO 18003KT 9999 // ////// 14/12 Q1016 /// LIEO 230650Z VRB02KT 9999 SCT025 25/18 Q1014 KREO 230652Z AUTO 36006KT 14/02 A3006 RMK AO1 SLP151 T01390022 KT65 230715Z AUTO 15004KT 7SM CLR 27/23 A2998 RMK AO2 LTG DSNT S T02660231 ETSH 230620Z 24005KT 9999 BKN060 BKN100 14/09 Q1012 BLU KRFI 230715Z AUTO 00000KT 10SM CLR 25/22 A3002 RMK AO2 T02490222 ETSI 230620Z AUTO VRB01KT 3800 // ////// 13/10 Q1015 /// LHPA 230715Z 00000MPS CAVOK 21/16 Q1015 NOSIG RMK BLU KPWT 230715Z 00000KT 10SM CLR 12/11 A3015 RMK AO1 ETSL 230620Z 20005KT 9999 BKN080 SCT300 14/10 Q1016 BLU ETSN 230620Z AUTO 21001KT //// // ////// 14/10 Q1015 /// LGZA 230650Z 00000KT 9999 FEW015 27/22 Q1014 GCLA 230700Z 34009KT 9999 SCT020 22/18 Q1019 KRGK 230715Z AUTO 00000KT 7SM BKN006 21/20 A2998 RMK AO2 FLKK 230600Z 28003KT 9999 HZ 21/15 Q1019 KPYM 230652Z AUTO 03007KT 10SM BKN011 BKN017 OVC120 18/15 A3008 RMK AO2 SLP185 T01780150 KT82 230715Z AUTO 18005KT 10SM CLR 25/16 A3006 RMK AO2 T02450160 LHPP 230645Z 10004KT CAVOK 20/14 Q1016 FMCH 230700Z 31004KT 230V360 9999 FEW020 28/20 Q1014 NOSIG KRHI 230653Z AUTO 00000KT 1/2SM FG VV002 20/20 A3005 RMK AO2 SLP170 T02000200 LHPR 230645Z 05004KT CAVOK 17/16 Q1016 AGGH 230700Z 16007KT 9999 -DZ FEW016 BKN028 OVC100 24/23 Q1012 KRIC 230654Z 08003KT 8SM FEW005 BKN100 OVC300 23/21 A2996 RMK AO2 SLP149 T02280211 KPYX 230715Z AUTO 21009KT 10SM CLR 22/15 A2997 RMK AO2 T02170150 FLMF 221200Z 16006KT CAVOK 36/12 Q1012 KRHP 230715Z AUTO 00000KT 5SM BR CLR 18/18 A3007 RMK AO2 T01810180 GCLP 230700Z 01023KT 9999 FEW018 23/18 Q1016 NOSIG KPZQ 230714Z AUTO 00000KT 3SM BR CLR 15/15 A3007 RMK AO2 T01540154 KQRH 230655Z AUTO VRB05KT 9000 FEW200 36/20 A2971 RMK AO2 SLP058 T03610201 KQQS 230655Z AUTO 16008G13KT 9999 CLR 27/03 A3017 RMK AO2 SLP045 T02680029 $ KSAA 230715Z AUTO 10SM OVC048 13/10 A3009 RMK AO2 KQSA 230658Z VRB06KT 9999 FEW180 30/11 A2994 RMK AO2A SLP035 T02980106 $ KRIL 230653Z AUTO 00000KT 10SM BKN120 13/11 A3005 RMK AO2 SLP118 T01330111 402500133 KSAC 230653Z AUTO 17005KT 10SM CLR 16/13 A2988 RMK AO2 SLP116 T01610128 KSAD 230651Z AUTO 32005KT 10SM OVC110 23/13 A3001 RMK AO2 SLP110 T02330133 403110200 KRHV 230450Z 30008KT 10SM SKC 18/14 A2996 RMK LAST FMEE 230700Z 08012KT 9999 FEW025 26/19 Q1016 NOSIG KSAF 230653Z AUTO 00000KT 10SM CLR 13/11 A3021 RMK AO2 SLP156 T01280111 402000122 KQQY 230655Z AUTO 00000KT 9999 FEW095 SCT120 BKN150 23/20 A2995 RMK AO2 SLP123 T02320199 KU16 230640Z AUTO 03011KT 10SM -TSRA SCT023 BKN029 FMCZ 230700Z 04007KT 330V100 9999 SCT023 29/21 Q1014 NOSIG KSBA 230653Z 15003KT 10SM OVC007 18/16 A2995 RMK AO2 SLP142 T01780156 KSBD 230347Z 23006KT 7SM SKC 24/09 A2996 KRKD 230715Z AUTO 00000KT 10SM OVC070 16/14 A3010 RMK AO1 KRIV 230658Z AUTO 00000KT 10SM CLR 19/15 A2998 RMK AO2 SLP139 T01900146 LHSM 230645Z 00000KT 0800 FG SCT004 SCT083 17/17 Q1016 BECMG 1500 BR ETWM 230620Z AUTO 24003KT 5000 // ////// 10/09 Q1011 /// KQSN 230655Z 24003KT 9999 CLR 29/00 A3010 RMK AO2A SLP044 WND DATA ESTMD ALSTG/SLP ESTMD T02910004 $ LHSN 230715Z 11002MPS CAVOK 21/14 Q1016 NOSIG RMK BLU KSAN 230651Z 35005KT 10SM FEW015 SCT200 21/17 A2997 RMK AO2 SLP147 T02110172 KRIW 230653Z AUTO 28006KT 10SM -RA FEW034 BKN044 OVC055 12/11 A3003 RMK AO2 SLP124 P0004 T01220106 402220111 KQRY 230655Z AUTO VRB03KT 9999 CLR 26/M03 A3016 RMK AO2 SLP091 T02631030 $ FMEP 230700Z AUTO 16007KT 120V180 9999 NCD 25/14 Q1015 KQTH 230655Z 15004KT 9999 FEW130 39/09 A2974 RMK AO2A SLP024 T03930093 KSAR 230715Z AUTO 20005KT 10SM CLR 26/25 A2995 RMK AO2 T02630245 KSAT 230651Z 17006KT 10SM SCT015 26/23 A3003 RMK AO2 SLP148 SCT V BKN T02610228 KSAV 230653Z AUTO 22003KT 10SM CLR 27/23 A2994 RMK AO2 SLP138 T02720233 TSNO KSBM 230653Z AUTO 00000KT 1/4SM FG VV002 20/19 A2999 RMK AO2 SLP151 T02000194 KSCD 230715Z AUTO 00000KT 10SM CLR 25/24 A3002 RMK AO2 T02540244 KQUD 230655Z AUTO VRB03KT 8SM CLR 25/18 A3023 RMK AO2 SLP186 T02470178 $ LHUD 230645Z 11003KT 9999 FEW025 BKN083 19/14 Q1016 KSBN 230654Z 00000KT 3SM BR CLR 23/22 A2998 RMK AO2 SLP147 T02330222 $ KSAW 230717Z AUTO 07004KT 5SM RA SCT013 OVC020 19/18 A3006 RMK AO2 T01900181 GBYD 230700Z 70000KT 9999 BKN010 SCT100 24/23 Q1011 LJCE 230700Z 00000KT 6000 -RA SCT002 BKN050 OVC120 16/15 Q1015 RMK WHT KSCF 230715Z AUTO 00000KT 10SM FEW023 BKN044 29/24 A3001 RMK A01 KSBO 230715Z AUTO 00000KT 10SM CLR 26/24 A2997 RMK AO2 KRKP 230653Z AUTO 15006KT 10SM CLR 28/25 A2998 RMK AO2 SLP154 T02830250 KSBP 230656Z AUTO 10003KT 10SM OVC007 16/14 A2996 RMK AO2 SLP143 T01610144 KSCH 221746Z 13004KT 10SM OVC024 18/16 A3008 KSAZ 230713Z AUTO 00000KT 10SM SCT026 19/18 A3003 RMK AO2 KRKR 230715Z AUTO 00000KT 10SM CLR A2997 RMK AO2 LIMA 230700Z 04002KT 7000 SCT015 BKN035 17/17 Q1013 KRKS 230654Z AUTO 21006KT 10SM -RA OVC050 07/07 A3013 RMK AO2 SLP135 P0002 T00720067 402500072 KSBS 230714Z AUTO 00000KT 10SM BKN065 OVC085 12/11 A3009 RMK AO1 T01170108 KSDA 230715Z AUTO 03004KT 7SM FEW003 SCT037 BKN050 24/23 A2988 RMK AO2 KSDB 230648Z AUTO 20007KT 10SM CLR 18/11 A3010 RMK AO2 SLP138 T01830106 KSCK 230655Z AUTO 30006KT 10SM CLR 20/12 A2988 RMK AO2 SLP116 T02000117 TSNO LIMC 230650Z 05005KT 340V130 6000 RA BKN015 OVC070 16/16 Q1013 NOSIG LIME 230650Z 03004KT 340V070 5000 RA SCT035 BKN050 16/15 Q1013 KRME 230653Z AUTO 10007KT 10SM OVC024 17/15 A3008 RMK AO2 SLP180 T01720150 LIMF 230650Z 03003KT 9999 -RA FEW030 BKN090 18/17 Q1013 KQVF 230655Z AUTO 18005KT 9999 FEW024 SCT033 28/20 A3002 RMK AO2 SLP166 T02840199 KSDF 230656Z 25003KT 9SM FEW034 SCT047 SCT060 BKN300 23/22 A2998 RMK AO2 SLP147 T02330222 LIMG 230650Z 34005KT 9999 -RA FEW020 SCT045 BKN060 20/18 Q1012 KRMG 230653Z AUTO 00000KT 10SM CLR 23/22 A3001 RMK AO2 SLP149 T02280222 KSBY 230708Z AUTO 01003KT 5SM BR FEW005 19/17 A2997 RMK AO2 LIMH 230655Z /////KT 9999 FEW000 SCT040 M01/M09 Q1021 RMK SCT MON S CLD SCT VAL S CLD SCT VIS MIN 9999S KQTZ 230655Z VRB05KT 9000 HZ CLR 39/04 A2963 RMK SLP028 WND DATA ESTMD ALSTG/SLP ESTMD LIMJ 230650Z 14018KT 9999 TS SCT020 FEW025CB BKN070 22/18 Q1012 KSEA 230653Z 35003KT 10SM CLR 18/13 A3011 RMK AO2 SLP201 T01780128 $ FKYS 230700Z 24004KT 200V280 9999 FEW003 BKN006 21/19 Q1019 BECMG BKN010 LIMK 230655Z 35004KT 0100 FG VV003 15/15 Q1014 RMK VAL INVIS VIS MIN 0100 LIML 230650Z 04007KT 5000 RA FEW006 SCT020 BKN040 17/17 Q1013 NOSIG KSDL 230653Z 00000KT 10SM CLR 27/17 A2992 RMK AO2 SLP108 T02670172 403280211 KRNC 230715Z AUTO 00000KT 7SM CLR 22/22 A3004 RMK KSDM 230653Z AUTO 00000KT 10SM CLR 18/17 A2996 RMK AO2 SLP141 T01830167 TSNO $ KRND 230708Z AUTO 17007KT 10SM SCT014 26/23 A3002 RMK AO2 LIMN 221755Z 14004KT 9999 SCT020 22/18 Q1013 RMK BKN VIS MIN 9999 BLU KRMN 230715Z AUTO 10004KT 10SM OVC009 22/22 A3002 RMK AO2 T02230223 KSEE 230715Z AUTO 29003KT 10SM CLR 18/16 A2997 RMK AO2 LIMP 230650Z 15005KT 9999 -RA SCT040 19/17 Q1013 KSEG 230653Z AUTO 00000KT 8SM OVC019 21/18 A3001 RMK AO2 RAB12E41 SLP158 P0001 T02060183 KRNH 230710Z AUTO 06005KT 10SM OVC007 20/20 A3001 RMK AO2 T02030199 LIMS 230655Z 30002KT 4000 -RA BR SCT050 BKN080 18/18 Q1012 KROA 230654Z 31004KT 10SM FEW070 OVC095 23/19 A3001 RMK AO2 SLP148 T02330194 LIMT 220855Z 17012KT 8000 FEW012 14/11 Q1016 RMK FEW MON LIB VAL FOSCHIA VIS MIN 8000 KSFB 230653Z AUTO 19003KT 10SM CLR 26/22 A2998 RMK AO2 SLP149 T02610222 LIMU 230655Z 21007KT 9999 BKN020 20/19 Q1013 RMK OVC QUK 2 QUL 1 SE VIS MAR 15 KM VIS MIN 9999 KROC 230654Z 12004KT 7SM OVC004 20/19 A3001 RMK AO2 SLP162 T02000189 KRNM 230653Z AUTO 00000KT 10SM CLR 14/09 A2998 RMK AO2 SLP139 T01440094 TSNO KQWM 230655Z 36017G24KT 9999 CLR 43/M02 A2962 RMK SLP017 QNH1003 KSEM 230715Z AUTO 00000KT 10SM CLR 24/22 A2998 RMK AO2 VTPH 230700Z 11005KT 9999 FEW030 32/25 Q1008 NOSIG KSFF 230653Z AUTO 00000KT 10SM CLR 16/08 A3009 RMK AO2 SLP180 T01560083 KRNO 230655Z 25005KT 10SM FEW120 20/04 A3006 RMK AO2 SLP122 T02000039 LIMY 230655Z 32003KT 0100 FG VV/// 16/14 Q1014 RMK VAL INVIS VIS MIN 0100 KRMY 230714Z AUTO 12003KT 4SM BR SCT008 SCT014 BKN075 21/21 A3000 RMK AO2 T02110206 KSDY 230715Z AUTO 05009KT 10SM OVC011 16/15 A3008 RMK AO1 KRNP 230714Z AUTO 01003KT 10SM CLR 18/18 A3003 RMK AO2 T01800176 KSEP 230715Z AUTO 17003KT 10SM CLR 26/16 A3002 RMK AO2 T02600155 KROG 230657Z AUTO 20007KT 10SM CLR 26/22 A3002 RMK AO2 SLP147 T02610217 LIMZ 230650Z 35003KT 2000 BR SCT004 OVC025 17/17 Q1013 LIPA 230655Z 00000KT 6000 -TSRA FEW020CB SCT030 BKN040 18/18 Q1014 RMK OVC VIS MIN 6000 A2995 WHT GCRR 230700Z 03013KT 9999 SCT020 22/18 Q1016 KU68 230715Z AUTO 30008KT 10SM BKN020 OVC080 14/14 A2996 RMK AO2 PWINO LIPB 230650Z 16002KT 9999 -RA FEW040 SCT060 BKN090 17/16 Q1014 KRNT 230653Z AUTO 00000KT 9SM CLR 18/15 A3009 RMK AO2 SLP195 T01780150 KSET 230654Z AUTO 11005KT 6SM BR CLR 25/24 A2991 RMK AO1 SLP124 T02500239 FLSK 230600Z 00000KT 3000 FU 17/07 Q1018 LIPC 230655Z 23002KT 9999 SCT040 20/18 Q1012 VTPO 230700Z 16004KT 9999 FEW020CB SCT300 32/25 Q1008 FNBC 221600Z 33008KT 9999 OVC015 22/// Q1014 KSFM 230715Z AUTO 00000KT 10SM CLR 11/08 A3013 RMK AO1 KRPD 230715Z AUTO 02005KT 7SM OVC005 19/18 A3003 RMK AO2 T01930183 KRNV 230715Z AUTO 19004KT 10SM CLR 23/23 A3000 RMK AO2 T02320226 VTPP 230700Z 21005KT 9999 SCT023 SCT300 33/25 Q1009 LIPE 230650Z 18006KT 9999 -RA SCT030 SCT080 20/16 Q1012 LIPF 230655Z 00000KT 3000 -DZ BR SCT030 BKN080 20/20 Q1012 KSGF 230652Z 18007KT 10SM CLR 25/22 A2999 RMK AO2 SLP139 T02500217 KSFO 230656Z 27005KT 10SM FEW012 16/13 A2993 RMK AO2 SLP134 T01610133 $ FNBG 221600Z 28010KT 9999 SCT015 23/18 Q1014 LIPH 230645Z /////KT 6000 -TSRA FEW015CB BKN030 18/17 Q1013 KSGH 230715Z AUTO 00000KT 1/4SM -RA FG VV001 21/21 A3001 RMK AO2 P0000 KSFQ 230715Z AUTO 00000KT 2 1/2SM BR CLR 21/21 A2995 RMK AO2 T02110206 KRPH 230715Z AUTO 16004KT 10SM CLR 28/14 A2996 RMK AO2 T02800142 KSEZ 230715Z AUTO 16005KT 10SM OVC050 19/12 A3012 RMK AO2 LIPI 230655Z 36002KT 3000 TSRA BR FEW005 FEW015CB BKN020 18/15 Q1014 RMK OVC VIS MIN 3000 WIND THR06 29003KT YLO KROS 230715Z AUTO 03003KT 10SM SCT007 SCT012 OVC025 19/17 A3003 RMK AO2 T01860172 KRPJ 230715Z AUTO 00000KT 4SM BR SCT028 SCT033 23/22 A2998 RMK AO2 T02300221 KSGJ 230658Z AUTO 25006KT 10SM CLR A2998 RMK AO2 SLPNO FZRANO $ FNCA 221600Z VRB03KT 9999 FEW016 BKN025 24/20 Q1014 EVLA 230720Z AUTO 17007KT 120V190 CAVOK 18/12 Q1009 KRQB 230714Z AUTO 00000KT 10SM CLR 17/17 A3004 RMK AO2 T01700170 LIPL 221755Z 00000KT 9999 SCT070 25/13 Q1013 RMK SCT VIS MIN 9999 BLU LIQC 230655Z ///02KT CAVOK 23/21 Q1016 RMK SKC QUK 1 QUL 0 VIS MAR 15 KM VIS MIN 9999 KSHD 230715Z AUTO 02003KT 7SM OVC013 22/21 A3001 RMK AO2 T02240210 KROW 230651Z AUTO 18006KT 10SM CLR 22/17 A3005 RMK AO2 SLP104 T02220167 403390222 KRQE 230553Z AUTO 21005KT 10SM BKN085 16/09 A3021 RMK AO2 SLP118 T01560089 10217 20156 51002 TSNO LIPO 230650Z 05005KT 9999 SCT030 BKN050 19/16 Q1013 KROX 230715Z AUTO 36005KT 10SM OVC006 18/15 A3008 RMK AO2 KSFY 230715Z AUTO 00000KT 5SM BR CLR 24/23 A2995 RMK AO2 T02390226 LIPQ 230650Z 10007KT 9000 -RA SCT025 BKN060 19/16 Q1013 KSFZ 230715Z 02006KT 10SM SCT008 BKN011 17/13 A3008 RMK AO1 VTSB 230700Z 09004KT 9999 FEW018CB SCT020 BKN300 31/26 Q1009 A2981 LIPR 230645Z /////KT 9999 SCT040 BKN070 24/21 Q1012 KSGR 230653Z AUTO 21003KT 10SM CLR 25/23 A3000 RMK AO2 SLP159 T02500233 VTSC 230500Z 07007KT 020V110 9999 FEW022 32/25 Q1010 A2984 RWY20 INFO D LIPS 230655Z 06007KT 9999 FEW015CB SCT030 BKN060 18/17 Q1013 RETS RMK OVC VIS MIN 9999 WIND THR26 06006KT WIND THR08 06009KT BLU LIRA 230645Z 21002KT CAVOK 25/16 Q1014 KSGS 230710Z AUTO 03003KT 10SM CLR 21/20 A2999 RMK AO2 T02130197 GCTS 230700Z 04007KT 9999 FEW015 22/18 Q1017 NOSIG KSGT 230715Z AUTO 19005KT 10SM CLR 25/23 A2999 RMK AO1 LIPU 230700Z 04008KT 360V070 9999 BKN030 20/19 Q1012 KSGU 230715Z 21010KT 10SM CLR 26/11 A2992 RMK AO1 KSHL 230715Z AUTO 09009KT 10SM FEW028 FEW044 22/21 A2995 RMK AO2 VTSF 230700Z 03007KT 330V060 9999 SCT018 BKN300 33/26 Q1009 A2979 INFO H/RWY 19 KSHM 230656Z AUTO 32005KT 10SM CLR 13/12 A3010 RMK AO2 SLP130 T01310121 LIQN 221750Z VRB03KT CAVOK 28/15 Q1015 VTSG 230500Z VRB02KT 9999 BKN020 BKN050 31/25 Q1011 A2987 INFO V RWY32 LIRE 230655Z 13005KT 9999 FEW040 23/19 Q1014 RMK FEW VIS MIN 9999 WIND THR31 15004KT BLU KSHN 230653Z AUTO 28003KT 10SM CLR 13/12 A3009 RMK AO2 SLP191 T01330122 TSNO LIQO 230655Z 20004KT 0000 FG VV/// 20/19 Q1016 RMK VAL INVIS VIS MIN 0000 VTSH 230500Z 06004KT 9999 FEW020CB BKN300 31/22 Q1011 A2986 LIPX 230645Z 02003KT 7000 SCT040 BKN060 19/17 Q1013 LIRF 230650Z VRB03KT CAVOK 24/20 Q1015 NOSIG KRQO 230715Z AUTO 16006KT 10SM CLR 22/15 A2995 RMK AO2 KSIF 230715Z AUTO 00000KT 4SM BR SCT001 SCT034 BKN050 25/25 A2996 RMK AO2 T02450245 LIRG 221755Z 21005KT CAVOK 27/18 Q1014 LIPY 230650Z 22004KT CAVOK 24/19 Q1013 WMBA 230700Z 27008KT 250V330 2000 TSRA FEW008 FEW017CB SCT026 OVC260 25/24 Q1008 LIRH 230655Z 07003KT CAVOK 21/16 Q1015 LIPZ 230650Z 01010KT 9999 FEW010 FEW015CB BKN025 18/17 Q1013 LIRI 230710Z 16003KT CAVOK 25/18 Q1015 KSHR 230704Z AUTO 00000KT 10SM FEW021 SCT028 OVC040 15/14 A2997 RMK AO2 T01500139 FMMI 230700Z VRB03KT 9999 FEW020 21/16 Q1020 NOSIG VTSM 230700Z 09007KT 9999 FEW020TCU SCT300 32/25 Q1010 A2984 LIRL 230655Z 03002KT CAVOK 22/20 Q1015 KSJC 230653Z 00000KT 10SM FEW025 16/13 A2993 RMK AO2 SLP133 T01610128 KRRL 230715Z AUTO 00000KT 3/4SM BR OVC002 21/21 A3002 RMK AO2 T02100210 LIRM 230655Z 03003KT CAVOK 25/23 Q1014 KTAD 230654Z AUTO 23006KT 10SM BKN110 14/13 A3008 RMK AO2 SLP108 T01440128 402780144 KSHV 230656Z 20004KT 10SM CLR 26/22 A3000 RMK AO2 SLP153 T02610222 LIQW 220955Z 16008KT 9999 FEW020 SCT025 24/15 Q1015 VTSP 230700Z 28008KT 7000 VCSH SCT010 SCT120 30/24 Q1010 A2984 VCSH W LIRN 230650Z 03004KT 360V060 CAVOK 24/19 Q1015 VTSR 221200Z 01006KT 6000W VCSH BKN020 OVC100 25/24 Q1007 A2976 ILS DME RWY02 INFO F LIRP 230645Z 09004KT 9999 FEW040 BKN080 19/18 Q1015 NOSIG VTSS 230700Z 31011KT 8000 -TSRA FEW016CB SCT020 BKN120 27/24 Q1008 A2977 NOSIG LIRQ 230650Z VRB01KT 9999 SCT080 20/16 Q1014 VTST 230300Z 03003KT 9000 FEW020 SCT300 31/25 Q1010 RWY08 INFO D WMAU 230700Z 11008KT 9999 FEW018TCU SCT150 BKN280 33/26 Q//// QFF1008 LIRS 230715Z 33008KT 0500 TSGR SCT015 SCT020CB BKN060 20/17 Q1014 RMK OVC VIS MIN 0500 WIND THR21 /////KT WIND THR03 33008KT RED KSKA 230658Z AUTO 03010KT 10SM CLR 16/08 A3009 RMK AO2 SLP184 T01590079 LIRT 230255Z 26012KT CAVOK 17/10 Q1019 RMK SKC MON INVIS VAL INVIS VIS MIN 9999 VTUD 230700Z 15009KT 9999 SCT018CB SCT030 BKN150 27/25 Q1009 A2980 CB ALQDS INFO J RWY30 KRRT 230714Z AUTO 34004KT 3/4SM BR OVC001 17/15 A3009 RMK AO2 LIRU 230650Z VRB01KT CAVOK 20/19 Q1015 FMMT 230700Z 36010KT 9999 FEW017 26/18 Q1014 NOSIG KRSL 230653Z AUTO 06008KT 10SM CLR 22/19 A2987 RMK AO2 SLP093 T02220194 LIRV 230655Z VRB02KT 7000 FEW030 19/16 Q1015 FMNM 230700Z 12004KT 9999 FEW023 29/18 Q1013 NOSIG KTAN 230705Z AUTO 00000KT 10SM FEW010 SCT017 17/16 A3007 RMK AO2 T01670156 KSJN 230654Z AUTO 19003KT 10SM CLR 16/10 A3017 RMK AO2 SLP132 T01560100 402440133 KRSN 230715Z AUTO 20003KT 10SM CLR 24/23 A3004 RMK AO2 T02400230 LIRX 230555Z 13004KT 9999 SCT003 BKN005 18/17 Q1014 RMK OVC VIS MIN 9999 VIS MAR 12 KM FMNN 230600Z 03004KT 9999 FEW020 BKN100 26/20 Q1014 KSKF 230658Z AUTO 16005KT 10SM SCT016 25/22 A3001 RMK AO2 SLP154 T02530221 $ VTUI 230200Z 27002KT CAV 31/23 Q1012 A2989 RWY05 INFO C KRSP 230654Z AUTO 17007KT 1/2SM FG VV001 18/18 RMK AO2 SLPNO T01830178 $ KSIY 230653Z AUTO 36010KT 10SM CLR 18/06 A3004 RMK AO2 SLP161 T01780061 $ LIRZ 230650Z 00000KT 9999 FEW055 21/18 Q1015 VTUK 230700Z 26008KT 220V300 9999 FEW020CB SCT025 BKN300 31/23 Q1008 A2978 CB NW RWY21 INFO I VTUL 230700Z 33004KT 8000 FEW028CB SCT030 30/21 Q1007 A2975 CB-NW KSJS 230715Z AUTO 23004KT 10SM BKN002 BKN065 21/21 A3001 RMK AO2 T02120211 KSJT 230651Z AUTO 17011KT 10SM CLR 27/14 A3001 RMK AO2 SLP131 T02720144 KRST 230654Z AUTO 05004KT 6SM BR FEW022 21/19 A3000 RMK AO2 SLP152 T02060189 KSLB 230715Z AUTO 07009KT 10SM BKN030 OVC034 23/23 A2997 RMK AO2 KSLC 230653Z 03008KT 10SM SCT024 SCT075 BKN090 16/12 A3000 RMK AO2 LTG DSNT SW-N SLP112 CB DSNT NE AND SW-N T01560117 402830150 KTCC 230653Z AUTO 18009KT 10SM SCT075 22/14 A3004 RMK AO2 RAB0559E05 SLP102 P0000 T02170139 403560217 VTUO 221100Z 01002KT 9999 FEW020 30/18 Q1007 A2976 INFO L RWY 04 KRSV 230715Z AUTO 18004KT 4SM BR SCT036 SCT050 SCT070 25/25 A2997 RMK AO2 LTG DSNT SE T02510247 KRSW 230653Z 08003KT 10SM CLR 25/22 A2997 RMK AO2 SLP145 T02500222 KRTN 230653Z AUTO 05003KT 10SM FEW120 13/09 A3012 RMK AO2 SLP110 T01330094 402720133 TSNO KRUE 230653Z AUTO 00000KT 6SM BR CLR 25/24 A2999 RMK AO2 SLP146 T02500239 KSLE 230656Z AUTO 28003KT 10SM CLR 17/11 A3005 RMK AO2 SLP175 T01720111 KTBN 230658Z AUTO 24003KT 10SM CLR 25/23 A2999 RMK AO2 SLP143 T02520225 KSJX 230714Z AUTO 12004KT 7SM SCT050 SCT065 BKN080 19/18 A3005 RMK AO2 T01910182 VVCR 230700Z 12010KT CAVOK 33/24 Q1008 NOSIG GCXO 230700Z 30008KT 280V340 9999 FEW005 17/17 Q1020 NOSIG KRUG 230715Z AUTO 05010G17KT 10SM SCT006 13/13 A3014 RMK AO2 KSLG 230715Z AUTO 17005KT 10SM CLR 24/19 A3001 RMK AO1 KSLH 230716Z AUTO 00000KT 1SM BR SCT001 SCT110 15/15 A3005 RMK AO2 T01510151 KTAZ 230715Z AUTO 15005KT 5SM BR CLR 25/24 A2995 RMK AO2 VVCT 230700Z 23010KT 9999 SCT015 FEW017CB 32/25 Q1008 NOSIG KTBR 230715Z AUTO 00000KT 10SM CLR 24/24 A2994 RMK AO2 T02440244 TSNO KSLI 230703Z AUTO 00000KT 9SM SCT014 20/17 A2995 RMK AO2 FNGI 221200Z 15008KT CAVOK 31/00 Q1016 VTUU 230700Z 27005KT 9999 FEW022 BKN300 33/23 Q1008 A2977 NOSIG KRTS 230715Z AUTO 30007KT 10SM CLR 17/02 A3010 RMK AO2 LJLJ 230700Z 00000KT 9999 FEW003 BKN020 16/15 Q1016 NOSIG VTUV 230000Z 17004KT 8000 FEW018CB SCT020 BKN100 26/25 Q1011 A2986 INFO A RWY 18 KSLK 230716Z AUTO 00000KT 10SM SCT028 BKN033 OVC060 14/13 A3010 RMK AO2 T01440133 LJMB 230700Z VRB02KT 9999 FEW030 BKN170 17/15 Q1016 VVDN 230700Z 09009KT 9999 FEW013 FEW017CB SCT300 33/22 Q1007 NOSIG VTUW 230700Z 21004KT 7000 FEW020CB SCT023 27/25 Q1008 A A2977 CB NW RWY15 INFO E LIVC 230655Z 24025KT 0000 FG VV000 09/07 Q1020 RMK MON INVIS VAL INVIS VIS MIN 0000 KTCL 230653Z AUTO 00000KT 8SM CLR 24/23 A3000 RMK AO2 SLP156 T02440228 LIVD 230655Z 00000KT 9999 FEW010 SCT030 12/10 Q1017 RMK BKN BKN070 VIS MIN 9999 KTCM 230658Z AUTO 00000KT 10SM CLR 14/11 A3010 RMK AO2 SLP196 T01430111 $ LIVE 230655Z 01003KT 9999 SCT030 11/09 Q1017 RMK BKN SCT060 VIS MIN 9999 KSLN 230653Z AUTO 18008KT 10SM CLR 28/19 A2986 RMK AO2 SLP094 T02830189 KSME 230715Z AUTO 00000KT 10SM SCT120 23/22 A3003 RMK AO2 KSMF 230653Z 15010KT 10SM CLR 16/12 A2985 RMK AO2 SLP109 T01610122 $ KSKX 230715Z AUTO 00000KT 10SM FEW085 09/06 A3025 RMK AO1 KSLO 230715Z AUTO 10003KT 5SM BR CLR 27/26 A2996 RMK AO2 T02670258 KTBX 230715Z AUTO 34005KT M1/4SM +RA OVC001 10/09 A3018 RMK AO2 KTDF 230715Z AUTO 10004KT 4SM -RA BKN029 BKN044 OVC095 23/23 A2998 RMK AO2 P0012 KRUQ 230715Z AUTO 00000KT 10SM CLR 21/21 A2995 RMK AO2 T02110210 KSLR 230715Z AUTO 19006KT 10SM CLR 27/21 A3001 RMK AO2 T02700211 KTCS 230653Z AUTO 01005KT 10SM SCT029 BKN100 18/14 A3013 RMK AO2 SLP133 T01830144 402720172 TSNO KSNA 230653Z AUTO 20003KT 10SM OVC013 21/17 A2995 RMK AO2 SLP142 T02110167 TSNO EVRA 230650Z 18011KT CAVOK 15/11 Q1011 NOSIG KTEB 230651Z 00000KT 10SM FEW041 SCT080 20/14 A3004 RMK AO2 SLP170 T02000139 KRUT 230715Z 13005KT 10SM OVC065 15/13 A3012 RMK AO1 KSNC 230715Z AUTO 03003KT 10SM BKN090 17/16 A3008 RMK AO2 LIVM 220955Z 30004KT CAVOK 24/18 Q1014 RMK SKC QUK 1 QUL 0 VIS MAR 25 KM VIS MIN 9999 LKCV 230700Z 11004KT CAVOK 17/13 Q1015 NOSIG KSMN 230715Z AUTO 00000KT 10SM OVC050 12/10 A3005 RMK AO1 LIVO 230655Z 00000KT 9999 FEW010 BKN030 13/12 Q1014 RMK OVC VIS MIN 9999 KSMO 230651Z AUTO 00000KT 10SM CLR 19/16 A2996 RMK AO2 SLP144 T01940161 KRWF 230653Z AUTO 11005KT 9SM CLR 22/21 A2999 RMK AO2 SLP150 T02170206 KSMP 230656Z AUTO 00000KT 10SM CLR 11/08 A3020 RMK AO2 SLP214 T01060078 LIVP 230655Z 06005KT 0900 -RA FG VV/// 06/02 Q1017 RERA RMK MON INVIS VAL INVIS VIS MIN 0900 KSMQ 230653Z AUTO 06004KT 10SM OVC100 19/14 A3002 RMK AO2 SLP165 T01940144 $ KSNH 230715Z AUTO 00000KT 9SM CLR 23/23 A3001 RMK KTDR 222356Z AUTO 22002KT 12SM CLR 27/26 A2998 RMK AO2 SLPNO 60012 T02690257 10327 20248 56010 LIVR 230655Z 12007KT 0800 -RA FG VV/// 07/04 Q1018 RMK MON INVIS VIS MIN 0800 KRWI 230653Z AUTO 00000KT 9SM BKN060 BKN110 23/22 A2994 RMK AO2 SLP136 T02330222 KRVS 230653Z AUTO 15004KT 10SM CLR 26/21 A2995 RMK AO2 SLP141 T02610211 KSMS 230715Z AUTO 00000KT 9SM CLR 23/23 A2991 RMK AO2 KSOA 230715Z AUTO 15007KT 10SM CLR 26/17 A3008 RMK AO2 LIVT 230655Z 10002KT 9999 -DZ BKN025 19/16 Q1013 RMK OVC QUK 0 QUL 0 VIS MAR 15 KM VIS MIN 9999 KSNK 230715Z AUTO 18006KT 10SM CLR 24/12 A3003 RMK AO2 T02420116 KRWL 230653Z AUTO 29017G25KT 10SM -RA FEW016 OVC026 11/07 A3008 RMK AO2 PK WND 27026/0640 WSHFT 0639 RAB41 SLP096 P0000 T01110072 402440061 KSNL 230715Z AUTO 16005KT 10SM CLR 26/20 A2997 RMK AO2 FNHU 221500Z 12006KT CAVOK 28/01 Q1021 FMSD 230700Z 00000KT 9999 FEW016 BKN100 22/19 Q1010 KRXE 230653Z AUTO 00000KT 10SM OVC049 12/09 A3004 RMK AO2 SLP149 T01170089 401610094 KSMX 230651Z AUTO 00000KT 9SM OVC006 17/14 A2997 RMK AO2 SLP148 T01670139 TSNO $ KTDZ 230711Z AUTO 05003KT 10SM BKN011 BKN050 23/20 A2999 RMK AO2 T02280200 TSNO KSPA 230735Z AUTO 00000KT 10SM CLR 25/23 A2995 RMK AO2 KSNS 230653Z AUTO 24007KT 10SM OVC011 16/13 A2995 RMK AO2 SLP151 T01610133 $ KSNT 230651Z AUTO 10004KT 04/04 A3013 RMK AO1 SLP155 T00390039 401000022 KSPB 230653Z AUTO 35003KT 10SM CLR 18/11 A3006 RMK AO2 SLP178 T01830111 KSPD 230656Z AUTO 16007KT 18/16 A3002 RMK AO1 SLP096 T01780161 403330150 KRWV 230715Z AUTO 00000KT 10SM CLR 25/23 A3004 RMK AO2 KTEW 230712Z AUTO 00000KT 10SM OVC023 21/20 A3001 RMK AO2 T02100196 KSPF 230655Z AUTO 09006KT 5SM -RA SCT006 BKN015 BKN070 17/17 A3000 RMK AO2 P0003 KTEX 230657Z AUTO 00000KT 10SM BKN060 OVC070 11/06 A3030 RMK AO2 LTG DSNT NW KSNY 230707Z AUTO 06005KT 10SM BKN019 16/15 A2999 RMK AO2 T01610150 KSPG 230653Z AUTO 14003KT 10SM CLR 29/23 A2996 RMK AO2 SLP145 T02890228 KSOP 230715Z AUTO 21004KT 10SM SCT049 SCT070 BKN090 23/21 A2993 RMK AO1 P0001 KTFP 230715Z AUTO 15006KT 10SM CLR 28/25 A2998 RMK AO2 T02820250 KSPI 230652Z AUTO 16003KT 8SM BKN100 26/24 A2994 RMK AO2 SLP133 T02610244 KTHA 230715Z AUTO 00000KT 10SM CLR 21/19 A3005 RMK KSPL 230715Z AUTO 00000KT 27/26 A2998 RMK AO1 VSBY M1/4V3 KRYN 230245Z 25007KT 10SM CLR 29/15 A2997 KSOW 230715Z AUTO 18010KT 10SM CLR 12/08 A3023 RMK AO2 KSQI 230715Z 00000KT 4SM FEW037 23/22 A2996 RMK AO1 KSPR 230715Z AUTO 00000KT 10SM 30/23 A3001 RMK A01 KSPS 230652Z AUTO 17007KT 10SM CLR 24/13 A2994 RMK AO2 SLP121 T02440133 TSNO FNMA 221600Z 28004KT 9000 NSC 27/24 Q1016 MBGT 222300Z 09015KT 4000 -SHRA OVC010 24/20 Q1012 EVVA 230720Z AUTO 17007KT CAVOK 17/13 Q1009 KSRB 230715Z AUTO 00000KT 2SM CLR 22/22 A3003 RMK KRYT 230653Z AUTO 00000KT 10SM BKN010 OVC017 A3000 RMK AO2 SLPNO $ KSQL 230710Z AUTO 23003KT 10SM CLR 16/12 A2993 RMK AO2 KRZL 230715Z AUTO 00000KT 2 1/2SM BR CLR 20/20 A2997 RMK AO2 KSRC 230656Z AUTO 00000KT 26/25 RMK AO2 PWINO TSNO T02550250 SLPNO $ FNKU 220900Z 06005KT CAVOK 24/09 Q1023 KRYV 230715Z AUTO 00000KT 1 1/2SM BR OVC002 22/22 A2999 RMK AO2 T02170217 LIYW 230704Z AUTO 00000KT 2800 RA BR SCT029 OVC039 18/18 A2997 RMK AO2 VIS 2800V6000 CIG 030 RWY23 KSPW 230653Z AUTO 08009KT 10SM BKN027 BKN034 BKN050 23/21 A2998 RMK AO2 SLP144 T02280206 KRYW 230715Z AUTO 17005KT 10SM CLR 26/20 A3004 RMK AO2 T02600196 KRZN 230710Z AUTO 05006KT 10SM BKN007 OVC028 19/18 A3003 RMK AO2 T01860175 KTIF 230715Z 00000KT 10SM SCT024 SCT039 SCT120 19/19 A2992 RMK AO2 LTG DSNT NE T01930185 PWINO KRYY 230247Z 00000KT 10SM SKC A3006 WMKA 230700Z 25009KT 9999 FEW017CB SCT020 BKN270 32/27 Q1008 LJPZ 230700Z 16003KT 120V180 9999 BKN060 SCT100 19/18 Q1013 WMKB 230700Z 22007KT 130V300 7000 TS VCSH FEW017CB BKN280 28/25 Q1009 TEMPO 6000 TSRA KRZR 230715Z AUTO 00000KT 10SM CLR 22/21 A3002 RMK WMKC 230700Z 07010KT 030V100 9999 FEW017CB BKN280 32/24 Q1008 WMKD 230700Z 15006KT 9999 FEW017CB SCT018 BKN280 31/25 Q1008 NOSIG KRZT 230713Z AUTO 32004KT 10SM SCT001 BKN009 BKN014 21/21 A2998 RMK AO2 KTIK 230658Z AUTO 17011KT 10SM CLR 26/17 A2996 RMK AO2 SLP135 T02600166 $ WMKE 230700Z 14007KT 9999 FEW016CB SCT018 BKN270 30/25 Q1009 KSSC 230658Z AUTO 00000KT 10SM CLR 26/24 A2991 RMK AO2 SLP127 T02570237 $ FNLU 230400Z 13004KT 9999 BKN020 20/18 Q1015 NOSIG GEML 230700Z 23006KT 180V290 9999 FEW035 28/10 Q1015 KTHV 230653Z AUTO 11004KT 10SM OVC014 21/18 A3001 RMK AO2 SLP159 T02060178 KW13 230715Z AUTO 11003KT 7SM SCT008 OVC019 21/21 A3000 RMK AO1 T02120206 KSSF 230653Z AUTO 14004KT 10SM BKN014 26/23 A3000 RMK AO2 SLP143 T02560228 FNMO 221600Z 25015KT 9999 SCT008 BKN013 19/16 Q1015 WMKI 230700Z 15003KT 9999 TS FEW016CB SCT020 BKN290 32/26 Q1007 KTIP 230710Z AUTO 00000KT 7SM CLR 23/21 A2998 RMK AO2 T02330214 WMKJ 230700Z 28003KT 9999 TS FEW017CB SCT018 BKN280 30/26 Q1008 KSRQ 230653Z AUTO 11003KT 10SM CLR 28/22 A2996 RMK AO2 SLP143 T02830222 KSRR 230655Z AUTO 31003KT 10SM CLR 13/12 A3027 RMK AO2 WMKK 230700Z 15005KT 110V190 9000 -SHRA FEW017CB SCT018 BKN280 30/25 Q1007 NOSIG KSSI 230653Z AUTO 25006KT 10SM CLR 28/23 A2995 RMK AO2 SLP141 T02780233 WMKL 230700Z 25006KT 190V330 9999 FEW017CB SCT020 BKN270 30/26 Q1009 WMKM 230700Z 20006KT 140V250 9999 FEW017CB SCT020 BKN280 31/26 Q1008 LKKB 230700Z 22007KT CAVOK 14/08 Q1014 NOSIG WMKN 230700Z 08006KT 020V190 9999 FEW017CB BKN260 32/25 Q1008 KSTC 230653Z AUTO 04005KT 8SM FEW004 20/18 A3001 RMK AO2 SLP167 T02000183 KTKC 230713Z AUTO 12005KT 7SM CLR 22/21 A2999 RMK AO2 T02150206 KW22 230715Z AUTO RMK AO2 PWINO WMKP 230700Z 25005KT 7000 -TSRA FEW008 FEW017CB SCT024 BKN260 27/25 Q1009 NOSIG KTIW 230653Z AUTO 32004KT 10SM CLR 18/12 A3011 RMK AO2 SLP192 T01780117 KSTE 230715Z AUTO 08003KT 4SM BR OVC005 21/20 A3000 RMK AO2 T02050200 KUBE 230715Z AUTO 04006KT 10SM OVC004 18/17 A3002 RMK AO2 KTIX 230050Z 24006KT 7SM FEW120 28/24 A3001 RMK LAST KSTF 230715Z AUTO 00000KT 10SM CLR 21/20 A3001 RMK AO2 KUAO 230653Z AUTO 04004KT 10SM CLR 18/10 A3007 RMK AO2 SLP180 T01830100 $ LLBG 230720Z VRB03KT 9999 FEW025 31/23 Q1008 NOSIG KTKI 230653Z AUTO 18009KT 10SM CLR 28/21 A2996 RMK AO2 SLP138 T02780211 KSTJ 230653Z AUTO 13007KT 9SM SCT110 27/25 A2989 RMK AO2 SLP111 T02670250 KSUA 230715Z AUTO 00000KT 10SM CLR 25/23 A2998 RMK AO2 KSTK 230710Z AUTO 00000KT 10SM OVC019 18/17 A2997 RMK AO2 KW29 230721Z AUTO 00000KT 10SM 20/17 A3000 RMK AO1 KSTL 230651Z 07003KT 8SM FEW120 BKN250 27/25 A2994 RMK AO2 SLP124 T02720250 KW31 230715Z AUTO 00000KT 7SM SCT035 SCT050 BKN070 22/22 A2996 RMK AO1 KSUE 230715Z AUTO 11003KT 10SM SCT050 BKN060 OVC100 20/18 A3002 RMK AO1 KSTP 230718Z AUTO 06004KT 10SM SCT008 21/19 A2999 RMK AO2 T02110194 KTLH 230653Z AUTO 00000KT 10SM CLR 26/23 A2998 RMK AO2 SLP152 T02560233 $ VVNB 230700Z VRB02KT 9999 TS SCT013 FEW030CB BKN150 30/25 Q10 06 NOSIG KSTS 230653Z AUTO 13004KT 10SM OVC008 16/13 A2990 RMK AO2 SLP119 T01560133 KTMA 230710Z AUTO 00000KT 10SM CLR 27/22 A2998 RMK AO2 T02660221 TSNO KTMB 230653Z 33003KT 10SM CLR 24/22 A2995 RMK AO2 SLP143 T02440222 LKKU 221400Z 17008KT 130V220 9999 FEW036 21/12 Q1016 RMK REG QNH 1012 KSVC 230715Z AUTO 33007KT 10SM CLR 16/13 A3018 RMK AO2 KTKV 230715Z AUTO 00000KT 2 1/2SM BR OVC002 20/19 A3004 RMK AO2 T01980192 LKKV 230700Z VRB02KT CAVOK 10/07 Q1014 KTME 221315Z AUTO 00000KT 5SM BR SCT017 25/25 A3009 RMK AO2 LKLN 230700Z AUTO 00000KT CAVOK 10/10 Q1015 KSUN 230715Z AUTO 35004KT 10SM CLR 10/06 A3008 RMK AO2 KW43 230715Z AUTO 10SM OVC006 17/16 A3002 RMK AO2 LTG DSNT W KUDG 230715Z AUTO 02006KT 10SM CLR 26/22 A2993 RMK AO1 KSVH 230715Z AUTO 31004KT 10SM CLR 23/22 A2997 RMK AO2 T02270220 LKNA 230700Z VRB02KT 9000 NSC 15/14 Q1016 NOSIG KSUS 230654Z AUTO 00000KT 6SM BR CLR 26/24 A2992 RMK AO2 SLP122 T02560244 $ KTMK 230715Z AUTO 00000KT 7SM CLR 11/10 A3011 RMK AO2 KSUT 230715Z AUTO 00000KT 10SM CLR 24/23 A2992 RMK AO2 T02350227 KTNB 230715Z AUTO 29005KT 10SM CLR 19/18 A3012 RMK AO2 T01850180 KSUU 230658Z AUTO 23020G28KT 10SM CLR 16/15 A2985 RMK AO2 PK WND 23032/08 SLP115 T01560153 PNO $ KSVN 230658Z AUTO 24002KT 10SM CLR 27/23 A2992 RMK AO2 SLP134 T02730234 KSUW 230715Z AUTO 05003KT 5SM BR CLR 15/15 A3004 RMK AO2 T01530153 KSUX 230721Z 23015G24KT 7SM -TSRA FEW022 BKN030 OVC042 23/19 A3000 RMK AO2 PK WND 25026/0711 LTG DSNT S-NW RAB16 TSB21 PRESRR P0000 T02330194 KSWF 230645Z 06004KT 10SM SCT025 OVC080 18/18 A3009 KUCY 230715Z AUTO 00000KT 10SM CLR 24/23 A2997 RMK VVPB 230700Z 05010KT 9999 FEW020 SCT070 36/24 Q1007 NOSIG KTOA 230247Z 27010KT 10SM SCT010 21/18 A2993 RMK LAST/ ST W KTOB 230713Z AUTO 00000KT 4SM BR CLR 19/19 A3001 RMK AO2 LKMT 230700Z 25004KT CAVOK 17/14 Q1015 NOSIG KTOC 230715Z AUTO 00000KT 10SM CLR 25/22 A2999 RMK AO2 T02500216 KW63 230715Z AUTO 7SM BKN032 BKN039 BKN047 23/22 A2994 RMK AO1 KSWO 230653Z AUTO 16009KT 10SM CLR 26/17 A2993 RMK AO2 SLP118 T02610172 $ KTOI 230653Z AUTO 00000KT 5SM BR CLR 24/23 A3000 RMK AO2 SLP153 T02390228 KTPA 230653Z 00000KT 9SM OVC280 27/24 A2998 RMK AO2 SLP151 T02670239 $ KUES 230715Z AUTO 12005KT 1/2SM FG OVC003 20/20 A3000 RMK AO2 LLET 230650Z 05013KT CAVOK 33/19 Q1007 KTOL 230721Z 00000KT 3SM BR FEW008 21/21 A2999 RMK AO2 KTNU 230715Z AUTO 10008KT OVC009 25/24 A2995 RMK AO2 LKPD 230700Z VRB02KT CAVOK 16/12 Q1015 NOSIG KSWW 230715Z AUTO 16014KT 10SM CLR 27/11 A3005 RMK AO2 T02670107 VVPQ 230700Z 24008KT 9999 FEW017 31/24 Q1007 NOSIG KSYF 230715Z AUTO 25003KT 10SM CLR 18/16 A2993 RMK AO2 T01800162 FNSO 221600Z VRB03KT 9999 SCT013 OVC110 ///// Q1014 KTOP 230653Z AUTO 00000KT 10SM CLR 26/23 A2989 RMK AO2 SLP109 T02560228 KW75 230715Z AUTO 10007KT 10SM BKN016 23/21 A2995 RMK AO1 T02320206 KTPH 230656Z AUTO 34018G26KT 10SM CLR 21/00 A3004 RMK AO2 PK WND 34028/0632 SLP092 T02110000 KTOR 230653Z AUTO 10005KT 10SM SCT110 16/16 A2997 RMK AO2 SLP107 T01610156 402500139 KSYI 230715Z AUTO 00000KT 8SM CLR 23/23 A3004 RMK LLHA 230650Z 27006KT 230V300 9999 FEW025 30/21 Q1008 KSXS 230656Z AUTO 31001KT 10SM CLR 24/23 A3002 RMK AO2 SLP163 T02430228 KW78 230715Z AUTO 00000KT 1/2SM OVC030 23/22 A2995 RMK AO1 T02260218 KSXT 230656Z AUTO 35010G17KT 10SM CLR 13/08 A3009 RMK AO2 SLP155 T01280083 FNUB 221600Z 18005KT CAVOK 27/02 Q1023 KTPL 230715Z AUTO 18012KT 10SM CLR 27/18 A3000 RMK AO1 KW81 230715Z AUTO 00000KT 5SM SCT020 BKN045 24/23 A2996 RMK AO1 T02370225 FNSU 221600Z 20005KT 9999 BKN010 22/19 Q1016 KSYM 230710Z AUTO 00000KT 2 1/2SM BR SCT002 BKN022 OVC050 22/21 A3002 RMK AO2 KUGN 230717Z AUTO 00000KT 1/2SM FG VV002 22/21 A2998 RMK AO2 T02170211 KSYN 230711Z AUTO 00000KT 5SM BR CLR 20/19 A2998 RMK AO2 T01990186 KTQE 230654Z AUTO 25012G18KT 9SM -RA FEW008 BKN041 OVC055 23/22 A2997 RMK AO2 LTG DSNT ALQDS RAB53 SLP133 P0000 T02280217 FNUE 221600Z 16006KT CAVOK 31/// Q1018 FNUG 221600Z 27010KT 9999 SCT020 22/19 Q1016 WMSA 230700Z 18001KT 9000 -SHRA FEW017CB BKN140 28/24 Q1007 KTQH 230715Z AUTO 00000KT 10SM CLR 22/21 A2999 RMK AO2 KSYR 230654Z 08005KT 10SM OVC022 18/16 A3003 RMK AO2 SLP164 T01830161 LKPR 230700Z 22008KT CAVOK 15/08 Q1014 NOSIG LLIB 230650Z VRB03KT 8000 FEW020 28/21 Q1010 KSZL 230658Z AUTO 17003KT 10SM CLR 24/20 A2993 RMK AO2 SLP129 T02380202 MBPV 230000Z 03015KT 9999 SCT012 29/24 Q1012 GFLL 230400Z 02002KT 4000 BR BKN011 FEW027CB 23/23 Q1013 RMK-NE KW96 230715Z AUTO 00000KT 7SM BKN100 21/21 A2996 RMK AO1 T02100208 KTRI 230653Z 00000KT 10SM FEW005 21/19 A3005 RMK AO2 SLP146 T02110194 $ MDAB 222200Z 36005KT 8000 TSRA FEW015CB SCT016 OVC070 26/25 Q1008 CB/S/SW KSZT 230715Z AUTO 02014G17KT 10SM SCT085 SCT120 16/06 A3012 RMK AO2 KTRK 230715Z AUTO 00000KT 10SM CLR 06/02 A3017 RMK AO2 KTRL 230653Z AUTO 19009KT 10SM CLR 29/22 A2998 RMK AO2 SLP143 T02890217 KUIL 230653Z AUTO 00000KT 1/4SM FG VV002 11/11 A3013 RMK AO2 SLP201 T01060106 KTRM 230652Z AUTO VRB05KT 10SM CLR 29/02 A2978 RMK AO2 SLP096 T02940022 TSNO KVAD 230658Z AUTO 24002KT 10SM CLR 27/23 A2997 RMK AO2 SLP148 T02680227 $ KUIN 230654Z AUTO 15004KT 6SM BR CLR 25/24 A2993 RMK AO2 SLP127 T02500239 KVAF 230715Z AUTO 10012KT 10SM SCT024 29/24 A3000 RMK A01 KTTA 230715Z AUTO 00000KT 3SM BR CLR 23/23 A2993 RMK AO2 T02270226 LKTB 230700Z VRB02KT 9999 FEW008 15/13 Q1015 NOSIG KTTD 230653Z AUTO 00000KT 10SM CLR 18/12 A3005 RMK AO2 SLP174 T01780117 KTTF 230713Z AUTO 00000KT 10SM SCT047 20/17 A2999 RMK AO2 KUKF 230715Z AUTO 27003KT 10SM CLR 21/20 A3003 RMK AO2 KVBG 230655Z AUTO 01004KT 10SM OVC004 16/14 A2998 RMK AO2 SLP140 T01560144 402170139 TSNO $ KTSP 230715Z AUTO 30012G20KT 10SM CLR 19/07 A3006 RMK AO2 MDBH 230000Z 00000KT 9999 FEW016CB SCT018 29/24 Q1009 CB/S/SW/W/NW VVTS 230700Z 25009KT 8000 TS SCT017 SCT020CB 28/22 Q1007 NOSIG FOOG 230600Z 18006 9999 SCT008 OVC030 24/22 Q1014 KUKI 230656Z AUTO 00000KT 10SM CLR 18/09 A2988 RMK AO2 SLP112 T01830094 KVCB 230653Z AUTO 23008KT 10SM CLR 17/12 A2985 RMK AO2 SLP107 T01720117 FOOL 230236Z 17004KT 130V210 6000 SHRA SCT010 OVC033 24/23 Q1014 NOSIG KTTN 230653Z AUTO 08007KT 10SM OVC100 19/17 A3002 RMK AO2 SLP159 T01940167 FOON 230600Z 00000KT 9999 FEW016 20/19 Q1013 KVAY 230654Z AUTO 00000KT 10SM OVC060 18/17 A3002 RMK AO2 SLP164 T01830167 KTTS 230658Z AUTO 22006KT 10SM CLR 26/ A2997 RMK AO2 SLP152 $ KVBS 230715Z AUTO 23007KT 10SM CLR 30/25 A2999 RMK A01 KVBT 230715Z AUTO 20004KT 10SM CLR 25/22 A3001 RMK AO1 KUKT 230715Z AUTO 00000KT 10SM SCT015 OVC047 18/17 A3004 RMK AO1 KTUL 230653Z 17008KT 10SM CLR 28/21 A2993 RMK AO2 SLP125 T02830211 KTVC 230653Z 00000KT 10SM BKN070 OVC100 22/18 A3002 RMK AO2 SLP163 T02170183 KULM 230714Z AUTO 08004KT 10SM CLR 21/21 A3000 RMK AO2 KTVF 230715Z AUTO 01011KT 2SM OVC003 18/17 A3006 RMK AO1 KVDF 230715Z AUTO 00000KT 2SM BR CLR 25/23 A2998 RMK AO2 KTUP 230653Z AUTO 30003KT 10SM CLR 26/22 A3000 RMK AO2 SLP152 T02560217 RJAA 230700Z 21005KT 180V250 9999 FEW010 BKN140 25/22 Q1011 NOSIG KTVI 230715Z AUTO 00000KT 10SM CLR 26/26 A2998 RMK AO2 KVDI 230715Z AUTO 00000KT 10SM 26/23 A2996 RMK AO2 KTUS 230653Z 22004KT 10SM CLR 26/16 A3002 RMK AO2 SLP119 T02610161 403280206 KVCT 230651Z AUTO 14005KT 10SM CLR 26/24 A3000 RMK AO2 SLP154 T02560239 $ KTVK 230715Z AUTO 09004KT 10SM CLR 24/24 A2995 RMK AO2 KTVL 230653Z AUTO 00000KT 10SM CLR 10/03 A3017 RMK AO2 SLP161 T01000028 KVCV 230715Z AUTO 21004KT 10SM CLR 21/05 A2999 RMK AO2 RJAF 230700Z 17014KT 9999 FEW045 BKN150 26/15 Q1013 LKVO 221400Z 21004KT 160V260 CAVOK 21/06 Q1014 KTWF 230653Z AUTO 18010G18KT 10SM FEW110 12/07 A3000 RMK AO2 SLP116 T01170072 402220083 MDCY 230000Z 09015KT 6000 TSRA SCT012CB OVC014 25/25 Q1008 CB/ALL QDS RJAH 230700Z 21011KT 9999 FEW030 BKN120 BKN210 25/21 Q1009 KTVR 230653Z AUTO 00000KT 10SM CLR 22/21 A3001 RMK AO2 SLP167 T02220211 TSNO KUNI 230715Z AUTO 24003KT 1/2SM FG OVC002 22/22 A2997 RMK AO2 T02230216 RJBB 230700Z 25015KT 9999 FEW015 30/24 Q1009 NOSIG RJBD 230700Z 16006KT 130V230 9999 FEW015 30/24 Q1010 KVEL 230704Z AUTO 07008KT 4SM VCTS RA BR FEW039 SCT047 OVC055 12/10 A3008 RMK AO2 LTG DSNT E AND SE TSE0658 P0004 T01170100 RJBE 230700Z 22012KT 9999 FEW020 FEW025TCU SCT/// 29/25 Q1009 KTWM 230714Z AUTO 00000KT 5SM HZ BKN010 15/12 A3005 RMK AO2 SABE 230700Z 11006KT 050V140 CAVOK 18/14 Q1008 KUNO 230653Z AUTO 24004KT 10SM CLR 26/21 A3002 RMK AO2 SLP147 T02560211 SAAR 230700Z 05006KT CAVOK 21/17 Q1005 KVER 230715Z AUTO 18003KT 5SM BR CLR 26/26 A2993 RMK AO2 LTG DSNT NW T02560255 RJAT 230717Z 22012KT 9999 FEW010 SCT015 BKN120 23/18 Q1016 RMK 1ST010 3CU015 5AC120 A3001 RJCB 230700Z VRB02KT 9999 FEW015 SCT020 27/20 Q1007 KVES 230715Z AUTO 00000KT 5SM BR SCT002 21/21 A2999 RMK AO2 RJCC 230700Z 17016KT 9999 FEW010 24/20 Q1006 EYKA 230720Z 18008KT 160V240 CAVOK 17/10 Q1013 KTXK 230653Z AUTO 21004KT 10SM CLR 25/22 A3000 RMK AO2 SLP152 T02500222 KUNU 230715Z AUTO 09003KT 2SM HZ OVC003 21/07 A3000 RMK AO2 T02100069 RJAW 230700Z 09008KT 9999 SCT015 BKN230 30/25 Q1011 RMK 3CU015 A2986 KUNV 230715Z AUTO 00000KT 5SM BR BKN018 BKN027 OVC034 20/19 A3000 RMK AO2 T01980191 RJCH 230700Z 22011KT 9999 FEW010 SCT030 BKN060 25/22 Q1008 RJCK 230700Z 19009KT 9999 R17/P1800N PRFG FEW001 SCT003 21/19 Q1007 RJBT 230700Z 36007KT 9999 FEW025 FEW030CB 28/20 Q1009 RJDC 230700Z 19005KT 140V230 9999 FEW025 BKN/// 29/24 Q1009 RJCM 230705Z 32007KT 280V350 0800 R36/P1800N +SHRA BR FEW002 BKN004 21/19 Q1007 RMK 2ST002 7ST004 A2974 RI++ RJCN 230700Z 18004KT 9999 FEW006 23/22 Q1007 RJCO 230516Z 14015KT 9999 FEW030 SCT070 27/21 Q1006 RMK 1CU030 4AC070 A2971 SADF 230700Z 05007KT CAVOK 18/15 Q1007 SACO 230700Z 29002KT CAVOK 11/10 Q1007 KUOX 230655Z AUTO 00000KT 8SM CLR 22/21 A3002 RMK AO2 KTYQ 230715Z AUTO 00000KT 1SM BR VV007 21/19 A2999 RMK AO2 T02060190 FQCH 230700Z /////KT 4000 BR BKN007 OVC015 18/18 Q1021 KTYR 230653Z AUTO 19009KT 10SM CLR 27/22 A3000 RMK AO2 SLP149 T02670217 RJCT 222218Z 30001KT 1000 -DZ BR SCT002 BKN005 BKN007 18/18 Q1010 RMK 4ST002 5ST005 7ST007 A2984 W/E FQBR 230700Z 16010KT 9999 FEW010 SCT017 BKN030 23/20 Q1014 RJEB 230700Z 15005KT 9999 FEW030 SCT040 BKN100 24/19 Q1006 KTYS 230653Z 23003KT 10SM FEW150 BKN250 24/22 A3001 RMK AO2 SLP148 T02390222 RJEC 230700Z 18012KT 9999 FEW025 BKN120 26/19 Q1006 KVGT 230653Z 19014KT 10SM CLR 29/09 A2981 RMK AO2 SLP086 T02890094 RJCW 230700Z 04006KT 9999 -SHRA FEW006 SCT050 BKN080 22/20 Q1005 KVIH 230653Z AUTO 21008KT 10SM CLR 25/21 A2996 RMK AO2 SLP131 T02500206 KTZR 230715Z AUTO 00000KT 2 1/2SM BR BKN002 BKN008 21/21 A2999 RMK AO2 T02100210 RJDT 230700Z VRB02KT 8000 FEW030 OVC/// 27/21 Q1009 MDJB 230000Z METAR MDSD 230000Z 00000KT 9999 TS FEW014CB BKN014 BKN070 26/25 Q1008 RERA CB/NE/E/SE/S LLSD 230650Z 23007KT 170V260 9999 SCT025 31/23 Q1008 RJFF 230700Z 31007KT 9999 FEW030 SCT035 BKN/// 28/22 Q1009 KUSE 230715Z AUTO 04003KT 3SM BR BKN006 20/20 A3000 RMK AO2 RJFG 230700Z 29004KT 250V330 9999 FEW010 SCT015 BKN/// 28/24 Q1011 KVJI 230715Z AUTO 00000KT 7SM -RA SCT039 SCT060 BKN120 21/21 A3007 RMK AO2 P0001 T02080207 RJFK 230700Z 27009KT 210V300 9999 FEW020 BKN/// 29/22 Q1011 KVIS 230715Z AUTO 20004KT 10SM CLR 21/12 A2986 RMK AO1 KUTA 230715Z AUTO 00000KT 25/22 A2999 RMK AO2 SKY OBSCURED PWINO KY19 230715Z AUTO 07015KT 10SM OVC008 17/16 A3008 RMK AO2 RJFM 230704Z 15013KT 9999 TS FEW025 FEW030CB SCT040 BKN/// 29/25 Q1008 RMK 1CU025 1CB030 4CU040 A2979 FBL TS 20KM W MOV E KWAL 230719Z AUTO 09008KT 10SM SCT016 23/20 A2996 RMK AO2 T02280200 RJFO 230700Z 05006KT 9999 FEW025 SCT040 BKN170 27/25 Q1009 KY23 230715Z AUTO 00000KT 7SM SCT004 19/19 A3002 RMK AO2 T01940192 RJGG 230700Z 14007KT 9999 -SHRA FEW010 FEW020CB SCT030 BKN100 25/22 Q1010 NOSIG SAEZ 230700Z 06013KT CAVOK 18/14 Q1008 RJFR 230700Z 34008KT 9999 FEW030 BKN/// 29/23 Q1009 RJFS 230700Z 17004KT 130V210 9999 FEW025 SCT120 BKN/// 30/25 Q1009 RJFT 230700Z 24009KT 9999 FEW030 BKN/// 29/23 Q1010 RJFU 230700Z 24009KT 9999 FEW025 SCT120 BKN/// 30/23 Q1009 EYPA 230720Z 16010KT CAVOK 17/12 Q1010 KVLD 230653Z AUTO 00000KT 9SM CLR 24/22 A2998 RMK AO2 SLP156 T02440217 RJFY 222107Z 16001KT 5000 PRFG BR FEW001 SCT005 BKN230 24/23 Q1011 RMK 1ST001 3ST005 A2987 2000E-SE VIS VRB KUTS 230653Z AUTO 20005KT 10SM CLR 26/23 A3001 RMK AO2 SLP158 T02610228 KVKS 230715Z AUTO 00000KT 10SM CLR 23/22 A3001 RMK A01 KUVA 230715Z AUTO 13006KT 10SM CLR 26/19 A3002 RMK AO2 T02620188 KVLL 230715Z AUTO 00000KT 10SM SCT065 20/17 A3003 RMK AO2 T02000165 GGOV 230700Z 22006KT 9999 SCT014 BKN100 24/23 Q1011 NOSIG KWDG 230715Z AUTO 18007KT 10SM CLR 22/17 A2990 RMK AO2 SBAA 222000Z 12006KT 9999 FEW032 ///// Q1011 MDLR 230400Z 00000KT 6000 TSRA SCT014CB BKN016 BKN070 24/24 Q1010 CB/ALL QDS KY50 230720Z AUTO 06003KT 7SM OVC014 23/22 A2999 RMK AO2 TSNO KY49 230715Z AUTO 00000KT 3SM BR OVC003 18/18 A3004 RMK AO2 T01760176 LMML 230700Z 14004KT 110V170 7000 FEW010 25/25 Q1015 BECMG 9999 KUUU 230701Z AUTO 02006KT 10SM FEW009 FEW110 18/16 A3006 RMK AO2 T01830161 KY51 230715Z AUTO 36003KT 7SM CLR 22/22 A3000 RMK AO1 T02170217 KVNC 230715Z AUTO RMK AO2 VSBY 1/2V5 PWINO TSNO SBAF 230700Z 00000KT CAVOK 15/14 Q1017 RJKA 230700Z 10003KT 9999 FEW015 BKN/// 31/25 Q1009 KWDR 230715Z AUTO 31004KT 10SM CLR A3003 RMK AO2 KVOA 230715Z AUTO 28009KT 10SM FEW060 30/25 A3000 RMK A01 EYSA 230650Z 25007KT 9999 FEW029 SCT081 BKN094 13/11 Q1012 NOSIG SBAN 230700Z 06004KT CAVOK 17/06 Q1020 SBBE 230700Z 07002KT CAVOK 24/22 Q1010 KY63 230712Z AUTO 36003KT 10SM OVC018 19/18 A3003 RMK AO2 T01860183 SBBG 222200Z 07003KT CAVOK 20/14 Q1013 FQIN 221800Z 18014KT 9999 SCT020 BKN080 23/14 Q1014 SBAQ 222200Z 09002KT CAVOK 24/11 Q1018 SBBH 230700Z 10003KT CAVOK 14/10 Q1020 SBBI 230100Z 01004KT CAVOK 18/13 Q1021 SBAR 230700Z 11006KT 9999 SCT015 24/17 Q1016 SBCA 222140Z 04008KT CAVOK 25/12 Q1017 SBAT 230000Z 00000KT 9999 FEW045 SCT090 27/19 Q1012 SBCB 230700Z 07003KT 0900 FG NSC 20/20 Q1016 SBCC 222100Z 08005KT 9999 FEW030 SCT100 30/16 Q1013 SBAU 230100Z 16006KT CAVOK 23/11 Q1016 KVOK 230718Z AUTO 27004KT 1/2SM R27/1200FT FG CLR 19/19 A2997 RMK AO2 KY70 230713Z AUTO 04005KT 10SM BKN036 OVC070 19/18 A3002 RMK AO2 T01900178 MDPC 230700Z 19012KT 7000 -TSRA FEW014CB BKN015 OVC070 24/23 Q1009 CB/NE/E/S/SW/NW KVPC 230653Z AUTO 00000KT 9SM CLR 22/21 A3002 RMK AO2 SLP151 T02220211 KUXL 230715Z AUTO 00000KT 7SM CLR 26/25 A3000 RMK AO2 T02570252 SBAX 222100Z 15006KT CAVOK 24/08 Q1020 SBCF 230700Z 14004KT CAVOK 16/10 Q1020 SBCG 230700Z 02006KT CAVOK 20/10 Q1014 SBBQ 230100Z 10005KT CAVOK 14/10 Q1025 KVNY 230651Z AUTO 00000KT 10SM CLR 19/16 A2996 RMK AO2 SLP136 T01940161 SBCH 230450Z 09008KT CAVOK 20/10 Q1016 SBCI 222100Z 03003KT CAVOK 33/13 Q1011 SBBR 230700Z 00000KT CAVOK 15/07 Q1019 SBCJ 222215Z 07003KT 9999 SCT015 23/20 Q1015 KUZA 230654Z AUTO 01003KT 10SM CLR 23/22 A2996 RMK AO2 SLP131 T02280217 SBBU 230700Z 14010KT CAVOK 21/13 Q1016 SBCM 230215Z 01003KT 0050 FG VV000 16/16 Q1017 FPST 230600Z 21003KT 9999 FEW020 SCT030 BKN100 23/22 Q1014 NOSIG SBBV 230700Z 00000KT CAVOK 25/22 Q1011 SBBW 222200Z 00000KT CAVOK 28/08 Q1014 FQLC 230700Z 36006KT CAVOK 22/13 Q1020 SAME 230700Z 00000KT 9999 BKN045 11/08 Q1007 SBCO 230300Z 15005KT CAVOK 14/14 Q1014 SBCP 230200Z 00000KT CAVOK 20/18 Q1018 MDPP 230600Z 00000KT 8000 -RA FEW014CB OVC016 24/24 Q1008 CB/N/NE/E/SE SBCR 230000Z 08005KT 9999 FEW025 28/20 Q1010 SBCT 230700Z 00000KT CAVOK 13/12 Q1020 KVPS 230657Z 27002KT 10SM FEW250 27/25 A2999 RMK AO2A SLP161 T02680247 $ FQMA 230700Z 34005KT CAVOK 21/11 Q1017 NOSIG KVRB 230653Z AUTO 28003KT 10SM CLR 23/23 A2998 RMK AO2 SLP151 T02330228 SBDN 230700Z 10006KT CAVOK 19/08 Q1015 SBCX 222100Z 21006KT CAVOK 21/14 Q1018 RJNG 230439Z 14003KT 9999 FEW030 BKN150 BKN230 29/23 Q1010 RMK 2CU030 5AC150 A2984 SBCY 230700Z 02002KT CAVOK 24/17 Q1011 SBEG 230700Z 04002KT 9999 FEW015 24/21 Q1011 SBCZ 230000Z 00000KT CAVOK 26/24 Q1010 KWHP 230247Z 13010KT 20SM SKC 27/12 A2996 RMK LAST KVPZ 230718Z AUTO 00000KT 1/4SM FG VV001 21/20 A2998 RMK AO2 T02060200 TSNO KVQQ 230715Z AUTO 00000KT 10SM CLR 23/22 A2998 RMK AO2 RJOA 230700Z 19005KT 110V230 9999 FEW015 SCT020 BKN/// 27/21 Q1010 SBEK 222100Z 06003KT CAVOK 28/23 Q1010 RJNK 230700Z 29006KT 260V320 9999 FEW030 BKN230 30/21 Q1009 RJOB 230700Z 16004KT 100V240 9999 FEW015 FEW020CB SCT030 BKN/// 29/24 Q1010 EYVI 230720Z 19008KT CAVOK 17/11 Q1014 NOSIG SAOC 230700Z 18007KT 9999 BKN010 09/08 Q1005 RJOC 230700Z 24013KT 9999 FEW025 FEW030TCU SCT050 28/20 Q1009 KVQT 230715Z AUTO 00000G11KT 10SM CLR 30/24 A3001 RMK A01 MDSD 230700Z VRB03KT 8000 -RA SCT012CB BKN014 OVC070 24/23 Q1007 CB/ALL QDS RJOF 230220Z 15005KT 100V230 9999 FEW015 SCT020 BKN230 28/25 Q1010 RMK 1CU015 4CU020 A2985 KVSF 230654Z AUTO 00000KT 10SM OVC060 15/15 A3014 RMK AO2 SLP206 T01500150 KWJF 230656Z AUTO 26011G19KT 10SM CLR 21/07 A2998 RMK AO2 SLP131 T02110067 $ RJOH 230700Z 28009KT 9999 FEW030 BKN045 BKN230 30/19 Q1009 RJOI 230655Z 13009KT 9999 FEW020 BKN230 29/23 A2979 RMK SLP088 T02890233 SBFI 230700Z 08004KT CAVOK 19/15 Q1012 KVSH 230715Z AUTO 00000KT 10SM SCT050 29/23 A3002 RMK AO1 SBES 230700Z 02004KT 9000 1500N BCFG NSC 15/15 Q1016 RJNS 230700Z 26009KT 240V310 9999 -TSRA FEW005 SCT015 BKN025 FEW025CB 24/21 Q1013 SANT 230600Z 27004KT 8000 NSC 20/12 Q1004 RJOK 230700Z 19006KT 150V210 9999 FEW010 BKN120 BKN/// 28/24 Q1010 RJNT 230707Z 13004KT 060V210 9999 -SHRA FEW015 BKN030 FEW030CB BKN/// 29/22 Q1009 RMK 1CU015 5CU030 1CB030 A2982 CB 10KM SE STNR KVTA 230656Z AUTO 00000KT 3SM BR FEW008 20/19 A2996 RMK AO2 T02000194 SBFL 230700Z 35003KT 4500 BR SCT004 17/15 Q1016 RJOM 230700Z 29003KT 250V330 9999 FEW020 BKN/// 28/23 Q1009 SBFN 222200Z 14015KT 9999 SCT019 SCT100 25/22 Q1015 RJNW 230700Z 27009KT 230V290 9999 FEW020 SCT150 BKN/// 27/22 Q1010 LOAN 230700Z 24005KT 28KM FEW040CU SCT060SC BKN100AC RMK BKN RJOO 230700Z 22006KT 150V260 9999 FEW025 SCT/// 32/21 Q1009 RJOP 230629Z 15010KT 110V180 9999 TS SCT015 FEW030CB BKN060 28/24 Q1009 RMK 3CU015 1CB030 6SC060 A2982 FBL TS 10KM SW MOV E RJNY 230707Z 27009KT 230V290 9999 -SHRA FEW007 BKN013 BKN019 FEW025CB 26/22 Q1013 RMK 1ST007 6CU013 7CU019 1CB025 A2991 CB 10KM W-N FQNP 230700Z 03010KT CAVOK 26/19 Q1013 RJOR 230700Z 32007KT 9999 FEW030 FEW035CB SCT045 27/21 Q1010 RJOS 230631Z 14007KT 9999 TS FEW025CB SCT060 BKN220 29/25 Q1010 RMK 2CB025 3SC060 A2982 FBL TS 25KM S MOV E SBFS 222100Z 09006KT CAVOK 24/19 Q1017 KVTI 230715Z AUTO 00000KT 5SM -RA SCT019 SCT031 24/23 A2995 RMK AO2 T02410228 RJOT 230700Z 10003KT 050V160 9999 TS FEW015 FEW025CB SCT030 28/24 Q1010 VYMD 230700Z 18008G16KT 8000 BKN020 FEW025TCU 32/25 Q1008 SAOU 230510Z 23009KT M050 VV/// DZFG 09/09 Q1009 MDST 230700Z 33004KT 9999 FEW016 BKN070 24/23 Q1007 SBGL 230700Z 33002KT CAVOK 18/17 Q1016 SBGM 222300Z 00000KT CAVOK 28/20 Q1010 FQPB 230700Z 02010KT 9999 FEW020 BKN100 26/22 Q1014 LOAV 230700Z VRB02KT 27KM BKN100AC 18/13 Q1016 RMK BKN RJOW 230700Z 30008KT 9999 FEW025 FEW030CB BKN/// 27/22 Q1009 KWLD 230654Z AUTO 16010KT 10SM CLR 27/18 A2992 RMK AO2 SLP116 T02670183 KVTN 230713Z AUTO 12009KT 3SM RA SCT019 BKN046 OVC055 19/16 A2996 RMK AO2 LTG DSNT E AND SE P0014 T01890161 SBGO 230700Z 14003KT CAVOK 16/08 Q1017 RJOY 230700Z 12010KT 9999 FEW020 SCT030 BKN/// 31/21 Q1009 RJOZ 230553Z 26010KT 9999 FEW030 BKN230 31/24 Q1009 RMK 2CU030 A2981 KXBP 230715Z AUTO 18008KT 10SM CLR 29/17 A2998 RMK AO2 T02930165 SBFZ 230700Z 10014KT 9999 FEW025 25/18 Q1012 SBGR 230700Z 00000KT 6000 NSC 11/10 Q1019 KVUJ 230715Z AUTO 00000KT 10SM CLR 22/22 A2998 RMK AO2 T02180218 SBGU 222000Z 28004KT CAVOK 25/09 Q1019 SBIC 222200Z 00000KT 9999 SCT020 27/23 Q1010 SARC 230700Z 05007KT 8000 FEW035 24/18 Q1006 KWMC 230656Z AUTO 24004KT 10SM FEW120 13/00 A3004 RMK AO2 SLP134 T01330000 SBGW 222300Z VRB02KT CAVOK 23/11 Q1019 SARE 230700Z 05006KT CAVOK 23/19 Q1006 SARF 230600Z 05010 9999 FEW025 26/16 Q1007 KVUO 230653Z AUTO VRB03KT 10SM CLR 18/12 A3006 RMK AO2 SLP179 T01830122 SBIH 230300Z 00000KT CAVOK 24/24 Q1012 SARI 230700Z 05004KT CAVOK 18/17 Q1013 RJSA 230700Z 21014KT 9999 FEW035 BKN/// 26/19 Q1009 SASA 230700Z 29005KT CAVOK 13/07 Q1011 SBHT 230300Z 00000KT CAVOK 22/22 Q1012 RKJB 230700Z 29003KT 5000 HZ NSC 28/22 Q1009 NOSIG SBIL 230700Z 27005KT 6000 -RA SCT010 BKN020 BKN070 20/19 Q1017 RJSC 230700Z 35009KT 9999 FEW030 BKN/// 29/21 Q1009 SARL 230700Z 09009KT CAVOK 20/17 Q1008 FQQL 230700Z 16012KT 9999 FEW020 27/23 Q1012 SBJF 230331Z 05004KT CAVOK 19/11 Q1022 RJSF 230700Z 14003KT 110V170 9999 FEW020 BKN025 BKN/// 27/22 Q1011 SBIP 222248Z 00000KT CAVOK 23/12 Q1018 SARP 230700Z 09006KT 9999 FEW030 22/16 Q1011 RJSH 230249Z 24017KT 9999 FEW025 BKN040 29/20 Q1008 RMK 1CU025 5CU040 A2978 RJSI 230700Z 29004KT 220V340 9999 FEW045 BKN080 BKN/// 28/20 Q1009 SASJ 230700Z 29005KT CAVOK 16/08 Q1007 SCBA 230700Z AUTO 13011KT 9999 FEW036 SCT044 OVC059 06/03 Q1013 RJSK 230700Z 25009KT 200V270 9999 FEW020 SCT025 BKN/// 27/20 Q1010 RKJK 230658Z AUTO 26005KT 7SM CLR 27/19 A2980 RMK AO2 SLP095 T02670193 $ RJTC 230332Z 20010KT 9999 -SHRA FEW020 SCT100 BKN150 26/22 Q1012 RETS RMK 1CU020 4AC100 6AC150 A2989 HAAB 230700Z 17002KT 9999 FEW024 FEW070 17/12 Q1027 RJTE 230325Z 22010KT 9999 -SHRA FEW015 FEW020CB SCT030 BKN050 25/20 Q1013 RETS RMK 2CU015 1CB020 3CU030 7SC050 A2992 CB NE RJSN 230700Z 28005KT 220V300 9999 FEW035 BKN/// 28/19 Q1009 KVVV 230713Z AUTO 36007KT 10SM SCT022 BKN028 20/19 A2999 RMK AO2 RJSO 221825Z 27008KT 5000 -SHRA BR FEW006 BKN030 22/21 Q1009 RMK 1ST006 7CU030 A2982 RJTF 230700Z 18013KT 9999 FEW025 SCT180 BKN/// 28/21 Q1010 SBKG 230700Z 15004KT 9999 SCT018 18/17 Q1017 SCAP 230700Z AUTO VRB01KT 0750 -DZ BR SCT002 BKN013 08/07 Q1018 SBJP 230700Z 20005KT 9999 BKN020 20/18 Q1015 SBIZ 230325Z 13005KT CAVOK 24/19 Q1012 SBJR 230100Z 00000KT CAVOK 19/19 Q1018 RJTI 230700Z 19013KT 9999 FEW020 SCT150 BKN/// 26/21 Q1011 RJSR 230700Z 25010KT 9999 FEW015 BKN030 BKN/// 26/20 Q1009 SCAR 230700Z 24003KT 9999 OVC021 16/11 Q1017 SCAS 222000Z /////KT 9999 FEW017 SCT040 OVC080 09/07 Q1012 RJSS 230700Z 16011KT 9999 FEW010 BKN/// 27/24 Q1009 RJTK 230215Z 21020KT 9999 -SHRA FEW020 BKN120 BKN220 28/23 Q1012 RMK 1CU020 5AC120 7CI220 A2989 SBLB 222100Z 02015KT CAVOK 23/18 Q1018 W///S3 SCAT 230700Z AUTO 05004KT 9999 // ///023 12/09 Q1019 RJTL 222106Z 19010KT 9999 FEW030 BKN150 25/22 Q1011 RMK 2CU030 5AC150 A2987 SBJU 230700Z 15003KT CAVOK 23/17 Q1018 SBJV 230310Z 15001KT 4000 BR OVC003 19/19 Q1017 KVWU 230712Z AUTO 00000KT 10SM SCT020 SCT050 OVC070 19/19 A3006 RMK AO2 KXFL 230715Z AUTO 26003KT 10SM CLR 24/23 A2998 RMK AO2 T02390227 SBLE 230100Z 05005KT CAVOK 21/16 Q1020 RJTO 230700Z 22017KT 9999 -SHRA FEW008 SCT013 BKN/// 25/23 Q1011 SCCF 230700Z 25017KT CAVOK 02/M10 Q1026 RJSY 230700Z 26008KT 9999 FEW030 BKN/// 27/21 Q1010 SBKP 230700Z 13009KT CAVOK 18/09 Q1018 SCCH 222200Z 01008KT 9999 BKN020 OVC060 11/09 Q1017 SCCI 230700Z 16009KT 9999 SCT012 02/00 Q1022 NOSIG SBMA 230700Z 00000KT CAVOK 23/21 Q1010 SCDA 230700Z 18010KT 9999 OVC020 16/10 Q1018 RJTT 230700Z 19017KT 9999 FEW020 SCT180 BKN/// 27/22 Q1010 NOSIG SAVC 230700Z 05011KT 9999 BKN008 07/06 Q1018 SBMD 230300Z 06006KT 9999 FEW020 ///// Q1013 SBME 230700Z 34001KT CAVOK 15/14 Q1016 SAVE 230500Z 36002KT 6000 BCFG FEW015 BKN025 05/04 Q1011 SBLO 230700Z 26001KT CAVOK 18/12 Q1017 SBLP 222100Z 13003KT CAVOK 30/08 Q1015 SBMG 230230Z 06011KT CAVOK 23/10 Q1016 RJTY 230658Z AUTO 18009KT 10SM FEW210 28/22 A2987 RMK AO2 SLP111 T02780221 $ SBLS 230100Z 14010KT CAVOK 21/11 Q1021 SBMK 230400Z 24002KT CAVOK 17/09 Q1020 KVYS 230715Z AUTO 16003KT 10SM CLR 23/22 A2998 RMK AO2 T02330220 SAWC 221415Z 00000KT 1500 BCFG BKN004 02/01 Q1022 SBML 230000Z 13005KT CAVOK 25/09 Q1018 KWRB 230658Z AUTO 00000KT 10SM CLR 24/24 A2997 RMK AO2 SLP148 T02440236 PWINO $ FQTT 230700Z 18008KT 5000 HZ NSC 27/13 Q1013 SAWE 230700Z 20003KT CAVOK M05/M05 Q1023 SBMN 230700Z 16002KT CAVOK 24/22 Q1011 SBNF 230300Z 00000KT 8000 BKN006 20/19 Q1017 SBMO 230700Z 32003KT 9999 SCT020 SCT070 18/18 Q1016 SCCY 230000Z 21003KT 9000 -RA FEW010 BKN026 OVC036 06/05 Q1013 SAWG 230700Z 09005KT 7000 DZ OVC007 04/03 Q1021 SAWH 230700Z 36004KT CAVOK 00/M03 Q1024 SBMQ 230700Z 34004KT 9999 SCT017 25/23 Q1010 LOIH 221600Z 02004KT 35KM BKN050SC 21/10 Q1014 RMK BKN KXIH 230715Z AUTO 20009KT 10SM CLR 29/24 A2999 RMK A01 SBMS 230200Z 09007KT CAVOK 27/18 Q1014 KWRI 230658Z AUTO 05006KT 10SM FEW080 OVC100 19/17 A3000 RMK AO2 SLP162 T01880172 SCFA 230700Z 20008KT 9999 BKN027 13/10 Q1018 NOSIG SBMT 230200Z 12003KT 6000 NSC 19/09 Q1021 SCEL 230700Z 35003KT 7000 FEW007 SCT020 BKN030 09/06 Q1016 NOSIG KWRL 230711Z AUTO 31004KT 4SM -RA BR FEW007 OVC041 14/13 A2997 RMK AO2 P0002 T01440133 FQVL 230700Z 18009KT 140V210 9999 FEW020 21/14 Q1016 SBMY 222200Z 00000KT CAVOK 31/24 Q1010 SBOI 222000Z 32004KT 9999 BKN025 FEW027TCU 27/25 Q1011 SBPA 230700Z 07002KT CAVOK 15/14 Q1013 SBPB 230300Z 11010KT CAVOK 27/24 Q1013 SBNT 230700Z 19008KT 9999 FEW023 22/19 Q1014 SBPC 222200Z 36001KT CAVOK 17/10 Q1022 RKPC 230700Z 03004KT 6000 FEW030 BKN200 27/21 Q1009 NOSIG SCGE 222200Z 35015KT 5000 HZ OVC010 11/07 Q1014 SBPF 222200Z 05005KT CAVOK 26/14 Q1017 RKNY 230700Z 24009KT 4500 HZ NSC 30/20 Q1006 NOSIG SAZA 221845Z 09018G26KT 0700 +TSRA OVC007 SCT030 CB 12/11 Q1013 LPAR 221600Z 30011KT 250V360 CAVOK 27/13 Q1017 SBPJ 230700Z 10004KT CAVOK 21/13 Q1012 SAZB 230126Z 16012KT 6000 BKN005 OVC025 FEW035CB 11/11 Q1015 LPBJ 230700Z 29006KT CAVOK 14/13 Q1019 RKPK 230717Z 19008KT 9000 NSC 27/22 Q1008 NOSIG SBPK 230700Z 07001KT 4000 BR NSC 13/13 Q1014 SCFT 230700Z AUTO 24002KT 4800 -DZ 07/06 Q1013 MGCB 230000Z 00000KT 9999 SCT016 FEW024CB BKN060 21/17 QFE870.3 CB NW KWST 230653Z AUTO 02004KT 10SM CLR 17/16 A3007 RMK AO2 SLP182 T01720156 SBPL 230700Z 16006KT CAVOK 21/18 Q101 SBPN 222100Z 21003KT CAVOK 33/10 Q1011 SBPP 222200Z 00000KT CAVOK 26/14 Q1014 SBPR 222045Z 00000KT CAVOK 26/05 Q1020 LPAZ 230700Z 28009KT 9999 SCT014 23/19 Q1019 SBPS 230700Z 27003KT 9999 FEW020 19/18 Q1018 SBRB 230700Z 00000KT 8000 NSC 20/18 Q1010 SCIC 230700Z AUTO 04004KT 9999 -RA OVC031 10/08 Q1015 SAZM 230700Z 11017KT 5000 -RA BKN010 OVC040 11/10 Q1013 SBPV 230700Z 00000KT 5000 FU NSC 22/20 Q1009 KXLL 230715Z AUTO 06003KT 10SM OVC021 20/16 A3004 RMK AO2 SAZN 230700Z 14003KT 9999 BKN020 BKN070 09/07 Q1014 SCIE 230700Z 15002KT 9999 SCT020 OVC040 10/10 Q1013 SBRF 230700Z 12010KT 9999 FEW025 24/20 Q1015 MGCP 221900Z 27008KT 9999 FEW018 32/24 QFE 1009.0 FEW080 SAZR 221318Z 14010KT 3500 DZ OVC006 10/09 Q1013 SBRJ 230200Z 14003KT CAVOK 23/20 Q1017 KWVI 230653Z AUTO 08005KT 10SM OVC008 17/14 A2995 RMK AO2 SLP139 T01720139 SAZS 230700Z 00000KT 9999 SCT020 SCT100 05/02 Q1014 SAZT 221815Z 09022KT 6000 TSRA OVC005 FEW030CB 12/11 Q1014 KXNA 230653Z AUTO 18006KT 10SM CLR 24/22 A3001 RMK AO2 SLP144 T02390217 SBSC 230700Z 24004KT CAVOK 19/18 Q1017 FSIA 230700Z 11009KT 9999 FEW017 29/20 Q1011 NOSIG SBQV 230434Z 09009KT 9999 BKN008 16/16 Q1022 KWVL 230715Z 36005KT 10SM OVC075 16/14 A3010 RMK AO1 KWWD 230715Z AUTO 01003KT 10SM FEW022 18/16 A3000 RMK AO1 RKSG 230655Z 24005KT 2 1/4SM HZ FEW120 SCT190 29/23 A2979 RMK AO2A SLP090 $ SBRP 230700Z 11005KT CAVOK 16/08 Q1016 SCIP 230700Z 36006KT 9999 SCT020 BKN030 17/12 Q1023 NOSIG SCIR 222200Z 30006KT 9999 SCT020 13/10 Q1012 RKSI 230700Z 29008KT 9999 FEW025 SCT180 27/19 Q1009 NOSIG SBTA 230300Z 00000KT CAVOK 15/11 Q1021 KXMR 230658Z AUTO 21004KT 10SM CLR 25/24 A2997 RMK AO2 SLP152 T02540240 $ SBSJ 230700Z 00000KT 7000 NSC 16/10 Q1020 SBTC 222020Z 15002KT 9999 SCT025 27/21 Q1018 SBSL 230700Z 06004KT CAVOK 25/21 Q1010 SBSM 230300Z 11003KT 070V150 6000 NSC 18/16 Q1013 RKSM 230700Z 24005KT 6000 HZ FEW030 SCT200 30/22 A2980 SBTE 230700Z 00000KT CAVOK 25/22 Q1010 SBSN 230700Z 00000KT CAVOK 23/23 Q1010 SCJO 222300Z VRB03KT 2000 RA BKN010 OVC020 11/11 Q1012 SBTF 230000Z 00000KT 9999 FEW015 25/24 Q1010 RKSO 230658Z AUTO 27004KT 6SM HZ CLR 29/23 A2980 RMK AO2 SLP094 T02870230 $ SBSP 230700Z 00000KT CAVOK 17/08 Q1020 SBSR 230700Z 00000KT CAVOK 20/06 Q1018 SBUA 222300Z 12003KT 9999 FEW017 FEW025TCU 28/25 Q1010 RKSS 230700Z 28008KT 6000 FEW040 BKN150 28/17 Q1009 NOSIG KWWR 230715Z AUTO 21014G20KT 10SM CLR 27/07 A2997 RMK AO2 SBTK 222300Z 33001KT CAVOK 29/22 Q1011 MGES 230000Z 32008KT 9999 SCT020TCU FEW025CB SCT200 25/18 QFE910.3 FEW090 CB S/SSW TCU SW SBST 222300Z 05002KT 5000 BR NSC 19/18 Q1016 LPFL 221500Z 17013KT 9999 SCT018 24/20 Q1017 RMK WIND RWY36 17010KT 140V210 POS MID 17011KT SBSV 230700Z 11008KT 9999 SCT017 24/18 Q1017 RKTN 230700Z 33006KT 8000 NSC 30/18 Q1007 NOSIG SBUF 222200Z 10011KT 9999 FEW020 25/18 Q1018 SBUG 222300Z 06005KT CAVOK 23/16 Q1010 LPFR 230700Z 32004KT 240V340 CAVOK 21/11 Q1017 SBTT 222300Z 17002KT CAVOK 27/24 Q1009 SBTU 222130Z 00000KT 9999 SCT018 BKN070 23/23 Q1013 SBUL 230700Z 09007KT CAVOK 16/07 Q1019 RKTU 230700Z 26003KT 6000 FEW030 BKN230 29/18 Q1008 NOSIG VYYY 230630Z 23006KT 8000 SCT018 FEW025TCU SCT110 32/25 Q1011 NOSIG SBVH 230400Z 02007KT CAVOK 23/13 Q1015 SBUR 230700Z 03008KT CAVOK 19/06 Q1018 SCMK 222200Z 03014KT 6000 -RA OVC013 10/09 Q1010 KWYS 230710Z AUTO 00000KT 10SM BKN023 OVC060 08/07 A3009 RMK AO2 MGGT 230700Z 36008KT 9999 SCT014 18/15 Q1026 A3030 SBUY 222300Z 00000KT 9999 FEW020 27/23 Q1008 KXPY 230715Z AUTO 23004KT 10SM FEW034 30/24 A3002 RMK A01 YABA 230700Z 33010KT CAVOK 18/06 Q1020 LPHR 230700Z 24009KT 9999 SCT006 BKN012 24/22 Q1017 KXSA 230715Z AUTO 00000KT 10SM SCT009 SCT100 22/20 A2997 RMK AO2 T02190201 SBVT 230700Z 29002KT CAVOK 18/16 Q1017 MGHT 230700Z 00000KT 9999 BKN020 13/12 QFE819.2 WSAP 230700Z 22007KT 9999 FEW018CB FEW020TCU BKN300 32/25 Q1008 RETS KYIP 230653Z AUTO 04004KT 10SM SCT033 OVC055 23/17 A3001 RMK AO2 SLP154 T02280167 TSNO SBYA 221900Z 02002KT 9999 FEW025 FEW030TCU 32/24 Q1009 SCNT 222000Z 16006KT 0050 FG BKN010 01/00 Q1019 MHAM 230600Z 00000KT CAVOK 29/24 SCON 230700Z AUTO 03004KT 350V060 6000 -DZ 10/10 Q1012 LPLA 230700Z /////KT 9999 FEW015 22/20 Q1017 MHCA 230700Z 00000KT 9999 SCT028TCU 23/21 TCU NW HZ LQBK 230700Z 35002KT 9999 4000N BR FEW003 18/17 Q1015 NOSIG KYKM 230653Z AUTO 28005KT 10SM OVC110 17/12 A3008 RMK AO2 SLP180 T01720122 KYKN 230715Z AUTO 07010KT 10SM FEW013 SCT018 BKN025 23/22 A2993 RMK AO1 LTG DSNT SE SCPQ 230700Z AUTO 36007KT 3600 -SHRA BKN003 OVC022 08/08 Q1011 RESHRA MHCH 230600Z 06002KT 9999 FEW030 25/24 SBYS 230200Z 15003KT CAVOK 16/09 Q1019 LPMA 230700Z 36007KT 340V040 9999 SCT016 21/15 Q1020 RS32007KT 0501004KT 2334005KT SCRD 222200Z 36005KT 6000 2000S VCFG OVC007 09/08 Q1018 SCQP 230700Z 17003KT 120V190 2300 BR OVC020 07/07 Q1013 KXVG 230716Z AUTO 00000KT 5SM BR SCT007 OVC010 19/19 A3004 RMK AO2 MGMM 222300Z 29004KT 9999 FEW020TCU FEW025CB B KN200 29/24 Q1013 A2991 CB N TCU SE SCSE 230700Z 07002KT 9999 OVC020 11/10 Q1018 LOWG 230650Z VRB02KT 9999 4000S FEW003 BKN180 14/14 Q1016 NOSIG KYNG 230651Z 00000KT 4SM BR FEW070 19/18 A2999 RMK AO2 SLP147 T01890178 LPMR 230700Z 17002KT 0300 R01/0700D FG BKN001 12/12 Q1018 LOWI 230650Z VRB02KT 9999 FEW010 SCT040 BKN060 15/12 Q1016 NOSIG SCTB 222200Z 21005KT 5000 HZ BKN030 OVC040 10/06 Q1018 MGMT 230000Z 00000KT 9999 FEW016 SCT070 BKN200 30/25 QFE1006.0 LPMT 230700Z 34004KT 310V010 9999 FEW012 18/14 Q1018 LOWK 230650Z VRB01KT 9999 FEW009 SCT012 BKN030 16/14 Q1016 NOSIG LOWL 230650Z 09003KT 060V130 9999 FEW009 SCT090 BKN300 16/14 Q1015 NOSIG SCSN 230000Z 05009KT 4000 HZ OVC030 12/08 Q1019 SCTE 230700Z 36007KT 9999 BKN050 09/08 Q1013 NOSIG LOWS 230650Z 17003KT 9999 FEW060 BKN080 15/13 Q1016 NOSIG MGPB 230700Z 00000KT 9999 SCT016 BKN080 25/24 Q1013 A29991 LPPD 230700Z /////KT 9999 FEW018 22/19 Q1019 LOWW 230650Z 17004KT 9999 FEW015 BKN100 16/15 Q1016 NOSIG LOWZ 230700Z 00000KT 20KM FEW010SC BKN020SC 14/12 Q1016 RMK OVC LOXT 230650Z 20004KT 40KM FEW060SC BKN090AC 17/14 Q1015 RMK BKN SCVD 230700Z AUTO 04006KT 010V070 9999 FEW030 SCT035 BKN043 10/09 Q1013 LPOV 230700Z VRB01KT 8000 FEW008 12/11 Q1018 LOXZ 230650Z 08003KT 7000 FEW005ST SCT016ST BKN025SC 15/13 Q1016 NOSIG RMK OVC LPPR 230700Z 00000KT 8000 NSC 13/12 Q1019 LPPS 230700Z 35003KT 9999 FEW015 21/18 Q1021 LPPT 230700Z 35007KT 9999 FEW010 17/14 Q1019 SCVM 230700Z 06004KT 8000 OVC020 10/08 Q1017 YBAF 230700Z AUTO 16009KT 9999 // SCT036 SCT048 SCT057 16/12 Q1023 MGQZ 230000Z 05010KT 9999 FEW014 SCT200 16/08 QFE766.0 FEW090 YBAS 230700Z 13011KT 110V170 CAVOK 24/M09 Q1022 MGSJ 230700Z 00000KT CAVOK 23/22 Q1010 A2983 SCT200 MGRT 230000Z 27004KT 9999 TS SCT016 FEW025CB SCT080 21/21 Q1015 A2997 FEW200 CB/TS/PCPN/W/WNW VOL. STA. MARIA Y SANTIAGUITO EN ACTIVIDAD LRBC 230700Z 17008KT CAVOK 20/12 Q1019 YBBN 230721Z 17009G19KT 8000 -RA FEW015 SCT020 OVC049 15/14 Q1022 YBCG 230700Z AUTO 19009KT 9999 // SCT039 SCT058 BKN073 14/12 Q1023 YBCK 230700Z AUTO 14011KT //// // ////// 24/01 Q1020 LRAR 230700Z 14004KT CAVOK 22/18 Q1016 YAMB 230722Z AUTO 15007KT 9999 // BKN011 15/11 Q1023 LPST 221600Z 31013KT 9999 FEW018 21/14 Q1019 MHLC 230700Z 20003KT 9999 FEW026CB SCT200 24/23 Q1013 A2992 NOSIG LRBM 230700Z VRB02KT CAVOK 20/13 Q1017 YBDG 230700Z AUTO 03010KT 9999 // SCT068 SCT080 17/09 Q1024 MHLE 230000Z 06006KT 9999 FEW024CB 20/16 CB SW TCU N SE WNW YBCS 230700Z 15013KT 9999 FEW025 24/17 Q1016 LRBS 230700Z 06007KT 350V090 9999 BKN021 FEW040CB 20/13 Q1018 NOSIG SEGU 230700Z 23011KT 9999 SCT030 BKN100 22/19 Q1012 RMK A2989 NOSIG YBCV 230700Z AUTO 14011KT 9999 // SCT069 21/06 Q1022 LRCK 230700Z 05010KT 020V090 9999 FEW045 24/18 Q1018 NOSIG MGTU 230000Z 27006KT 7000 TS RA BKN016 FEW020CB 24/23 CB/TS/W/WNW LRCL 230700Z 09004KT 030V140 9999 FEW046 18/13 Q1018 MHLM 230700Z 35006KT 9999 FEW025 SCT080 25/24 Q1013 A2992 NOSIG LRCT 230500Z VRB03KT 9999 BKN080 13/10 Q1018 BLU BLU YBDV 230700Z AUTO 12008KT //// // ////// 26/M02 Q1021 LRCV 230700Z 06012KT 9999 BKN014 21/15 Q1017 LQMO 230700Z VRB02KT CAVOK 21/18 Q1015 BGBW 222150Z 06006KT 9999 FEW020 BKN025 11/05 Q1017 ROAH 230700Z VRB01KT 9999 -SHRA FEW020 SCT025 FEW030CB BKN/// 29/25 Q1009 SFAL 221800Z 24018KT 9999 FEW020 SCT200 XX/XX Q1018 GMAD 230700Z VRB02KT CAVOK 18/16 Q1013 NOSIG MHNO 230000Z 00000KT 9999 FEW040TCU 24/20 Q1015 TCU N W NW HZ GMAG 230700Z 14002KT 4000 BR OVC006 18/17 Q1013 BECMG 6000 FEW010 BKN016 FTTA 230700Z 00000KT 9999 FEW020 27/23 Q1013 FTTC 230700Z 32008KT 9999 FEW030 BKN150 25/19 Q1014 HDAM 221700Z 00000KT 9999 FEW026 FEW033CB 32/28 Q1004 FTTD 230700Z 30006KT CAVOK 25/22 Q1016 YBHI 230700Z AUTO 33007KT 9999 // NCD 21/03 Q1024 KZPH 230715Z AUTO 00000KT 10SM CLR 21/21 A2999 RMK AO2 MGZA 230000Z 00000KT CAVOK 30/21 QFE985.6 OVC200 YBHM 230700Z AUTO 10015KT //// // NCD 19/15 Q1018 FTTJ 230700Z 26008KT CAVOK 26/23 Q1014 NOSIG MHPL 230000Z 00000KT 9999 SCT028TCU SCT250 29/25 Q1013 TCU ALL HZ GMAT 230700Z 03014KT 8000 OVC016 19/18 Q1014 NOSIG YARG 230700Z AUTO 13007KT 9999 // NCD 29/M14 Q1015 LRIA 230700Z 10006KT 070V130 9999 SCT031 18/13 Q1020 BGGH 230650Z AUTO 19002KT 9999NDV NCD 06/06 Q1016 SELT 230700Z 01004KT 9999 FEW020 05/05 Q1030 YARM 230700Z AUTO 11007KT 9999 // SCT061 OVC093 OVC105 08/08 Q1026 FVBU 220900Z 27007KT 160V330 CAVOK 27/M01 Q1020 NOSIG RODN 230715Z AUTO VRB04KT 10SM BKN028 OVC043 29/26 A2983 RMK AO2 CIG 028V044 BKN V SCT FTTY 230700Z 22010KT CAVOK 33/19 Q//// YCBA 230700Z AUTO 05004KT 030V090 //// // ////// 20/04 Q1025 YCBB 230700Z AUTO 13007KT //// // ////// 14/08 Q1026 LQSA 230700Z VRB01KT 9999 FEW015 18/15 Q1018 NOSIG SEMT 230700Z 20007KT 9999 OVC020 22/20 Q1013 WSSL 230700Z 14008KT 090V150 9999 FEW018 FEW020TCU SCT300 31/23 Q1008 RMK 0630Z Q1008 YBKE 230700Z AUTO 03002KT //// // ////// 22/05 Q1024 MHSC 222255Z 02004KT 9999 SCT090 32/11 A2992 RMK AO2A SLP098 WND DATA ESTMD ALSTG/SLP ESTMD T03180112 $ MHRO 230200Z 05005KT 9999 FEW025CB 28/25 Q1013 A2993 NOSIG YCAR 230700Z AUTO 21017KT 9999 // NCD 24/14 Q1018 YCAS 230700Z AUTO 30002KT //// // ////// 15/13 Q1025 WSSS 230700Z 12006KT 100V190 9999 FEW018CB FEW020TCU BKN300 31/24 Q1008 NOSIG FVCZ 230300Z 00000KT 9999 OVC015 18/15 Q1020 FVFA 230600Z 15006KT CAVOK 16/M10 Q1019 NOSIG MHTE 230000Z 00000KT 9999 FEW028TCU SCT080 30/25 Q1011 TCU SE SW HZ YCBP 230700Z AUTO 28004KT //// // NCD 25/M04 Q1023 MHTG 230700Z 00000KT 9999 FEW028 19/16 Q1019 A3009 NOSIG GMFF 230700Z 02002KT 350V060 9999 FEW033 19/12 Q1019 NOSIG YBMA 230700Z AUTO 08009KT 9999 // SCT096 28/03 Q1017 YBKT 230700Z AUTO 02012KT //// // ////// 29/06 Q1014 MHSR 230600Z 00000KT 9999 BKN020CB 20/20 CB LTNG NE NW YBLN 230700Z AUTO 34009KT //// // ////// 17/09 Q1021 GMFK 230700Z 26005KT CAVOK 26/12 Q1019 NOSIG GMFM 221300Z 35005KT 9999 FEW023 29/10 Q1019 NOSIG BGJN 230650Z AUTO 31002KT 9000NDV -RA FEW017/// SCT023/// BKN027/// OVC032/// 05/04 Q1009 GMFO 230700Z 28003KT 9999 FEW033 22/09 Q1017 NOSIG YBNA 230700Z AUTO 26005KT 9999 // SCT024 SCT072 OVC094 15/14 Q1024 YBLT 230700Z AUTO 02019KT 9999 // SCT047 SCT064 BKN074 14/08 Q1022 MHTR 230000Z 05008KT 9999 SCT024TCU BKN250 29/24 Q1012 TCU ALL HZ YBMK 230700Z AUTO 10009KT 9999 // NCD 21/16 Q1018 FVHA 230600Z 15004KT 110V190 CAVOK 17/00 Q1021 NOSIG YCEE 230700Z AUTO 16010KT //// // ////// 15/07 Q1025 SEQM 230700Z 10004KT 9999 FEW030 08/06 Q1026 NOSIG RMK A3030 YCDO 230700Z AUTO 10001KT //// // ////// 18/06 Q1026 BGKK 230650Z AUTO 22013KT 9999NDV OVC003/// 05/03 Q1009 YCCY 230700Z AUTO 11013KT //// // ////// 30/02 Q1016 ROIG 230700Z 12005KT 060V160 9999 FEW023 BKN/// 31/24 Q1009 LQTZ 230700Z VRB01KT 5000 BR SCT010 BKN025 19/19 Q1016 YCDU 230700Z AUTO 19012KT 9999 // NCD 16/07 Q1026 YCEM 230700Z AUTO 05004KT //// // ////// 17/09 Q1025 GLRB 230700Z 00000KT 9999 BKN012 FEW022 CB 23/22 Q1014 RMK CB-NW SESG 230700Z 12012KT CAVOK 33/04 Q1017 YBNS 230700Z AUTO 11008KT 9999 // BKN076 15/09 Q1026 YBOK 230700Z AUTO 13012KT 9999 // SCT022 SCT058 OVC092 14/10 Q1023 YCFL 230700Z AUTO 15019KT //// // ////// 24/18 Q1015 YAYE 230700Z AUTO 10009KT 9999 // NCD 27/M06 Q1021 LROD 230700Z VRB02KT CAVOK 22/15 Q1017 YCFS 230712Z AUTO 23011KT 5000 -SHRA SCT025 BKN033 BKN041 15/14 Q1026 RESHRA SGAS 230700Z 04012KT CAVOK 27/16 Q1008 HEBA 230700Z 35010KT CAVOK 29/23 Q1010 NOSIG FVKB 230300Z 00000KT CAVOK 17/08 Q1012 YBPN 230700Z AUTO 13012KT 9999 // NCD 21/15 Q1017 LSGC 230650Z 22002KT 9999 FEW025 BKN060 09/07 Q1018 LSGG 230720Z VRB02KT 9999 FEW060 BKN080 15/11 Q1017 NOSIG LROP 230700Z 07010KT 9999 SCT022 OVC025 21/14 Q1018 YCHK 230700Z AUTO 11011KT 080V140 9999 // NCD 29/M05 Q1019 YAYT 230650Z 29006KT CAVOK 35/M01 Q1012 HEAR 230600Z 26004KT 9999 SCT025 28/23 Q1008 NOSIG HECA 230700Z 32003KT CAVOK 28/22 Q1010 NOSIG HEAT 230700Z 30009KT CAVOK 27/21 Q1010 NOSIG HEBL 230700Z 36017KT CAVOK 35/13 Q1007 NOSIG HEAX 230700Z 32007KT CAVOK 31/24 Q1009 NOSIG MHYR 230000Z 09002KT 9999 SCT025TCU 29/18 TCU ALL HZ YBRK 230700Z AUTO 18009KT 9999 // NCD 25/09 Q1017 YBRL 230700Z AUTO 07011KT //// // ////// 30/08 Q1014 LSGS 230650Z 08003KT 9999 FEW060 SCT090 14/09 Q1017 YBRM 230700Z 14010KT CAVOK 31/M02 Q1014 YCIN 230700Z AUTO 13008G18KT //// // NCD 32/M08 Q1014 GMMB 230700Z AUTO 10002KT //// NCD 19/19 Q1018 FWCL 230700Z 03005KT 8000 HZ 27/12 Q1016 NOSIG GMMC 230700Z 00000KT CAVOK 20/18 Q1016 YBSG 230700Z AUTO 11007KT //// // SCT048 30/17 Q1011 GMME 230700Z 00000KT 9999 3000 FEW010 SCT016 18/17 Q1017 GMMH 230700Z 35020KT 5000 BKN006 19/18 Q1013 NOSIG GMMI 230700Z 06014KT 5000 NSC 21/15 Q1015 NOSIG LRSB 230700Z 00000KT CAVOK 18/15 Q1018 LTAC 230650Z 05009KT 020V080 CAVOK 25/12 Q1019 NOSIG RMK RWY21L 01011KT 340V040 RWY03L 01010KT 340V050 RWY21R 02011KT SGEN 222100Z 05002KT 9999 SCT040 BKN100 30/16 Q1012 KZZV 230700Z AUTO 00000KT 1/2SM FG OVC002 21/20 A2997 RMK AO2 T02110200 GMML 230700Z AUTO 02017KT 9999NDV OVC019 22/17 Q1152 YBRY 230700Z AUTO 15008KT 120V180 9999 // NCD 27/M06 Q1020 YBTH 230700Z AUTO 03004KT 010V080 9999 // SCT105 12/07 Q1027 ROMY 230700Z 18004KT 130V230 9999 +SHRA BKN015 FEW020TCU BKN/// 27/25 Q1009 LTAF 230650Z VRB03KT 9999 SCT035 31/23 Q1007 NOSIG RMK RWY23 VRB03KT GMMN 230700Z 05003KT 9999 SCT016 19/18 Q1018 NOSIG LTAG 230650Z 07002KT 9999 SCT035 31/23 Q1007 NOSIG SGES 230700Z 12004KT CAVOK 19/17 Q1012 LTAI 230650Z 31015KT 260V360 CAVOK 36/08 Q1008 NOSIG RMK RWY18C 31016KT RWY36R 31016KT RWY18L 31016KT YBTL 230700Z 07011KT 9999 FEW035 23/15 Q1017 LTBA 230650Z VRB09KT CAVOK 29/20 Q1015 NOSIG RMK RWY17L 07011KT 040V100 RWY05 05011KT 010V080 RWY23 06010KT 030V100 LTAJ 230650Z 34014KT CAVOK 35/02 Q1009 NOSIG RMK RWY10 36012KT 330V030 YBUD 230700Z AUTO 19012KT 9999 -SHRA SCT012 SCT021 BKN034 17/15 Q1018 YCKN 230700Z AUTO 12011KT 9999 // BKN100 24/17 Q1015 LRTC 230700Z 08008KT 040V110 9999 FEW028 24/15 Q1019 LTBD 230520Z 09007KT CAVOK 24/15 Q1012 LRSM 230700Z VRB02KT CAVOK 20/13 Q1016 FVMV 230300Z 00000KT CAVOK 15/01 Q1019 LTAN 230650Z 01014KT CAVOK 26/10 Q1018 NOSIG GMMW 230000Z 23003KT CAVOK 20/10 Q1015 NOSIG LTBF 230650Z VRB01KT CAVOK 25/17 Q1015 NOSIG LTAP 230650Z 04009KT 9999 SCT033 26/15 Q1017 NOSIG RMK RWY23 03011KT GMMX 230700Z 26004KT 9999 FEW100 19/16 Q1017 NOSIG BGSF 230650Z AUTO 07011KT 9999NDV -SHRA BKN038/// OVC045/// 08/06 Q1010 LTAR 230650Z 03005KT 310V090 CAVOK 20/11 Q1021 GMMZ 230600Z VRB03KT 8000 FEW040 21/15 Q1020 NOSIG LTAS 221430Z 33009KT CAVOK 27/19 Q1015 RMK RWY18 33007KT LTBJ 230650Z 36006KT 330V030 CAVOK 31/17 Q1012 NOSIG RMK RWY16 34008KT LTCA 230650Z 29006KT 210V340 CAVOK 31/10 Q1013 NOSIG LTAT 230650Z 34010KT CAVOK 31/08 Q1013 NOSIG RMK RWY03 19005KT 140V230 LTAU 230650Z 07006KT 030V100 CAVOK 24/11 Q1018 NOSIG RMK RWY07 03007KT 350V080 LTCC 230650Z 01005KT 340V040 CAVOK 34/06 Q1008 NOSIG RMK RWY16 35008KT 320V030 LTCD 230650Z VRB01KT CAVOK 26/12 Q1017 NOSIG LRSV 230700Z 16010KT 9999 FEW013 15/15 Q1019 LRTM 230700Z 04004KT 020V080 CAVOK 18/12 Q1018 LTAW 230611Z 25004KT 180V280 9999 BKN035 24/16 Q1017 RMK RWY22 20002KT YDBY 230700Z AUTO 11009KT //// // ////// 32/M08 Q1014 LTCE 230650Z 08012KT 050V120 9999 FEW030 23/10 Q1021 NOSIG RMK RWY08R 04011KT 010V070 RWY26R 08012KT RWY08L 05011KT 360V080 BIBD 221500Z 02005KT 9999 FEW020 SCT050 15/// Q1019 LTCF 230650Z 05007KT 020V080 CAVOK 23/09 Q1023 LTCG 230650Z 27010KT 9999 SCT011 BKN033 24/22 Q1016 NOSIG RMK RWY29 28009KT LTAZ 230650Z VRB03KT CAVOK 24/10 Q1018 RMK RWY29 VRB04KT LTBQ 230650Z 09005KT 060V130 CAVOK 26/19 Q1016 NOSIG LTBR 230650Z 19002KT CAVOK 25/16 Q1017 NOSIG RMK RWY07 26002KT LTCI 230650Z 26008KT 9999 SCT040 26/13 Q1018 NOSIG LRTR 230700Z 12004KT 060V170 CAVOK 23/18 Q1016 LSMA 230650Z AUTO 03004KT 330V100 9999NDV FEW058 SCT074 BKN100 15/10 Q1017 RMK WHT LTBS 230650Z 36012KT CAVOK 36/10 Q1009 NOSIG RMK RWY19 33012KT LTCJ 230650Z 22006KT CAVOK 30/00 Q1008 RMK RWY20 22006KT 180V260 YCMM 230700Z AUTO 21010KT //// // ////// 15/07 Q1026 BIAR 230700Z 16002KT CAVOK 03/03 Q1014 LTCK 230650Z VRB05KT CAVOK 30/06 Q1015 LTBU 230650Z 05012KT CAVOK 27/21 Q1016 RMK RWY23 05012KT LSMD 230650Z AUTO 00000KT 9999NDV OVC062 13/11 Q1017 RMK WHT LSME 230650Z AUTO 00000KT 9999NDV OVC064 14/12 Q1017 RMK WHT BGTL 230721Z AUTO 00000KT 2000 BR OVC002 01/00 A2996 RMK AO2 VIS 0800V2000 $ HEGN 230700Z 36017KT CAVOK 34/21 Q1005 NOSIG YCMT 230700Z AUTO 17008KT //// // ////// 23/06 Q1019 YCNK 230700Z AUTO 14003KT //// // ////// 16/12 Q1028 YCNM 230700Z AUTO 16006KT //// // ////// 20/07 Q1025 YCOE 230700Z AUTO 06009KT //// // ////// 26/15 Q1013 LSMM 230650Z AUTO VRB02KT 9999NDV BKN028 OVC038 13/12 Q1017 RMK WHT YBWP 230700Z AUTO 11010KT 9999 // SCT051 OVC070 31/16 Q1011 LSMP 230650Z AUTO VRB02KT 9999NDV BKN056 BKN076 14/10 Q1017 RMK WHT RORS 230700Z VRB02KT 9999 VCSH FEW020 FEW025TCU BKN/// 30/24 Q1009 LSMS 230650Z 08003KT 9999 FEW060 SCT090 14/09 Q1017 YCOM 230700Z AUTO 07013KT 9999 // SCT037 11/06 Q1028 LTFC 230650Z VRB06KT CAVOK 27/07 Q1017 RMK RWY23 28008KT YBWX 230700Z AUTO 04009KT //// // ////// 26/12 Q1017 YCNY 230700Z AUTO 23004KT //// // ////// 31/01 Q1014 LTFE 230650Z VRB02KT CAVOK 31/19 Q1011 NOSIG RMK RWY10 VRB02KT LTFH 230650Z 31010KT 9999 SCT031 BKN100 26/20 Q1016 NOSIG BIEG 230700Z 17002KT 9999 FEW049 SCT060 BKN100 05/04 Q1014 LTFJ 230650Z 03010KT 360V060 CAVOK 27/20 Q1016 NOSIG RMK RWY24 06012KT RPLB 230500Z 00000KT 9999 FEW018CB FEW030 BKN080 29/23 Q1009 RMK RERA CB SE GMTA 230600Z 18004KT CAVOK 22/16 Q1015 NOSIG RPLC 230600Z 15004KT 9999 SCT042 BKN300 30/23 Q1009 A2980 RMK NOSIG ROTM 230658Z VRB03KT 9000 -SHRA BR SCT020 BKN030 BKN180 29/24 A2984 RMK SHRAB45 SLP090 T2 P0000 T02900240 RPLI 230700Z 32010KT 9999 TS SCT018CB FEW019 SCT100 31/26 Q1007 RMK A2974 CB NE-SE FWKI 230700Z 09005KT 8000 NSC 25/13 Q1018 NOSIG RPLL 230700Z 25009KT 9999 FEW923CB SCT025 BKN100 30/25 Q1007 RESH NOSIG RMK A2974 CB NNE ESE TO SSE RPMD 230700Z 19011KT 9999 SCT015CB 32/23 Q1008 RMK A2977 CB ALL QDS FVTL 230300Z 09002KT CAVOK 12/M08 Q1019 GMTN 230700Z 22011KT CAVOK 23/11 Q1015 NOSIG HEMA 230700Z 35019KT CAVOK 34/13 Q1005 NOSIG GMTT 230700Z 20007KT 9999 FEW020 20/16 Q1017 NOSIG HEMM 230700Z 33015KT CAVOK 29/24 Q1012 NOSIG BIHN 221900Z 15003KT CAVOK 12/// Q1018 HELX 230700Z 33006KT CAVOK 34/16 Q1006 NOSIG RPMZ 230700Z 12004KT 9999 FEW017CB BKN100 33/26 Q1010 RMK A2983 CB N NCAI 230700Z AUTO 26007KT //// ///// 24/21 Q1013 MKJP 230700Z 35007KT 9999 TS FEW020 FEW022CB 29/24 Q1009 MKJS 230700Z 00000KT 9999 VCTS FEW022CB 27/25 Q1009 YCUN 230700Z AUTO 31009KT 260V360 //// // ////// 20/09 Q1021 BIIS 221900Z 27010KT 9999 SCT030 BKN060 10/05 Q1018 LUBL 230700Z 14006KT 070V200 CAVOK 18/11 Q1020 YDLQ 230700Z AUTO 05009KT //// // ////// 19/04 Q1024 YCWA 230700Z AUTO 07008KT 040V130 9999 // NCD 27/M07 Q1021 LUCH 221130Z 02010KT 9999 FEW031 20/13 Q1018 GOGG 230700Z 20004KT 9999 BKN016 BKN130 23/23 Q1014 RERA BIKF 230700Z 28006KT 9999 BKN025 09/05 Q1016 GOGK 230700Z VRB02KT 8000 SCT013 OVC130 24/23 Q1012 HEPS 230700Z 27006KT 9999 SCT025 28/25 Q1008 NOSIG GOGS 230700Z 22004KT 9999 BKN013 BKN130 26/24 Q1012 YCWR 230700Z AUTO 20005KT //// // ////// 17/08 Q1027 HESC 230700Z 02009KT CAVOK 26/06 Q1019 NOSIG HESH 230700Z 01018KT CAVOK 34/22 Q1004 NOSIG YDPO 230700Z AUTO 07013KT 9999 // SCT010 13/12 Q1027 HESN 230700Z 35012KT CAVOK 35/10 Q1007 NOSIG LSZA 230720Z VRB01KT 7000 -RA FEW015 SCT060 BKN080 16/15 Q1014 NOSIG LSZB 230720Z 07002KT 9999 BKN050 13/11 Q1017 NOSIG LSZC 230650Z AUTO VRB02KT 9999 BKN050 SCT070 16/09 Q1017 LSZG 230650Z VRB02KT 9999 BKN060 13/11 Q1017 NOSIG LSZH 230720Z 12002KT 9999 FEW054 BKN060 14/11 Q1017 NOSIG RPVM 230700Z 21010KT 9999 SCT018CB SCT300 32/25 Q1009 RMK A2980 TSTM W AND N LSZL 230650Z AUTO 06004KT 9999NDV SCT089 16/15 Q1013 RMK BLU LSZR 230650Z 28006KT CAVOK 15/11 Q1016 NOSIG RMK B MMAA 230644Z 19005KT 5SM -RA SCT015CB OVC070 24/24 A2994 RMK 60505 8/96/ LSZS 230650Z VRB01KT 9999 FEW020 SCT042 BKN050 08/08 Q1017 R03/19//// FXMM 230700Z 00000KT CAVOK 06/M02 Q1022 NOSIG YELD 230700Z AUTO 36011KT //// // ////// 28/20 Q1012 CAHR 230700Z AUTO 03007KT 16/11 RMK AO1 SLP189 T01550114 58010 BIRK 230700Z 27007KT 9999 FEW025 BKN030 10/04 Q1015 MMAN 230440Z 10014KT 15SM SKC 27/19 A3004 GOOD 230700Z 00000KT 9999 FEW013 BKN230 26/25 Q1011 YFBS 230700Z AUTO 20003KT //// // ////// 18/09 Q1026 GOOG 230700Z 28002KT 9999 SCT013 SCT130 26/24 Q//// MMAS 230444Z 05004KT 10SM BKN090 OVC250 17/09 A3028 RMK 8/037 MMCB 230142Z 00000KT 8SM BKN020 BKN100 24/14 A3012 RMK 8/530 HZY LUKK 230700Z 11003KT 030V160 9999 BKN039 16/11 Q1020 R08/CLRD65 NOSIG GOOK 230700Z 00000KT 9999 FEW016 SCT130 25/24 Q1012 FYGB 230500Z AUTO 34003KT //// // ////// 02/M04 Q1024 YFDF 222330Z AUTO 13004KT 9999 // ////// 16/M01 Q1021 MMCE 230145Z 04005KT 5SM OVC030 26/23 A2994 RMK 8/8// VRB COND CBBC 230700Z AUTO 00000KT 9SM BKN170 14/11 A3016 RMK SLP215 FYGF 230500Z 27003KT 9999 FEW100 05/M05 Q1024 YEML 230700Z AUTO 18012KT 9999 // NCD 24/07 Q1019 MMBT 222340Z 30010KT 4SM RA OVC010 25/22 A2996 RMK 8/7// MMCL 230443Z 00000KT 10SM SCT020 BKN100 29/22 A2987 RMK 8/460 LTGIC NE OCNL MMCM 230146Z 12010KT 7SM SCT020 29/24 A2994 RMK 8/500 RTS MMCN 230245Z 29004KT 10SM BKN200 30/23 A2981 RMK SLP095 8/008 HZY ISOL SC MMCP 230444Z 00000KT 5SM FEW020 OVC040CB 24/23 A2997 RMK 8/3// HZY NCMH 230700Z AUTO 07006KT //// ///// 27/22 Q1012 GOOY 230700Z 23004KT 190V270 9999 SCT007 27/24 Q1011 NOSIG MMCS 230250Z 20007KT 10SM FEW070 SCT120 BKN200 23/17 A3004 RMK SLP067 55003 911 8/072 MSGTX MMMY MMCT 222048Z 26010KT 8SM BKN015CB 33/23 A2992 RMK 8/300 MSGTX MMMD MMCU 230649Z 22004KT 10SM SCT090 BKN200 19/15 A3015 RMK 8/072 MMCV 230641Z 15005KT 8SM SKC 25/19 A3001 RMK HZY MMDO 230242Z 19007KT 6SM SCT050 BKN100 BKN200 18/12 A3022 RMK SLP110 52013 974 8/463 RTS MMCZ 230648Z 00000KT 7SM SCT015 24/24 A2995 RMK 8/500 CB N/S RTS BIVM 221812Z 27015KT CAVOK 12/09 Q1019 MMEP 230148Z 16003KT 8SM SCT009 BKN100 23/19 A3007 RMK 8/470 LTG DSNT S CONT SC LWR 3 QUAD GOSM 230700Z 30004KT 9999 BKN016 26/23 Q1012 GOSP 230700Z 28004KT 9999 SCT010 BKN116 27/24 Q1011 GOSS 230700Z 28006KT 9999 BKN011 28/25 Q1011 MMGL 230652Z 06007KT 10SM FEW090 SCT300 18/14 A3017 RMK 8/032 MMGM 230150Z 20008KT 10SM SKC 32/27 A2978 FYKM 221500Z 00000KT CAVOK 32/04 Q1015 MMIA 230351Z 29008KT 6SM SCT200 22/21 A3002 RMK 8/001 YERN 230700Z AUTO 15009KT //// // ////// 24/01 Q1023 FYKT 221200Z 06004KT CAVOK 19/M02 Q1022 GOTT 230700Z 20008KT 9999 OVC016 25/22 Q1012 MMHO 230342Z 00000KT 10SM SKC 31/22 A2991 RMK HZY NCPY 230700Z AUTO ///// //// ///// 26/22 Q1012 NCRG 230700Z 23018KT 9999 -DZ SCT015 22/18 Q1012 RMK SUSPECT WIND SHEAR ON APPROACH FYML 230700Z AUTO 00000KT //// // ////// 14/M08 Q1025 YESP 230700Z AUTO 34011KT 9999 // NCD 19/07 Q1023 MMIO 230640Z 09008KT 10SM SKC 22/14 A3019 YGBI 230700Z AUTO 08009KT //// // ////// 27/12 Q1012 YEST 230700Z 34009KT CAVOK 21/03 Q1023 FYLZ 230500Z AUTO 22001KT //// // ////// 07/06 Q1018 MMIT 222200Z 36013KT 6SM FEW020TCU SCT180 33/20 A2984 RMK 8/202 HZ FYOA 230500Z 16005KT CAVOK 12/M08 Q1018 YGAY 230700Z AUTO 17010KT //// // ////// 18/12 Q1020 MNBL 222300Z 09004KT 9999 SCT018 SCT080 28/27 Q1010 YGDH 230700Z AUTO 11010KT //// // ////// 18/08 Q1025 FYOO 230500Z AUTO 14005KT //// // ////// ///// Q//// MNCH 222300Z 22004KT 9999 SCT025 33/22 Q1008 MMMA 230242Z 09010KT 7SM SCT200 29/25 A3001 RMK SLP156 50010 963 8/006 HZY MMLM 230240Z 29005KT 10SM SCT100 BKN220 30/22 A2985 RMK SLP108 8/034 DSNT CB NE MMMD 230650Z 00000KT 7SM FEW070 SCT300 23/23 A2996 RMK 8/078 FYOW 230500Z AUTO 11005KT //// // ////// 12/M00 Q1020 MMLO 230550Z 03006KT 8SM SCT030 18/12 A3031 RMK SLP126 52016 956 8/500 HZY MMLP 230440Z 14003KT 10SM FEW220 29/21 A2990 RMK 8/005 YGEL 230700Z 18009KT 9999 FEW042 22/12 Q1020 MMLT 230042Z 18005KT 8SM SCT030 SCT050 BKN070 32/24 A2981 RMK 8/920 CB NW MMML 230648Z 00000KT 10SM SKC 29/13 A2984 MMMM 230647Z 00000KT 7SM BKN030 BKN080 15/14 A3025 RMK 8/530 MMMT 230053Z 33015KT 10SM SCT180 28/20 A2991 RMK 8/001 MMNL 230243Z 15013KT 10SM SKC 34/16 A2993 RMK SLP158 54007 960 YGFN 230713Z AUTO 18005KT 150V210 5000 // SCT025 SCT036 BKN056 15/14 Q1026 MMMV 222140Z 06010KT 8SM FEW070 37/// A2992 RMK 8/010 HZY SKBG 230400Z VRB02KT 9999 FEW010 SCT070 21/18 A3000 FYRN 230500Z 18007KT CAVOK 11/00 Q1020 MMMX 230644Z 30008KT 12SM SCT020 SCT200 16/11 A3034 NOSIG RMK 8/502 MMMY 230642Z 11005KT 12SM SKC 26/18 A3000 SKAR 230400Z 00000KT 9999 BKN025 19/18 A3011 MMMZ 230643Z 10007KT 10SM SCT090 OVC220 25/24 A2984 RMK 8/077 HZY MMPA 230144Z 06006KT 5SM BKN280 27/24 A3003 RMK 8/008 HZY CB-TCU ARND MMPB 230443Z 32004KT 10SM BKN090 OVC220 14/11 A3041 RMK 8/037 SKCC 230400Z 18016KT 9999 SCT022 SCT200 28/20 A2990 RMK LTNG/N SKBO 230700Z VRB02KT 9999 FEW017 BKN023 12/10 A3029 SKCG 230600Z VRB02KT 9999 FEW013 SCT200 27/24 A2983 MMPG 222340Z 12014KT 8SM SKC 38/12 A2990 RMK HZY SKBQ 230700Z VRB02KT 9999 SCT012 26/25 A2980 SKCL 230700Z 02007KT 9999 FEW025 BKN090 22/18 A2997 MMPN 222340Z 18006KT 12SM TS SCT030CB BKN250 22/16 A3013 RMK 8/908 HZY AC TSRA 1-4QUAD MMOX 230245Z 11005KT 7SM FEW040 SCT200 21/10 A3024 RMK SLP100 52005 965 8/408 MMPQ 222341Z 09010KT 5SM SCT030CB BKN200 29/22 A2975 RMK 8/308 HZY MSGTX MMMD MMPR 230649Z 01006KT 10SM SCT250 25/23 A2987 RMK 8/008 MMPS 222341Z 18010KT 5SM RA OVC010 27/24 A3006 RMK SLP156 57016 966 8/7// HZY K01M 230715Z AUTO 00000KT 10SM CLR 23/22 A3001 RMK AO2 T02250222 SKEJ 222300Z 09006KT 9999 SCT010TCU SCT070 32/23 A2978 RMK TCU/E MMQT 230545Z 06008KT 10SM FEW035 SCT120 16/14 A3033 RMK 8/530 BKPR 230730Z VRB01KT 9999 FEW040 21/16 Q1018 NOSIG FYWB 230500Z AUTO 05003KT //// // ////// 09/08 Q1019 MMSD 230340Z 33002KT 10SM FEW030 SCT250 26/24 A2990 RMK 8/808 AC FYWE 230500Z 13006KT CAVOK 06/M07 Q1024 MNJG 222300Z 00000KT 8000 -DZ BKN018 24/19 Q1012 YGLA 230700Z AUTO 17006KT 9999 // SCT048 22/12 Q1018 YGLB 230700Z AUTO 09005KT //// // SCT037 SCT073 OVC086 11/09 Q1029 FYWH 230500Z 27009KT CAVOK 03/M09 Q1024 NOSIG TAPA 230700Z 10006KT 9999 FEW016 27/24 Q1013 NOSIG GQNI 221600Z 28010KT CAVOK 36/19 Q1010 MMTB 222148Z 34008KT 7SM SCT020 SCT070 BKN200 29/19 A2986 RMK 8/236 MMSL 230142Z 32005KT 12SM BKN025 BKN120 OVC250 27/24 A2991 RMK 8/527 MMTC 230347Z 03004KT 10SM SKC 27/03 A3003 YHAY 230700Z AUTO 05010KT //// // ////// 21/05 Q1025 MMRX 230641Z 14005KT 8SM BKN010 26/22 A2999 RMK 8/500 HZY GQNN 230716Z 09028G40KT 0300 +TSRA BKN010 FEW020CB 22/21 Q1013 NOSIG YGLI 230700Z AUTO 11012KT //// // ////// 10/06 Q1026 MMTG 230547Z 00000KT 8SM FEW015 BKN080 BKN250 22/20 A3001 RMK SLP128 51006 957 8/578 HZY MMSP 230642Z 14008KT 10SM SCT025 17/13 A3030 RMK 8/500 MMTJ 230647Z 00000KT 7SM SKC 20/16 A2998 RMK HZY GQPA 230600Z 02012KT 4000 BLDU NSC 33/17 Q1012 MNJU 222300Z 00000KT 9999 FEW020CB SCT300 31/25 Q1011 CB/N ETCU/NE MMTM 230343Z 00000KT 7SM FEW010 SCT200 25/21 A3003 RMK 8/108 HZY YFTZ 230700Z AUTO 09011KT //// // ////// 31/M09 Q1015 MMTO 230645Z 15005KT 5SM SCT015 BKN070 10/07 A3043 RMK 8/570 HZ FYWW 230500Z AUTO 10008KT //// // ////// 08/M08 Q1024 MMTP 230641Z 00000KT 7SM OVC100 22/21 A2993 RMK 8/05/ YGLS 230700Z 01005KT CAVOK 26/M09 Q1022 SKIB 230100Z 30005KT 9999 FEW020 SCT200 24/16 A2998 MMVA 230445Z 00000KT 7SM BKN060 26/22 A2999 RMK 8/020 DSNT CB 3 QUAD MMUN 230645Z 00000KT 7SM FEW015 SCT300 26/25 A2996 RMK 8/508 K04V 230715Z AUTO 11003KT 10SM SCT021 BKN027 OVC041 11/10 A3026 RMK AO2 K06D 230715Z AUTO 04010KT 7SM OVC005 13/13 A3016 RMK AO2 K04W 230719Z AUTO 03003KT 10SM BKN017 OVC025 17/17 A3003 RMK AO2 MNMG 230600Z 12004KT 9999 FEW020 26/24 Q1011 A2988 NOSIG GQPP 230700Z 32011KT 6000 FEW006 BKN130 22/17 Q1012 NOSIG SKIP 222300Z 07003KT 9999 SCT020 BKN080 11/07 A3041 MMVR 230342Z 36004KT 7SM FEW012 SCT250 26/24 A3000 RMK 8/102 HZY GQPZ 230700Z 32008KT 8000 NSC 25/11 Q1012 K08D 230715Z AUTO 07009G14KT 10SM OVC009 14/14 A3014 RMK AO2 LWOH 230700Z 00000KT CAVOK 23/14 Q1019 SLCA 222300Z 00000KT 8000 NSC 28/14 Q1009 SLCB 230700Z 00000KT 8000 NSC 10/04 Q1024 SKLC 222300Z 00000KT 9000 VCSH SCT025 OVC090 27/26 A2979 REDZ RMK VCSH/E LXGB 230650Z 23007KT 9999 FEW027 23/15 Q1015 NOSIG MNPC 222300Z 07010KT 7000 SCT016 30/26 Q1010 HZ NFFN 230700Z 23002KT 9999 FEW030 SCT050 24/19 Q1015 NOSIG YHID 230700Z AUTO 12017G27KT //// // OVC085 27/19 Q1011 SKMD 222300Z 23005KT 9999 VCSH SCT030 FEW035CB SCT200 24/15 A2998 RMK CB VCSH/SE MMZC 230646Z 00000KT 10SM SKC 15/09 A3031 SLCO 222200Z 00000KT 4000 FU NSC 30/21 Q1010 SLCP 222200Z 36006KT 9999 NSC 30/15 Q1013 MMZH 230140Z COR 06007KT 7SM SCT020 BKN100 BKN250 25/22 A2986 RMK 8/463 SKLT 230600Z 00000KT 9999 BKN010 25/25 A2986 MMZO 230145Z 06005KT 10SM SCT250 29/24 A2979 RMK 8/004 SKMR 230100Z 00000KT 9999 SCT020 SCT100 28/24 A2978 K11R 230715Z AUTO 16004KT 10SM CLR 26/24 A3000 RMK AO2 T02550236 YGTE 230700Z AUTO 05003KT 9999 // NCD 29/14 Q1013 YGTH 230700Z AUTO 07006KT 9999 // NCD 19/05 Q1026 K12N 230654Z AUTO 00000KT 17/16 A3005 RMK AO1 SLP172 T01720156 SKMZ 222200Z 00000KT 9000 HZ SCT010 BKN080 19/XX A3023 RMK HZ/W REDZ YHLC 230700Z 10008G18KT CAVOK 28/M15 Q1017 MNRS 222300Z 10008KT 9999 FEW018CB SCT200 28/23 Q1009 CB/NE/E/SE/S/NW SLET 222300Z 33014G25KT 9999 NSC 28/15 Q1008 TBPB 230700Z 06006KT 9999 VCSH FEW914CB BKN016 BKN280 26/25 Q1012 NOSIG SKPC 222200Z 00000kt 9999 vc h few017 bkn070 27/24 a2980 rmk vc h/w LWSK 230700Z VRB01KT CAVOK 24/17 Q1016 NOSIG YGTN 230700Z AUTO 14005KT //// // ////// 29/08 Q1014 SKNV 230100Z 20008KT 9999 FEW035 SCT110 31/14 A2980 SKPE 230500Z VRB02KT 9999 FEW012 SCT070 20/18 A3014 LYBE 230700Z VRB02KT 8000 NSC 23/18 Q1015 NOSIG MPBO 230300Z 00000KT 9999 FEW016 OVC080 Q1014 SKPS 222300Z 05006KT 9999 SCT030 BKN080 21/10 A3012 YHML 230700Z AUTO 30011KT 9999 // SCT044 BKN054 OVC064 09/09 Q1022 MPDA 230300Z 00000KT 8000 -TSRA SCT016CB BKN100 ///// Q1012 RWY WATER PATCHES LYBT 230700Z VRB02KT CAVOK 23/17 Q1015 NOSIG SKPV 230000Z VRB02KT 9999 FEW017 BKN200 28/25 A//// SKRG 230700Z 25004KT 7000 VCFG BKN010 SCT200 14/13 A3026 SKRH 230000Z 30008KT 9999 FEW020 SCT200 28/25 A2981 K14Y 230718Z AUTO 09003KT 1SM BR OVC003 19/18 A3004 RMK AO2 NFNA 230700Z 15004KT 9999 SCT023 22/18 Q1017 K0A9 230715Z AUTO 00000KT 10SM SCT029 BKN075 19/19 A3005 RMK SLJE 222200Z 36006KT 9999 NSC 31/18 Q1011 SKSM 230300Z 00000KT 9000 DZ FEW020 BKN070 27/25 A2983 YHOO 230700Z AUTO 12010KT //// // ////// 28/M05 Q1016 SLJO 222200Z 00000KT 8000 NSC 31/21 Q1010 SKSP 230700Z 06005KT 9999 FEW017 OVC200 28/25 A2983 REDZ YHOT 230700Z AUTO 32007KT 9999 // ////// 09/01 Q1028 SKUC 230100Z 00000KT 9999 SCT025 25/24 A2990 K19A 230715Z AUTO 00000KT 10SM CLR 25/18 A3000 RMK AO2 TDCF 230000Z 07003KT 9999 SCT016 SCT040 26/23 Q1013 SKUI 230000Z 00000KT 3000 -DZ OVC005 24/24 A2986 RMK AD OPR IMC NGFU 230700Z 10013KT 9999 FEW020 BKN310 28/25 Q1011 K0E0 230715Z AUTO 00000KT 10SM SCT110 12/11 A3021 RMK AO2 T01200106 K21D 230711Z AUTO 04006KT 7SM OVC003 20/20 A3001 RMK AO2 SLMG 222300Z 00000KT 9999 NSC 27/20 Q1010 SLLP 230700Z 00000KT 9999 NSC M02/M10 Q1036 YJAB 230700Z AUTO 10006KT 050V140 //// // ////// 33/M04 Q1011 K20U 230715Z AUTO 09016G24KT 2 1/2SM BR 16/16 A3004 RMK AO2 K20V 230717Z AUTO 19004KT 10SM SCT100 11/08 A3016 RMK AO2 K0F2 230715Z AUTO 14003KT 10SM CLR 26/18 A2997 RMK AO2 T02600175 SKVP 230100Z 30007KT 9000 FEW020CB SCT070 24/23 A2989 RMK LTNG/TCU/S/SW K0CO 230715Z AUTO 31010KT 1/4SM RA OVC001 01/00 A3045 RMK AO2 LTG DSNT W P0004 YHSM 230700Z AUTO 26013KT //// // OVC077 12/07 Q1023 SKVV 222300Z 00000KT 9999 SCT020 23/21 A2991 RERA HKEL 230700Z 01005KT 9999 SCT020 SCT090 BKN250 21/12 HKEM 221900Z 00000KT 9999 BKN020 19/14 YHUG 230700Z AUTO 15010KT //// // ////// 27/03 Q1017 NFTF 230700Z 15004KT 9999 SCT016 19/11 Q1018 SLOR 222300Z 16006KT 9999 FEW015 10/M07 Q1033 HKGA 230100Z 14006KT CAVOK 24/20 Q1012 K24J 230715Z AUTO 00000KT 5SM CLR 27/27 A2999 RMK AO1 NFTL 230600Z 11012KT 9999 FEW009 SCT018 BKN100 21/14 Q1016 SLPO 222100Z 23014KT 9999 NSC 14/M03 Q1034 SLPS 222300Z 09006KT 9999 SCT030 28/24 Q1010 SLRB 222300Z 36004KT 9999 NSC 26/23 Q1011 NFTV 230600Z 12008KT 9999 FEW018 21/17 Q1015 LYKV 230700Z VRB01KT 4000 BR BKN005 18/18 Q1016 BECMG 6000 NSW MPMG 230300Z 31004KT 9999 FEW018 SCT080 26/24 Q1012 NOSIG K0J4 230658Z AUTO 00000KT 9SM CLR 26/23 A3001 RMK AO2 SLP156 T02560233 SLRI 222300Z 00000KT 5000 FU NSC 30/21 Q1010 K1A5 230715Z AUTO 00000KT 3/4SM BR 18/18 A3010 RMK AO2 T01760176 SLSA 222300Z 32004KT 6000 FEW023 SCT200 29/20 Q1008 K1A6 230715Z AUTO 00000KT 10SM SCT032 SCT049 22/22 A3002 RMK AO2 T02200215 K1A9 230715Z AUTO 00000KT 10SM CLR 24/23 A2998 RMK AO2 T02390231 SLRQ 222200Z 36004KT 9999 NSC 30/24 Q1009 SLSI 222300Z 00000KT 9999 NSC 29/19 Q1010 LYNI 230700Z 27001KT 9999 FEW020 21/18 Q1016 SLRY 222200Z 34004KT 9999 NSC 32/17 Q1010 SMJP 230700Z 27003KT 9999 -RA SCT025 24/23 Q1011 NOSIG SLTJ 230100Z 14008KT 9999 NSC 19/11 Q1016 MPPA 230300Z 00000KT 9999 FEW020 Q1011 SLSU 222300Z 27003KT 9999 FEW020 18/02 Q1024 K28J 230715Z AUTO 26003KT 10SM OVC018 23/23 A2998 RMK AO2 HKJK 230700Z 20003KT 9999 FEW021 BKN080 20/15 Q1022 LYPG 230700Z 35004KT 310V040 9999 FEW040 26/15 Q1015 NOSIG HKKG 230400Z 00000KT CAVOK 14/14 SLTR 222300Z 34003KT 5000 FU NSC 29/18 Q1009 HKKI 230700Z 07009KT 9999 FEW021 BKN090 24/16 Q1020 ZBAA 230700Z 16003MPS 130V220 CAVOK 32/19 Q1003 NOSIG HKKR 230000Z 11004KT CAVOK 13/12 HKMA 230400Z 18006KT SKC 25/19 HKKS 230700Z 0/0KT 9/9 FEW018 BKN080 19/16 LZIB 230700Z 05004KT 9999 FEW015 18/14 Q1016 NOSIG SLVM 222100Z 00000KT 6000 NSC 36/14 Q1003 HKKT 230700Z 32008KT FEW020 BKN080 20/14 K1F0 230715Z AUTO 00000KT 10SM CLR 24/18 A2996 RMK AO2 HKME 230400Z 26003 CAVOK 13/11 HKLO 230400Z 36006KT CAVOK 26/18 SLVR 230700Z 36008KT 9999 FEW070 19/17 Q1009 HKLU 221300Z 14005KT 9999 SCT026 29/21 HKNC 230700Z 00000KT 9999 SCT022 BKN080 22/13 Q023 HKML 230700Z 12010KT 9999 SCT023TCU 27/22 Q1014 HKMO 230700Z 15010KT 9999 BKN021 27/21 Q1015 NOSIG GUCY 230700Z 19006KT 9999 BKN013 BKN110 25/24 Q1014 RERA NOSIG SLYA 222300Z 00000KT 9999 NSC 24/13 Q1006 YJLC 230700Z AUTO 15011KT //// // ////// 30/03 Q1016 HKNI 222200Z 24002KT SKC 16/13 TDPD 230300Z 15003KT 9999 BKN017 28/24 Q1014 HKNK 230700Z 00000KT 9999 FEW019 SCT080 19/13 HKMU 230400Z 00000KT 9999 BKN020 20/17 K1H2 230710Z AUTO 00000KT 5SM BR SCT060 25/23 A2996 RMK AO2 T02480230 CERM 230700Z AUTO 34001KT 10/09 RMK AO1 SLP213 T00980091 55001 HKNO 230400Z 33006KT CAVOK 10/09 HKMY 230700Z 17004KT 9999 BKN018 21/17 K0R0 230715Z AUTO 7SM CLR 23/23 A3000 RMK AO2 K33V 230715Z AUTO 15008KT 10SM SCT080 OVC110 10/06 A3015 RMK AO2 HKNW 230700Z 00000KT 9999 SCT022 BKN080 20/16 Q1021 MPTO 230700Z 00000KT 8000 -RA SCT018CB BKN090 25/24 Q1011 RWY WET NOSIG NGTT 230700Z 14008KT 9999 FEW020 29/23 Q1009 K1J0 230712Z AUTO 00000KT 2 1/2SM BR CLR 24/24 A2999 RMK AO2 RAE06 T02390239 PNO $ YIVO 230700Z AUTO 01003KT //// // ////// 22/06 Q1024 LYTV 230700Z VRB01KT 9999 FEW030 25/20 Q1014 NOSIG LZKZ 230722Z VRB01KT CAVOK 20/13 Q1016 LYUZ 230700Z 23005KT 180V270 CAVOK 19/18 Q1018 LYVR 230700Z 14012KT 110V180 9999 FEW033 24/16 Q1015 NOSIG K1II 230715Z AUTO 00000KT 1/4SM FG VV002 20/19 A2999 RMK AO2 K1L0 230715Z AUTO 00000KT 5SM BR CLR 26/25 A3000 RMK AO2 T02620248 GVAC 230700Z 34006KT 9000 SCT015 BKN200 25/23 Q1012 NOSIG K36U 230715Z AUTO 00000KT 10SM CLR 11/10 A3007 RMK AO2 LTG DSNT SE SOCA 230700Z AUTO 23002KT 9999 FEW018/// OVC100/// ///TCU 24/23 Q1011 GVBA 230700Z 11002KT 9999 BKN015 25/22 Q1013 NOSIG K2C8 230715Z AUTO 36010G14KT 10SM OVC006 15/14 A3011 RMK AO2 K40B 230716Z AUTO 00000KT 09/09 A3016 RMK AO1 SLP214 T00940093 57003 ZBHH 230700Z 34004MPS 270V020 9999 TS SCT040 FEW040CB 23/11 Q1012 BECMG TL0830 NSW K1M4 230656Z AUTO 00000KT 10SM CLR 22/22 A3006 RMK AO2 T02220222 SLP191 K0V4 230715Z AUTO 3SM BKN019 OVC027 24/24 A2996 RMK AO1 T02400240 K2D5 230715Z AUTO 04009KT 10SM 18/18 A3004 RMK AO2 K40J 230715Z AUTO 00000KT 10SM CLR 24/22 A2997 RMK AO2 YKII 230700Z AUTO 05015KT 9999 // SCT064 SCT080 15/10 Q1022 LZPP 230700Z VRB02KT CAVOK 17/14 Q1016 K0VG 230715Z AUTO 00000KT 10SM 21/21 A3006 RMK AO2 YLBD 230700Z AUTO 09003KT 9999 // NCD 29/M00 Q1014 K42J 230715Z AUTO RMK AO1 TSNO MSAC 222050Z 29010KT 9999 VCSH SCT033 FEW037CB 31/26 Q1010 A2984 K1P1 230715Z AUTO 00000KT 10SM OVC001 15/15 A3013 RMK AO2 T01490149 TFFF 230700Z AUTO 02002KT 9999 NSC 26/25 Q1012 HKVO 230700Z 18006KT 9999 BKN023 25/18 K2G4 230720Z AUTO 00000KT 5SM HZ SCT003 SCT013 SCT095 18/ A3007 RMK AO1 K2DP 230656Z AUTO M 6SM BR BKN050 23/22 A2994 RMK AO2 SLPNO T02290218 $ HKWJ 230500Z 15009KT 9999 BKN020 24/19 Q1012 LZSL 230700Z VRB02KT 9000 4000N FEW005 SCT035 13/12 Q1017 TFFR 230700Z AUTO 13004KT 9999 FEW018 BKN190 OVC220 26/23 Q1012 MRLB 230200Z 12004KT CAVOK 27/20 A2987 K2I0 230715Z AUTO 04006KT 10SM SCT007 BKN031 OVC080 25/25 A3001 RMK AO2 T02540245 YLEC 230700Z AUTO 27003KT //// // ////// 24/M00 Q1024 K1R7 230715Z AUTO 00000KT 4SM BR CLR 23/23 A3003 RMK AO2 LZTT 230700Z VRB02KT CAVOK 15/11 Q1017 NOSIG MRLM 222100Z 03007KT 9999 FEW035 BKN120 30/22 A2983 YKMP 230700Z AUTO 22004KT //// // ////// 15/13 Q1027 SMZO 230000Z 09005KT 9999 FEW015 27/24 Q1012 NOSIG K46D 230715Z AUTO 04009KT 10SM OVC022 16/16 A3011 RMK AO2 K2J9 230655Z AUTO 00000KT 8SM SCT050 24/23 A3000 RMK AO1 YLEO 230700Z AUTO 34006KT 9999 // SCT082 26/06 Q1021 YKNT 230700Z AUTO 10008KT //// // ////// 28/M06 Q1020 MROC 230700Z 03003KT 9999 FEW035 BKN090 21/18 A3004 NOSIG YKOW 230700Z AUTO 11005KT 090V180 //// // BKN080 32/12 Q1012 YLHI 230700Z AUTO 09018KT 9999 // NCD 17/08 Q1027 K1V4 230654Z AUTO 16/16 A3012 RMK AO1 SLP193 T01610156 K1V6 230710Z AUTO 23006KT 10SM CLR 14/11 A3005 RMK AO2 SPCL 230700Z VRB02KT CAVOK 23/21 Q1011 RMK PP000 YLHR 230700Z AUTO 13013KT //// // SCT019 BKN037 OVC061 26/20 Q1013 LZZI 230700Z VRB02KT 9999 BKN028 15/13 Q1017 YKSC 230700Z AUTO 24016KT 9999 // NCD 15/08 Q1024 AYNZ 230700Z 09019KT 9999 FEW025 SCT035CB SCT140 28/23 Q1008 RMKS MRPV 230000Z 09008KT 9999 VCFG FEW030 BKN100 22/16 A3000 NOSIG YMBA 230700Z AUTO 15011KT //// // ////// 23/13 Q1017 YLIS 230700Z AUTO 23006KT 9999 -RA SCT032 SCT042 BKN053 15/15 Q1024 ZBSJ 230700Z 13003MPS 070V190 CAVOK 32/22 Q1003 NOSIG OAHR 230654Z 36006KT CAVOK 34/01 Q1012 RMK SKC VIS MIN 9999 BLU YMBD 230700Z AUTO 27015KT //// // ////// 16/05 Q1024 YKRY 230700Z AUTO 15012KT //// // ////// 13/11 Q1022 ZBTJ 230700Z 23003MPS 180V270 3000 HZ FEW050CB 31/21 Q1003 NOSIG AYPY 230700Z 18020KT SCT012 FEW018CB 27/23 Q1008 RMKS YMAV 230700Z AUTO 04012KT 9999 // SCT082 17/10 Q1023 OAKB 230650Z VRB02KT 8000 FEW050 29/10 Q1017 NOSIG RMK BLU BLU YLLE 230700Z AUTO 12010KT //// // ////// 24/03 Q1022 YMAY 230700Z AUTO 31004KT 9999 // NCD 18/08 Q1026 GVNP 230700Z 02006KT 9999 FEW020 25/25 Q1013 NOSIG OBBI 230700Z 28008KT CAVOK 40/11 Q1001 NOSIG K54J 230715Z AUTO 29003KT 10SM CLR 26/24 A2999 RMK AO2 T02550239 SPGM 222100Z 03005KT CAVOK 29/19 Q1012 RMK TMX.32.0 PP000 YMCO 230700Z AUTO 03009KT //// // ////// 16/11 Q1028 NIUE 230300Z 19011KT 9999 BKN018 24/17 Q1013 YMDG 230700Z AUTO 14006KT //// // SCT063 16/07 Q1027 K3I2 230715Z AUTO 24003KT 4SM BR OVC004 23/22 A2998 RMK AO2 OAKN 230655Z VRB03KT 9999 SKC 36/M07 Q1010 RMK A2983 DA6606 BLU SPHI 230700Z 17009KT 9999 OVC012 17/15 Q1014 RMK PP000 SPHO 222300Z /////KT CAVOK 22/06 Q1022 RMK PPOOO MSLP 230650Z 07004KT 040V100 CAVOK 26/24 Q1011 A2988 YMEK 230700Z AUTO 01006KT 9999 // NCD 28/M01 Q1020 K4A6 230715Z AUTO 00000KT 9SM CLR 23/22 A3002 RMK AO2 K3J7 230715Z AUTO 00000KT 10SM CLR 23/21 A2995 RMK AO2 MSLU 222250Z 22105KT CAVOK 33/22 Q1007 A2975 YMEN 230700Z AUTO 01012KT 9999 // NCD 17/09 Q1024 K1YT 230656Z AUTO 11006KT 10SM CLR 17/09 A3009 RMK AO2 SLPNO T01680091 SPIM 230700Z 15013KT 9999 FEW010 OVC017 16/12 Q1015 NOSIG RMK PP000 K4A9 230715Z AUTO 00000KT 7SM CLR 21/19 A3002 RMK AO2 SPHY 221900Z 01010KT CAVOK 16/02 Q1034 RMK PP000 YMER 230700Z AUTO 03007KT 9999 // SCT018 15/12 Q1029 YMES 230700Z AUTO 10008KT 9999 // NCD 14/09 Q1026 SPJI 222100Z /////KT CAVOK 33/21 Q1018 RMK T.MAX 34.3 PP000 YMGB 230700Z AUTO 01005KT //// // ////// 29/14 Q1012 OAMS 230650Z 31006KT 9999 FEW220 37/M03 Q1008 BLU+BLU+ YMGD 230700Z AUTO 04009KT 9999 // NCD 29/08 Q1011 SPJL 230200Z 21005KT CAVOK 08/M01 Q1037 RMK PP000 SPJR 222300Z 16004KT CAVOK 18/07 Q1025 RMK PP000 YMHB 230700Z 04011KT 9999 FEW050 15/09 Q1027 ZBYN 230700Z 17003MPS 140V200 9999 FEW040 FEW040TCU 29/11 Q1007 NOSIG AYWK 230100Z FEW140 SCT140 BKN300 28/25 Q1011= YMIA 230700Z AUTO 34009KT 9999 // NCD 23/M01 Q1023 K2V5 230715Z AUTO 00000KT 10SM A2996 RMK AO2 YLRE 230700Z 14011KT CAVOK 25/M03 Q1019 SPME 230300Z 28004KT 240V330 9999 BKN015 22/20 Q1014 RMK BIRD HAZARD RWY 32/14 PP000 SPLO 222100Z 17008KT 9999 OVC025 17/13 Q1014 RMK TMAX 18.6 PP000 GVSV 230700Z 07008KT 9999 BKN017 26/21 Q1013 NOSIG K3LF 230715Z AUTO 12007KT 5SM BR CLR 25/25 A2995 RMK AO2 T02500245 K2W6 230720Z AUTO 00000KT 10SM SCT017 21/18 A2999 RMK AO1 YMHU 230700Z AUTO 05010KT 9999 // NCD 31/09 Q1013 K3N8 230715Z AUTO 00000KT 1/2SM FG OVC003 19/19 A3004 RMK AO2 T01900190 YMIN 230700Z AUTO 27012KT //// // ////// 14/09 Q1025 SPMS 222300Z 00000KT 8000 SCT015 27/23 Q1011 HZTE BRUMOSO RMK BIRD HAZARD 09/27 PP000 MSSA 222350Z 28007KT 9999 FEW033 27/20 Q1016 A3001 YNAR 230700Z AUTO 04005KT //// // ////// 17/08 Q1027 YLST 230700Z AUTO 31007KT 9999 // SCT105 27/05 Q1020 YLTN 230700Z AUTO 35004KT //// // ////// 25/08 Q1022 MSSM 230050Z 22005KT CAVOK 28/23 Q1008 A2979 DAAD 230700Z 26004KT 8000 SCT033 BKN080 30/11 Q1016 YNBR 230700Z AUTO 14004KT //// // ////// 19/09 Q1025 DAAE 230700Z 12008KT 9999 FEW020TCU SCT090 26/19 Q1016 YMMB 230700Z AUTO 03011KT 9999 // NCD 19/09 Q1024 DAAG 230700Z 24003KT 240V330 9999 FEW020 SCT086 25/15 Q1016 MSSS 230550Z 33003KT 9999 TS FEW040 CB SCT047 23/22 Q1016 A3001 YLTV 230700Z AUTO 04005KT 9999 // NCD 16/10 Q1025 DAAJ 230700Z 12014KT CAVOK 29/11 Q1019 DABB 230700Z 20004KT 160V260 9999 FEW040 BKN100 24/21 Q1014 DABC 230630Z 34003KT 9999 FEW040 SCT100 25/14 Q1019 MUCF 222352Z 08008KT 9000 FEW020CB FEW025 BKN180 28/23 Q1015 K4I3 230715Z AUTO 35005KT 7SM CLR 21/21 A2998 RMK AO2 K2WX 230656Z AUTO 08017KT 18/16 A2993 RMK AO1 SLP119 T01780156 402220144 YMLT 230700Z AUTO 36011KT 9999 // SCT041 BKN047 13/08 Q1027 DAAP 230700Z 11010KT CAVOK 28/M01 Q1014 YMML 230700Z 02014KT 9999 FEW036 BKN180 17/09 Q1024 FM0700 MOD TURB BLW 5000FT K4I7 230715Z AUTO 00000KT 7SM CLR 21/21 A2999 RMK AO2 K3R7 230715Z AUTO 00000KT 10SM CLR 25/25 A3000 RMK AO2 T02530250 YMNE 230700Z AUTO 33008KT 9999 // SCT095 27/03 Q1021 MUCL 230705Z AUTO 06013KT 28/XX Q1012 DAAS 230500Z 34004KT 9999 FEW030 21/09 Q1020 DAAT 230700Z 17013KT 3000 HZ NSC 24/03 Q1021 MUCM 230650Z 05008KT 9000 FEW020 25/23 Q1013 YMNG 230700Z AUTO 04011KT 9999 // NCD 16/10 Q1025 DAAV 230700Z 26004KT 9999 FEW023 SCT090 26/22 Q1015 TGPY 230700Z 13012KT 9999 FEW018 28/26 Q1011 DAAY 230700Z 36014KT 8000 FEW030 SCT100 23/14 Q1022 AZUH 230650Z 06008KT 9999 FEW040 28/13 Q1015 SPQT 230700Z 00000KT 8000 BCFG SCT017 SCT100 23/22 Q1011 RMK PP000 K65S 230715Z AUTO 02003KT 10SM SCT120 13/07 A3017 RMK AO2 SPQU 230700Z 06011KT CAVOK 11/M08 Q1026 RMK PP000 YNEN 230700Z AUTO 13008KT 9999 // NCD 27/14 Q1012 DABS 230630Z 02008KT CAVOK 24/17 Q1018 MUCU 230651Z 03005KT 9000 FEW020 26/22 Q1010 DABT 230700Z 00000KT CAVOK 21/11 Q1019 YMOG 230700Z AUTO 34009KT 290V350 //// // ////// 27/06 Q1020 K3T5 230715Z AUTO 20003KT 10SM CLR 26/25 A2999 RMK AO2 T02580246 SPRU 230700Z 14006KT 6000 OVC018 17/14 Q1014 RMK BR PP000 K5C1 230715Z AUTO 16005KT 10SM CLR 23/18 A3006 RMK AO1 SPSO 230700Z 19005KT 6000 SCT013 14/12 Q1015 RMK BIRD PP000 YMOR 230700Z AUTO 09011KT 9999 // SCT088 19/08 Q1025 DAEF 230700Z 10014KT CAVOK 30/M00 Q1014 SPST 230300Z 00000KT 9999 FEW030 25/21 Q1012 RMK BIRD HAZARD RWY 17/35 PP000 SPTN 230700Z 28004KT 8000 SCT007 OVC020 13/11 Q1014 RMK PP000 DAEN 230700Z 00000KT CAVOK 32/M02 Q1013 YMRB 230700Z AUTO 15011KT 9999 // NCD 24/04 Q1018 YNHL 230700Z AUTO 26012KT //// // ////// 12/06 Q1023 DAFH 230700Z 00000KT CAVOK 28/12 Q1018 MUHA 230655Z 00000KT 9000 SKC 23/21 Q1014 SPTU 222300Z 00000KT CAVOK 29/23 Q1008 RMK BIRD HAZARD RWY 01/19 PP000 K4M9 230715Z AUTO 22004KT 8SM CLR 25/24 A2997 RMK AO2 MUGM 230656Z 34009KT 9999 CLR 27/23 A2982 RMK SLP096 T02670233 MUHG 230650Z 01005KT 8000 FEW020 25/23 Q1011 K4O4 230715Z AUTO 19005KT 10SM CLR 23/20 A2999 RMK AO2 YMRY 230700Z AUTO 04006KT 9999 // SCT024 15/13 Q1029 YMTG 230700Z AUTO 36010KT 8000 // SCT025 SCT034 BKN044 12/10 Q1021 YMTI 230700Z AUTO 18004KT 140V220 //// // ////// 26/15 Q1014 K4MR 230656Z AUTO 21005KT 10SM FEW100 BKN150 20/17 A3010 RMK AO2 LTG DSNT S SLP129 T01970167 403250194 K5H4 230715Z AUTO 05011KT 10SM CLR 14/14 A3011 RMK AO2 SPZA 222230Z 23009KT 8000 BLDU NSC 23/10 Q1013 SPYL 222100Z 19016KT CAVOK 22/18 Q1010 RMK TMAX 24.0 PP000 DBBB 230700Z 23011KT 8000 BKN010 BKN100 24/24 Q1013 NOSIG K6A2 230715Z AUTO 30003KT 10SM SCT120 24/22 A3001 RMK AO2 SPZO 230700Z 00000KT 9999 NSC 02/M07 Q1032 RMK PP000 UAAA 230700Z 30003MPS 260V360 9999 NSC 33/M05 Q1009 R88/CLRD65 NOSIG K6B0 230715Z AUTO 16006KT 10SM OVC048 16/16 A3011 RMK AO2 T01640161 UAAH 230700Z 08004MPS 010V160 CAVOK 36/02 Q1010 R05/0///60 NOSIG RMK QFE721/0961 UACC 230700Z 26005MPS CAVOK 36/03 Q1012 R22/0/0070 NOSIG RMK QFE727/0970 DAOB 230700Z 00000KT 9999 FEW026 21/10 Q1020 TJBQ 230650Z 00000KT 10SM SKC 23/22 A2985 RMK LTG DSNT NE AND W - RWY08 ATIS A DAOF 230700Z 02006KT 5000 HZ NSC 31/08 Q1011 YNRC 230700Z AUTO 31013KT //// // ////// 14/10 Q1022 UACK 230700Z 16002MPS 110V210 CAVOK 30/15 Q1010 R02/010070 NOSIG RMK QFE734/0978 K79J 230656Z AUTO 00000KT 9SM CLR 27/24 A3000 RMK AO2 SLP151 T02720239 DAOI 230700Z 00000KT 9999 SCT030 24/11 Q1016 UADD 230700Z 03004MPS 350V060 9999 NSC 33/01 Q1008 R31/0///65 NOSIG RMK QFE699/0932 K5M9 230715Z AUTO 21003KT 10SM CLR 25/24 A2998 RMK AO2 T02520235 UACP 230700Z 27003MPS 220V310 9999 BKN018CB BKN030 OVC100 22/19 Q1010 R23/1/0160 NOSIG RMK QFE745/0994 DAON 230700Z 18002KT 9999 FEW026 23/11 Q1017 DAOO 230700Z 23007KT 9999 FEW023 24/15 Q1016 DAOR 230700Z 00000KT CAVOK 29/13 Q1018 YPAD 230700Z 23012KT 9999 FEW040 15/09 Q1025 NOSIG YPAG 230700Z AUTO 15021KT //// // NCD 18/08 Q1024 DAOV 230700Z 00000KT 9999 FEW033 23/10 Q1018 YNSM 230700Z AUTO 36007KT //// // ////// 20/06 Q1023 OEAB 230700Z 06010KT 9999 SCT020 29/06 Q1022 NOSIG OEAH 230700Z 31011KT CAVOK 43/03 Q1003 NOSIG YPCC 230700Z 13019KT 9999 SCT021 BKN038 28/23 Q1011 OEBA 230700Z 09009KT CAVOK 32/09 Q1018 NOSIG YOLD 230700Z AUTO 26007KT 9999 // NCD 24/M00 Q1023 YNTN 230700Z AUTO 31012KT //// // ////// 31/12 Q1013 YPBO 230700Z AUTO 01007KT 9999 // NCD 31/M07 Q1018 K82V 230715Z AUTO 18004KT 10SM SCT010 SCT100 14/13 A3003 RMK AO2 OEAO 222100Z 30002KT 9000 SKC 31/15 Q1010 OEBH 230600Z 00000KT CAVOK 33/06 Q1014 NOSIG MWCB 230000Z 04007KT 020V080 9999 FEW016CB 30/26 Q1012 YPEA 230700Z AUTO 25011KT 9999 // SCT059 20/09 Q1021 YPED 230700Z AUTO 23011KT 9999 // SCT034 BKN051 15/08 Q1025 K5R8 230715Z AUTO 00000KT 10SM CLR 23/23 A3000 RMK AO2 T02320225 YOLW 230700Z AUTO 32012KT //// // ////// 29/12 Q1017 DAUA 230700Z 05014KT CAVOK 31/05 Q1010 YPDN 230700Z 35010KT CAVOK 29/10 Q1012 NOSIG DAUB 230700Z 31006KT CAVOK 30/17 Q1013 TJIG 222245Z 17008KT 6SM SCT020 BKN060 25/23 A2987 RMK RY09 IN USE ATIS O DATM 230700Z 22017KT 4000 DRSA NSC 32/13 Q1009 OEDF 230700Z 29013KT CAVOK 42/04 Q1001 NOSIG DAUE 230700Z 00000KT CAVOK 30/13 Q1014 UAII 230700Z 31003MPS 270V340 CAVOK 38/02 Q1007 R10/0///70 NOSIG RMK QFE720/0960 MWCR 230200Z 07008KT 9999 FEW018 29/26 Q1013 DAUG 230700Z VRB02KT CAVOK 31/08 Q1015 DAUH 230700Z 00000KT CAVOK 30/17 Q1012 YOOD 230700Z AUTO 12005KT //// // ////// 26/M02 Q1022 DAUI 230700Z 06016KT CAVOK 35/M01 Q1010 YNWN 230700Z AUTO 11009KT //// // NCD 28/M09 Q1020 OEDM 230600Z 18015KT CAVOK 36/00 Q1010 DAUK 230700Z 36008KT CAVOK 27/22 Q1013 DAUL 230700Z 00000KT CAVOK 28/06 Q1018 DAUO 230700Z /////KT CAVOK 28/23 Q1012 OEDR 230700Z 30009KT CAVOK 43/04 Q1000 NOSIG MUVR 230650Z VRB01KT 9000 FEW020 24/22 Q1015 UBBB 230700Z 34011KT CAVOK 32/18 Q1013 88CLRD70 NOSIG YOOM 230700Z AUTO 13005KT 080V190 //// // ////// 25/02 Q1022 UAKD 230700Z 05003MPS 7000 NSC 35/06 Q1011 R040///65 NOSIG RMK QFE725/0967 DAUT 230700Z ///10KT CAVOK 30/04 Q1011 ZGGG 230700Z 24003MPS 180V270 9999 BKN046 34/23 Q1007 NOSIG DAUU 230700Z 34006KT CAVOK 29/08 Q1012 UBBG 230700Z 34005KT 240V050 9999 FEW100 29/17 Q1015 R30/CLRD70 NOSIG K6L4 230715Z AUTO 00000KT 1 1/4SM BR FEW019 OVC040 21/21 A3002 RMK AO2 VIS 1/4V5 ZGHA 230700Z 19005MPS 9999 SCT040 34/22 Q1005 NOSIG TIST 230541Z 16013G26KT +RA FEW016 BKN028 OVC065 24/24 A2991 RMK AO2 PK WND 18026/0533 RAB00E18B20 P0043 T02440239 $ ZGHC 230500Z AUTO 21002MPS 130V270 9999 // //// 27/23 Q1012 DAUZ 230700Z 06009KT CAVOK 27/M02 Q1015 UAKK 230700Z 29003MPS CAVOK 34/03 Q1012 R23/0///70 NOSIG RMK QFE713/0950 UBBL 230700Z 10007KT 9999 SCT200 32/16 Q1014 R15/CLRD70 NOSIG RMK MT OP UBBN 230700Z VRB02KT 9999 FEW100 32/08 Q1013 R14R/CLRD60 NOSIG RMK MT OP QFE685 TISX 230542Z 20009G16KT 2 1/2SM +RA BR FEW006 BKN014 OVC035 24/23 A2991 K5SM 230717Z AUTO 00000KT 10SM SCT035 SCT070 07/05 A3034 RMK AO2 LTG DSNT W UBBQ 230700Z 29006KT 9999 NSC 31/18 Q1015 R34/CLRD70 NOSIG RMK MT OP YPGV 230700Z AUTO 09011KT 9999 // NCD 26/16 Q1013 YORG 230700Z AUTO 05005KT 9999 // NCD 12/05 Q1028 OEGN 230700Z 13008KT CAVOK 39/24 Q1006 NOSIG K7BM 230714Z AUTO 28008KT 10SM SCT031 OVC039 11/05 A3031 RMK AO2 UBBY 230700Z 23005KT 9999 NSC 30/15 Q1018 R33/////// NOSIG RMK MT OP OEGS 230600Z 00000KT CAVOK 38/13 Q1008 OEGT 230700Z 28008KT CAVOK 29/17 Q1009 NOSIG K5W8 230715Z AUTO 00000KT 10SM BKN044 BKN050 OVC110 24/23 A2995 RMK AO2 T02350226 OEHL 230600Z 00000KT CAVOK 35/06 Q1012 NOSIG UBEE 230700Z 15006KT CAVOK 32/18 Q1013 R30/CLRD70 NOSIG YPKA 230700Z AUTO 05012KT 9999 // NCD 27/10 Q1016 YPKG 230700Z AUTO 36011KT 9999 // NCD 22/05 Q1022 TJMZ 222050Z 12005KT 7SM RA OVC025 26/25 A2983 TJNR 230705Z AUTO 15011G19KT 10SM -RA SCT029 BKN085 OVC110 26/23 A2990 RMK AO2 RAB02 P0000 T02610233 $ YPJT 230700Z AUTO 29010KT 9999 // NCD 20/05 Q1021 YPLC 230700Z AUTO 25010KT 9999 // NCD 15/07 Q1026 ZHCC 230700Z 19004MPS 160V260 8000 NSC 27/18 Q1007 NOSIG ZGKL 230700Z 17005MPS 9999 SCT040 33/21 Q1007 NOSIG UAOO 230700Z 10003MPS 060V160 CAVOK 36/01 Q1005 R06/CLRD70 NOSIG RMK QFE742/0990 OEJN 230600Z 18008KT 9999 FEW040 33/26 Q1002 NOSIG YPKS 230700Z AUTO 21007KT //// // ////// 18/08 Q1026 YPKT 230700Z AUTO 28008KT //// // ////// 29/M01 Q1012 YPKU 230700Z AUTO 13007KT 9999 // NCD 31/M12 Q1014 OEKJ 230700Z 24004KT 8000 SKC 41/01 Q1008 OEKK 230700Z 11007KT CAVOK 40/14 Q1006 NOSIG YPLM 230700Z AUTO 36009KT 9999 // NCD 28/09 Q1017 OEKM 230700Z 06016KT 9999 FEW022 29/11 Q1022 NOSIG K6R3 230715Z AUTO 00000KT 5SM BR CLR 23/23 A3001 RMK AO2 T02300225 K6R6 230653Z AUTO 15007KT 29/07 A2999 RMK AO1 SLP112 T02940067 TJPS 230650Z 06006KT 10SM RA BKN030 25/25 A2981 OEMA 230700Z 16004KT 6000 SKC 41/01 Q1010 NOSIG K8A0 230715Z AUTO 00000KT 10SM CLR 22/22 A3003 RMK AO2 K96D 230715Z AUTO 01012KT 10SM 14/14 A3013 RMK AO2 PWINO PNO YPMQ 230700Z AUTO 29005KT 9999 // SCT038 SCT052 16/15 Q1027 SUAA 222100Z 13015KT 8000 NSC 19/16 Q1012 YPOD 230700Z AUTO 34013KT 9999 // SCT105 11/09 Q1020 OEMK 230700Z 18006KT CAVOK 35/27 Q1004 ZGNN 230700Z 12004MPS 9999 FEW033TCU SCT033 32/24 Q1007 NOSIG OENG 230700Z 03006KT CAVOK 35/04 Q1013 NOSIG UARR 230700Z 32005MPS 280V350 CAVOK 29/11 Q1012 R22/CLRD70 NOSIG RMK QFE755/1007 TJSJ 230656Z 06006KT 10SM FEW025 SCT120 26/24 A2985 RMK AO2 SLP107 T02610239 UASK 230700Z 13002MPS 9999 FEW033 FEW230 29/07 Q1011 R30/010060 NOSIG RMK QFE733/0977 YPPD 230700Z AUTO 01015KT 9999 // NCD 28/03 Q1017 YPPF 230700Z AUTO 23010KT 9999 // SCT035 BKN047 OVC053 15/08 Q1025 UATE 230700Z 04002MPS 020V190 CAVOK 34/13 Q1013 R30/0///70 NOSIG RMK QFE758/1011 K7L2 230715Z AUTO 08014G18KT 10SM OVC010 18/18 A3004 RMK AO2 YPPH 230700Z 24010KT CAVOK 20/08 Q1021 NOSIG UATG 230700Z 35003MPS 310V050 CAVOK 33/08 Q1013 R32/CLRD70 NOSIG RMK QFE762/1016 UASP 230700Z 17003MPS 140V240 CAVOK 33/06 Q1010 R21/0///70 NOSIG RMK QFE746/0995 SUCA 222200Z 00000KT 7000 NSC 22/XX Q1009 UASS 230700Z 35002MPS 310V090 CAVOK 31/05 Q1011 R08/0///60 NOSIG RMK QFE738/0984 OEPA 230700Z 00000KT CAVOK 40/23 Q1005 NOSIG ZGOW 230700Z 15005MPS 9999 SCT020 33/26 Q1008 NOSIG ZHHH 230700Z 36003MPS 320V040 7000 NSC 30/25 Q1005 NOSIG K8D3 230656Z AUTO 03008KT 19/19 A3002 RMK AO1 SLP150 T01890189 UATT 230700Z 26008MPS CAVOK 28/09 Q1011 R31/CLRD70 NOSIG RMK QFE738/0984 CMGB 230715Z AUTO 00000KT 14/13 RMK AO1 SLP196 T01380134 58003 TLCP 230000Z 15004KT 9999 FEW018CB BKN042 28/24 Q1013 NOSIG CMFM 230700Z AUTO 32001KT 06/06 RMK AO1 SLP233 T00640064 56002 UAUU 230700Z 07005MPS 040V110 CAVOK 28/16 Q1009 R15/CLRD70 NOSIG RMK QFE740/0987 OERF 230700Z 24007KT CAVOK 39/04 Q1004 SUDU 221700Z 11006KT CAVOK 26/15 Q1012 OERK 230700Z 22003KT 7000 SCT045 40/04 Q1009 NOSIG OESH 230700Z 26005KT CAVOK 36/14 Q1008 NOSIG OERR 230700Z 06005KT CAVOK 37/14 Q1007 NOSIG OETB 230700Z 34004KT CAVOK 30/13 Q1011 NOSIG OESK 230700Z 28003KT CAVOK 35/02 Q1009 NOSIG YPTN 230700Z AUTO 11008KT 9999 // NCD 31/M07 Q1012 UCFM 230700Z 10002MPS CAVOK 35/01 Q1008 R08/CLRD70 NOSIG UCFO 230700Z 28003MPS CAVOK 34/04 Q1010 R12/CLRD70 NOSIG OETF 230700Z 13013KT CAVOK 35/05 Q1016 NOSIG ZGSZ 230700Z 19005MPS 9999 FEW020TCU FEW020 31/27 Q1008 NOSIG OERY 230500Z 17003KT CAVOK 38/08 Q1009 TKPK 230200Z 10004KT 9999 FEW017 27/25 Q1014 TKPN 222300Z 08005KT 9999 FEW016 SCT045 27/25 Q1013 K7R4 221250Z 03002KT 5SM HZ BKN020 25/20 A3010 OETR 230600Z 02012KT CAVOK 30/09 Q1010 ZHLY 230100Z 24003MPS 5000 BR NSC 24/20 Q1009 NOSIG SVAC 230000Z /////KT 9999 SCT020 ///// Q1010 YREN 230700Z AUTO 23015KT //// // ////// 19/08 Q1023 OEWD 230700Z 13012KT CAVOK 40/17 Q1007 NOSIG YPWR 230700Z AUTO 26008KT 9999 // NCD 23/00 Q1024 OEWJ 230700Z 31009KT CAVOK 33/29 Q1003 NOSIG SVBC 230700Z 00000KT 9999 FEW010 23/23 Q1013 YPXM 230700Z AUTO 11014KT 9999 // OVC012 25/21 Q1013 SVBI 230300Z 36002KT 9999 FEW017 SCT070 26/24 Q1012 SVCB 230000Z 29010KT 9999 BKN007 27/// Q1009 SVBM 230300Z 09009KT 9999 FEW016 SCT100 24/21 Q1015 MYGF 230000Z 00000KT 9999 VCSH FEW018TCU 29/25 A2999 RMK SHRA SW TCU E/SW SVBS 230300Z 36003KT CAVOK 23/23 Q1016 HTAR 230700Z 11010KT 9999 BKN024 19/16 Q1021 K9D7 230715Z AUTO 04008KT 5SM BR OVC008 14/14 A3015 RMK AO2 PWINO PNO SVCN 222100Z 28008KT 9999 SCT050 ///// Q1017 OEYN 230700Z 27002KT CAVOK 38/22 Q1000 NOSIG K7W4 230715Z AUTO 09005KT 10SM SCT006 BKN014 OVC075 22/21 A2997 RMK AO1 T02150206 SVCR 230200Z /////KT 9999 FEW016 29/26 Q1009 SULS 230700Z 06018KT 9999 OVC002 15/13 Q1012 SVCU 230600Z 16006KT 9999 BKN013 26/25 Q1012 HTDA 230700Z 05006KT 9999 BKN025 28/22 Q1015 NOSIG HTBU 230700Z 30005KT CAVOK 25/18 Q1018 SVCZ 230200Z /////KT 9999 BKN020 25/23 Q1008 SUMU 230700Z 07008KT 8000 NSC 15/13 Q1011 NOSIG ZHSN 222300Z 16004MPS 100V190 0200 R17/0175 -RA FG VV020 12/12 Q1021 NOSIG HTDO 230700Z 06012KT 9999 FEW019 23/15 Q1018 NOSIG YSBK 230700Z AUTO 10006KT 9999 // OVC061 15/12 Q1029 YSCB 230700Z 08010KT 9999 FEW035 SCT060 13/08 Q1028 TLPC 230300Z 13005KT 9999 FEW022 28/24 Q1014 NOSIG SVFM 222100Z /////KT 9999 OVC033 ///// Q1013 SVGD 230600Z 00000KT 9999 FEW020 25/24 Q//// YRMD 230700Z AUTO 16015KT //// // ////// 28/04 Q1016 TLPL 230700Z 11012KT 9999 FEW023 SCT080 27/25 Q1012 NOSIG YSCN 230700Z AUTO 20003KT 9999 -SHRA SCT057 OVC070 13/13 Q1029 YSCO 230700Z AUTO 16011KT //// // ////// 16/10 Q1027 YSCR 230700Z AUTO 36008KT 300V010 //// // ////// 22/05 Q1021 SVGU 230600Z /////KT 9999 SCT020 29/27 Q1011 MZBZ 230000Z 09004KT 9999 FEW018 28/25 A2991 Q1013 NOSIG RMK CBTOP-E HRYR 230700Z 32004KT 9999 SCT023 SCT100 21/15 Q1021 NOSIG YSDU 230700Z AUTO 12005KT 9999 // NCD 17/08 Q1026 SVJC 222200Z AUTO 02011KT 9999 BKN013 ///// Q1005 ZHXF 230100Z 29002MPS CAVOK 25/23 Q1008 NOSIG YROM 230700Z AUTO 14013KT 9999 // SCT062 SCT083 19/08 Q1022 YSGE 230700Z AUTO 12008KT //// // ////// 21/06 Q1023 SUSO 230000Z 11006KT CAVOK 23/14 Q1009 MYNN 230600Z 05003KT 9999 FEW018TCU 28/25 A2996 TCU/SE K9L2 230655Z AUTO 24014KT 10SM CLR 23/07 A2994 RMK AO2 SLP116 T02280067 TSNO $ TNCA 230600Z 08007KT 9999 SCT018 28/25 Q1008 A2979 NOSIG HTIR 230700Z 00000KT 9999 SKC 22/13 Q1021 TNCB 230700Z AUTO 09007KT 050V120 //// ////// 28/26 Q1008 NOSIG HTKA 230600Z 00000KT CAVOK 22/15 Q1018 TNCC 230700Z 12005KT 9999 FEW016 BKN045 28/25 Q1008 NOSIG TNCE 230700Z AUTO 09006KT //// ////// ///// Q1013 SVLF 221700Z 00000KT CAVOK XX/XX Q1009 DFFD 230700Z 36004KT 9999 BKN010 22/21 Q1014 NOSIG YSHK 230700Z AUTO 21008KT //// // ////// 26/10 Q1019 ZJHK 230700Z 01004MPS 9999 FEW023CB SCT033 34/25 Q1007 NOSIG SVMC 230000Z /////KT 9999 FEW016 30/27 Q1009 HTKJ 230700Z 00000KT 9999 BKN024 BKN080 22/17 Q1018 NOSIG HSSS 230700Z 19011KT 9999FEW040 28/21 Q1010 NOSIG SVMD 230600Z 18003KT 9999 FEW027 SCT100 18/17 Q1020 RERA TNCM 230700Z 11009KT 080V140 9999 SCT018 28/25 Q1012 A2990 K8W2 230715Z AUTO 00000KT 7SM SCT009 BKN023 OVC036 21/21 RMK AO1 T02120209 SVMG 230700Z /////KT 9999 SCT010 25/24 Q1011 NOSIG SVMI 230700Z 00000KT CAVOK 28/21 Q1009 NOSIG YSHT 230700Z AUTO 03008KT //// // ////// 17/10 Q1025 YSHW 230700Z AUTO 11006KT 9999 // SCT061 BKN074 OVC086 14/12 Q1029 HTMB 230700Z 12010KT 9999 -HZ FEW022 24/06 Q//// SVMN 230600Z 09004KT 9999 SCT013 27/// Q1009 UEEE 230700Z 14002MPS CAVOK 22/13 Q1009 NOSIG RMK QFE748 2309//60 HTMG 230700Z 00000KT 9999 BKN022 23/17 Q1017 SVMT 230200Z 36001KT 9999 BKN010 26/26 Q1010 OIAA 230700Z 36010KT CAVOK 42/01 Q1001 K9MN 230712Z AUTO 00000KT 10SM CLR 21/20 A3000 RMK AO1 T02100196 YTAR 230700Z AUTO 18007KT //// // ////// 23/07 Q1024 YRTI 230700Z AUTO 27007KT //// // ////// 19/09 Q1021 OIAG 230700Z 19006KT CAVOK 41/05 Q1001 OIAH 230700Z 00000KT CAVOK 39/05 Q1007 SVPA 230300Z /////KT 1000 BKN013CB 23/23 Q1013 OIAI 230700Z 18002KT CAVOK 42/04 Q1002 OIBA 230700Z 06008KT 6000 SKC 35/26 Q1002 SVPC 222000Z 04015KT 9999 BKN040 30/XX Q1008 OIBB 230700Z 20010KT 5000 HZ SKC 39/24 Q1000 A2953 HTMT 230700Z 33014KT 9999 SCT022 27/20 Q1014 DGAA 230700Z 25008KT 9999 SCT009 24/22 Q1014 NOSIG HTMU 230700Z 00000KT 9999 DZ SCT020 FEW021CB BKN090 19/19 Q1019 OIAM 230700Z 18008KT CAVOK 37/15 Q1000 HUEN 230500Z 35008KT 9000 FEW020 FEW022CB SCT220 19/19 Q1017 HTMW 230700Z 33015KT 9999 BKN023 FEW024CB BKN100 24/19 Q1017 NOSIG OIBJ 230700Z 22008KT 5000 HZ SKC 35/24 Q1008 OIBK 230700Z 12018KT 5000 SA SKC 35/27 Q1002 SVPM 221800Z 18010KT CAVOK XX/XX Q1014 OICC 230700Z 12008KT CAVOK 35/M05 Q1014 A2997 NOSIG OIBL 230700Z 09016KT 5000 SA SKC 36/26 Q1003 OIAW 230700Z 21006KT CAVOK 40/08 Q1000 YSMH 230700Z AUTO 11007KT 9999 // NCD 20/13 Q1017 YSMI 230700Z AUTO 07014KT //// // ////// 13/12 Q1025 OIBP 230700Z 17012KT 4000 2000SE DU FEW030 38/29 Q1002 A2961 SVPR 222200Z 04008KT 9999 BKN050 ///// Q1010 OIBQ 230700Z 16012KT 6000 SKC 35/30 Q1001 OICI 230700Z 13004KT CAVOK 33/M02 Q1013 A2993 OICJ 230650Z 26006KT CAVOK 29/02 Q1019 OIBS 230700Z 08020KT CAVOK 34/28 Q1002 OICK 230700Z 04008KT CAVOK 36/M00 Q1012 YTEE 230700Z AUTO 13012KT 9999 // NCD 27/M01 Q1018 KMG 230700Z AUTO 01017KT 9999 // NCD 13/10 Q1024 YSNF 230700Z AUTO 10014KT 9999 // NCD 14/06 Q1027 OIBV 230700Z 12012KT 6000 SKC 35/29 Q1002 YTEF 230700Z AUTO 09017KT //// // ////// 30/M05 Q1018 SVSA 230600Z /////KT 9999 SCT020 27/16 Q1012 OICS 230654Z 35010KT 9999 FEW040 32/M01 Q1015 YTEM 230700Z AUTO 07004KT //// // ////// 17/08 Q1027 SVSE 222100Z 04006KT 9999 BKN050 ///// Q//// CPBT 230600Z AUTO 05009KT 08/08 RMK AO1 T00800077 UDSG 230700Z 06005MPS 9999 NSC 27/09 Q1019 R02/CLRD70 NOSIG YSNW 230700Z AUTO 06009KT 9999 // BKN110 15/11 Q1029 SVSO 230300Z 00000KT 9999 SCT020 21/21 Q1012 SVSP 221900Z 23012KT 9999 FEW080 XX/XX Q1013 SVSR 230300Z /////KT 9999 -TS FEW013CB BKN016 25/// Q1014 SVST 222100Z 00000KT 9999 BKN060 ///// Q1012 HUJI 221200Z 34005KT 9999 FEW023 FEW025CB 29/17 CPEH 230600Z AUTO 03008KT 09/08 RMK AO1 T00910075 50007 YTGM 230700Z AUTO 11009KT //// // ////// 23/04 Q1023 HUKA 221200Z 03004KT 8000 SCT026 FEW029CB 29/18 OIFK 230700Z 12006KT CAVOK 32/12 Q1018 HTTB 230700Z 18005KT CAVOK 25/12 Q1020 OIFM 230700Z 32004KT CAVOK 29/M04 Q1020 A3012 SVSZ 221800Z 00000KT 9999 SCT020 XX/XX Q1008 HTSO 230700Z 02005KT 9999 SKC 23/16 Q1018 OIGG 230700Z 33006KT 9999 SCT020 31/22 Q1013 YTIB 230700Z AUTO 13007KT 090V160 //// // ////// 22/04 Q1024 SVVA 230600Z 00000KT 9999 SCT016 BKN100 24/22 Q1014 OIFS 230700Z 00000KT 9999 FEW040 26/M00 Q1023 OIGK 230651Z 07010KT 9999 SCT035 24/01 Q1023 CPFI 230600Z AUTO 02012KT 09/08 RMK AO1 9PAST HR M PK WND 01018/0558 P0007 T00880080 50087 K9V9 230715Z AUTO 07005KT 10SM -RA SCT070 BKN090 BKN110 21/21 A2994 RMK AO2 P0001 T02130206 HTSU 230600Z 00000KT 9999 FEW017 15/07 Q1022 SVVG 230600Z 27003KT 9999 FEW023 21/20 Q1009 YSRI 230700Z AUTO 12007KT 9999 -SHRA SCT031 BKN076 BKN100 15/13 Q1029 OIHH 230652Z 13008KT CAVOK 29/M01 Q1019 DFOO 230700Z 10006KT 9999 -RA FEW010 FEW033CB OVC120 21/21 Q1014 HULI 221200Z 00000KT 9999 BKN020 FEW023CB 31/XX SVVL 230600Z 00000KT 9999 FEW020 24/22 Q1015 REDZ YSRN 230700Z AUTO 36008KT 9999 // NCD 15/05 Q1024 OIHM 230700Z 15010KT 9999 FEW040 29/03 Q1019 OIIE 230700Z 13014KT CAVOK 31/M01 Q1017 NOSIG OIII 230700Z 21010KT CAVOK 30/00 Q1018 A3008 HUMI 220900Z 23004KT 9999 BKN021 FEW023CB 26/22 OIIK 230700Z 15010KT CAVOK 30/03 Q1019 PAAD 230715Z AUTO 13009KT 10SM SCT038 OVC070 06/04 A3016 RMK AO2 YSTH 230700Z AUTO 03006KT //// // ////// 14/12 Q1029 OIIP 230700Z 16012KT CAVOK 30/05 Q1019 OJAI 230700Z 00000KT 5000 HZ NSC 26/20 Q1012 NOSIG PABA 230001Z AUTO 00000KT 10SM FEW043 OVC065 04/04 A3020 RMK AO2 SLP227 60000 T00390039 10044 20033 56001 OIIS 230700Z 08004KT CAVOK 33/04 Q1016 OIKB 230700Z 12014KT 3000 SA SCT030 34/27 Q1004 A2968 PAAK 230716Z 07006KT 10SM OVC015 11/09 A2963 RMK AO1 OJAM 230700Z 00000KT 4000 HZ NSC 29/15 Q1012 NOSIG ZJSY 230700Z 20003MPS 160V230 9999 FEW020 FEW030TCU 31/26 Q1008 NOSIG YSSY 230700Z 14006KT 9999 FEW018 SCT030 BKN070 14/13 Q1029 INTER 0800/1000 5000 SHRA SCT010 BKN020 PABE 230653Z 24004KT 10SM SCT100 14/11 A3018 RMK AO2 SLP222 T01390111 PAAP 230252Z VRB01KT 10SM FEW020 BKN050 BKN200 16/14 A3015 RMK LAST NO SPECI OJAQ 230700Z 36012KT CAVOK 31/19 Q1007 NOSIG PAAQ 230653Z AUTO 00000KT 10SM CLR 13/09 A3021 RMK AO2 SLP231 T01280089 TSNO PABI 230653Z AUTO 24006KT 10SM CLR 12/08 A3022 RMK AO2 SLP240 T01170083 TSNO CPIR 230600Z AUTO 04011KT 09/08 RMK AO1 T00880078 OIKK 230700Z 35004KT 9999 FEW040 29/M09 Q1020 A3014 PABL 230716Z AUTO 04005KT 10SM OVC070 11/06 A3020 RMK AO1 YSTW 230700Z AUTO 16007KT 9999 // SCT077 SCT089 15/08 Q1026 PACD 230706Z AUTO 12020G24KT 10SM BKN024 BKN030 OVC046 13/10 A2998 RMK AO2 T01330100 TSNO PABN 230250Z 12010KT 15SM SCT020 BKN060 BKN090 10/06 A3017 RMK MAX 16.0 NOSPECI LAST OIKO 230650Z 18006KT 6000 FEW030 SCT090 34/26 Q1005 OIKQ 230700Z 09022KT 1200 SA SCT030 33/27 Q1003 OIKR 230600Z 31012KT CAVOK 26/M05 Q1020 A3012 PABR 230653Z 13003KT 10SM FEW037 BKN048 OVC060 08/08 A3006 RMK AO2 SLP179 T00780078 HTZA 230700Z 04009KT 9999 FEW020 28/22 Q1014 NOSIG PABT 230653Z 00000KT 10SM FEW070 SCT150 BKN200 08/06 A3015 RMK AO2 SLP219 T00780056 OIMB 230700Z 07012KT CAVOK 30/M05 Q1017 OIMC 230700Z 33012KT CAVOK 35/12 Q1011 YTMO 230700Z AUTO 13011KT 090V150 //// // ////// 27/01 Q1018 PABV 221736Z AUTO 00000KT 10SM FEW012 BKN039 13/11 A3021 RMK AO1 PACM 230656Z AUTO 22004KT 10SM FEW070 SCT110 13/11 A3017 RMK AO2 TSNO T01330111 SLP213 $ OIMD 230700Z 00000KT CAVOK 33/02 Q1012 YTNG 230700Z AUTO 15008KT 9999 // NCD 21/10 Q1019 PADE 230653Z AUTO 00000KT 10SM CLR 13/07 A3016 RMK AO2 SLP213 T01280067 TSNO $ YSWG 230700Z 06006KT 9999 FEW040 17/07 Q1027 YSWH 230700Z AUTO 36012KT //// // ////// 20/03 Q1023 PADG 222101Z 24012G18KT 15SM BKN008 OVC010 10/09 A3017 UDYZ 230700Z VRB01MPS 9999 SKC 30/11 Q1014 R09/010070 NOSIG YTNK 230700Z AUTO 08012KT 9999 // NCD 28/M04 Q1017 OINB 230700Z 30008KT 9999 FEW025 30/24 Q1012 PADK 230716Z 00000KT 4SM BKN004 OVC010 09/07 A2964 RMK AO1 P0001 PADL 230716Z 00000KT 10SM CLR 12/09 A3019 RMK AO1 PACV 230653Z 00000KT 10SM BKN037 11/08 A3022 RMK AO2 SLP234 T01110083 PADM 230656Z AUTO 00000KT 10SM FEW065 BKN085 BKN100 14/12 A3021 RMK AO2 TSNO T01380116 BKN V SCT SLP218 $ PAED 230658Z AUTO 00000KT 10SM CLR 13/10 A3021 RMK AO2 SLP226 T01340100 OIMM 230700Z 29004KT CAVOK 33/M03 Q1015 A2999 OIMN 230700Z 00000KT 9999 FEW035 26/15 Q1018 OINE 230700Z 22004KT 9999 SCT030 31/22 Q1013 PAEG 230653Z AUTO 00000KT 10SM CLR 09/07 A3014 RMK AO2 SLP213 T00890067 TSNO OING 230700Z 32004KT 7000 SCT035 31/21 Q1014 PADQ 230653Z 28003KT 10SM SCT040 SCT250 11/09 A3023 RMK AO2 SLP238 T01110094 $ PAEH 230655Z AUTO 13013KT 10SM FEW150 13/10 A3017 RMK AO2 SLP216 T01330098 PACZ 230655Z AUTO 09002KT 10SM SCT045 BKN075 13/11 A3014 RMK AO2 SLP206 T01310105 OIMQ 230700Z 00000KT CAVOK 32/01 Q1015 PAEI 230658Z AUTO 17003KT 10SM CLR 08/06 A3019 RMK AO2 SLP229 T00840059 $ OIMS 221100Z 28008KT CAVOK 36/M02 Q1013 NSFA 230700Z 15007KT 9999 FEW020 SCT300 26/23 Q1013 PAFA 230653Z 00000KT 10SM SCT100 BKN200 11/07 A3018 RMK AO2 SLP226 T01110072 OINK 230650Z 31004KT 9999 FEW030 32/22 Q1012 PAFB 230656Z AUTO 00000KT 10SM CLR 10/07 A3019 RMK SLP225 T01000072 $ VIA AUTODIAL PAEL 230249Z 00000KT 15SM SCT020 OVC045 14/12 A3019 RMK NOSPECI LAST PADU 230656Z AUTO 13009KT 10SM BKN026 OVC035 13/09 A2987 RMK AO2 SLP120 T01330089 PAEM 230716Z AUTO 04004KT 10SM BKN085 OVC110 14/09 A3014 RMK AO1 PAEN 230707Z AUTO 18008KT 3SM BR OVC002 11/11 A3023 RMK AO2 TSNO PAFE 230716Z AUTO 00000KT 10SM FEW120 14/11 A3017 RMK AO1 OINN 230700Z 35004KT 9999 FEW020 29/23 Q1012 OINR 230700Z 02006KT 9999 FEW025TCU 30/23 Q1012 PAGA 230658Z AUTO 34003KT 10SM OVC085 13/09 A3020 RMK AO2 SLP233 T01280094 PNO $ PAFM 230716Z AUTO 00000KT 10SM CLR 11/07 A3022 RMK AO1 PAGH 230657Z AUTO 25004KT 10SM BKN110 13/09 A3020 RMK AO2 SLP257 T01280089 OINZ 230700Z 01004KT 9999 FEW030 31/22 Q1013 SYCJ 230700Z 24004KT CAVOK 23/23 Q1011 NOSIG PAFS 230656Z AUTO 00000KT 10SM SCT080 12/10 A3019 RMK AO2 TSNO T01160100 SLP231 $ PAGK 230453Z AUTO 31004KT 10SM SCT100 15/06 A3017 RMK AO2 SLP222 T01500061 TSNO PAGL 230716Z AUTO 02004KT 10SM CLR 17/07 A3020 RMK AO1 PAHC 230656Z AUTO 00000KT 10SM OVC070 14/12 A3017 RMK AO2 PWINO TSNO T01440122 SLP221 $ YTRE 230700Z AUTO 28005KT //// // SCT031 15/14 Q1027 PAGM 230716Z AUTO 31004KT 10SM SCT024 11/06 A3018 RMK AO1 PAGN 230656Z AUTO 00000KT 10SM CLR 14/13 A3014 RMK AO2 TSNO T01380127 SLP210 $ PAGS 230652Z AUTO 00000KT 10SM FEW035 SCT110 13/10 A3018 RMK VIA PHONE PAHL 230716Z AUTO 00000KT 10SM OVC090 13/08 A3018 RMK AO1 PAHN 230654Z AUTO 08005KT 10SM CLR 14/11 A3014 RMK AO2 SLP208 T01390106 TSNO PAHO 230653Z AUTO 08006KT 4SM HZ OVC002 13/11 A3024 RMK AO2 SLP242 T01330106 TSNO PAGY 230653Z AUTO 00000KT 10SM CLR 13/10 A3013 RMK AO2 SLP203 T01280100 TSNO PAHP 230716Z AUTO 00000KT 10SM CLR 12/11 A3015 RMK AO1 PAIG 230656Z AUTO 00000KT 10SM CLR 14/09 A3018 RMK AO2 TSNO T01380088 SLP222 $ PAII 230716Z AUTO 13011KT 10SM CLR 13/09 A3020 RMK AO1 OISA 230652Z 36008KT CAVOK 26/M07 Q1023 NTAA 230700Z 07007KT 030V090 9999 FEW020 26/20 Q1014 NOSIG PAIK 230701Z AUTO 32005KT 10SM CLR 11/07 A3021 RMK AO2 SLP271 T01060067 PNO $ PAIL 230653Z AUTO 00000KT 10SM CLR 14/12 A3022 RMK AO2 SLP234 T01390122 TSNO PAJC 230716Z AUTO 11006G15KT 10SM BKN032 OVC042 13/09 A3017 RMK AO1 PAIM 230655Z AUTO 31001KT 10SM BKN055 11/07 A3018 RMK AO2 SLP221 T01100071 PAIN 230716Z AUTO 00000KT 10SM BKN080 10/09 A3022 RMK AO1 OISF 230650Z 15004KT 9999 FEW040 35/M04 Q1011 YTTI 230700Z AUTO 06016KT //// // ////// 27/13 Q1014 PAHY 230716Z AUTO 00000KT 10SM OVC110 16/11 A3016 RMK AO1 YTST 230700Z AUTO 03009KT 9999 // NCD 29/04 Q1012 OISL 230700Z 19012KT 9999 FEW040 35/20 Q1008 PAJN 230653Z 00000KT 10SM FEW050 SCT070 SCT110 OVC140 14/10 A3015 RMK AO2 SLP208 T01440100 $ PAIW 230713Z AUTO 19012KT 10SM SCT010 09/07 A3021 RMK AO2 DIAD 230500Z VRB02KT 9999 FEW011 BKN100 23/23 Q1013 NOSIG CPRO 230600Z AUTO 03005KT 09/08 RMK AO1 T00900081 50010 PAKI 230656Z AUTO 11005KT 10SM FEW095 14/11 A3015 RMK AO2 TSNO T01440111 RAB36E54 P0000 SLP212 $ OISR 230700Z 13004KT 7000 SKC 38/23 Q1005 ZLLL 230700Z 09002MPS 040V110 9999 -TSRA BKN033CB 14/12 Q1020 BECMG TL0740 NSW OISS 230700Z 08004KT 9999 FEW040 SCT090 33/M07 Q1015 A3000 OKBK 230700Z 35013KT CAVOK 44/04 Q1001 NOSIG PAKK 230716Z AUTO 32005KT 10SM CLR 12/06 A3015 RMK AO1 OITK 230700Z 35008KT 9999 FEW035 28/11 Q1016 OITL 230700Z 07017KT 9999 FEW040CB FEW090 24/09 Q1020 OITM 230700Z 09021KT 9999 FEW035 30/M01 Q1016 SYGO 222200Z 06010KT 9999 FEW018CB SCT300 28/23 Q1010 CB SSW&W NOSIG PAKN 230654Z 22005KT 10SM FEW050 SCT110 15/10 A3017 RMK AO2 SLP217 T01500100 $ PAKP 230716Z AUTO 07005KT 10SM SCT046 OVC060 09/03 A3012 RMK AO1 PALG 230656Z AUTO 00000KT 9SM FEW100 13/12 A3017 RMK AO2 TSNO T01270116 SLP218 $ OISY 230700Z 00000KT CAVOK 29/05 Q1005 PALH 230653Z 00000KT 10SM CLR 14/10 A3022 RMK AO2 SLP234 T01390100 PAJZ 230656Z AUTO 00000KT 10SM CLR 14/08 A3023 RMK AO2 TSNO T01440083 RAB0557E07 P0000 SLP227 YTWB 230700Z AUTO 12008KT 9999 // SCT022 BKN036 OVC094 12/10 Q1024 CPRY 230600Z AUTO 02009KT 08/08 RMK AO1 3PAST HR M P0005 T00840077 50035 DIAP 230700Z 24006KT 2500 BR BKN004 22/22 Q1013 BECMG 8000 NSW SCT010 OITR 230700Z 04008KT 9999 FEW035 28/06 Q1017 NOSIG PALJ 230055Z 00000KT 30SM BKN060 BKN100 19/13 A3018 RMK 400200086 EST PASS OPEN NOSPECI PAKT 230653Z AUTO 00000KT 10SM CLR 17/13 A3014 RMK AO2 SLP205 T01670133 TSNO PAMB 230656Z AUTO 00000KT 4SM HZ CLR 13/10 A3014 RMK AO2 TSNO T01330100 SLP209 $ OITT 230650Z 08016KT 9999 FEW035TCU FEW040CB FEW180 30/06 Q1018 A3007 NOSIG PAKU 230245Z VRB03KT 10SM R24/P6000FT FEW029 BKN075 15/09 A3015 RMK LAST OITU 230650Z 13006KT CAVOK 27/09 Q1018 PAMC 230653Z AUTO 00000KT 10SM CLR 13/11 A3019 RMK AO2 SLP226 T01280106 TSNO CPST 230700Z AUTO 14003KT 08/07 RMK AO1 T00830073 PAKV 230653Z AUTO 00000KT 10SM BKN065 12/09 A3022 RMK AO1 SLP236 T01170094 TSNO PAMD 230716Z 31007KT 10SM OVC022 12/11 A3024 RMK AO1 PAKW 230653Z AUTO 00000KT 10SM OVC110 13/12 A3015 RMK AO2 SLP210 T01280117 TSNO CPSV 230700Z AUTO 03011KT 09/09 RMK AO1 2PAST HR M PK WND 02019/0630 P0005 T00900087 50012 PALP 230248Z 00000KT 15SM SCT060 BKN080 15/09 A3015 RMK LAST PAMH 230716Z AUTO 00000KT 10SM 13/08 A3017 RMK AO1 OITZ 230700Z 15021KT 9999 FEW035 27/05 Q1020 PAMK 230656Z AUTO 08006KT 10SM CLR 13/09 A3017 RMK AO2 TSNO T01270094 SLP222 $ PANC 230653Z 24003KT 10SM FEW060 SCT140 SCT200 13/09 A3021 RMK AO2 SLP230 T01280094 PALU 230655Z AUTO 10SM BKN140 BKN160 12/08 A3005 RMK AO2 SLP176 T01160078 DIBU 230500Z 24004KT 8000 SCT006 OVC013 22/21 Q1012 NOSIG PAMO 230656Z AUTO 00000KT 10SM CLR 13/12 A3018 RMK AO2 TSNO T01330116 SLP106 $ PAMR 230653Z 00000KT 10SM CLR 14/09 A3021 RMK AO2 SLP229 T01440089 PANI 230716Z AUTO 00000KT 7SM OVC080 13/12 A3018 RMK AO1 UHBB 230700Z 09002MPS 020V120 9999 FEW033 30/17 Q1007 NOSIG RMK QFE738/0984 36090060 DIDK 230500Z ///// 4000 BR NSC 23/22 Q//// NOSIG DIDL 230400Z ///// 8000 BKN013 22/22 Q1013 NOSIG PANN 230653Z AUTO 00000KT 10SM CLR 10/07 A3018 RMK AO2 SLP225 T01000072 TSNO PAMX 222050Z 00000KT 25SM FEW065 SCT080 BKN120 18/09 A3017 RMK NOSPECI PAMY 230716Z 09005KT 10SM SCT050 BKN100 12/08 A3011 RMK AO1 PAOH 230656Z AUTO 00000KT 9SM -RA FEW050 13/13 A3019 RMK AO2 TSNO T01330127 RAB42 P0000 SLP224 $ PAPB 230719Z AUTO 13012KT 10SM -RA SCT008 SCT014 OVC075 12/11 A2990 RMK AO2 P0001 T01170111 TSNO $ PANT 230653Z AUTO 17003KT 10SM CLR 17/15 A3013 RMK AO2 SLP204 T01670150 TSNO PANV 230716Z AUTO 07004KT 10SM BKN120 17/08 A3016 RMK AO1 PAOM 230653Z 02003KT 10SM SCT060 SCT080 BKN120 BKN240 14/11 A3016 RMK SLP215 T01390106 VIA AUTODIAL PANW 230656Z AUTO 31005KT 10SM CLR 15/09 A3021 RMK AO2 TSNO T01500094 SLP206 $ UGKO 230700Z 31003KT 240V360 9999 SCT022CB BKN032 28/21 Q1014 R07/09//70 NOSIG PAOO 230656Z AUTO 13004KT 10SM CLR 13/12 A3015 RMK AO2 TSNO T01330122 RAB10E31 P0000 SLP211 $ PAPG 230716Z 00000KT 10SM FEW120 14/09 A3013 RMK AO1 PAPH 230716Z AUTO 13013KT 10SM CLR 13/06 A3016 RMK AO1 PAOR 230653Z 01005KT 4SM -RA BKN048 BKN060 BKN100 11/10 A3018 RMK AO2 RAB09 SLP226 P0009 T01110100 PAOT 230653Z 00000KT 10SM SCT100 13/09 A3018 RMK AO2 SLP219 T01280094 $ OIZB 230700Z 33010KT CAVOK 38/05 Q1005 DIGA 230500Z 28004KT 8000 BKN011 22/22 Q1013 NOSIG PAOU 230656Z AUTO 13016KT 10SM FEW028 BKN037 14/14 A3008 RMK AO2 TSNO T01380138 BKN V OVC SLP191 $ PAPM 230656Z AUTO 10SM CLR 12/09 A3017 RMK AO2 TSNO T01220094 RAE0559B15E27 P0000 SLP217 $ CPXL 230700Z AUTO 02011KT 09/09 RMK AO1 8PAST HR M PK WND 03018/0614 P0003 T00890087 50008 PAPN 230656Z AUTO 00000KT 10SM CLR 13/08 A3020 RMK AO2 TSNO T01330083 SLP226 $ PAPO 230716Z AUTO 21020KT 10SM OVC090 11/08 A3007 RMK AO1 OIZH 230700Z 33010KT CAVOK 33/M06 Q1014 A2997 NOSIG OIZI 230700Z 17004KT CAVOK 39/03 Q1007 OIZJ 230700Z 09016KT 6000 SCT030 30/27 Q1005 PARC 230716Z AUTO 00000KT 10SM BKN055 10/06 A3012 RMK AO1 OIYY 230700Z 30010KT CAVOK 32/M02 Q1018 PASA 230555Z 09005KT 10SM OVC026 11/07 A3020 RMK VIA PHONE PAQT 230653Z AUTO 17006KT 10SM BKN085 11/08 A3014 RMK SLP205 T01060083 TSNO VIA AUTODIAL PASC 230653Z 13006KT 10SM FEW075 SCT220 07/06 A3014 RMK AO2 SLP206 T00720061 PASD 230716Z AUTO 07005KT 10SM FEW028 OVC034 14/12 A3009 RMK AO1 YWCA 230700Z AUTO 00000KT //// // ////// 22/04 Q1024 PASH 230716Z AUTO 22005KT 10SM CLR 09/07 A3023 RMK AO1 PASI 230653Z 31008KT 10SM -RA FEW028 BKN075 OVC095 15/12 A3018 RMK AO2 RAB21 SLP221 P0000 T01500122 YWBL 230700Z AUTO 30013KT //// // ////// 10/08 Q1022 OLBA 230700Z 24006KT 5000 BR BKN026 29/23 Q1009 NOSIG PATA 230652Z AUTO 00000KT 10SM SCT075 13/09 A3019 RMK AO2 RAE0557 SLP224 P0000 T01330089 TSNO PARS 230656Z AUTO 00000KT 10SM FEW060 OVC080 15/13 A3018 RMK AO2 TSNO T01500133 SLP222 $ PASK 230716Z AUTO 25003KT 10SM CLR 12/08 A3021 RMK AO1 PASL 230716Z AUTO 00000KT 10SM OVC090 13/06 A3022 RMK AO1 PATC 230655Z AUTO 23009KT 10SM BKN007 08/07 A3019 RMK AO2 SLP225 T00800065 PASM 230716Z AUTO 15005KT 10SM CLR 13/09 A3016 RMK AO1 PASN 230653Z AUTO 10010KT 8SM -RA SCT009 BKN014 OVC022 12/09 A2991 RMK SLP130 P0003 T01170094 TSNO $ VIA AUTODIAL PATE 230658Z AUTO 28004KT 10SM OVC055 10/08 A3020 RMK AO2 SLP240 T01000083 PASO 230653Z AUTO 00000KT 10SM CLR 10/09 A3023 RMK AO2 SLP236 T01000094 TSNO $ YWBR 230700Z AUTO 29002KT //// // ////// 27/M01 Q1022 PATG 230716Z AUTO 01005KT 10SM CLR 11/09 A3017 RMK AO1 PARY 230656Z AUTO 00000KT 10SM FEW060 13/08 A3019 RMK AO2 TSNO T01330077 RAE16 P0000 SLP229 $ MSV 230700Z AUTO 06007KT 9999 // SCT038 BKN056 OVC064 10/08 Q1029 PATK 230653Z AUTO 00000KT 10SM CLR 13/12 A3019 RMK AO2 SLP228 T01330117 TSNO PATL 230655Z AUTO 00000KT 10SM CLR 16/07 A3022 RMK AO2 SLP233 T01550070 PASV 230655Z AUTO 32002KT 10SM CLR 13/07 A3021 RMK AO2 SLP226 T01330074 PASW 222055Z 00000KT 20SM SCT020 BKN060 16/12 A3020 RMK NOSPECI LAST PATO 230653Z AUTO 16003KT 10SM CLR 11/09 A3023 RMK AO2 SLP237 T01110094 TSNO PASX 230716Z AUTO 00000KT 1 3/4SM OVC003 11/09 A3021 RMK AO1 UHHH 230700Z METAR 05006G09MPS CAVOK 27/20 Q1005 NOSIG PASY 230718Z AUTO 36009KT 10SM BKN027 12/10 A2995 RMK AO2 TSNO PATQ 230656Z AUTO 20006KT 10SM FEW041 BKN049 OVC060 11/09 A3008 RMK AO2 TSNO T01050094 SLP191 $ PAVA 230657Z AUTO 14004KT 10SM OVC080 14/12 A3019 RMK AO2 SLP224 T01440122 PNO $ NSTU 230652Z 15011KT 10SM BKN018 OVC050 26/22 A2993 RMK SLP134 T02640224 PAVC 230656Z AUTO 10018G22KT 10SM -RA 13/11 A3003 RMK AO2 TSNO T01270105 RAB37 P0000 PK WND 10026/0604 SLP171 $ PAVD 230716Z 00000KT 10SM OVC039 11/07 A3023 RMK AO1 PAUN 230716Z AUTO 12007KT 10SM CLR 11/06 A3017 RMK AO1 UIAA 230700Z 30004MPS 9999 SCT050 BKN100 19/03 Q1010 NOSIG RMK QFE699 29CLRD70 UGSB 230700Z 25007KT 9999 FEW023CB BKN050 27/22 Q1017 R13/CLRD70 NOSIG PAUT 230715Z AUTO 12007KT 10SM OVC035 12/10 A2989 RMK AO2 T01150098 PAVL 230653Z AUTO 6SM BR CLR 12/09 A3014 RMK AO2 SLP207 T01170094 TSNO $ PAWD 230653Z AUTO 17005KT 10SM OVC012 13/11 A3023 RMK AO2 SLP237 T01330106 TSNO PAWG 230716Z AUTO 00000KT 10SM FEW070 FEW085 14/11 A3015 RMK AO1 PAWI 230709Z AUTO 19011KT 10SM OVC017 11/08 A3002 RMK AO2 TSNO UIBB 230700Z 23003MPS 9999 SCT020 17/07 Q1015 NOSIG RMK QFE718/0958 30210260 UGTB 230700Z 14004KT 060V200 9999 FEW050 30/18 Q1018 R31L/CLRD80 NOSIG PAWM 230658Z AUTO 03003KT 9SM FEW060 20/13 A3019 RMK AO2 SLP231 T02000133 PAWN 230716Z AUTO 21004KT 10SM BKN120 09/07 A3018 RMK AO1 YWHA 230700Z AUTO 16013KT 9999 // SCT063 15/08 Q1025 PAWS 230716Z AUTO 00000KT 10SM CLR 11/07 A3020 RMK AO1 PAYA 230653Z AUTO 00000KT 10SM FEW035 12/11 A3019 RMK SLP222 T01220106 TSNO VIA AUTODIAL ZLXY 230700Z 21003MPS CAVOK 31/18 Q1007 NOSIG UHMA 230130Z 15005MPS 9999 FEW026 SCT200 17/12 Q1019 NOSIG RMK QFE761/1014 YWGT 230700Z AUTO 36008KT //// // ////// 17/08 Q1026 YVRD 230700Z AUTO 14008KT //// // ////// 30/M02 Q1014 PAZK 230716Z AUTO 26006KT 10SM BKN095 08/07 A3022 RMK AO1 UHMM 230700Z 16004MPS 9999 SCT046 19/08 Q1015 NOSIG RMK QFE746 88CLRD70 YWIS 230700Z AUTO 17007KT //// // ////// 24/10 Q1017 OMAA 230700Z 13012KT 7000 NSC 39/17 Q1001 A2957 NOSIG OMAD 230700Z 14009KT 110V180 7000 NSC 39/17 Q1001 A2957 NOSIG ZMUB 230730Z 34004MPS 300V040 9999 SCT033 17/02 Q1016 NOSIG RMK QFE654.5 37 MOP OMAL 230700Z 15018KT 6000 NSC 40/16 Q1004 A2966 NOSIG YWLG 230700Z AUTO 14008KT 9999 // SCT076 22/05 Q1024 TQPF 222100Z 12013KT 9999 SCT018 SCT070 BKN260 29/24 Q1012 YWLM 230700Z AUTO 09004KT 9999 // SCT040 OVC057 14/13 Q1028 RESHRA DITB 230500Z 00000KT 6000 FEW013 21/21 Q1013 NOSIG UHPP 230700Z VRB01MPS 9999 -SHRA FEW010 BKN033CB 14/12 Q1008 NOSIG RMK QBB300 MT OBSC QFE752/1003 SC045 050 050 EBBE 230625Z AUTO 23009KT 8000 BKN006/// 12/11 Q1013 YLO DISP 230500Z 22004KT 9999 SCT013 23/22 Q1013 NOSIG OMDB 230700Z 11014G26KT 7000 NSC 39/23 Q1002 NOSIG DISS 230500Z 24004KT 9999 FEW013 22/22 Q1012 NOSIG EBBL 230655Z 24005KT 4500 BR FEW004 BKN006 12/12 Q1013 YLO EBAW 230650Z 25007KT 210V270 9999 FEW008 13/11 Q1013 NOSIG UIII 230700Z 34005MPS 270V360 9999 FEW033CB SCT100 OVC200 19/05 Q1015 NOSIG RMK QFE717/0956 30CLRD60 EBCI 230650Z 21009KT 9999 FEW007 12/10 Q1014 BECMG SCT010 EBBR 230650Z 23008KT 9999 SCT006 13/10 Q1013 TEMPO BKN006 VAAH 230710Z 36003KT 6000 FEW020 BKN080 33/25 Q1007 NOSIG YWOL 230700Z AUTO 08004KT 9999 // SCT036 BKN081 BKN120 15/13 Q1030 VABB 230710Z 32008KT 4000 HZ FEW020 FEW025TCU SCT100 31/27 Q1006 TEMPO 1500 SHRA OMDW 230700Z 13010KT 100V160 9000 NSC 41/15 Q1003 NOSIG EBCV 230657Z AUTO 24004KT 9999 FEW007/// SCT085/// 13/11 Q1014 BLU UHSS 230700Z 01003MPS 8000 -SHRA BKN008CB 19/18 Q1007 NOSIG RMK MT OBSC QFE754/1005 19190060 OMFJ 230700Z 11012KT 070V140 6000 BKN025 33/26 Q1005 A2970 EBDT 230713Z AUTO 23006KT 9999 FEW005/// BKN007/// BKN080/// 13/12 Q1013 GRN EBFN 230655Z 29006KT 9999 FEW014 BKN080 13/12 Q1014 BLU EBFS 230655Z AUTO 22008KT 9999 FEW003/// SCT006/// BKN080/// 11/10 Q1014 YLO DIYO 230700Z 26008KT 6000 DZ BKN003 OVC008 23/22 Q1015 NOSIG YWUD 230700Z AUTO 21006KT //// // ////// 18/03 Q1026 YWTN 230700Z AUTO 14012KT //// // ////// 27/02 Q1018 UHWW 230700Z 35003MPS 9999 SCT011 BKN033CB OVC200 25/19 Q1004 NOSIG RMK MT OBS QFE751/1002 2519//65 TRPG 222200Z 13009KT 9999 HZ SCT022 SCT040 BKN260 26/23 Q1013 EBLB 230650Z AUTO 25006KT 9999 FEW004/// SCT014/// BKN055/// 10/09 Q1014 GRN EBLG 230650Z 22010KT 9999 FEW014 12/10 Q1013 NOSIG YWWL 230700Z AUTO 11005KT //// // ////// 17/07 Q1027 UKBB 230700Z 00000MPS CAVOK 19/08 Q1020 88CLRD95 NOSIG YWYM 230700Z AUTO 13011KT 070V130 //// // ////// 32/M06 Q1013 CTNK 230700Z AUTO 00000KT 15/15 RMK AO1 SLP191 T01450146 50002 UKDD 230700Z 34005MPS 300V020 9999 OVC036 17/12 Q1017 26090070 NOSIG UKDE 230700Z 32004MPS 270V360 9999 BKN028 17/11 Q1018 02CLRD70 NOSIG TTCP 230700Z 09008KT 7000 VCSH SCT016 SCT040 28/23 Q1012 NOSIG UIUU 230700Z 34003MPS 260V040 9999 SCT030 21/05 Q1013 NOSIG RMK QFE715/0954 26CLRD60 EBOS 230650Z 29010KT 9999 FEW024 14/09 Q1013 NOSIG UKDR 230700Z 35005MPS 320V030 9999 FEW033 SCT100 16/11 Q1019 3609//70 NOSIG OMRK 230700Z 12022KT 6000 NSC 37/23 Q1002 A2961 CTRA 230700Z AUTO 00000KT 19/17 RMK AO1 SLP174 T01860172 51007 VANP 230710Z 21004KT 5000 HZ SCT020 BKN100 31/26 Q1009 NOSIG OMSJ 230700Z 10015KT 7000 NSC 38/24 Q1003 EDAC 222350Z 20005KT CAVOK 13/07 Q1013 EDAH 230720Z 24011KT 9999 SCT012 14/09 Q1010 EDBC 221820Z 20009KT CAVOK 17/07 Q1011 UKHH 230700Z 01005MPS 340V040 9999 SCT033 BKN100 19/10 Q1016 250///65 NOSIG YYNG 230700Z AUTO 11003KT //// // ////// 17/06 Q1026 ULAA 230700Z 34004G08MPS 290V030 9999 -SHRA BKN010CB OVC/// 12/11 Q1001 BECMG 2000 SHRA BR BKN005CB RMK QFE749/0999 SC060 EDDB 230720Z 24009KT 9999 FEW020 SCT056 BKN100 14/10 Q1012 NOSIG EDDC 230720Z VRB01KT CAVOK 16/08 Q1013 NOSIG EDDE 230720Z 24008KT 9999 SCT023 SCT040 14/09 Q1013 NOSIG EDDF 230720Z 22007KT 9999 FEW028 SCT080 BKN100 15/11 Q1014 NOSIG EDDG 230720Z 17004KT 2000 BR SCT003 SCT100 12/11 Q1012 BECMG 5000 EDDH 230720Z 22009KT 200V260 9999 FEW009 SCT060 13/10 Q1010 NOSIG KAAA 230715Z AUTO 00000KT 5SM BR BKN090 OVC110 25/24 A2992 RMK AO2 T02480237 KC09 230715Z AUTO 00000KT 5SM BR SCT075 23/23 A2997 RMK AO2 T02310231 PFEL 230658Z AUTO 35003KT 10SM CLR 14/09 A3020 RMK AO2 SLP231 T01390089 EDDK 230720Z 20002KT 9999 FEW020 SCT030 BKN090 13/11 Q1013 NOSIG EDDL 230720Z 23008KT 9999 FEW008 SCT040 13/11 Q1013 NOSIG EDDM 230720Z 22006KT 180V250 CAVOK 16/11 Q1016 NOSIG KAAF 230653Z AUTO 00000KT 10SM CLR 26/23 A2998 RMK AO2 SLP153 T02560228 EDDN 230720Z 12003KT 080V150 CAVOK 13/10 Q1014 BECMG 23005KT VCBI 230610Z 21011KT 9000 -SHRA SCT012 SCT016 FEW020CB 27/24 Q1011 NOSIG EDDP 230720Z 25008KT 9999 -RA FEW030 BKN062 BKN090 15/11 Q1013 NOSIG UKKK 230700Z 32002MPS 250V060 CAVOK 19/09 Q1020 26CLRD70 NOSIG EDDR 230720Z 24005KT 200V270 9999 FEW006 SCT018 BKN100 12/10 Q1015 NOSIG UKKM 230700Z AUTO VRB01MPS 9999 NCD 19/08 Q1020 EDDS 230720Z 20005KT CAVOK 15/10 Q1015 NOSIG EDDT 230720Z 25009KT 9999 FEW020 SCT090 15/10 Q1012 NOSIG ZPPP 230700Z 22005MPS 190V260 9999 FEW026CB SCT026 24/16 Q1019 BCMEG TL0720 TSRA KABE 230721Z 05004KT 10SM SCT023 OVC045 19/16 A3003 RMK AO2 EDDV 230720Z 25009KT 210V280 9999 FEW013 14/11 Q1012 NOSIG EDFE 230650Z 19002KT 9999 VCSH FEW020 BKN068 13/10 Q1014 EDDW 230720Z 22007KT 9999 FEW007 SCT100 13/11 Q1011 NOSIG KAAO 230654Z AUTO 18013KT 10SM CLR 27/18 A2991 RMK AO2 SLP108 T02720178 UKLI 230700Z 11004MPS 070V140 CAVOK 16/12 Q1018 NOSIG KABH 230656Z AUTO 10006KT 10SM CLR 13/13 A3007 RMK AO2 SLP114 T01330128 PNO $ KABI 230652Z 18014G22KT 10SM CLR 29/13 A3000 RMK AO2 SLP125 T02890128 EDFH 230720Z 27007KT 9999 BKN007 11/10 Q1014 UKLL 230700Z 16003MPS 130V190 CAVOK 17/11 Q1017 13CLRD80 NOSIG KACB 230712Z AUTO 00000KT 7SM OVC080 19/18 A3004 RMK AO2 T01850175 KAAT 230655Z AUTO 01010KT 10SM CLR 17/M02 A3008 RMK AO2 SLP144 T01671022 KC29 230715Z AUTO 12004KT 7SM SCT007 BKN024 BKN030 25/25 A2998 RMK AO1 T02500246 UKLN 230700Z 09004MPS 070V140 CAVOK 16/14 Q1019 1509//70 NOSIG EDFM 230650Z 18004KT 140V220 CAVOK 16/10 Q1014 UKLR 230700Z 18004MPS 110V220 CAVOK 17/10 Q1018 NOSIG KC35 230715Z AUTO 00000KT 1 1/2SM BR OVC005 22/22 A2997 RMK AO2 T02230222 KABQ 230652Z 14004KT 10SM SCT120 BKN150 15/13 A3018 RMK AO2 SLP161 T01500133 402220144 KABR 230653Z AUTO 04009G17KT 10SM BKN007 18/18 A3001 RMK AO2 SLP157 T01830178 UKLU 230700Z 00000MPS 9999 FEW100 18/12 Q1017 NOSIG KACJ 230715Z AUTO 31005KT 10SM CLR 26/22 A3000 RMK AO2 KACK 230653Z AUTO 04007KT 10SM FEW016 16/15 A3004 RMK AO2 SLP173 T01610150 TSNO KADC 230714Z AUTO 36003KT 1/2SM FG OVC002 19/18 A3004 RMK AO2 KADF 230720Z AUTO 00000KT 1 1/4SM BR CLR 24/24 A3000 RMK AO2 $ KADG 230653Z AUTO 11003KT 10SM BKN014 21/18 A3001 RMK AO2 SLP158 T02110178 KABY 230653Z 00000KT 10SM CLR 25/23 A3000 RMK AO2 SLP155 T02500233 KACP 230715Z AUTO 00000KT 5SM BR CLR 23/22 A3001 RMK AO2 T02310224 KACQ 230715Z AUTO 12003KT 5SM BR CLR 19/17 A3003 RMK AO2 KADH 230715Z AUTO 16008KT 10SM CLR 26/21 A2997 RMK AO2 EDHI 230720Z 24008KT 9999 FEW009 SCT014 12/10 Q1010 EDGS 230650Z 24005KT 200V290 9999 SCT005 BKN012 10/09 Q1013 KACT 230651Z 20010KT 10SM CLR 28/20 A2998 RMK AO2 SLP144 T02830200 EDHK 230650Z 23010KT 200V260 9999 BKN039 BKN051 12/10 Q1009 KACV 230653Z AUTO 18007KT 10SM OVC007 15/13 A2994 RMK AO2 SLP143 T01500128 EDHL 230720Z 25010KT 9000 SCT016 13/10 Q1010 RMK ATIS FOX KADM 230715Z AUTO 00000KT 10SM CLR 23/21 A2995 RMK AO2 T02300206 KACY 230654Z 00000KT 10SM CLR 17/16 A3000 RMK AO2 SLP158 T01720161 $ KAEG 230715Z AUTO 00000KT 10SM CLR 13/12 A3019 RMK AO2 T01270119 KADS 230715Z AUTO 18010G17KT 10SM CLR 30/19 A2999 RMK AO2 T03010190 KAEJ 230715Z AUTO 00000KT 10SM OVC065 10/07 A3022 RMK AO2 T00950072 EDJA 230650Z 22004KT 9999 FEW052 SCT096 14/09 Q1016 UKON 230700Z 02005MPS 320V060 CAVOK 20/09 Q1019 NOSIG KAEL 230712Z AUTO 07003KT 5SM BR CLR 21/19 A3000 RMK AO2 KADU 230715Z AUTO 00000KT 4SM BR SCT005 23/22 A2995 RMK AO2 UKOO 230700Z 07004MPS 030V160 CAVOK 20/09 Q1020 34090065 NOSIG KADW 230658Z AUTO 07005KT 10SM OVC018 21/20 A3000 RMK AO2 SLP164 T02090201 $ CWAE 230100Z 00000KT 15SM FEW060 24/03 A3009 RMK CU2 LAST OBS/NEXT 231300UTC WND ESTD SLP183 DENSITY ALT 3400FT KAFF 230703Z AUTO 34005KT 10SM BKN019 12/11 A3011 RMK AO2 CWAF 230700Z AUTO 34004KT 12/11 RMK AO1 T01190108 KAFJ 230715Z AUTO 00000KT 1/2SM OVC002 19/19 A2999 RMK AO1 CWBA 230700Z AUTO 35003KT 15/15 RMK AO1 T01500147 CWAJ 230700Z AUTO 34002KT 19/18 RMK AO1 SLP152 T01920181 58008 KAFK 230715Z AUTO 34006KT 10SM TS BKN075 OVC100 23/23 A2991 RMK AO2 LTG DSNT NW THRU E T02300230 KAGC 230712Z 28004KT 3SM BR OVC008 21/20 A2998 RMK AO2 TTPP 230700Z 00000KT 9999 FEW016 26/24 Q1011 NOSIG KAFN 230659Z AUTO 00000KT 10SM SCT005 SCT080 OVC120 14/14 A3013 RMK AO2 T01440139 CWBE 230700Z AUTO 07006KT 19/17 RMK AO1 SLP188 T01910168 54000 KAEX 230653Z AUTO 00000KT 9SM CLR 25/23 A2999 RMK AO2 SLP156 T02500228 KAFO 230715Z AUTO 00000KT 10SM SCT027 BKN038 OVC048 08/07 A3008 RMK AO2 KAFP 230715Z AUTO 00000KT 7SM CLR 23/22 A2992 RMK AO2 T02270215 KC75 230715Z AUTO 00000KT 10SM BKN095 23/22 A2995 RMK AO2 T02300217 CWAQ 230700Z AUTO 06009KT 14/12 RMK AO1 SLP207 T01430122 58003 PFKT 230555Z 30005KT 10SM OVC060 11/08 A3021 RMK VIA PHONE CWAR 230700Z AUTO 02011KT 13/10 RMK AO1 PK WND 02018/0608 SLP146 T01330095 57002 CWCA 230700Z 34005KT 3SM -DZ BR OVC007 08/07 A3015 RMK ST8 SLP210 CWBK 230700Z AUTO 02010KT 17/13 RMK AO1 SLP184 T01660134 57007 CWAV 230700Z AUTO 00000KT 09/08 RMK AO1 SLP292 T00880076 58003 KAFW 230653Z 17008KT 10SM CLR 29/18 A2995 RMK AO2 SLP123 T02890183 CWCF 230700Z AUTO 04006KT 11/09 RMK AO1 SLP238 T01120090 50004 CWBO 230700Z AUTO 03006KT 09/09 RMK AO1 3PAST HR 8005 SLP270 P0001 T00890088 50003 CWCI 230600Z AUTO 09010KT 15/14 RMK AO1 SLP177 T01460139 51003 KAGS 230653Z AUTO 00000KT 10SM CLR 23/22 A2993 RMK AO2 SLP135 T02330217 KAIA 230707Z AUTO 06005KT 10SM -RA BKN006 OVC100 17/16 A2997 RMK AO2 P0000 T01720161 CWDA 230600Z AUTO 33010KT 10/10 RMK AO1 SLP181 T00950100 56013 CWBS 230700Z AUTO 02009KT 17/16 RMK AO1 T01740163 CWCJ 230700Z AUTO 08002KT 16/16 RMK AO1 SLP182 T01640156 53001 EDMA 230720Z 26006KT 240V300 CAVOK 17/10 Q1016 RMK ATIS ROM KAIB 230715Z AUTO 12004KT 10SM BKN080 OVC120 13/09 A3015 RMK AO2 LTG DSNT NW CWBT 230600Z AUTO 02001KT 14/14 RMK AO1 SLP200 T01400138 58007 KAID 221952Z 29010KT 10SM BKN025 28/22 A2999 CWBU 230700Z AUTO 07005KT 12/11 RMK AO1 SLP274 T01230111 51009 CWCL 230700Z AUTO 00000KT 9SM 09/02 A3022 RMK SLP237 CWBV 222300Z AUTO 06007KT 18/18 RMK AO1 SLP184 T01770177 KAHN 230651Z AUTO 00000KT 10SM CLR 24/21 A2999 RMK AO2 SLP147 T02390206 EDLN 230720Z 24005KT 180V290 8000 FEW011 SCT040 13/12 Q1013 RMK ATIS D CWCO 230700Z AUTO 21002KT 18/18 RMK AO1 SLP162 T01750177 58002 KAIG 230715Z AUTO 00000KT 2 1/2SM BR SCT004 BKN010 OVC024 20/20 A3004 RMK AO2 T02020201 CWBY 230700Z AUTO 00000KT 13/12 RMK AO1 SLP198 T01340123 56008 EDLP 230720Z 26004KT 200V340 9999 SCT014 SCT042 12/09 Q1013 RMK ATIS NOV KAHQ 230715Z AUTO 36004KT 3SM RA SCT007 BKN050 OVC085 21/19 A2998 RMK AO2 P0015 T02080192 CWBZ 230700Z AUTO 08003KT 16/15 RMK AO1 SLP187 T01600153 56001 UMBB 230700Z 15003MPS 7000 NSC 17/10 Q1016 NOSIG KD07 230656Z AUTO 08014KT 18/18 A2999 RMK AO1 SLP147 T01830178 402330167 OOMS 230650Z 05015KT 020V090 7000 NSC 31/26 Q1005 NOSIG CWDJ 230700Z AUTO 06009KT 14/10 RMK AO1 SLP236 T01380099 51001 KAIK 230715Z AUTO 00000KT 10SM CLR 25/22 A2998 RMK AO2 PNO KBAB 230658Z AUTO 18003KT 10SM CLR 17/12 A2985 RMK AO2 SLP182 T01740124 $ CWEB 230700Z AUTO 05005KT 12/12 RMK AO1 SLP196 T01210115 51001 CWDK 230700Z AUTO 10003KT 09/07 RMK AO1 3PAST HR 5000 SLP287 P0001 T00870073 50003 CWCT 230700Z AUTO 02005KT 08/06 RMK AO1 SLP289 T00750056 58002 KBAC 230715Z AUTO 04010G16KT 10SM OVC010 17/17 A3007 RMK AO2 KBAD 230658Z AUTO 13003KT 10SM CLR 24/22 A3000 RMK AO2 SLP160 T02370220 CWDM 230700Z AUTO 03003KT 13/13 RMK AO1 SLP192 T01250132 57004 EDLV 230650Z VRB05KT 5000 -RA BR FEW004 BKN040 11/11 Q1013 PFNO 230658Z AUTO 36003KT 6SM BR CLR 12/10 A3020 RMK AO2 SLP229 T01220100 CWEE 230600Z AUTO 10/10 RMK AO1 SLP217 T01020097 51005 KBAF 230653Z AUTO 01004KT 10SM FEW049 OVC065 18/16 A3009 RMK AO2 SLP190 T01780161 EDLW 230720Z 24006KT 200V270 CAVOK 13/10 Q1013 RMK ATIS I KAIO 230715Z AUTO 04005KT 5SM -RA FEW002 SCT040 OVC075 22/22 A2992 RMK AO2 EDMO 230720Z 22006KT CAVOK 16/09 Q1016 CWEF 230600Z AUTO 04012KT 16/13 RMK AO1 SLP176 T01620134 58006 CWDO 230700Z AUTO 01017G22KT 11/10 RMK AO1 PK WND 01027/0623 SLP166 T01080099 56005 KAJG 230715Z AUTO 17005KT 7SM CLR 26/25 A2997 RMK AO2 LTG DSNT S CWDQ 232200Z AUTO 17004KT 25/15 RMK AO1 SLP199 T02490146 55002 CWEH 230700Z AUTO 06015G21KT 11/11 RMK AO1 PK WND 07022/0642 SLP224 T01110111 58006 EEEI 230650Z 14005KT 100V170 9999 FEW050 15/12 Q1010 NOSIG KBAK 230155Z 00000KT 10SM SCT080 24/23 A3000 KBBB 230714Z AUTO 00000KT 10SM CLR 21/20 A3000 RMK AO2 KAIT 230714Z AUTO 00000KT 1/2SM HZ OVC001 18/15 A3003 RMK AO2 CWEK 230700Z AUTO 21007KT 14/ RMK AO1 SLP205 T0137 58006 CWDT 230600Z AUTO 32003KT 12/10 RMK AO1 SLP234 T01180095 CWEL 230700Z AUTO 17006KT 19/12 RMK AO1 SLP183 T01880124 51011 KBBD 230715Z AUTO 16005KT 10SM CLR 25/14 A3003 RMK NWWW 230700Z AUTO 00000KT 9999 NSC 20/18 Q1018 CWDV 230700Z AUTO 00000KT 17/16 RMK AO1 SLP192 T01690160 51001 CWFD 230700Z AUTO 01018G23KT 0SM CLR 00/ A2975 RMK SLP112 KBAN 230652Z AUTO 27008KT CLR 14/M01 A3017 RMK AO2 SLP115 T01391011 $ KAJO 230656Z AUTO 25005KT 10SM CLR 19/17 A2997 RMK AO2 T01880166 SLP140 $ KBBF 230715Z AUTO 17016KT 5SM HZ FEW020 29/24 A2997 RMK A01 ULLI 230700Z 23005MPS 9999 SCT018 BKN200 16/12 Q1012 NOSIG CWFF 230700Z AUTO 08003KT 11/10 RMK AO1 SLP269 T01110103 50001 KBBG 230715Z AUTO 00000KT 10SM CLR 25/23 A3002 RMK AO2 KD25 230715Z AUTO 00000KT 10SM OVC002 18/18 A3005 RMK AO2 T01760176 CWEP 230700Z AUTO 03013KT 16/12 RMK AO1 SLP186 T01640115 56009 KAIZ 230715Z AUTO 21004KT 10SM CLR 25/21 A2996 RMK AO1 KAKH 230654Z AUTO 00000KT 10SM CLR 23/22 A2996 RMK AO2 SLP136 T02330222 CWDZ 230700Z AUTO 10003KT 11/06 RMK AO1 SLP276 T01070059 50001 CWEQ 230700Z AUTO 04004KT 12/11 RMK AO1 SLP259 T01220106 50004 CWER 230700Z AUTO 04008KT RMK AO1 CWFJ 230700Z AUTO 35007KT 07/07 RMK AO1 1PAST HR M P0004 T00710071 50011 KALB 230651Z 35003KT 10SM FEW004 OVC038 18/16 A3009 RMK AO2 SLP188 FEW V SCT T01780161 $ KBCB 230715Z AUTO 28004KT 10SM BKN100 21/21 A3006 RMK AO2 TSNO CWGB 230700Z AUTO 25004KT 20/14 RMK AO1 SLP181 T01970143 53010 CWEU 230700Z 12002KT 6SM -RA FEW015 OVC020 02/M01 A2997 RMK SF1SC8 SLP152 CWGD 230700Z AUTO 09004KT 18/16 RMK AO1 SLP160 T01770155 58004 KBCE 230653Z AUTO 14007KT 10SM CLR 12/08 A3018 RMK AO2 SLP114 T01170078 401890067 CWEW 230700Z AUTO 01004KT 17/16 RMK AO1 SLP208 T01670156 55001 KAKO 230653Z AUTO 02003KT 10SM OVC003 16/15 A3000 RMK AO2 SLP110 T01610150 402440156 KBAX 230716Z AUTO 00000KT 1/2SM FG OVC003 17/17 A3004 RMK AO2 T01650165 KBBP 230715Z AUTO 05004KT 10SM -RA CLR 26/26 A2992 RMK AO2 KBAZ 230651Z AUTO 18006KT 10SM SCT015 25/23 A3001 RMK AO2 SLP150 T02500228 EDOP 230720Z 25009KT 9999 BKN012 12/12 Q1011 KAKQ 230654Z AUTO 00000KT 5SM BR SCT095 22/21 A2995 RMK AO2 SLP140 T02220206 TSNO EDNY 230650Z VRB01KT CAVOK 15/10 Q1016 RMK ATIS F KAJZ 230715Z AUTO 08005KT 10SM RA BKN095 OVC110 18/10 A3007 RMK AO2 LTG DSNT W AND NW T01760104 CWFQ 230700Z AUTO 13002KT 15/15 RMK AO1 T01470147 CWEZ 230700Z AUTO 26011KT 15/11 RMK AO1 SLP183 T01530108 53007 KALI 230653Z AUTO 16005KT 10SM CLR 24/23 A2998 RMK AO2 SLP149 T02440233 KAKR 230654Z AUTO 00000KT 4SM BR CLR 21/19 A2998 RMK AO2 SLP143 T02060189 KAMA 230653Z AUTO 17009KT 10SM FEW100 23/13 A3002 RMK AO2 SLP103 T02280133 ULMM 230700Z VRB02MPS CAVOK 09/02 Q1007 NOSIG RMK QFE748 31090070 KD39 230713Z AUTO 08005KT 10SM CLR 20/19 A3002 RMK AO2 T01960190 KALK 230656Z AUTO 21008KT 10SM CLR 19/15 A3017 RMK AO2 SLP128 T01890150 402610150 TSNO KBCK 230715Z AUTO 01004KT 4SM BR OVC004 23/23 A2997 RMK AO2 T02250225 CWGL 230700Z AUTO 05002KT 19/17 RMK AO1 SLP170 T01870172 58001 KALM 230715Z AUTO 00000KT 10SM CLR 18/15 A3011 RMK AO2 CWGM 230700Z AUTO 36003KT 06/06 RMK AO1 9PAST HR M P0004 T00550057 50009 KBDE 230702Z AUTO 34003KT 10SM BKN027 17/17 A3008 RMK AO2 T01720167 TSNO KBBW 230653Z AUTO 15013G18KT 5SM RA FEW065 BKN100 OVC120 20/ A2994 RMK AO2 LTG DSNT SE PRESFR SLP113 P0009 T0200 $ KALN 230715Z AUTO 10003KT 4SM BR CLR 25/25 A2994 RMK AO2 T02500250 KALO 230719Z AUTO 03005KT 10SM -RA OVC016 24/22 A2994 RMK AO2 LTG DSNT SE RAB03 P0001 T02390222 KAMG 230653Z AUTO 00000KT 7SM CLR 25/23 A2996 RMK AO2 SLP141 T02500233 KBDG 230715Z AUTO 01004KT 10SM BKN080 BKN100 14/11 A3019 RMK AO1 T01390113 KBDH 230715Z AUTO 07006KT 10SM CLR 22/20 A3001 RMK AO2 NZAA 230701Z 19010KT 30KM FEW035 11/09 Q1029 RMK VATSIM USE ONLY OOSA 230650Z 21006KT 130V270 9999 FEW012 BKN020 29/22 Q1005 NOSIG RMK03 RH67 CWHI 230600Z AUTO 06002KT 10/07 RMK AO1 T01000073 CWGR 230700Z AUTO 01009KT 15/13 RMK AO1 SLP189 T01490129 57006 ZSAM 230700Z 19005MPS 160V220 9999 FEW026TCU 34/25 Q1007 NOSIG KALS 230700Z AUTO 05003KT 10SM BKN011 09/09 A3024 RMK AO2 T00940089 KBEA 230715Z AUTO 15003KT 10SM CLR 24/24 A2999 RMK AO2 T02410236 KBCT 222353Z 09006KT 10SM CLR M/M A3000 KANB 230653Z AUTO 00000KT 9SM CLR 23/22 A3002 RMK AO2 SLP152 T02330222 KD50 230715Z AUTO 06010G16KT 10SM OVC016 14/14 A3017 RMK AO2 CWGT 230700Z AUTO 30007KT 21/14 RMK AO1 SLP182 T02060142 53008 KBDL 230651Z 01006KT 10SM FEW019 FEW049 BKN075 18/16 A3008 RMK AO2 SLP185 T01780156 CWHL 230700Z AUTO 27005KT 14/13 RMK AO1 SLP209 T01370130 56007 KAND 230656Z AUTO 30003KT 10SM CLR 24/21 A2997 RMK AO2 SLP137 T02390211 KBED 230655Z AUTO 01003KT 10SM BKN009 OVC110 16/15 A3009 RMK AO2 SLP202 T01610150 TSNO CWID 230700Z AUTO 13004KT 13/04 RMK AO1 SLP247 T01340044 55000 CWHM 230700Z AUTO 08001KT 14/14 RMK AO1 T01350135 KBDN 230715Z AUTO 00000KT 10SM CLR 13/07 A3015 RMK AO2 EDQM 230720Z 20008KT CAVOK 12/07 Q1014 KALW 230653Z AUTO 35008KT 10SM CLR 16/11 A3001 RMK AO2 SLP160 T01560106 KANE 230713Z AUTO 02006KT 7SM BKN003 21/21 A3000 RMK AO2 KAMN 230713Z AUTO 05004KT 7SM CLR 18/17 A3004 RMK AO2 T01750167 CWGW 230700Z AUTO 10001KT 10/06 RMK AO1 SLP269 T00980060 55001 CWHN 230700Z AUTO 03002KT 9SM FEW059 09/04 A3038 RMK SLP305 KALX 230715Z AUTO 00000KT 10SM CLR 26/23 A3001 RMK AO2 T02560227 CWHO 230700Z AUTO 21004KT 11/10 RMK AO1 SLP210 T01110104 58011 CWGX 230700Z AUTO 03013KT 08/04 RMK AO1 PK WND 03018/0601 SLP295 T00760043 51006 KD55 230715Z AUTO 01010KT 2SM BR OVC002 14/13 A3013 RMK AO2 PFSH 230658Z AUTO 05004KT 7SM CLR 12/10 A3020 RMK AO2 SLP240 T01220100 CWHP 230700Z AUTO 32005KT RMK AO1 56007 CWIG 230700Z AUTO 07006KT RMK AO1 CWGY 230700Z AUTO 31003KT 10/07 RMK AO1 SLP283 T00970073 58003 KBEH 230653Z AUTO 06003KT 4SM BR CLR 21/21 A2997 RMK AO2 SLP145 T02110206 CWHQ 230700Z AUTO 03001KT 13/ RMK AO1 T0129 KBDR 230652Z AUTO 05009KT 10SM OVC070 20/16 A3006 RMK AO2 SLP178 T02000156 KD57 230715Z AUTO 08013KT 10SM OVC008 17/16 A3004 RMK AO2 CWII 230700Z AUTO 02008KT 16/14 RMK AO1 T01570142 KANJ 230655Z AUTO 00000KT 5SM BR FEW027 18/16 A3007 RMK AO2 SLP176 T01780161 CWIJ 230700Z AUTO 19012KT 06/03 RMK AO1 PK WND 20017/0625 SLP290 T00640032 51002 KD60 230715Z AUTO 07011G17KT 9SM SCT013 13/13 A3016 RMK AO2 KANK 230715Z AUTO 00000KT 10SM SCT060 SCT090 13/08 A3027 RMK AO1 T01280080 OPKC 230655Z 24012KT 7000 SCT020 BKN030 32/20 Q1007 NOSIG CWJB 230700Z AUTO 04003KT 16/15 RMK AO1 T01570148 CWHT 230700Z AUTO 01003KT 10/05 RMK AO1 SLP218 T01010051 53015 CWIK 230700Z AUTO 07005KT 13/09 RMK AO1 SLP246 T01270094 51005 EDSB 230720Z 22006KT CAVOK 15/10 Q1015 KBDU 230715Z AUTO 00000KT 10SM SCT016 BKN050 BKN060 16/15 A3003 RMK AO2 CWJC 230600Z AUTO 04005KT 06/01 RMK AO1 SLP339 T00620012 51007 ULOO 230700Z 12002MPS P6000 NSC 15/10 Q1013 NOSIG RMK QFE756 CWIL 230700Z AUTO 24011KT 05/ A3037 RMK SLP294 KBFD 230712Z AUTO 12003KT 1 1/4SM BR OVC002 18/18 A3003 RMK AO2 T01830178 CWHV 230700Z AUTO 00000KT 12/11 RMK AO1 SLP212 T01170114 57003 CWJD 230700Z AUTO 06008KT 14/10 RMK AO1 PK WND 05018/0603 SLP263 T01440102 51008 UMGG 230700Z VRB02MPS CAVOK 18/10 Q1020 R10/CLRD// NOSIG KAMW 230653Z AUTO 00000KT 4SM BR FEW012 OVC080 24/24 A2994 RMK AO2 SLP127 T02390239 NZAP 230700Z 12005KT 35KM SKC 08/03 Q1030 RMK ALT VATSIM USE ONLY KBFF 230653Z AUTO 09004KT 10SM SCT065 BKN080 17/16 A2997 RMK AO2 SLP107 T01720156 402500167 CXAF 230700Z AUTO 35003KT 02/01 RMK AO1 T00200013 TUPJ 230100Z 15008KT 9999 FEW015CB SCT018 BKN220 28/25 Q1013 RMK A2992 JP/CB/NE CXAG 230600Z AUTO 00000KT 03/02 RMK AO1 T00290021 CWIP 230700Z AUTO 29003KT 15/ RMK AO1 T0149 KANQ 230735Z AUTO 00000KT 8SM SCT028 OVC039 23/22 A3000 RMK KAOH 230720Z AUTO 00000KT 1SM BR VV013 22/21 A2999 RMK AO2 VIS 1/2V4 T02170206 CWJH 230700Z AUTO 09002KT 10/08 RMK AO1 SLP306 T00970075 51009 KBFI 230653Z 00000KT 10SM CLR 19/13 A3009 RMK AO2 SLP190 T01940128 OPLA 230659Z 32007KT 6000 FEW040 35/22 Q1007 NOSIG CWJI 230700Z AUTO 07010KT 13/10 RMK AO1 SLP228 T01260100 58005 KAPA 230653Z 19004KT 10SM FEW018 SCT060 BKN120 14/12 A3006 RMK AO2 SLP126 T01390122 402060139 PHBK 230656Z AUTO 04004KT 10SM CLR 25/M02 A3000 RMK AO2 SLP161 T02501017 TSNO $ CXBA 230600Z AUTO 01004KT 10/07 RMK AO1 T00950071 CXAJ 230600Z AUTO 31003KT 01/01 RMK AO1 T00120008 CWIS 230700Z AUTO 08001KT 08/08 RMK AO1 SLP228 T00770075 56005 EEKA 230650Z 15006KT 9999 FEW030CB 16/13 Q1009 CXAK 230600Z AUTO 01003KT 08/05 RMK AO1 T00800052 KAPC 230654Z AUTO 20009KT 10SM OVC013 16/14 A2991 RMK AO2 SLP120 T01560139 KBFL 230654Z AUTO 34006KT 7SM CLR 26/09 A2988 RMK AO2 SLP112 T02610094 KBGD 230651Z AUTO 18005KT 10SM CLR 23/16 A3000 RMK AO2 SLP114 T02330156 $ KBFM 230653Z AUTO 26004KT 10SM CLR 27/24 A3000 RMK AO2 SLP160 T02720244 CWKD 230600Z AUTO 27001KT 14/11 RMK AO1 SLP229 T01400108 50000 KANW 230715Z AUTO 11004KT 5SM +TSRA SCT008 BKN014 OVC021 20/20 A2992 RMK AO2 LTG DSNT NW THRU NE P0008 T02040199 KBGE 230715Z AUTO 00000KT 7SM CLR 26/25 A2998 RMK AO2 CWIW 230700Z AUTO 05003KT 11/10 RMK AO1 SLP263 T01110103 51008 EEKE 230650Z 18009KT 9999 FEW035 16/12 Q1009 KAOO 230718Z AUTO 18004KT 3SM BR SCT007 BKN020 OVC029 21/20 A3001 RMK AO2 T02060200 KAPF 230653Z AUTO 00000KT 10SM CLR 26/23 A2996 RMK AO2 SLP144 T02560228 KBGF 230715Z AUTO 00000KT 10SM CLR 22/22 A3004 RMK KAPG 222355Z 09008KT 7SM BKN030 OVC060 24/19 A2999 CWIX 230600Z AUTO 08005KT 14/14 RMK AO1 T01430137 CWJO 230700Z AUTO 10001KT 13/12 RMK AO1 SLP229 T01320124 55000 NZCH 230702Z 16008KT 30KM VCSH SCT008 SCT017 07/06 Q1036 RMK VATSIM USE ONLY NZCI 230704Z 18012KT 20KM FEW024 SCT040 SCT050 10/07 Q1032 RMK NZNR VATSIM USE O CWIY 230700Z AUTO 00000KT 12/11 RMK AO1 SLP213 T01170111 56003 CWKG 230700Z AUTO 32002KT 15/13 RMK AO1 SLP185 T01480134 58009 EDRZ 230650Z 23005KT 9999 -RA FEW013 BKN022 11/10 Q1015 CWIZ 230700Z AUTO 04001KT 14/14 RMK AO1 T01420141 CWKH 230700Z AUTO 20/09 RMK AO1 SLP182 T01960089 CWJR 230700Z AUTO 17002KT 14/08 RMK AO1 SLP223 T01430082 51003 CXBI 230700Z AUTO 08003KT 18/18 RMK AO1 SLP176 T01750176 50000 CXCA 230700Z AUTO 00000KT 16/15 RMK AO1 SLP177 T01610153 50002 KBHB 230715Z 36004KT 10SM OVC070 17/16 A3011 RMK AO1 NZCM 230555Z 09021G23KT 8000 -SN IC BLSN OVC023 M29/M35 A2876 RMK PK WND 09031/49 SLP745 CWKK 230600Z AUTO 15001KT 17/17 RMK AO1 SLP186 T01720169 51005 CXAT 230600Z AUTO 32006KT 02/M00 RMK AO1 SLP227 T00191004 53005 CWJT 232200Z AUTO 07003KT 22/15 RMK AO1 SLP186 T02170147 53004 CXBK 230700Z AUTO 05005KT 12/11 RMK AO1 SLP227 T01180106 50000 CWLB 230700Z AUTO 31003KT 10/06 RMK AO1 SLP296 T00970056 58001 KBHC 230715Z AUTO 00000KT 10SM CLR 27/23 A2995 RMK AO2 EDTL 230620Z 19004KT 160V230 CAVOK 15/10 Q1016 CWJU 230700Z AUTO 29011KT 15/13 RMK AO1 SLP226 T01460130 58002 CWLC 230700Z AUTO 26006KT 14/ RMK AO1 T0143 KBGM 230653Z AUTO 15009KT 10SM BKN017 OVC042 17/15 A3005 RMK AO2 SLP169 T01670150 CXCD 230600Z AUTO 27003KT 04/02 RMK AO1 T00420015 CWJV 230700Z AUTO 11006KT 14/10 RMK AO1 SLP208 T01360104 51005 CWKM 230700Z AUTO 09006KT 01/ A3020 RMK SLP231 KAPN 230719Z AUTO 00000KT 1/2SM FG VV002 14/14 A3006 RMK AO2 T01440139 KBFW 230714Z AUTO 00000KT 10SM SCT019 16/16 A3005 RMK AO2 CWLE 230700Z AUTO 04006KT 12/11 RMK AO1 SLP247 T01200107 58004 CWJW 230700Z AUTO 04004KT 09/06 RMK AO1 SLP266 T00850062 58003 VCRI 230610Z 24013KT 9999 SCT016 BKN100 30/23 Q1010 NOSIG CWJX 230700Z AUTO 02010KT 10/09 RMK AO1 6PAST HR 8007 SLP259 P0002 T01020086 50006 CXBO 230700Z AUTO 00000KT RMK AO1 CWKO 230700Z AUTO 06004KT 12/12 RMK AO1 SLP226 T01150116 56005 UMII 230700Z 17002MPS CAVOK 12/09 Q1017 R23/CLRD// NOSIG UNAA 230700Z VRB02MPS CAVOK 24/06 Q1013 NOSIG RMK QFE737 20090065 CWKP 230700Z AUTO 22011KT 11/ A3013 RMK SLP224 CXCH 230700Z AUTO 13/12 RMK AO1 T01290119 KBGR 230653Z 02004KT 10SM FEW046 OVC075 17/14 A3013 RMK AO2 SLP199 T01720144 CXBR 230700Z AUTO 04005KT 08/07 RMK AO1 T00790071 CWLI 230700Z AUTO 23006KT 09/ A3014 RMK SLP217 KARA 230653Z AUTO 00000KT 10SM CLR 26/24 A3002 RMK AO2 SLP164 T02610244 KBHK 230709Z AUTO 09014KT 10SM -RA SCT009 BKN016 OVC031 17/16 A3002 RMK AO2 LTG DSNT S AND SW RAB06 P0000 T01720161 KARB 230653Z AUTO 05003KT 10SM BKN032 OVC050 21/17 A3001 RMK AO2 SLP155 T02110172 CXCK 230700Z AUTO 34007KT 13/09 RMK AO1 SLP218 T01290086 51014 CXDB 230600Z AUTO 35012KT 07/06 RMK AO1 0PAST HR M PK WND 00018/0527 P0004 T00670055 50029 NZDN 230642Z 14008KT 30KM SCT014 OVC018 09/06 Q1036 RMK VATSIM USE ONLY KBHM 230653Z 00000KT 10SM CLR 24/21 A3003 RMK AO2 SLP160 T02390211 KBID 230715Z AUTO 04007G14KT 10SM CLR 18/15 A3005 RMK AO1 CWLM 230700Z AUTO 27007KT 15/11 RMK AO1 SLP188 T01530112 53004 KBIE 230715Z AUTO 02008KT 10SM SCT011 SCT110 23/23 A2991 RMK AO2 LTG DSNT N AND E T02330225 EDVE 222350Z 22006KT 9999 FEW023 SCT033 12/12 Q1011 CXBW 230600Z AUTO 02009KT 08/08 RMK AO1 7PAST HR M P0003 T00840081 50025 CXDE 230700Z AUTO 07/05 RMK AO1 SLP217 T00710050 55000 CWME 230700Z AUTO 20005KT 20/12 RMK AO1 SLP197 T01970120 51006 KBIF 230656Z AUTO 19003KT 10SM SCT120 BKN130 23/16 A3011 RMK AO2 SLP137 T02320164 402650178 $ CWKW 230700Z AUTO ///// 18/ A3010 RMK SLP200 KAQO 230715Z AUTO 17005KT 10SM CLR 27/14 A3005 RMK AO2 CWKX 230700Z AUTO 00000KT 11/08 RMK AO1 SLP229 T01120077 51005 KD95 230714Z AUTO 00000KT 1/4SM FG OVC002 16/16 A3003 RMK AO2 T01620156 KAQP 230714Z AUTO 00000KT 10SM CLR 22/20 A2999 RMK AO2 KARG 230715Z AUTO 21003KT 10SM CLR 26/23 A2996 RMK AO1 OPNH 230700Z 18010KTS 8000M FEW035 35/23 Q.1005 KAPY 230715Z AUTO 15007KT 10SM CLR 26/21 A2998 RMK AO2 T02690208 EDTY 221750Z 27004KT CAVOK 17/05 Q1014 CXCP 230700Z AUTO 06004KT 08/07 RMK AO1 T00780071 CWLP 230700Z AUTO 27014KT 14/12 RMK AO1 SLP206 T01350118 51003 KBIH 230656Z AUTO 36010KT 10SM CLR 21/02 A2996 RMK AO2 SLP092 T02060017 UNBB 230700Z 03002MPS 340V090 CAVOK 23/07 Q1013 NOSIG RMK QFE737/0983 06CLRD66 KAQR 230715Z AUTO 16003KT 10SM CLR 27/24 A2998 RMK AO2 CXDI 230700Z AUTO 36001KT 16/16 RMK AO1 SLP151 T01630161 58007 OPMT 230555Z 27014KT 5000 DRDU NSC 35/22 Q1005 NOSIG KBIJ 230715Z AUTO 00000KT 7SM CLR 25/24 RMK AO2 CXCS 230600Z AUTO 03003KT 09/06 RMK AO1 T00930056 CWMJ 230700Z AUTO 33003KT 14/14 RMK AO1 SLP198 T01380138 55000 CWLS 230700Z AUTO 09003KT 16/15 RMK AO1 SLP171 T01600154 58002 CXEA 230700Z AUTO 04002KT 18/17 RMK AO1 SLP194 T01760168 52007 CWNB 230200Z AUTO RMK AO1 CXDK 230700Z AUTO 04001KT 09/08 RMK AO1 SLP217 T00850079 51002 KBJC 230714Z AUTO 27007KT 10SM SCT019 SCT060 15/13 A3006 RMK AO2 EDVK 230720Z 19004KT 160V250 9999 SCT030 BKN047 13/10 Q1013 RMK ATIS H KBIL 230721Z 04005KT 3/4SM R10L/4000VP6000FT BR OVC001 16/15 A2997 RMK AO2 T01560150 $ KE11 230715Z AUTO 00000KT 10SM CLR 24/15 A3005 RMK AO2 LTG DSNT SW T02410150 CXEC 230700Z AUTO 09/ RMK AO1 T0087 CWNC 230700Z AUTO 04003KT 19/18 RMK AO1 SLP161 T01940175 50000 KASD 230653Z AUTO 00000KT 9SM CLR 26/23 A3000 RMK AO2 SLP158 T02560233 KAQV 230656Z AUTO 00000KT 10SM CLR 25/23 A3000 RMK AO2 SLP155 T02500228 KCAD 230714Z AUTO 00000KT 10SM OVC060 17/16 A3005 RMK AO2 T01790169 KARM 230715Z AUTO 00000KT 7SM CLR 23/22 A3001 RMK AO2 T02280220 CWND 230600Z AUTO 31012KT 06/05 RMK AO1 PK WND 29018/0500 SLP182 T00620052 53004 CWMM 230700Z AUTO 00000KT 16/14 RMK AO1 SLP190 T01580138 51010 KASE 230653Z AUTO 21003KT 10SM BKN100 11/07 A3018 RMK AO2 SLP111 T01110072 401940106 KAQW 230652Z AUTO 10008KT 10SM OVC060 17/13 A3010 RMK AO2 SLP191 T01720133 $ KCAE 230656Z 00000KT 10SM CLR 25/22 A2991 RMK AO2 SLP125 T02500217 CWNE 230700Z AUTO 03007KT 16/13 RMK AO1 SLP199 T01640130 58007 KASG 230148Z 18004KT 10SM SKC 30/22 A3001 CWLX 230700Z AUTO 33013KT 04/ A3003 RMK SLP184 KCAG 230653Z AUTO 22006KT 10SM BKN065 OVC080 12/11 A3008 RMK AO2 SLP121 T01220111 402440106 CXDP 230700Z AUTO 09004KT 04/03 RMK AO1 T00390031 CXEG 230700Z AUTO 03/02 RMK AO1 T00280024 CWLY 230700Z AUTO 17004KT 9SM CLR 16/08 A3013 RMK SLP200 DENSITY ALT 800FT KASH 230651Z AUTO 00000KT 10SM BKN095 16/14 A3012 RMK AO2 T01610138 SLP446 KE16 230715Z AUTO 13008KT 10SM OVC009 16/14 A2995 RMK AO2 UMKK 230700Z 18005MPS 060V210 9999 FEW033CB BKN100 16/10 Q1010 NOSIG RMK QFE757/1009 CWMQ 230700Z AUTO 02012KT 10/09 RMK AO1 2PAST HR 8003 PK WND 03018/0638 SLP246 P0001 T01020093 50002 CWNH 230700Z AUTO 10001KT 11/11 RMK AO1 SLP215 T01110107 55003 ZSHC 230700Z 34005MPS 9999 SCT020 FEW026TCU 30/22 Q1006 BECMG TL0830 24003MPS KARR 230652Z AUTO 03003KT 5SM BR SCT049 BKN060 23/22 A2997 RMK AO2 SLP144 T02330217 KBJI 230710Z AUTO 03003KT 1/2SM FG OVC001 18/18 A3005 RMK AO2 T01760176 KBIS 230652Z AUTO 07012KT 10SM OVC010 18/16 A3007 RMK AO2 SLP179 T01830161 VECC 230720Z 17009KT 3600 -RA SCT018 FEW025CB SCT100 33/26 Q1005 TEMPO TL0920 2000 TSRA KBJJ 230656Z AUTO 34004KT 2 1/2SM BR CLR 19/18 A2999 RMK AO2 SLP148 T01890178 TSNO PNO KASJ 230715Z AUTO 00000KT 5SM CLR 22/21 A2994 RMK AO2 T02200208 KBKB 230654Z AUTO 00000KT 10SM CLR 25/23 A2999 RMK AO2 SLP179 T02500228 $ KCAK 230651Z 02004KT 5SM BR FEW070 20/18 A2999 RMK AO2 SLP145 T02000183 KART 230656Z AUTO 00000KT 10SM OVC034 18/16 A3004 RMK AO2 SLP168 T01830156 $ CWNK 230700Z AUTO 35006KT 14/13 RMK AO1 T01430126 CWMT 230700Z AUTO 14005KT 10/05 RMK AO1 SLP251 T01000053 58003 CWOB 230700Z AUTO 25013KT 15/ A2989 RMK SLP145 KASL 230715Z AUTO 00000KT 7SM CLR 25/23 A3001 RMK AO1 T02460228 CWNL 230600Z AUTO 35002KT 16/ RMK AO1 SLP179 T0155 53002 CWOC 230700Z AUTO 36004KT 12/12 RMK AO1 SLP208 T01180117 58002 KBIV 230653Z AUTO 08004KT 10SM CLR 21/20 A3000 RMK AO2 SLP156 T02110200 KBKD 230715Z AUTO 16007KT 7SM CLR 28/12 A2997 RMK AO2 T02810121 KARV 230710Z AUTO 00000KT 1/2SM FG OVC001 20/18 A3005 RMK AO2 T01950182 CWOD 230700Z AUTO 35003KT 12/12 RMK AO1 SLP203 T01190118 53004 CWNM 230700Z AUTO 10003KT 16/11 RMK AO1 SLP207 T01600114 51004 ZSFZ 230700Z 17007MPS CAVOK 31/26 Q1007 NOSIG KARW 230715Z AUTO 21003KT 10SM SCT075 27/25 A2992 RMK AO2 KBKE 230653Z AUTO 30011KT 10SM OVC080 12/08 A3006 RMK AO2 RAB0554E19 SLP163 P0000 T01170078 TSNO $ KASN 230715Z AUTO 00000KT 10SM CLR 25/24 A3002 RMK AO2 T02490236 KCBE 230721Z AUTO 00000KT 4SM SCT003 BKN019 BKN023 22/21 A3002 RMK AO1 CXDW 230700Z AUTO 34006KT 14/14 RMK AO1 T01400136 CWOE 230700Z AUTO 03012KT 10/09 RMK AO1 2PAST HR 8002 PK WND 03018/0614 SLP227 P0001 T01030092 50002 KCAO 230655Z AUTO 16013KT 10SM -RA FEW080 BKN100 21/13 A3005 RMK AO2 RAB26 SLP093 P0000 T02060133 403440178 KBIX 230658Z AUTO 00000KT 10SM CLR 28/25 A2999 RMK AO2 SLP158 T02790248 KCBF 230715Z AUTO 30009KT 1 3/4SM +RA BKN004 OVC027 23/23 A2994 RMK AO2 KBKF 230658Z 00000KT 10SM FEW012 BKN120 15/14 A3006 RMK AO2A SLP115 T01470142 402050145 KCBG 230715Z AUTO 03003KT 7SM OVC008 20/16 A3001 RMK AO2 CWNP 230700Z AUTO 03002KT 14/12 RMK AO1 SLP210 T01380120 50005 CWMZ 230600Z AUTO 11012KT 19/17 RMK AO1 SLP171 T01930173 50003 CWNQ 230700Z AUTO 06005KT 16/15 RMK AO1 SLP202 T01590152 50000 KCAR 230654Z AUTO 00000KT 10SM CLR 13/12 A3014 RMK AO2 SLP210 T01330122 KCCA 230715Z AUTO 00000KT 5SM BR CLR 23/23 A3000 RMK AO2 KAST 230655Z AUTO 00000KT 10SM OVC006 14/12 A3011 RMK AO2 SLP195 T01390122 KCBK 230715Z AUTO 09006KT 10SM CLR 18/18 A2992 RMK AO2 CXET 230700Z AUTO 05001KT 19/18 RMK AO1 SLP169 T01870176 58001 EFET 230650Z AUTO 06003KT 9999 BKN041 09/04 Q1007 KATL 230652Z 32006KT 10SM FEW250 26/22 A3001 RMK AO2 SLP150 T02560217 $ KBKL 230653Z AUTO 01003KT 10SM OVC070 23/19 A2997 RMK AO2 SLP144 T02280194 CWPC 230700Z AUTO 04011KT RMK AO1 58004 KCBM 230658Z AUTO 12002KT 10SM CLR 23/22 A3000 RMK AO2 SLP159 T02300223 $ KCAV 230715Z AUTO 07009KT 10SM FEW026 OVC036 23/22 A2997 RMK AO2 CXFM 230600Z AUTO 01014KT 09/09 RMK AO1 8PAST HR M PK WND 01021/0523 P0007 T00860086 50125 CWPD 230700Z AUTO 21003KT 06/06 RMK AO1 SLP203 T00640063 57002 UMMG 230700Z 18003MPS CAVOK 14/09 Q1014 NOSIG KBKN 230715Z AUTO 17010KT 10SM CLR 27/17 A2990 RMK AO2 KASW 230715Z AUTO 00000KT 3SM BR CLR 22/22 A2999 RMK AO2 CWPE 230700Z AUTO 01004KT 17/15 RMK AO1 SLP194 T01660147 56006 KASX 230653Z AUTO 00000KT 10SM OVC006 17/16 A3006 RMK AO2 SLP180 T01720161 KBLF 230721Z AUTO 24005KT 10SM SCT002 OVC070 20/18 A3009 RMK AO2 T02000183 KAUG 230653Z AUTO 33004KT 10SM OVC070 16/15 A3013 RMK AO2 SLP202 T01610150 CWPF 230715Z AUTO 01001KT 15/12 RMK AO1 T01460120 KATP 230715Z AUTO 13005KT 8SM 29/24 A3001 RMK A01 KBLH 230652Z AUTO 20010KT 10SM CLR 29/13 A2983 RMK AO2 SLP093 T02940128 KAUH 230715Z AUTO 05004KT 10SM -RA SCT070 SCT090 BKN120 21/21 A2995 RMK AO2 LTG DSNT NE AND E T02090209 PHHI 230658Z AUTO 01007KT 10SM SCT029 SCT036 24/18 A3003 RMK AO2 SLP158 T02400183 $ NZGS 230659Z 14012KT 15KM -SHRA SCT020 BKN030 10/07 Q1030 RMK VATSIM USE ONLY CXGH 230700Z AUTO 30007KT 13/13 RMK AO1 T01340128 CWNZ 230700Z AUTO 36002KT 14/13 RMK AO1 SLP188 T01370126 51003 KBLI 230653Z AUTO 16003KT 10SM CLR 15/13 A3009 RMK AO2 SLP193 T01500133 OPPS 230700Z SW-06KT 4000 HZ FEW100 SCT200 31/22 Q1008.9 NZHK 230700Z 22004KT 10KM SKC 10/08 Q1032 RMK ALT VATSIM USE ONLY CXFR 230700Z AUTO 09005KT 04/01 RMK AO1 T00440007 ULWC 230700Z 26003G06MPS 9999 SCT010 BKN016 15/11 Q1012 TEMPO SCT003 RMK QFE749/0999 SC060 KATS 230715Z AUTO 22006KT 10SM FEW120 23/15 A3005 RMK AO2 KBKS 230715Z AUTO 00000KT 10SM CLR 25/22 A2998 RMK AO1 T02480220 KE38 230715Z AUTO 00000KT 10SM SCT060 SCT070 BKN120 22/17 A3019 RMK AO2 LTG DSNT N AND W T02180172 PFYU 230716Z 00000KT 10SM BKN075 12/07 A3016 RMK AO1 CXHA 230700Z AUTO 04003KT 20/18 RMK AO1 SLP142 T01990178 58012 UMMM 230700Z 21002MPS CAVOK 16/10 Q1017 R12/CLRD60 NOSIG RMK QFE742 EFHA 230650Z AUTO 20006KT 160V240 9999 BKN009 14/12 Q1007 KATT 230651Z AUTO 19005KT 10SM CLR 27/22 A3002 RMK AO2 SLP150 T02670222 KBKT 230715Z AUTO 00000KT 5SM BKN045 22/21 A2996 RMK AO1 T02180213 UNEE 230700Z 00000MPS CAVOK 22/07 Q1013 NOSIG RMK QFE737 23CLRD60 CWPK 230700Z AUTO 00000KT 11/11 RMK AO1 SLP216 T01110107 50000 KCDC 230653Z AUTO 02011G21KT 10SM BKN060 BKN090 16/11 A3008 RMK AO2 WSHFT 0631 SLP116 T01560106 402670100 KAVC 230715Z AUTO 00000KT 5SM BR SCT038 SCT047 23/23 A3000 RMK AO2 KBMC 230715Z AUTO 34011KT 10SM CLR 13/09 A3002 RMK AO1 T01330091 NZHN 230631Z 17008KT 40KM NSC 10/06 Q1029 RMK VATSIM USE ONLY KBKV 230653Z AUTO 00000KT 10SM CLR 23/22 A2999 RMK AO2 SLP155 T02330217 KBLM 230715Z AUTO 08008KT 10SM BKN023 BKN032 OVC038 21/15 A3003 RMK AO1 KAUM 230715Z AUTO 00000KT 4SM BR CLR 20/19 A3000 RMK AO2 LTG DSNT S KCDD 230712Z AUTO 00000KT 10SM SCT010 OVC070 16/16 A3009 RMK AO2 CXHD 230600Z AUTO 35002KT 05/04 RMK AO1 T00520036 KBKW 230721Z AUTO 21005KT 3SM BR OVC002 19/19 A3007 RMK AO2 VIS 1 3/4 RWY19 T01940189 TSNO KAUN 230715Z AUTO 10006KT 10SM CLR 21/12 A2992 RMK AO1 KATW 230715Z AUTO 08003KT 3SM BR OVC004 21/20 A3000 RMK AO2 EDXW 230720Z 26013KT 9999 VCSH FEW029TCU 15/09 Q1007 RMK ATIS FOX KAUO 230715Z 00000KT 10SM CLR 24/21 A3004 RMK AO1 KCCO 230715Z AUTO 26005KT 10SM CLR 24/24 A3002 RMK AO2 T02400237 CWPO 230700Z AUTO 01007KT 13/13 RMK AO1 5PAST HR 8001 SLP221 P0002 T01330128 50005 CXHF 232300Z AUTO 20/16 RMK AO1 T01990162 KATY 230653Z AUTO 04009KT 9SM BKN006 19/19 A3000 RMK AO2 SLP151 T01940189 EFHF 230650Z 19007KT 140V220 9999 FEW026 SCT087 14/09 Q1009 KBMG 230719Z 00000KT 1/2SM FG VV010 22/21 A2999 RMK AO2 T02170206 CWOY 230700Z AUTO 11004KT 11/09 RMK AO1 SLP264 T01080090 52005 UMMS 230700Z 20002MPS 140V290 CAVOK 15/10 Q1018 R31/CLRD// NOSIG KCDH 230715Z AUTO 00000KT 5SM BR CLR 23/22 A3000 RMK AO2 NZHS 230704Z 18012KT 20KM FEW024 SCT040 SCT050 10/07 Q1032 RMK NZNR VATSIM USE O CWQH 230700Z AUTO 08003KT 12/12 RMK AO1 T01150123 KCCR 230653Z 20007KT 10SM CLR 16/12 A2991 RMK AO2 SLP114 T01560122 KBMI 230656Z AUTO 15005KT 10SM CLR 23/21 A2998 RMK AO2 T02270211 SLP141 NZHT 230700Z 00000KT 30KM SKC 11/09 Q1032 RMK ALT VATSIM USE ONLY CWPR 230700Z AUTO 31001KT 11/10 RMK AO1 SLP223 T01140103 52009 KAUS 230653Z 19007KT 10SM FEW020 26/23 A3001 RMK AO2 SLP149 T02560228 KBNA 230653Z 00000KT 10SM SCT250 25/23 A3001 RMK AO2 SLP153 T02500233 KCDJ 230552Z AUTO 14003KT 27/25 A2993 RMK AO1 SLP121 T02670250 10306 20256 403280244 50003 CWPS 230600Z AUTO 20/18 RMK AO1 SLP151 T02010183 50001 CWRA 230700Z AUTO 03008KT 13/ RMK AO1 SLP137 T0131 55003 KAVK 230715Z AUTO 20008KT 10SM CLR 24/13 A2990 RMK AO2 CWQK 230700Z AUTO 25019KT 11/11 RMK AO1 PK WND 26022/0600 SLP185 T01090109 53005 CXIB 230700Z AUTO 23003KT 12/11 RMK AO1 SLP181 T01210110 56007 KBML 230652Z AUTO 00000KT 1/4SM FG VV002 13/13 A3016 RMK AO2 SLP214 T01280128 KBLU 230652Z AUTO 10003KT 10SM CLR 15/05 A3013 RMK AO2 SLP121 T01500050 EFHK 230720Z 18010KT 9999 FEW025 BKN075 BKN200 14/10 Q1009 BECMG FEW020CB BKN090 KAVL 230654Z AUTO 00000KT 10SM CLR 20/19 A3008 RMK AO2 SLP154 T02000189 KCCU 230716Z AUTO 18012KT 2SM HZ OVC002 07/03 A3042 RMK AO2 VIS 3/4V5 LTG DSNT W KCEC 230656Z AUTO 12003KT 10SM CLR 14/13 A2996 RMK AO2 SLP143 T01440133 EEPU 221250Z 23018KT 9999 SCT022 18/10 Q1010 KBLV 230718Z AUTO 00000KT 2SM R14L/3500FT BR CLR 25/25 A2993 RMK AO2 VIS 1V2 OPRN 230700Z 13004KT 9999 FEW040 SCT100 30/22 Q1010.2/29.83 CXHM 230700Z AUTO 04002KT 20/18 RMK AO1 SLP150 T01950175 58002 KCDN 230715Z AUTO 04003KT 10SM CLR 25/22 A2993 RMK AO2 TSNO PGRO 230655Z 09007KT 7SM SCT080 BKN100 28/24 A2985 KAUW 230708Z AUTO 08004KT 4SM -RA BR SCT007 BKN027 22/21 A2999 RMK AO2 RAB08 P0000 T02170211 KCEF 230718Z AUTO 02005KT 10SM SCT023 OVC080 17/16 A3009 RMK AO2 PHJH 230345Z 04016G27KT 15SM FEW020 FEW030 SCT050 27/20 A2996 RMK LAST CWQO 230700Z AUTO 23004KT 12/12 RMK AO1 T01220119 CWRF 230700Z AUTO ///// 02/ A3029 RMK SLP287 CWPX 230700Z AUTO 11003KT 05/ A3030 RMK SLP279 KAVP 230654Z AUTO 00000KT 10SM OVC033 19/15 A3004 RMK AO2 SLP164 T01890150 TSNO KAWG 230715Z AUTO 12003KT 3SM BR FEW120 23/23 A2994 RMK AO2 KCCY 230715Z AUTO 04005KT 7SM CLR 22/21 A2999 RMK AO2 CXHP 230600Z AUTO 00000KT 09/07 RMK AO1 T00930073 CWQP 230700Z AUTO 09009KT 19/17 RMK AO1 SLP165 T01910167 58002 KBMQ 230653Z AUTO 16006KT 10SM CLR 27/16 A3005 RMK AO2 SLP153 T02670156 CWPZ 230700Z AUTO 31001KT 04/02 RMK AO1 SLP245 T00360018 51004 CWRH 230700Z AUTO ///// 19/ A3002 RMK SLP181 KCDR 230653Z AUTO 12010KT 10SM OVC110 19/15 A2996 RMK AO2 SLP126 T01940150 402610144 CXHR 230700Z AUTO 09001KT 07/07 RMK AO1 T00730067 CWQR 230700Z AUTO 01003KT 14/ RMK AO1 T0144 OPSK 230700Z 13008KT 5000 HZ NSC 35/25 Q.1005 RH.55 PC KCDS 230653Z AUTO 19011KT 10SM CLR 28/10 A2998 RMK AO2 SLP116 T02830100 KAXA 230715Z AUTO 06006KT 4SM BR CLR 22/22 A2998 RMK AO2 CWQS 230700Z AUTO 01007KT 15/ RMK AO1 SLP227 T0149 50002 CWRJ 230700Z AUTO 03004KT 13/10 RMK AO1 SLP255 T01300104 56001 CWSA 230700Z AUTO 05010KT 9SM SCT039 OVC055 17/15 A2998 RMK SLP153 DENSITY ALT 200FT EGAA 230650Z VRB03KT 9999 FEW018 SCT025 09/08 Q1015 KBMT 230715Z AUTO 00000KT 10SM CLR 24/23 A3000 RMK AO2 T02360231 CYAB 221900Z 27005KT 25SM BKN020 OVC050 04/M00 A3012 RMK SC7SC1 SLP201 CWRK 230700Z AUTO 35001KT 17/17 RMK AO1 SLP187 T01700168 50001 KBNL 230715Z AUTO 27003KT 10SM CLR 24/22 A2994 RMK AO2 EGAC 230650Z 31010KT 9999 VCSH FEW011 11/08 Q1015 UMOO 230700Z 00000MPS 9999 FEW033CB BKN/// 15/10 Q1018 NOSIG KAWM 230653Z AUTO 20004KT 10SM CLR 25/24 A2997 RMK AO2 SLP143 T02500239 PGSN 230654Z 10004KT 10SM CLR 28/25 A2984 RMK AO2 SLP125 T02780250 KCFD 230715Z AUTO 18005KT 10SM CLR 26/23 A3000 RMK AO2 T02590230 CYAD 222000Z 11005KT 15SM SCT045 28/13 A3012 RMK CU3 LAST OBS/NEXT 251100 UTC SLP203 CWRM 230700Z AUTO 14002KT 04/02 RMK AO1 SLP296 T00430024 51001 CWSD 230700Z AUTO 04008KT 17/12 RMK AO1 SLP195 T01680116 58008 CWQV 230700Z AUTO 32001KT 13/12 RMK AO1 T01330123 KCDW 230653Z AUTO 00000KT 10SM CLR 17/13 A3005 RMK AO2 SLP180 T01670133 TSNO KCFE 230715Z AUTO 03003KT 10SM SCT007 20/18 A3001 RMK AO2 T01970183 CWRN 230700Z AUTO 36011KT 16/ RMK AO1 T0155 EGAE 230650Z 24005KT 180V290 9999 SCT025 11/09 Q1016 KAVX 230708Z AUTO 17003KT 3SM BR OVC002 15/14 A2998 RMK AO2 T01500144 $ KBNO 230653Z AUTO 26007KT 10SM CLR 12/04 A3010 RMK AO2 SLP168 T01220039 KAWO 230715Z AUTO 00000KT 10SM CLR 13/11 A3012 RMK AO1 CWRO 230700Z AUTO 27015KT 15/14 RMK AO1 PK WND 27020/0634 SLP213 T01470137 50001 CWSF 230700Z AUTO 15008KT 13/11 RMK AO1 SLP204 T01310114 58006 NZKI 230700Z 21014KT 10KM SHRA SCT010 08/07 Q1035 RMK ALT VATSIM USE ONLY CWSG 230700Z AUTO 19010KT 12/11 RMK AO1 SLP206 T01240111 58003 PHJR 230653Z VRB05KT 10SM FEW048 26/18 A3001 RMK AO2 SLP169 T02610183 KAXH 230715Z AUTO 10SM CLR A3001 RMK AO2 ORBI 230700Z 35005KT CAVOK 38/11 Q1003 NOSIG CYAH 230700Z AUTO 00000KT 9SM CLR 13/10 A3016 RMK SLP217 KBOI 230653Z 16004KT 10SM FEW120 17/07 A2999 RMK AO2 SLP135 T01670067 402720150 PGUA 230658Z AUTO 11006KT 10SM OVC013 28/25 A2984 RMK AO2 RAB0603E0615 SLP095 P0001 T02780250 $ NZKK 230554Z 19005KT 30KM FEW035 13/07 Q1028 RMK NZWP VATSIM USE ONLY OPST 230700Z 13004KT 8000 SCT040 SCT100 35/23 Q1007 NOSIG RH52 CXKA 230700Z AUTO 14002KT 15/14 RMK AO1 SLP174 T01540142 51002 EFKA 230650Z AUTO 18004KT 140V210 9999 BKN004 ///// Q//// KBOK 230656Z AUTO 00000KT 7SM CLR 14/13 A2997 RMK AO2 T01440127 402610116 SLP148 CYBB 222300Z 33004KT 15SM OVC014 04/01 A3032 RMK SC7 6.0/3.0/0/LAST OB/NEXT 231500Z SLP269 CWRT 230600Z AUTO 15003KT 07/07 RMK AO1 2PAST HR M P0001 T00730072 50022 CWSK 230700Z AUTO 05002KT 14/11 RMK AO1 SLP185 T01360112 51013 EGBB 230650Z 27006KT CAVOK 11/07 Q1014 KCEU 230654Z AUTO 32004KT 10SM CLR 26/20 A2999 RMK AO2 SLP143 T02610200 KCGC 230715Z AUTO 00000KT 10SM CLR 22/21 A2998 RMK AO2 PWINO KBPC 230715Z AUTO 16003KT 10SM CLR 20/16 A2998 RMK AO2 CWRU 230700Z AUTO 01018KT 14/12 RMK AO1 PK WND 35023/0641 SLP199 T01390115 57001 CWSL 230700Z AUTO 21002KT 14/12 RMK AO1 SLP214 T01380115 51010 CYBC 230700Z AUTO 28002KT 9SM CLR 11/10 A3015 RMK SLP209 CYBD 230100Z 30004KT 15SM SKC 26/10 A3007 RMK TR CU FU ALQDS VIS E 8 IN FU LAST OBS/NEXT 231300UTC SLP182 DENSITY ALT 1200FT VDPP 230700Z VRB04KT 270V050 9999 SCT015 FEW017CB 34/24 Q1007 CB CYAM 230700Z 10002KT 15SM FEW027 16/16 A3007 RMK SC2 SLP183 DENSITY ALT 700FT KAXN 230653Z AUTO 00000KT 10SM BKN035 21/20 A3004 RMK AO2 SLP167 T02110200 EFIV 230650Z AUTO 36001KT 9999 OVC040 10/04 Q1008 KCEW 230653Z AUTO 00000KT 7SM CLR 24/23 A3000 RMK AO2 SLP156 T02440233 $ PHKO 230653Z 02009KT 10SM SCT043 28/18 A2993 RMK AO2 SLP136 T02780178 KBNW 230715Z AUTO 00000KT 10SM OVC070 23/23 A2995 RMK AO2 KCGE 230720Z AUTO 04003KT 10SM CLR 20/18 A2998 RMK AO1 KCGF 230245Z 10005KT 7SM SKC 22/22 A3001 EGBE 230050Z 23006KT CAVOK 08/06 Q1014 CXKE 230700Z AUTO 09001KT 17/16 RMK AO1 SLP185 T01710156 53001 EFKE 230650Z AUTO 02008KT 9999 OVC007 11/10 Q1005 CWRX 230700Z AUTO 31016KT 02/ A3014 EFJO 230650Z AUTO 21006KT 170V250 9999 BKN012 13/11 Q1007 KBPG 230715Z AUTO 16010KT 10SM CLR 28/10 A3005 RMK AO2 T02750096 KCEY 230715Z AUTO 22004KT 10SM CLR 25/24 A2999 RMK AO1 CWRY 230700Z AUTO 01016G21KT 08/07 RMK AO1 2PAST HR 8003 PK WND 02021/0618 SLP255 P0005 T00780074 50012 CWSP 230700Z AUTO 30009KT 10/10 RMK AO1 SLP194 T00990097 51007 CWTG 230700Z AUTO 15001KT 16/15 RMK AO1 SLP205 T01590153 56002 ZSNB 230700Z 10005MPS 9999 SCT033 FEW040CB 30/26 Q1006 NOSIG CYBG 230700Z 19002KT 15SM SKC 12/11 A3018 RMK SLP223 KCEZ 230653Z AUTO VRB03KT 10SM OVC090 13/11 A3015 RMK AO2 SLP143 T01280111 402440122 $ PHLI 230653Z 03016KT 10SM FEW029 26/19 A3004 RMK AO2 SLP169 T02560194 CWRZ 230700Z AUTO 33004KT 13/12 RMK AO1 SLP200 T01250121 58008 KBPI 230700Z AUTO 26004KT 10SM SCT018 08/07 A3013 RMK AO2 T00780067 $ KCGI 230653Z AUTO 20004KT 10SM CLR 26/24 A2996 RMK AO2 SLP139 T02610239 CXKI 230700Z AUTO 15/14 RMK AO1 SLP203 T01470135 51003 CWSR 230700Z AUTO 35005KT 12/09 RMK AO1 SLP268 T01170089 50000 EFKI 230650Z 16002KT 9999 FEW005 SCT030 BKN065 12/11 Q1005 KCHA 230653Z AUTO 00000KT 10SM CLR 25/23 A3002 RMK AO2 SLP156 T02500228 $ KBOS 230700Z 36006KT 10SM SCT010 SCT015 OVC110 18/16 A3009 RMK AO2 CIG 015 E KAXS 230715Z AUTO 18008KT 10SM CLR 29/08 A2996 RMK AO2 T02860078 KCFS 230715Z AUTO 00000KT 5SM BR CLR 16/15 A3004 RMK AO2 T01580154 NZMC 230700Z 00000KT 30KM SKC 11/09 Q1032 RMK ALT NZHT VATSIM USE ONLY CYAS 221900Z 25005KT 15SM FEW035 BKN240 28/13 A3010 RMK SC2CS1 LAST OBS/NEXT 251200UTC SLP198 EGBJ 221750Z 33006KT 9999 FEW024 SCT038 16/09 Q1013 CWSS 230700Z AUTO 02004KT 16/14 RMK AO1 SLP199 T01590139 56004 KE80 230715Z AUTO 02003KT 10SM CLR 14/14 A3016 RMK AO2 T01430138 KBPK 230653Z AUTO 21003KT 8SM CLR 26/23 A2999 RMK AO2 SLP142 T02560228 CWST 230700Z AUTO 09004KT 12/11 RMK AO1 SLP208 T01220113 57003 CXLB 230700Z AUTO 03004KT 17/15 RMK AO1 SLP176 T01700147 56008 CYBK 230700Z 16002KT 15SM FEW040 05/03 A3046 RMK SC2 SLP314 CYCB 230700Z 18004KT 15SM FEW065 SCT090 04/02 A3034 RMK SC1AC1 SLP277 PGUM 230715Z 15006KT 5SM RA BKN022 BKN040 29/25 A2985 RMK AO2 RAB13 CB DSNT E-SE AND NW MOV NW P0000 $ EFKK 230650Z AUTO 00000KT 9999 FEW002 BKN070 13/13 Q1005 KAZC 230715Z AUTO 00000KT 10SM CLR 18/12 A3007 RMK AO2 T01800120 CYBL 230400Z 28005KT 20SM FEW240 21/10 A3007 RMK CI1 LAST OBS/NEXT 231300 UTC SLP181 DENSITY ALT 900FT KCHD 230347Z 00000KT 15SM SKC 30/14 A2989 RMK LAST CXLC 230700Z AUTO 15007KT 09/04 RMK AO1 SLP274 T00890042 51004 KAXV 230711Z AUTO 00000KT 7SM SCT002 BKN018 21/21 A2999 RMK AO2 EGCC 230650Z 19004KT 9999 -RA FEW014TCU BKN022 BKN027 09/08 Q1014 TEMPO SHRA KCFV 230652Z AUTO 18010KT 10SM CLR 27/22 A2993 RMK AO2 SLP124 T02670217 TSNO NZMF 230700Z 24003KT 20KM SKC 09/04 Q1034 RMK ALT NZQN VATSIM USE ONLY CYCD 230400Z 26004KT 15SM SCT240 21/10 A3006 RMK CI4 HZ LAST OBS/NEXT 231300 UTC SLP178 DENSITY ALT 600FT CXKM 230700Z AUTO 05002KT 07/03 RMK AO1 T00650032 KBOW 230715Z AUTO 00000KT 10SM CLR 23/22 A2998 RMK AO2 KAZE 230715Z AUTO 00000KT 10SM CLR 26/25 A2995 RMK AO2 T02640251 CWSW 230100Z 11008KT 12SM VCSH OVC030 11/07 A3026 RMK SC8 LAST OBS/NEXT 231300Z SLP255 CYAW 221705Z 03010KT 15SM FEW028 BKN052 RMK CU2SC5 LAST OBS/NXT 251200 UTC CWTN 230700Z AUTO 27002KT 15/13 RMK AO1 SLP211 T01520130 50000 EETN 230720Z 18007KT 140V220 CAVOK 15/13 Q1010 NOSIG CYBN 230718Z AUTO 00000KT 9SM BKN009 OVC039 18/18 A3004 KAXX 230716Z AUTO 12005KT 10SM SCT019 BKN026 OVC032 10/08 A3030 RMK AO2 ZSNJ 230700Z 25003MPS 200V290 8000 FEW027 33/25 Q1005 NOSIG CYCG 230400Z 35007KT 15SM OVC091 19/11 A3012 RMK AC8 LAST OBS/NEXT 231300UTC SLP197 DENSITY ALT 2100FT CYAY 230700Z AUTO 01003KT 9SM SCT010 BKN015 OVC060 09/09 A3008 RMK SLP188 EFJY 230720Z AUTO 18006KT 140V220 9999 BKN017 14/10 Q1007 CYAZ 230000Z 21005KT 15SM FEW005 SCT012 17/14 A3009 RMK SF1CF2 FG BANK ALG SHR SLP190 DENSITY ALT 100FT CYBQ 230700Z AUTO 04004KT 9SM OVC095 07/05 A3045 RMK SLP325 TVSC 221400Z 17015KT 9999 SCT018 29/24 Q1015 CYBR 230700Z 03007KT 15SM FEW012 OVC025 14/12 A3021 RMK SF2SC6 SLP236 PHMK 230654Z AUTO 05009G18KT 10SM SCT028 SCT034 25/21 A3001 RMK AO2 SLP165 P0001 T02500206 TSNO KAYS 230715Z AUTO 24003KT 10SM CLR 27/24 A2996 RMK AO2 T02680243 KCGS 230720Z AUTO 09003KT 10SM BKN021 BKN042 OVC055 22/20 A2999 RMK AO1 CYDA 230300Z 00000KT 20SM FEW055TCU SCT110 BKN230 13/12 A3014 RMK TCU2AC2CI2 CLIMAT 19.9/5.9/7.8 MM LAST OBS/NXT 231300 UTC SLP221 EFKS 230650Z AUTO 25003KT 9999 OVC004 11/11 Q1005 EFMA 230650Z AUTO 20009KT 9999 FEW041 BKN115 16/12 Q1006 KBPT 230653Z AUTO 00000KT 9SM CLR 25/24 A2999 RMK AO2 SLP155 T02500239 KBQK 230715Z AUTO 22004KT 10SM CLR 27/22 A2995 RMK AO1 KCHK 230715Z AUTO 19009KT 10SM CLR 27/15 A2994 RMK AO2 CXKT 230700Z AUTO 06001KT 15/13 RMK AO1 SLP185 T01510133 56007 CWTT 230500Z AUTO 32001KT 16/16 RMK AO1 T01630156 ZSOF 230700Z 34003MPS 310V010 6000 NSC 32/24 Q1006 NOSIG CYCK 230700Z AUTO 01003KT 1/4SM FG VV002 18/17 A2999 RMK SLP155 DENSITY ALT 1000FT CYDB 230700Z AUTO 33005KT 300V010 9SM -RA BKN055 OVC066 11/07 A3021 RMK PCPN 0.5MM PAST HR SLP250 EFKT 230650Z AUTO 04004KT 330V080 9999 OVC041 09/04 Q1007 KCIC 230715Z AUTO 14004KT 10SM BKN100 23/10 A2986 RMK AO1 CYDC 230100Z 09007KT 080V170 25SM SCT045CB BKN150 18/13 A3013 RMK CB4AC3 LAST OBS/NEXT 23 1300 UTC SLP198 DENSITY ALT 2900FT CXLL 230700Z AUTO 11001KT 09/08 RMK AO1 SLP211 T00850080 57002 CWTU 230700Z AUTO 32019KT 06/ A3011 RMK SLP217 CYBU 230700Z AUTO 03006KT 9SM OVC070 13/12 A3032 RMK SLP277 EETU 230650Z 19006KT 9999 FEW050 15/09 Q1012 KCID 230652Z 03005KT 8SM FEW080 SCT120 24/24 A2995 RMK AO2 LTG DSNT SW-NW SLP133 T02390239 EFKU 230720Z AUTO 20007KT 9999 OVC011 14/11 Q1007 KBRD 230653Z AUTO 00000KT 7SM SCT007 BKN019 18/18 A3004 RMK AO2 SLP169 T01830178 CYBV 222100Z 02012KT 15SM BKN007 OVC015 14/11 A3012 RMK SC6SC2 LAST OBS/NEXT 251200Z SLP206 CXMD 230700Z AUTO 36005KT 14/13 RMK AO1 SLP200 T01430127 50004 CWVD 230700Z AUTO 32019KT M00/ A2991 RMK SLP172 CYBW 230700Z AUTO 36003KT 9SM OVC055 08/08 A3034 RMK SLP297 KAZO 230714Z AUTO 00000KT 3SM BR BKN031 22/21 A3000 RMK AO2 T02170206 EGCN 230650Z 27007KT CAVOK 12/08 Q1014 KCHO 230718Z AUTO 35004KT 2 1/2SM -RA BR FEW003 OVC012 22/21 A2998 RMK AO2 RAE00B18 P0000 T02170211 PHNG 230657Z 05011G17KT 8SM FEW030 SCT060 25/20 A3002 RMK AO2 SLP160 T02500200 $ CWVF 230700Z AUTO 11007KT 19/16 RMK AO1 T01860162 CYBX 230700Z 36008KT 15SM SKC 08/06 A3010 RMK SLP193 CYDF 230700Z 00000KT 10SM -SHRA OVC060 09/08 A3008 RMK SC8 SLP188 CYCO 230700Z 23006KT 15SM FEW080 FEW160 SCT240 08/02 A3023 RMK AC1AC2CI1 SLP238 KF05 230715Z AUTO 16006KT 10SM CLR 25/08 A2995 RMK AO1 T02480082 KBQP 230715Z AUTO 00000KT 7SM CLR 22/21 A3002 RMK AO2 T02200211 CYCP 230100Z 06006KT 15SM FEW060CB SCT140 BKN300 20/08 A3014 RMK CB2AC2CI0 LAST OB/NEXT 231300 UTC SLP211 CXMG 230600Z AUTO 13006KT 07/02 RMK AO1 T00690023 CWTY 230700Z AUTO 01003KT 17/16 RMK AO1 SLP204 T01670158 50000 CWUP 230700Z AUTO ///// 01/ A2998 RMK SLP181 EFLP 230650Z AUTO 23009KT 210V280 9999 BKN011 BKN018 14/11 Q1009 KCGZ 230715Z AUTO 00000KT 10SM CLR 26/12 A2994 RMK AO1 CYCQ 230100Z 04003KT 020V090 35SM FEW050 SCT065 17/03 A3029 RMK CU1SC3 LAST OBS/NEXT 231300Z SLP277 DENSITY ALT 2200FT CWVH 230700Z AUTO 27016KT 06/ A3017 RMK SLP233 CXMI 230700Z AUTO 36003KT 16/14 RMK AO1 SLP176 T01590144 57008 CWVI 230700Z AUTO 26001KT 03/02 RMK AO1 SLP295 T00270021 51001 ZSPD 230700Z 13003MPS CAVOK 29/26 Q1007 NOSIG EFMI 230650Z AUTO 19005KT 130V240 9999 BKN008 12/11 Q1009 KCHS 230656Z 23005KT 10SM CLR 29/26 A2992 RMK AO2 SLP131 T02890256 KDAA 230658Z AUTO VRB03KT 10SM BKN011 BKN018 OVC055 22/20 A2999 RMK AO2 CIG 011V017 BKN011 V SCT SLPNO T02200201 CYCS 222100Z 05009KT 15SM BKN030 09/02 A3027 RMK SC5 SLP250 CWUS 230700Z AUTO 28005KT 16/10 RMK AO1 SLP205 T01580104 51004 CWWA 230700Z AUTO 05001KT 17/11 RMK AO1 SLP190 T01720110 51010 KDAB 230653Z 21003KT 10SM CLR 24/23 A2998 RMK AO2 SLP152 T02440233 PHNL 230653Z 05012KT 10SM FEW024 SCT044 SCT050 27/18 A3000 RMK AO2 SLP158 T02670183 CWWB 230700Z AUTO 03008KT 20/19 RMK AO1 SLP161 T02020186 58002 KBRL 230715Z AUTO 00000KT 2SM BR SCT110 24/23 A2995 RMK AO2 T02390233 EGEC 221550Z 30016KT 270V330 9999 SCT038 14/08 Q1012 CYDL 230700Z AUTO 00000KT 9SM SCT095 BKN180 OVC200 11/09 A3016 RMK SLP215 CXMM 230700Z AUTO 06001KT 08/03 RMK AO1 SLP290 T00750032 50003 EGDM 230650Z AUTO 27001KT 9999 NCD 08/07 Q1015 CYED 230700Z AUTO 11003KT 9SM CLR 05/03 A3036 RMK SLP299 KCIN 230715Z AUTO 00000KT 10SM OVC050 21/21 A2995 RMK AO2 NZNP 230704Z 13018KT 30KM FEW027 10/07 Q1031 RMK VATSIM USE ONLY CWVN 230700Z AUTO 05009KT 13/11 RMK AO1 SLP210 T01310112 58007 CWWE 230700Z AUTO 01006KT 16/12 RMK AO1 SLP173 T01590115 57010 CWUW 230700Z AUTO 04004KT 9SM FEW017 FEW026 FEW031 FEW036 00/ A2999 RMK SLP193 CYDN 230723Z AUTO 03006KT 6SM -RA BR SCT006 BKN009 OVC013 13/13 A3024 RMK SLP245 KBRO 230653Z 14006KT 10SM CLR 27/26 A2999 RMK AO2 SLP153 T02720256 PHOG 230654Z 06008KT 9SM -RA SCT026 BKN036 OVC055 24/21 A3001 RMK AO2 RAB23 SLP165 P0000 T02390211 KBQX 230715Z AUTO 16014KT 10SM 29/25 A2999 RMK A01 NZOH 230609Z 12010KT 40KM FEW025 SCT045 09/06 Q1032 RMK NZPM VATSIM USE ONLY CXMO 230600Z AUTO 10004KT 09/07 RMK AO1 T00940066 CWWF 230700Z AUTO 09011KT 13/10 RMK AO1 SLP229 T01310104 51002 CWUX 230600Z AUTO 12001KT 11/11 RMK AO1 SLP219 T01090108 50000 VDSR 230700Z VRB02KT 9999 SCT017 FEW018CB 32/24 Q1007 CB E CYCX 230700Z 04003KT 15SM BKN056 14/13 A3013 RMK SC6 DA90FT SLP204 KDAG 230650Z AUTO 21015KT 10SM CLR 28/06 A2989 RMK AO2 PK WND 22027/0623 SLP092 T02780061 TSNO NZNR 230704Z 18012KT 20KM FEW024 SCT040 SCT050 10/07 Q1032 RMK VATSIM USE ONLY VEJS 230600Z 27009KT 2500 HZ SCT015 SCT025 BKN100 31/25 Q1007 CYDP 222300Z 00000KT 15SM FEW240 12/09 A3021 RMK CI2 LAST STAFFED OB/ NEXT 230800 SLP231 CWVP 230700Z AUTO 03004KT 08/07 RMK AO1 8PAST HR 8005 SLP238 P0003 T00810072 50008 CYCY 230700Z AUTO 33015KT 9SM BKN010 03/02 A3007 RMK SLP184 CYEG 230700Z 13003KT 15SM BKN060 BKN250 04/03 A3037 RMK SC6CI1 SLP302 ORER 230700Z 16005KT CAVOK 39/02 Q1004 NZNS 230653Z VRB03KT 30KM SKC 08/06 Q1033 RMK VATSIM USE ONLY CWVQ 230700Z AUTO 06003KT 17/16 RMK AO1 SLP196 T01650156 56003 CYDQ 230700Z AUTO 00000KT 9SM 03/01 A3030 RMK CLD MISG SLP280 KCIR 230715Z AUTO 21004KT 10SM CLR 27/24 A2995 RMK AO2 T02730236 PGWT 230655Z 08003KT 7SM FEW015 SCT035 BKN060 SCT100 26/25 A2982 UNKL 230700Z 09003MPS CAVOK 18/08 Q1015 NOSIG RMK QFE735 11////65 ZSQD 230700Z 16006MPS 5000 HZ BKN023 28/22 Q1006 NOSIG EGDR 230650Z 25003KT 9999 VCSH FEW018 SCT040 BKN060 12/10 Q1017 BLU TEMPO SCT020 WHT KBTA 230715Z AUTO 27007KT 10SM -TSRA SCT009 BKN039 OVC044 22/20 A2999 RMK AO2 LTG DSNT ALQS P0001 T02160202 TVSV 230300Z 10012KT 9999 SCT018 28/24 Q1015 CWXA 230700Z AUTO 01001KT 08/07 RMK AO1 1PAST HR 8004 SLP279 P0004 T00770070 50011 KCKB 230653Z 21004KT 6SM BR OVC009 22/21 A2998 RMK AO2 CIG 006V014 SLP138 T02220211 NZNV 230638Z 22005KT 30KM -DZ FEW009 BKN014 PLWR 08/07 Q1036 RMK VATSIM USE ONLY CWVT 230700Z AUTO 09005KT 12/06 RMK AO1 SLP307 T01230056 51003 CWWK 230700Z AUTO 10001KT 15/13 RMK AO1 SLP190 T01530134 53009 CYEK 230700Z AUTO 34008KT 9SM OVC043 07/04 A3044 RMK SLP307 CYFB 230700Z 31007KT 260V330 15SM BKN076 OVC170 13/09 A2990 RMK AC5AC3 SLP127 KDAL 230653Z 18012KT 10SM CLR 30/20 A2996 RMK AO2 SLP138 T03000200 KCIU 230715Z AUTO 07004KT 7SM CLR 17/16 A3007 RMK AO1 KCKC 230713Z AUTO 02004KT 10SM OVC036 16/14 A3010 RMK AO2 CWXC 230700Z AUTO 09001KT 08/08 RMK AO1 SLP221 T00810081 56001 CWVU 230700Z AUTO 01012KT 13/12 RMK AO1 SLP202 T01320121 56007 CWWL 230700Z AUTO 34010KT 13/12 RMK AO1 SLP208 T01290123 56001 CYFC 230700Z AUTO 01005KT 9SM OVC055 15/14 A3013 RMK SLP204 CXNM 230700Z AUTO 04003KT 11/10 RMK AO1 T01060100 KDAN 230653Z AUTO 00000KT 10SM SCT080 OVC100 24/23 A2995 RMK AO2 RAB0559E32 SLP131 P0006 T02440228 CYEN 230700Z 07010KT 15SM BKN030 14/11 A3019 RMK SC6 SLP232 KCKF 230715Z AUTO 00000KT 10SM CLR 25/24 A2998 RMK AO2 T02520238 PHNY 230656Z AUTO 05020G28KT 10SM CLR 23/19 A3004 RMK AO2 TSNO T02270194 PK WND 04031/0557 SLP146 $ EGEO 230650Z VRB02KT 9999 FEW022 10/09 Q1014 EGDX 230650Z AUTO 30006KT 9999 NCD 12/08 Q1015 EGFF 230650Z AUTO 30008KT 9999 FEW140/// //////TCU 10/08 Q1016 CXMY 230700Z AUTO 16/14 RMK AO1 T01570135 CXNP 230700Z AUTO 03004KT 15/15 RMK AO1 SLP195 T01460146 57008 EGDY 230650Z AUTO 27003KT 9999 FEW070/// 11/09 Q1016 KCKI 230715Z AUTO 00000KT 1SM BR VV007 25/25 A2991 RMK AO2 VIS 1/2V5 KCJR 230715Z AUTO 00000KT 7SM SCT007 BKN048 A2998 RMK AO2 CWXI 230700Z AUTO 01008KT 11/09 RMK AO1 SLP184 T01070090 56007 KDCA 230652Z 08005KT 10SM FEW015 BKN022 BKN050 BKN200 23/19 A2999 RMK AO2 SLP156 T02330189 CYER 230700Z AUTO 34009G15KT 9SM BKN008 OVC014 07/06 A3023 RMK SLP238 CWWS 230600Z AUTO 05020KT 13/11 RMK AO1 PK WND 04027/0500 SLP243 T01250113 52012 CXPA 230700Z AUTO 14001KT 06/03 RMK AO1 T00580028 NZPM 230609Z 12010KT 40KM FEW025 SCT045 09/06 Q1032 RMK VATSIM USE ONLY CYET 230700Z AUTO 06004KT 9SM -RA OVC044 09/07 A3034 RMK SLP293 KBTL 230653Z 05003KT 9SM SCT042 22/20 A3002 RMK AO2 SLP158 T02220200 CWWU 221800Z 36015KT 15SM BKN012 BKN060 15/12 A2996 RMK SC6SC2 SLP147 CXOL 230600Z AUTO 08002KT 08/06 RMK AO1 T00750060 CWXL 230600Z AUTO 04013G18KT 09/08 RMK AO1 PK WND 03020/0510 T00890080 50062 CXPC 230700Z AUTO 18/16 RMK AO1 SLP167 T01760155 58002 KBTM 230714Z AUTO 00000KT 10SM -RA FEW011 BKN019 OVC034 09/08 A3010 RMK AO2 RAB08 P0000 T00940078 KCKM 230715Z AUTO 00000KT 10SM CLR 24/24 A3000 RMK AO1 CYEV 230716Z 35006KT 15SM OVC008 08/07 A3019 RMK ST8 SLP227 EGGD 230650Z 27006KT 9999 FEW017 11/08 Q1015 KDAW 230651Z AUTO 01004KT 10SM BKN100 14/12 A3012 RMK AO2 SLP196 T01440122 KCLE 230651Z 00000KT 5SM BR OVC070 22/21 A3000 RMK AO2 SLP152 T02170206 KCKN 230714Z AUTO 01011KT 10SM DZ SCT007 BKN016 OVC035 17/17 A3006 RMK AO2 P0003 KDBN 230715Z AUTO 00000KT 10SM CLR 22/22 A2998 RMK AO2 NZPP 230700Z 18011KT 45KM SCT024 10/05 Q1033 RMK ALT VATSIM USE ONLY CYGE 230000Z 10002KT 20SM -SHRA FEW060TCU BKN090 BKN120 19/09 A3017 RMK TCU2AC4AS1 LAST OBS/NEXT 231200Z SLP216 DENSITY ALT 3300FT KBUF 230654Z 05007KT 1/2SM R23/2000V3500FT FG VV002 19/18 A3000 RMK AO2 SLP156 T01890183 CYFO 222300Z 04006KT 15SM FEW035 SCT250 18/09 A3028 RMK SC2CI2 LAST OBS/NEXT 231100 UTC SLP260 CWWX 230700Z AUTO 04001KT 17/ RMK AO1 SLP170 T0168 56005 KBTP 230715Z AUTO 00000KT 1 1/4SM BKN002 OVC014 18/17 A3000 RMK AO1 KDAY 230656Z 31003KT 9SM FEW050 22/21 A3000 RMK AO2 SLP151 T02220211 KCKP 230715Z AUTO 07005KT 10SM SCT036 23/22 A2995 RMK AO2 LTG DSNT W T02270220 KDBQ 230721Z AUTO 00000KT 4SM R36/4000VP6000FT BR CLR 23/22 A2997 RMK AO2 T02280222 PWINO CYGH 222300Z 33003KT 300V360 25SM FEW040 SCT050 BKN070 BKN180 17/08 A3016 RMK CU1SC1AC2AC1 17.4/3.4/0.0/0 LAST OBS/NXT 231300UTC SLP217 CWWZ 230700Z AUTO 01007KT 19/19 RMK AO1 SLP157 T01940191 50000 KBTR 230653Z AUTO 00000KT 10SM CLR 26/24 A3001 RMK AO2 SLP161 T02610239 TSNO KCLI 230715Z AUTO 09004KT 2 1/2SM BR OVC004 21/20 A3001 RMK AO2 CYFR 222200Z 21005KT 5SM FU FEW040 FEW120 17/07 A3034 RMK CU1AC1 18.1/9.9/0/ LAST OBS/NXT251400Z SLP283 CWXR 230700Z AUTO 20011KT 10/ A3014 RMK SLP214 KCMA 230655Z AUTO 31003KT 10SM OVC007 19/16 A2995 RMK AO2 SLP149 T01940161 NZRC 230638Z 22005KT 30KM -DZ FEW009 BKN014 PLWR 08/07 Q1036 RMK NZNV VATSIM USE CYHA 222100Z 21003KT 15SM FEW015 FEW030 FEW250 26/14 A3006 RMK CF1SC1CI0 LAST OBS/NEXT 231200UTC SLP180 CWZA 230700Z AUTO 04010G17KT 20/12 RMK AO1 PK WND 05017/0659 SLP190 T02000115 51009 CWYJ 230700Z AUTO 08002KT 13/10 RMK AO1 SLP188 T01290095 52005 CYFS 230700Z 07005KT 15SM SKC 15/08 A3017 RMK SLP221 CYGK 230300Z 07007KT 15SM BKN020 BKN040 20/19 A3004 RMK CU5SC2 LAST OBS/NEXT 231000 UTC SLP171 DENSITY ALT 800FT CYFT 222000Z 00000KT 15SM BKN025 12/11 A3022 RMK CU6 LAST OBS/NEXT230900 UTC SLP237 CWYK 230700Z AUTO 26003KT 13/ A3014 RMK SLP221 KDDC 230652Z AUTO 23007KT 10SM -RA FEW055 SCT070 BKN100 23/18 A2994 RMK AO2 LTG DSNT N AND NW RAB0556E08B29 SLP102 P0002 T02280178 KCLL 230653Z AUTO 18007KT 10SM CLR 26/23 A3000 RMK AO2 SLP153 T02610228 NZQN 230700Z 24003KT 20KM SKC 09/04 Q1034 RMK ALT VATSIM USE ONLY CXPL 230600Z AUTO 04006KT 09/08 RMK AO1 T00930077 50006 CWYL 230700Z AUTO 08006KT 06/04 RMK AO1 SLP264 T00600041 51004 CYGL 230700Z 25002KT 15SM FEW050 15/13 A3012 RMK SC1 SC TR VIA CYUY SLP201 KCKV 230652Z AUTO 00000KT 8SM CLR 24/22 A3000 RMK AO2 SLP151 T02390222 EFOU 230720Z AUTO 15004KT 110V180 9999 SCT003/// 13/11 Q1005 KCLM 230653Z AUTO VRB03KT 10SM CLR 13/09 A3009 RMK AO2 SLP190 T01330089 $ KBTV 230654Z 07003KT 10SM FEW065 SCT080 BKN110 17/15 A3011 RMK AO2 SLP197 T01670150 KDCM 230715Z AUTO 00000KT 10SM CLR 25/22 A2995 RMK AO2 KCMD 230715Z AUTO 00000KT 10SM CLR 21/21 A3006 RMK AO2 T02100207 ZSQZ 230400Z 19003MPS 140V270 9999 SCT023 33/26 Q1009 NOSIG CWYM 230700Z AUTO 22011KT 14/ A2985 RMK SLP127 CYHD 230700Z AUTO 06002KT 9SM OVC032 18/17 A3010 RMK SLP195 DENSITY ALT 1700FT KBVE 230651Z AUTO 26003KT 10SM CLR 28/25 A3001 RMK AO2 SLP162 T02830250 EGHE 230650Z 33005KT 9999 FEW025 14/11 Q1018 CYHE 230700Z AUTO 08006KT 040V110 9SM CLR 18/12 A3012 RMK SLP198 DENSITY ALT 300FT KF44 230715Z AUTO 19003KT 10SM CLR 26/22 A2999 RMK AO2 CXOX 230700Z AUTO 12001KT 11/09 RMK AO1 SLP288 T01060090 51005 EFPO 230650Z AUTO 19006KT 9999 RA OVC068/// 12/10 Q1006 REDZ CXOY 230700Z AUTO 02004KT 09/08 RMK AO1 6PAST HR M P0002 T00870079 50006 CWZG 230700Z AUTO 07003KT 08/06 RMK AO1 SLP280 T00750062 50000 CYGP 230700Z VRB02KT 15SM SKC 10/10 A3015 RMK SLP210 EGGP 230650Z 27013KT 7000 SHRA FEW020 SCT025CB 11/09 Q1013 KCMH 230651Z 34005KT 7SM CLR 23/21 A2996 RMK AO2 SLP139 T02330211 KDDH 230654Z AUTO VRB03KT 10SM OVC055 17/13 A3010 RMK AO2 SLP189 T01720133 KF46 230715Z AUTO 19010G15KT 10SM CLR 28/22 A2996 RMK AO2 T02750219 CYHH 222000Z 13009KT 15SM SCT045 29/11 A3012 RMK SC3 LAST OBS NXT 251100Z SLP202 KBVI 230047Z 18003KT 10SM SCT033 SCT040 BKN047 22/20 A2998 RMK LGT DSTN W LAST EGHH 230650Z 00000KT CAVOK 08/06 Q1016 CYGQ 230700Z 00000KT 6SM BR SKC 15/15 A3009 RMK SLP191 KBUR 230653Z 12004KT 10SM CLR 20/17 A2996 RMK AO2 SLP132 T02000167 KCMI 230653Z AUTO 10003KT 7SM FEW095 BKN120 23/22 A2998 RMK AO2 SLP144 T02280222 CYHI 222100Z 18008KT 15SM BKN015 BKN250 11/05 A3024 RMK SC5CI1 SLP242 CYGR 230200Z 03013KT 15SM BKN020 16/12 A3014 RMK SC6 LAST OBS/NEXT 230900 UTC SLP206 KCLS 230715Z AUTO 00000KT 10SM CLR 14/14 A3010 RMK AO2 EGHI 230650Z VRB01KT 9999 FEW030 08/07 Q1015 KCLT 230652Z 35003KT 10SM FEW060 SCT160 OVC250 23/22 A2996 RMK AO2 SLP135 T02330217 KCNB 230714Z AUTO 36003KT 10SM BKN008 22/21 A3000 RMK AO2 T02150205 CYGT 222100Z 32015KT 15SM BKN024 07/02 A3015 RMK SC7 7.0/0.0/0/NIL/LAST OB/NEXT 231500Z SLP215 CXRB 230700Z AUTO 29006KT M00/01 RMK AO1 SLP232 T10030005 53002 CYHK 230700Z AUTO 32009KT 9SM OVC044 04/04 A3035 RMK SLP281 KDCU 230653Z AUTO 00000KT 10SM CLR 23/22 A3003 RMK AO2 SLP160 T02280217 KDEC 230654Z AUTO 00000KT 6SM BR SCT110 24/23 A2997 RMK AO2 SLP141 T02390228 TSNO KCNC 230715Z AUTO 05005KT 5SM BR BKN080 OVC100 24/24 A2994 RMK AO2 KBUU 230715Z AUTO 00000KT 1/4SM FG OVC002 21/21 A2999 RMK AO2 T02100210 CWZL 230700Z AUTO 24005KT 16/13 RMK AO1 SLP221 T01610133 58002 KDED 230715Z AUTO 00000KT 10SM CLR 24/23 A2999 RMK AO1 KBWD 230715Z AUTO 10SM BKN046 27/14 A3001 RMK AO2 NZRO 230648Z 19008KT 30KM SKC 09/03 Q1029 RMK VATSIM USE ONLY CYHM 230700Z 05011KT 6SM BR OVC006 19/19 A3001 RMK SF8 SLP160 DENSITY ALT 1300FT CYGV 230700Z AUTO 03006KT 9SM BKN075 13/13 A3012 RMK SLP198 PHSF 230656Z AUTO 12007KT 12SM CLR 12/11 A3031 RMK AO2 SLP146 T01240105 KBVN 230715Z AUTO 34004KT 10SM -RA SCT055 SCT065 BKN095 20/18 A2993 RMK AO2 LTG DSNT E AND SE P0001 T01950183 KCLW 230715Z AUTO 00000KT 10SM CLR 26/24 A2997 RMK AO2 CWZN 230600Z AUTO 13/10 RMK AO1 SLP163 T01280097 56001 CYGW 230700Z AUTO 13007KT 9SM FEW095 19/12 A3007 RMK SLP183 DENSITY ALT 300FT KBVO 230653Z AUTO 19004KT 10SM CLR 24/21 A2994 RMK AO2 SLP125 T02390206 EGGW 230650Z 27009KT CAVOK 10/07 Q1014 CWZO 230700Z AUTO 16008KT RMK AO1 CYGX 230700Z 02013KT 15SM SKC 08/05 A3040 RMK SLP303 ZSSS 230700Z 14005MPS 9999 FEW033 31/25 Q1006 NOSIG KBWG 230653Z AUTO 00000KT 10SM SCT045 SCT095 BKN110 26/23 A3000 RMK AO2 LTG DSNT NW SLP150 T02610233 KBUY 230654Z AUTO 02003KT 9SM BKN110 24/22 A2996 RMK AO2 SLP135 T02440222 KDCY 230515Z AUTO 16004KT 10SM SCT036 BKN090 24/24 A2999 RMK AO2 LTG DSNT SE AND S T02350235 CWYY 230700Z AUTO 34004KT 19/14 RMK AO1 SLP192 T01860136 51005 KDEH 230715Z AUTO 06003KT 10SM BKN039 OVC047 22/22 A2998 RMK AO2 EGHQ 230650Z VRB03KT 9999 FEW025 SCT048 13/09 Q1017 CXRH 230700Z AUTO 05002KT 07/06 RMK AO1 T00700055 CWZQ 230720Z AUTO 00000KT 15/12 RMK AO1 T01460124 UNNT 230700Z 09002MPS CAVOK 25/10 Q1013 25090070 16090070 NOSIG RMK QFE750/1000 KCMR 230715Z AUTO 18006KT 10SM CLR 13/09 A3027 RMK AO1 KBWI 230654Z 10006KT 10SM SCT017 BKN060 21/18 A3000 RMK AO2 SLP158 T02060183 KCNI 230715Z AUTO 00000KT 10SM CLR 23/18 A3003 RMK AO2 KBVS 230715Z AUTO 00000KT 10SM CLR 14/13 A3011 RMK A01 P000 KBXA 230715Z AUTO 00000KT CLR 26/23 A3001 RMK AO2 T02610233 PWINO CWZS 230300Z AUTO 17002KT 13/11 RMK AO1 SLP215 T01270114 56002 EGJA 230650Z 29010KT 9999 FEW025 14/08 Q1017 EFSA 230650Z AUTO 19005KT 120V260 9999 BKN011 14/11 Q1008 KCNK 230655Z AUTO 08003KT 10SM CLR 24/23 A2989 RMK AO2 SLP103 T02390228 CYIK 221900Z 21017G22KT 15SM FEW050 BKN070 BKN100 BKN150 BKN250 17/11 A2996 RMK SC1ACC5AC1AC1CS1 LAST OBS/NEXT 251200UTC SLP147 EGJB 230650Z 28006KT 9999 FEW030 14/09 Q1017 KBVU 230715Z AUTO 16011G17KT 10SM CLR 27/10 A2988 RMK AO2 CXSC 230700Z AUTO 02012KT 09/08 RMK AO1 3PAST HR M PK WND 01018/0617 P0009 T00870079 50023 UNOO 230700Z 20002MPS 4500 FU SCT033CB BKN066 26/19 Q1009 25CLRD60 NOSIG RMK QFE749 CXRL 230700Z AUTO 08/07 RMK AO1 T00840068 CYHU 230723Z AUTO 05003KT 2 1/2SM BR CLR 14/13 A3011 RMK SLP198 KCNM 230653Z AUTO 18005KT 10SM FEW110 23/17 A3003 RMK AO2 SLP105 T02330172 403610228 $ KCOD 230715Z AUTO 02004KT 10SM FEW008 BKN015 OVC036 12/11 A3001 RMK AO1 P0001 CWZV 230700Z AUTO 31028KT 14/13 RMK AO1 PK WND 31031/0650 SLP214 T01420132 58003 KDEN 230653Z 00000KT 10SM BKN013 BKN120 16/14 A3004 RMK AO2 SLP104 T01610144 402170156 KCOE 230715Z AUTO 02013KT 10SM BKN085 16/07 A3010 RMK AO1 NZTG 230700Z 13008KT 40KM NSC 11/05 Q1029 RMK VATSIM USE ONLY CXSE 230700Z AUTO 13002KT M00/01 RMK AO1 SLP258 T10010005 51002 CWZW 230700Z AUTO 31001KT 09/09 RMK AO1 SLP219 T00910087 52004 CYIN 230700Z AUTO 24003KT 9SM CLR 06/02 A3023 RMK SLP240 KCMX 230653Z AUTO 07007KT 10SM OVC004 17/16 A3005 RMK AO2 SLP173 T01720156 KCNO 230653Z AUTO 00000KT 9SM CLR 18/17 A2998 RMK AO2 SLP145 T01830167 KBVX 230715Z AUTO 23006KT 10SM CLR 27/24 A2997 RMK AO1 KCOF 230658Z AUTO 14007KT 10SM CLR 29/25 A3000 RMK AO2 SLP163 CYJF 221700Z 22009KT 15SM FEW030 FEW080 12/10 A3027 RMK SC1AC1 SLP257 CYIO 230700Z AUTO 22014KT 9SM OVC048 03/02 A3012 RMK SLP204 EFRO 230720Z AUTO 01009KT 9999 OVC011 09/07 Q1006 KBVY 230706Z AUTO 35004KT 10SM FEW007 OVC100 16/14 A3010 RMK AO2 T01560144 KCMY 230715Z AUTO 00000KT 7SM OVC004 20/20 A2998 RMK AO2 T01980195 KBWP 230710Z AUTO 01007KT 10SM BKN005 OVC010 19/17 A3003 RMK AO1 ZUCK 230700Z 25004MPS 9999 SCT013 SCT023 OVC050 23/19 Q1011 NOSIG CYHY 230700Z 17008KT 10SM FEW040 FEW230 10/03 A3030 RMK SC2CI0 FU SLP267 KDEQ 230706Z AUTO 00000KT 1 3/4SM BR CLR 23/23 A2998 RMK AO2 T02330228 CXSH 230700Z AUTO 04004KT 15/14 RMK AO1 SLP207 T01540135 50000 CWZZ 230700Z AUTO 22007KT 17/ A3012 RMK SLP210 CYHZ 230700Z 01007KT 12SM FEW015 BKN040 14/14 A3006 RMK SF2SC5 SLP181 KDFI 230653Z AUTO 00000KT 5SM BR CLR 22/21 A3000 RMK AO2 SLP152 T02220206 EFSI 230650Z AUTO 20004KT 130V270 9999 FEW011 SCT060 BKN080 14/13 Q1006 EGKA 221850Z 30008KT CAVOK 16/07 Q1012 CYKA 230700Z 08006KT 40SM FEW100 SCT120 16/10 A3015 RMK AC2AC2 SLP211 DENSITY ALT 1200FT EGJJ 230650Z 31006KT 9999 0000 R27/P1500 FEW028 15/09 Q1017 NOSIG KDET 230653Z 36003KT 10SM FEW060 22/16 A3001 RMK AO2 SLP158 T02170161 KF70 230715Z AUTO 00000KT 10SM CLR 18/13 A2998 RMK AO1 KBXK 230715Z AUTO 06003KT 10SM CLR 25/17 A2990 RMK AO1 EGKB 221920Z 26005KT 9999 VCSH SCT045 15/06 Q1012 KCNU 230652Z AUTO 18009KT 10SM CLR 27/21 A2993 RMK AO2 SLP120 T02670211 EHAK 230655Z AUTO 31020G32KT 280V350 4200 +SHRA FEW011/// SCT021/// BKN048/// 11/10 Q1007 KCPC 230715Z AUTO 00000KT 10SM CLR 23/22 A2991 RMK AO2 T02330222 CXSL 230700Z AUTO 04004KT 03/02 RMK AO1 4PAST HR M P0002 T00260020 50004 KCOM 230715Z AUTO 19007KT 10SM CLR 24/14 A3003 RMK AO2 T02410140 CYKD 222300Z 34005KT 300V020 15SM SCT014 BKN030 BKN075 13/09 A3019 RMK SC4SC1AC1 14.0/8.5/TR/LAST OBS/NXT 231300Z SLP222 KCNW 230353Z 17009KT 10SM SKC 32/18 A2997 CXTD 230700Z AUTO 02005KT 15/13 RMK AO1 T01540130 CYIV 230700Z 03009KT 15SM BKN009 OVC012 09/08 A3030 RMK SC6SC2 SLP269 PHTO 230653Z 28006KT 10SM SCT029 OVC035 23/21 A3001 RMK AO2 RAE37 SLP159 P0004 T02280211 $ KCON 230651Z AUTO 33003KT 10SM SCT080 BKN100 BKN120 15/14 A3012 RMK AO2 SLP201 T01500139 KDEW 230653Z AUTO 03009KT 10SM OVC070 17/08 A3010 RMK AO2 SLP186 T01670078 EHAM 230655Z 30014KT 270V330 4000 SHRA FEW018 BKN025CB 11/10 Q1012 RETSRA BECMG 7000 -SHRA CZBF 230700Z VRB02KT 15SM BKN028 11/11 A3015 RMK SC7 SLP212 KBYG 230653Z AUTO 00000KT 10SM BKN014 OVC033 14/13 A3002 RMK AO2 SLP121 T01440133 402220128 KCNY 230653Z AUTO 14011KT 10SM BKN110 21/09 A2994 RMK AO2 LTG DSNT N AND NW SLP081 T02110094 402720156 CYKF 230713Z AUTO 04003KT 3SM BR BKN009 16/16 A3003 RMK SLP167 DENSITY ALT 1200FT CXSP 230600Z AUTO 00000KT 04/04 RMK AO1 T00430035 KCOQ 230716Z AUTO 07003KT 4SM BR CLR 16/15 A3005 RMK AO2 CXTH 230600Z AUTO 01003KT 08/04 RMK AO1 T00750041 KBYI 230653Z AUTO 19006KT 10SM CLR 11/07 A2998 RMK AO2 SLP123 T01110067 402220106 VEPT 230650Z 09003KT 2500 HZ FEW008 SCT018 FEW030CB OVC080 30/28 Q1004 BECMG 3000 HZ CXSR 230700Z AUTO 16010KT 06/04 RMK AO1 SLP276 T00590035 58004 KCOS 230654Z 26003KT 10SM FEW032 SCT100 13/12 A3009 RMK AO2 SLP118 T01330117 402440133 NZTU 230700Z 08002KT 25KM SCT015 09/07 Q1036 RMK ALT VATSIM USE ONLY CYLA 222100Z 20014KT 15SM FEW020 SCT240 28/14 A3010 RMK SC2CI0 LAST OBS/NEXT 231200UTC SLP193 CYKJ 230700Z AUTO 13004KT 9SM OVC065 08/04 A3038 RMK SLP307 KCOT 230653Z AUTO 15009KT 10SM CLR 27/19 A2999 RMK AO2 SLP146 T02670194 $ KCPK 230715Z AUTO 00000KT 5SM BR CLR 21/20 A2995 RMK AO2 KCQB 230715Z AUTO 18006KT 10SM CLR 26/20 A2995 RMK AO2 CYJT 230700Z 03005KT 15SM SCT014 13/10 A3008 RMK SF4 SLP188 EGKK 230650Z 22004KT CAVOK 11/08 Q1015 KCQC 230653Z AUTO 30008KT 10SM OVC120 12/10 A3022 RMK AO2 SLP154 T01220100 402000117 KCOU 230654Z AUTO 31003KT 10SM CLR 26/24 A2994 RMK AO2 SLP126 T02610244 EHBK 230655Z AUTO 23010KT 9999 BKN010 BKN016 13/11 Q1013 BECMG SCT010 CYLC 221900Z 14008KT 15SM FEW150 FEW300 11/09 A3007 RMK AS1CI1 11.1/7.3/0.0/0 LASTOB/NXTOB251100Z SLP186 EGLC 230650Z 25008KT CAVOK 13/08 Q1014 CYKL 230700Z AUTO 00000KT 9SM CLR 13/13 A3016 RMK SLP220 CYLD 230100Z 00000KT 15SM FEW060 18/17 A3009 RMK SC2 CU TR CC TR LAST OBS/NEXT 23 1000Z SLP191 KDFW 230653Z 18012KT 10SM CLR 29/19 A2996 RMK AO2 SLP134 T02940194 KCQF 230715Z AUTO 00000KT 10SM CLR 26/25 A2999 RMK AO2 CYKO 221900Z 20010KT 15SM FEW040 17/11 A3003 RMK SC1 LAST OB NEXT / 271200 UTC REDUCED PROGRAM SLP169 EGLF 230650Z 26004KT 240V320 9999 FEW008 09/07 Q1015 CXTO 230700Z AUTO 21/18 RMK AO1 SLP162 T02080184 58003 CXTP 230700Z AUTO 35005KT 10/10 RMK AO1 SLP155 T01040102 55004 OSDI 230700Z 00000KT CAVOK 30/17 Q1011 EFTP 230720Z AUTO 20007KT CAVOK 15/12 Q1008 CYKQ 222100Z 15004KT 15SM SCT060 SCT230 30/14 A3005 RMK CU3CC1 LAST OBS/NEXT 241300 UTC SLP175 DENSITY ALT 1600FT CYLH 230700Z AUTO 35004KT 9SM BKN043 OVC060 19/18 A3009 RMK SLP192 DENSITY ALT 1300FT KCPR 230653Z AUTO 04006KT 10SM OVC090 14/13 A2999 RMK AO2 SLP092 T01440128 402720078 NZWB 230612Z 03008KT 20KM FEW015 09/07 Q1033 RMK VATSIM USE ONLY KBYS 230655Z AUTO 23017G25KT 10SM CLR 25/05 A2990 RMK AO2 PK WND 21026/0611 SLP077 T02480052 $ KCPS 230653Z AUTO 00000KT 8SM CLR 26/24 A2993 RMK AO2 SLP131 T02560244 CYLJ 230000Z 08005KT 15SM FEW030 OVC045 14/07 A3034 RMK CU1SC7 LAST OB/NXT 231200 UTC SLP287 CYMA 230700Z VRB02KT 20SM SCT045 BKN070 10/08 A3015 RMK SC4AC1 SLP227 EFVA 230720Z AUTO 36003KT 9999 -RA ////// 13/11 Q1005 KCPT 230715Z AUTO 18007KT 10SM CLR 28/21 A2999 RMK AO2 CYLK 230000Z 10008KT 15SM FEW030 FEW070 16/02 A3038 RMK SC2AC1 17.0/7.0/0/NIL/LAST OBS/NXT 231500Z SLP295 CZDB 230700Z AUTO 03006KT 12/10 RMK AO1 SLP187 T01150098 57008 ORMM 230700Z 29016KT CAVOK 42/05 Q1001 NOSIG CYLL 230700Z AUTO 34005KT 9SM BKN060 09/06 A3035 RMK SLP295 EGMC 230650Z 28008KT CAVOK 12/07 Q1014 EGLL 230650Z 27007KT 9999 FEW040 11/08 Q1015 EFTU 230720Z AUTO 16005KT 130V220 9999 SCT023/// 15/12 Q1007 KCQM 230715Z AUTO 00000KT 5SM BR SCT008 OVC075 18/18 A3007 RMK AO2 EGMD 221750Z 26007KT CAVOK 19/09 Q1012 CXTV 230700Z AUTO 29009KT 08/07 RMK AO1 SLP215 T00800071 51004 KDGW 230718Z AUTO 17005KT 10SM BKN024 OVC035 17/13 A2999 RMK AO2 LTG DSNT W T01720133 KDHN 230653Z AUTO 00000KT 10SM CLR 25/23 A3002 RMK AO2 SLP161 T02500233 KCRE 230653Z AUTO 23005KT 9SM CLR 28/27 A2991 RMK AO2 SLP129 T02830267 KBZN 230716Z AUTO 00000KT 10SM SCT007 BKN060 OVC075 12/11 A3006 RMK AO2 T01220106 KCRG 230653Z AUTO 23004KT 10SM FEW080 27/23 A2997 RMK AO2 SLP148 T02670228 KBYY 230715Z AUTO 00000KT 10SM CLR 25/25 A3000 RMK AO2 T02570257 CZCP 230720Z AUTO 29005KT 9SM -RA SCT041 SCT053 10/ A3013 CYKY 230700Z 02009KT 15SM OVC035 11/09 A3029 RMK SC8 SLP267 KCRH 230715Z AUTO 18009KT 10SM SCT023 30/25 A3001 RMK A01 ORNI 230700Z 02009KT 8000 NSC 39/08 Q1003 NOSIG CYKZ 230700Z 04003KT 8SM OVC020 19/19 A3003 RMK SC8 SLP169 CYMH 230700Z AUTO 35010G16KT 320V020 9SM OVC013 08/06 A3012 RMK SLP198 NZWK 230648Z 19008KT 30KM SKC 09/03 Q1029 RMK NZRO VATSIM USE ONLY CZCR 230700Z AUTO 22004KT 12/11 RMK AO1 SLP214 T01220113 56002 KDIJ 230656Z AUTO 12004KT 10SM BKN050 08/08 A3010 RMK AO2 T00770077 SLP138 CYMJ 230031Z 05007KT 15SM FEW042 BKN064 OVC200 RMK SC2SC3CI2 LAST OBS / NXT 241800 UTC CYNA 230700Z AUTO 02004KT 9SM FEW065 13/12 A3011 RMK SLP196 KCQT 230710Z AUTO 29003KT 10SM BKN012 20/17 A2995 RMK AO2 T02000167 $ KDIK 230656Z AUTO 08015KT 4SM BR OVC004 17/16 A3004 RMK AO2 SLP164 T01670161 402170167 KDHT 230653Z AUTO 20011KT 10SM CLR 23/15 A3004 RMK AO2 SLP100 T02280150 CYLT 221900Z 00000KT 7SM -SHRA FEW005 OVC009 02/02 A2991 RMK SF1ST7 LAST OBS/NXT 251200 UTC PCPN VRY LGT SLP132 EFUT 230650Z 23008KT 200V270 9999 BKN011 14/12 Q1009 CYLU 222100Z CCA 00000KT 15SM BKN230 22/12 A3016 RMK CI4 LAST OBS/NEXT 231200Z SLP216 EGNC 221650Z 26006KT 220V300 9999 VCSH FEW036 SCT042 14/08 Q1010 NZWN 230700Z AUTO 16018KT 9999 BKN020/// BKN038/// 10/07 Q1034 TEMPO 6000 DZ BKN012 EHDL 230655Z AUTO 13003KT 2600 BR FEW002 OVC079 11/11 Q1012 YLO TXKF 230655Z 24019KT 9999 FEW013 BKN060 BKN300 25/23 Q1012  CYND 230100Z 07007KT 15SM SCT080 19/16 A3008 RMK AC3 LAST OBS/NEXT 231100 UTC SLP186 DENSITY ALT 500FT CXVM 230600Z AUTO 00000KT 04/03 RMK AO1 T00410031 CYMM 230700Z AUTO VRB02KT 9SM OVC075 09/04 A3040 RMK SLP307 KCQW 230715Z AUTO 09003KT 10SM CLR 23/23 A2992 RMK AO2 NZWP 230554Z 19005KT 30KM FEW035 13/07 Q1028 RMK VATSIM USE ONLY CXVN 230600Z AUTO 09005KT 20/19 RMK AO1 SLP153 T01960187 51005 CYNE 230700Z AUTO 04009G16KT 010V090 9SM OVC017 11/08 A3033 RMK SLP277 CYLW 230700Z AUTO VRB02KT 9SM FEW100 13/11 A3015 RMK SLP211 KCQX 230652Z AUTO 03005KT 10SM FEW015 18/16 A3006 RMK AO2 SLP181 T01780156 CYMO 230700Z AUTO 17004KT 9SM CLR 18/15 A3007 RMK SLP181 DENSITY ALT 200FT KCSG 230651Z AUTO 00000KT 10SM CLR 27/23 A2999 RMK AO2 SLP147 T02670233 KCRP 230651Z 17005KT 10SM FEW018 25/23 A2998 RMK AO2 SLP150 T02500228 $ NZWR 230554Z 19005KT 30KM FEW035 13/07 Q1028 RMK NZWP VATSIM USE ONLY KCRQ 230653Z AUTO 00000KT 10SM FEW010 20/17 A2995 RMK AO2 SLP139 T02000167 $ NZWS 230700Z 22003KT 25KM SKC 11/07 Q1032 RMK ALT VATSIM USE ONLY EGNH 230650Z 34006KT 300V020 9999 -SHRA FEW018 BKN023TCU 11/09 Q1013 EHEH 230655Z AUTO 21009KT 9999 SCT082 13/11 Q1012 BLU 23006KT 9999 FEW044 EFVR 230650Z AUTO 20006KT 140V260 9999 BKN011 13/11 Q1008 KCRS 230653Z AUTO 18009KT 10SM CLR 28/21 A3000 RMK AO2 SLP152 T02830211 NZWU 230609Z 12010KT 40KM FEW025 SCT045 09/06 Q1032 RMK NZPM VATSIM USE ONLY CYOA 222300Z 21008KT 15SM BKN050 14/03 A3035 RMK SC5 15.1/2.4/0 LAST OB/NEXT 231100Z SLP302 CZFA 230100Z 17007KT 30SM -SHRA SCT064TCU BKN082 BKN100 15/09 A3014 RMK TCU4AC2AC1 PCPN VRY LGT CLIMAT 18.3/2.6/TRMM LAST OBS/NEXT 231300UTC SLP231 DENSITY ALT 2600FT EGNJ 230650Z 25008KT 9999 FEW040 10/08 Q1012 KCTB 230656Z AUTO 35018KT 7SM -RA OVC007 08/07 A3023 RMK AO2 RAB52 SLP237 P0001 T00830072 401220083 KDKB 230715Z AUTO 00000KT 2 1/2SM BR SCT032 22/22 A2999 RMK AO2 T02200215 CYMT 230100Z 21002KT 15SM SKC 17/13 A3017 RMK LAST OBS/NEXT 241000 UTC SLP219 CYOC 221900Z 24007KT 35SM FEW027TCU BKN033 BKN075 14/08 A3017 RMK TCU2SC3AC2 VIA CYXY SLP225 CYMU 221900Z 00000KT 15SM FEW040 FEW360 28/11 A3012 RMK SC0CI0 LASTOBS/NEXT 25 1200Z SLP200 CZEL 230700Z AUTO 36004KT 16/15 RMK AO1 SLP170 T01570148 58003 KCSM 230653Z AUTO 19014KT 10SM CLR 27/09 A2997 RMK AO2 SLP117 T02670089 CZEM 222000Z 31006KT 15SM FEW040 26/17 A3007 RMK SC2 LAST OBS/NEXT 241400 UTC SLP182 CXWM 230600Z AUTO 01013KT 08/08 RMK AO1 3PAST HR M PK WND 13024/0537 P0005 T00790076 50057 CYOD 230700Z 05002KT 15SM BKN066 11/07 A3038 RMK AC7 SLP301 CYNM 230700Z AUTO 18002KT 9SM CLR 11/10 A3014 RMK ICG MISG SLP211 EGNM 230650Z 29006KT 9999 FEW020 08/07 Q1012 KCRW 230654Z 21003KT 6SM BR OVC009 22/22 A2999 RMK AO2 SLP145 VLY FG T02220217 $ EHDV 230655Z AUTO 30012KT 9999 SCT024/// SCT028/// 14/09 Q1010 EHFD 230655Z AUTO 28013KT 9999 FEW021/// SCT026/// BKN047/// 13/09 Q1008 RERA CXVW 230600Z AUTO 12005KT 10/08 RMK AO1 T01030083 CXWN 230700Z AUTO 35004KT 14/12 RMK AO1 SLP207 T01420122 51004 KCRX 230715Z AUTO 00000KT 9SM CLR 23/22 A3000 RMK AO2 EGNO 221550Z 30013KT 9999 SCT030 14/07 Q1012 CYMX 230700Z 04003KT 25SM SCT260 16/15 A3013 RMK CI3 SLP204 KEBG 230715Z AUTO 15003KT 10SM CLR 26/23 A2999 RMK AO2 LTG DSNT S T02640234 KCSQ 230715Z AUTO 07008KT 7SM BKN070 BKN080 OVC100 24/23 A2992 RMK AO2 UNTT 230700Z VRB02MPS CAVOK 22/11 Q1013 NOSIG RMK QFE745 21090060 KEAR 230715Z AUTO 02010KT 10SM FEW070 OVC095 19/18 A2990 RMK AO1 P0003 EGNR 221950Z 27004KT 9999 FEW030 11/08 Q1014 KCTJ 230715Z AUTO 00000KT 10SM CLR 23/22 A3004 RMK AO2 CYPA 230700Z 05005KT 15SM FEW058 BKN089 12/11 A3031 RMK SC2AC4 SLP272 CYOJ 230700Z AUTO 34002KT 9SM CLR 05/02 A3034 RMK SLP287 EGNS 230650Z 31013KT 9999 FEW010 FEW015CB 12/09 Q1014 NOSIG EGPA 230650Z 29010KT 9999 FEW021 11/08 Q1010 KDKK 230653Z AUTO 09003KT 7SM FEW050 FEW055 19/18 A2998 RMK AO2 SLP149 T01890178 KCUB 230653Z AUTO 00000KT 10SM CLR 26/23 A2993 RMK AO2 SLP131 T02610228 KEAT 230655Z AUTO 33007KT 10SM FEW110 19/11 A3009 RMK AO2 SLP184 T01940106 EGPB 230650Z 31013KT 9999 FEW018 11/08 Q1008 NOSIG EGNT 230650Z 28005KT 9999 SCT032 09/08 Q1012 KEAU 230656Z AUTO 02005KT 10SM OVC006 21/21 A2999 RMK AO2 SLP149 T02110206 CYPC 222300Z 23003KT 15SM FEW090 SCT120 BKN210 18/07 A3017 RMK AC2AC2CI2 18.0/9.5/0 LAST OB/NEXT 231300Z SLP217 ZUGY 230700Z 06002MPS 330V100 9999 -RA FEW009 BKN015 OVC033 19/18 Q1014 NOSIG EGPC 230650Z AUTO 31010KT 9999 SCT047/// 09/08 Q1011 KCSV 230653Z AUTO 26003KT 8SM CLR 22/21 A3009 RMK AO2 SLP163 T02220206 CZFM 222300Z 24004KT 190V340 35SM FEW030 SCT070 BKN160 20/06 A3013 RMK SC1AC2AC3 20.4/8.8/0.0/LAST OBS/NXT 231300Z SLP205 DENSITY ALT 500FT CZEV 230700Z AUTO 35003KT 07/06 RMK AO1 SLP227 T00740059 52005 CYPD 230700Z AUTO VRB02KT 9SM BKN055 13/12 A3006 RMK SLP179 EGPD 230650Z 31012KT 9999 FEW025 10/08 Q1011 NOSIG EGNV 230650Z 25004KT 230V290 9999 FEW033 SCT039 10/06 Q1012 EGOM 230650Z AUTO 25005KT 9999 FEW001/// BKN080/// 07/07 Q1012 CZFN 222300Z 10004KT 30SM FEW030TCU FEW090 SCT250 20/10 A3015 RMK TCU1AC1CI1 20.5/20.0/0 LAST OB/NEXT 251500Z -15 SLP213 CYPE 230700Z 04004KT 15SM FEW100 04/01 A3034 RMK AC1 SLP292 EGPE 230650Z 25006KT 9999 FEW018 SCT045 10/08 Q1013 KDLF 230658Z AUTO 13010KT 10SM CLR 29/19 A2998 RMK AO2 SLP136 T02890192 $ CYOO 230700Z AUTO 03005KT 9SM OVC080 19/18 A3002 RMK SLP166 DENSITY ALT 900FT EGNX 230650Z 27010KT 9999 FEW046 10/07 Q1014 EGPF 230650Z 24004KT 9999 FEW043 09/07 Q1013 KECG 230654Z AUTO 03004KT 10SM CLR 24/22 A2994 RMK AO2 SLP139 T02390222 TSNO CYPG 222200Z 35011KT 15SM BKN017 BKN022 19/15 A3011 RMK SC6SC1 LAST OBS/NXT 251100 UTC SLP199 EGOP 230650Z AUTO 32011KT 9999 // NCD 12/09 Q1016 EHGG 230655Z AUTO 21007KT 9999 NCD 12/11 Q1010 NOSIG KDLH 230655Z 07003KT 4SM BR FEW004 16/14 A3006 RMK AO2 SLP182 T01560144 $ KCUH 230715Z AUTO 17004KT CLR 25/20 A2995 RMK AO2 PWINO CXYH 230700Z AUTO 00000KT 09/08 RMK AO1 SLP199 T00870080 51003 CYPH 230700Z AUTO 19011KT 9SM CLR 15/11 A3004 RMK SLP172 EGPH 230650Z 26003KT 9999 -RA BKN045 09/08 Q1013 KDKR 230715Z AUTO 19003KT 10SM CLR 26/24 A3003 RMK AO2 EGPI 230650Z 34006KT 300V360 9999 FEW025 SCT030 10/08 Q1014 KEBS 230715Z AUTO 05005KT 7SM SCT019 BKN024 OVC033 23/23 A2996 RMK AO2 KDMA 230658Z AUTO 21005KT 10SM CLR 24/17 A3001 RMK AO2 SLP119 T02440171 403180196 $ EGQA 221050Z 27008KT 9999 FEW010 SCT020 BKN040 13/// Q1010 WHT CZFS 230700Z AUTO 10005KT 14/08 RMK AO1 SLP222 T01420078 51002 CYQA 230717Z AUTO 00000KT 6SM BR OVC065 17/17 A3006 RMK SLP180 DENSITY ALT 1200FT EHFS 230655Z AUTO 24016KT 9999 NSC 14/12 Q1012 KCVB 230715Z AUTO 14004KT 10SM CLR 26/21 A3003 RMK AO2 T02580205 EGOS 230650Z AUTO 23007KT 9999 BKN060/// 09/07 Q1014 CYQB 230700Z 03003KT 15SM SKC 14/13 A3016 RMK SLP213 EGPK 230650Z 13002KT 9999 FEW025 07/06 Q1014 KCVC 230715Z AUTO 31003KT 10SM CLR 25/21 A2999 RMK AO2 KEDC 230715Z AUTO 20005KT 10SM CLR 25/22 A3002 RMK AO2 KCUL 230718Z AUTO 14003KT 5SM BR CLR 26/25 A2996 RMK AO2 LTG DSNT SE KDLL 230715Z AUTO 00000KT 1/4SM FG BKN002 BKN006 22/21 A2997 RMK AO2 T02170205 CYPL 230200Z 00000KT 15SM SCT040 BKN270 21/17 A3007 RMK SC4CI2 LAST OBS/NEXT 231100Z SLP185 DENSITY ALT 2000FT CXZC 230700Z AUTO 19002KT 16/15 RMK AO1 SLP179 T01600151 50000 EGPL 230650Z 34004KT 9999 -SHRA FEW018 SCT022 BKN038 09/08 Q1015 EGOV 230650Z AUTO 30009KT 9999 FEW023/// SCT050/// 12/08 Q1015 CYQD 230700Z 03005KT 15SM SKC 13/10 A3034 RMK SLP282 EGPM 230650Z AUTO 31011KT 9999 FEW014/// SCT027/// BKN038/// 11/09 Q1007 VGEG 230650Z 16004KT 6000 SCT018 BKN120 28/24 Q1008 NOSIG KDLN 230653Z AUTO 04005KT 10SM OVC024 11/08 A3007 RMK AO2 RAE0555 SLP148 P0000 T01060083 401670094 KEDE 230715Z AUTO 04003KT 5SM BR BKN095 23/22 A2994 RMK AO2 T02250219 EGPN 221920Z 07003KT 9999 FEW048 13/09 Q1010 CYOW 230700Z 06006KT 15SM BKN030 OVC040 17/16 A3009 RMK SC5SC3 SLP191 DENSITY ALT 500FT CYQF 230700Z 33003KT 15SM SCT062 07/04 A3034 RMK SC4 SLP297 KCVG 230652Z 00000KT 4SM BR FEW047 23/22 A2999 RMK AO2 SLP145 T02330217 KCTY 230653Z AUTO 00000KT 24/23 A2998 RMK AO1 SLP150 P0001 T02440233 $ EGPO 230650Z 31004KT 270V330 9999 VCSH FEW018 SCT042 10/07 Q1014 KECP 230653Z AUTO 00000KT 9SM CLR 27/25 A2997 RMK AO2 SLP160 T02720250 $ KDLP 230715Z AUTO VRB03KT 10SM FEW024 SCT033 36/25 A3001 RMK A01 KCTZ 230315Z AUTO 00000KT 10SM CLR 22/22 A2998 RMK AO2 T02220222 CYOY 230700Z AUTO 00000KT 9SM CLR 12/11 A3015 RMK SLP213 CYQG 230700Z 02005KT 15SM OVC077 20/18 A3000 RMK AC8 SLP156 KCVH 230710Z AUTO 26007KT 10SM OVC007 16/15 A2995 RMK AO1 KDMH 230654Z AUTO 22/17 A3001 RMK AO1 SLP161 T02170172 CYQH 230700Z 32005KT 20SM BKN030 13/08 A3015 RMK SC3 SLP223 CYPQ 230700Z AUTO 05003KT 9SM BKN010 BKN021 17/17 A3005 RMK SLP174 DENSITY ALT 900FT EHFZ 230655Z AUTO 27014KT 9999 FEW022/// SCT030/// 14/09 Q1010 CYQI 230700Z 05006KT 15SM BKN045 16/14 A3006 RMK SC7 SLP180 CYPR 230656Z AUTO 23004KT 5SM BR BKN004 BKN150 OVC170 14/14 A3016 RMK SLP212 EHGR 230655Z AUTO 22007KT 9999 BKN077 BKN100 12/11 Q1012 BLU KDLS 230653Z AUTO 32007KT 10SM CLR 21/13 A3002 RMK AO2 SLP164 T02060128 KECS 230715Z AUTO 10SM OVC048 20/12 A2998 RMK AO2 KEDJ 230710Z AUTO 00000KT 1/4SM OVC001 20/ A2998 RMK A01 P000 KCWA 230715Z AUTO 00000KT 3SM BR OVC003 21/21 A3001 RMK AO2 CYRA 230000Z 16003KT 15SM FEW220 18/M00 A3028 RMK CI1 17.5/4.0/0/0 LAST OBS/NEXT 231500Z SLP263 KCUT 222209Z AUTO 10014G19KT 10SM SCT022 BKN028 BKN033 20/14 A3012 RMK AO2 T02000139 EGQK 230650Z AUTO 27009KT 9999 SCT038/// BKN050/// 10/07 Q1012 CYRB 230700Z 29008KT 1SM BR OVC002 M00/M00 A3022 RMK ST8 SLP241 CYQK 230700Z 35005KT 15SM FEW034 OVC056 19/18 A3010 RMK SC2SC6 SLP194 DENSITY ALT 1800FT KCWC 230715Z AUTO 23005KT 10SM CLR 25/13 A2995 RMK AO2 T02500126 KECU 230710Z AUTO 13010KT 10SM CLR 24/18 A3009 RMK AO2 EGPU 230650Z AUTO 35011KT 060V120 9999 NCD 11/07 Q1014 CYQL 230719Z AUTO 03008G17KT 7SM -RA SCT006 BKN011 OVC015 08/07 A3032 RMK SLP282 EGQL 230650Z 25005KT 9999 FEW020 SCT050 BKN100 10/08 Q1012 BLU NOSIG KEED 230656Z AUTO 21006KT 10SM CLR 31/11 A2983 RMK AO2 SLP068 T03060111 CYQM 230700Z 35003KT 15SM SCT022 BKN041 14/14 A3012 RMK SC3SC4 SLP199 KDMN 230653Z AUTO 20004KT 10SM CLR 18/16 A3011 RMK AO2 SLP126 T01780161 402940178 KCVN 230715Z AUTO 20005KT 10SM 19/16 A3011 RMK AO1 EGQM 230650Z AUTO 31007KT 9999 BKN041/// SCT120/// 10/08 Q1012 RERA KEDN 230715Z AUTO 00000KT 10SM CLR 23/23 A2999 RMK AO2 CYPW 230200Z 26003KT 20SM FEW045 FEW300 22/14 A3005 RMK CU1CI1 CU TR LAST OBS/NEXT231300UTC SLP177 DENSITY ALT 1200FT KDMO 230653Z AUTO 19005KT 7SM CLR 24/22 A2995 RMK AO2 SLP130 T02440222 KCVO 230715Z 31006KT 10SM CLR 15/09 A3007 RMK AO1 KCWF 230715Z AUTO 00000KT 10SM CLR 26/23 A3000 RMK AO2 T02600239 CYPX 230700Z 22012KT 15SM SKC 14/11 A3001 RMK SLP162 CYPY 230700Z AUTO 00000KT 9SM SCT080 04/04 A3039 RMK SLP302 KDLZ 230714Z AUTO 00000KT 1/2SM FG VV005 20/19 A2999 RMK AO2 CYQQ 230700Z 00000KT 20SM SKC 18/10 A3008 RMK SLP187 KCWI 230715Z AUTO 08003KT 5SM SCT110 23/22 A2997 RMK AO1 CYQR 230700Z 06008KT 15SM OVC130 13/11 A3022 RMK AC8 SLP243 KCVS 230658Z 24008KT 10SM FEW065 SCT100 BKN120 20/17 A3009 RMK AO2A SLP125 T02030168 403330193 $ CYRJ 230700Z 26002KT 25SM FEW045 12/11 A3018 RMK SC1 SC TR SLP221 EGQS 230657Z 30012KT 9999 FEW020 BKN045 10/07 Q1012 BLU EHJA 230655Z AUTO 26015KT 9999 FEW018/// 14/10 Q1010 CYSB 230700Z 05005KT 6SM BR FEW012 16/16 A3011 RMK SF2 SLP197 DENSITY ALT 1200FT CYQT 230700Z 00000KT 15SM OVC095 17/16 A3007 RMK AC8 SLP184 DENSITY ALT 800FT OTBD 230700Z 10008KT 060V120 5000 DU FEW025 36/28 Q1003 NOSIG KDNL 230653Z AUTO 30006KT 10SM CLR 29/21 A2996 RMK AO2 SLP136 T02890211 KEDU 230715Z AUTO 16003KT 10SM CLR 16/13 A2985 RMK AO1 CYRL 230200Z 36006KT 15SM SCT014 BKN120 21/18 A3007 RMK SC3AC4 LAST STFD OBS/ NEXT 23 0900UTC SLP183 DENSITY ALT 2000FT CXZU 230700Z AUTO 10/08 RMK AO1 SLP288 T01010076 58002 CYQU 230700Z 07004KT 25SM BKN070 09/06 A3032 RMK AC7 SLP282 EGSC 230650Z 24006KT 200V270 CAVOK 10/07 Q1014 CYSC 230700Z AUTO 09005KT 9SM CLR 12/12 A3015 RMK SLP212 KEFD 230650Z 18002KT 10SM CLR 27/24 A3002 EGSD 230720Z 27011KT CAVOK 12/10 Q1012 CXZV 230700Z AUTO 31001KT 10/09 RMK AO1 SLP203 T01000090 56007 CYQV 230700Z AUTO 01006KT 9SM OVC028 11/10 A3027 RMK SLP260 KEEN 230715Z AUTO 00000KT 10SM OVC070 16/12 A3012 RMK AO1 KCWN 230656Z AUTO 18004KT 10SM FEW011 BKN013 BKN240 13/12 A3011 RMK AO2 CIG 013V240 BKN V SCT SLP126 T01340118 402080133 KCVW 230715Z AUTO 22006KT 10SM 29/25 A3000 RMK A01 KCXE 230715Z AUTO 00000KT 7SM BKN033 24/24 A2996 RMK AO1 T02390238 KDNN 230715Z AUTO 00000KT 10SM CLR 22/22 A3001 RMK AO2 KEDW 230658Z AUTO 23016KT 10SM CLR 23/05 A2994 RMK AO2 SLP113 T02270050 KDMW 230720Z AUTO 13005KT 10SM SCT011 OVC048 21/19 A3002 RMK AO2 CYQW 230700Z AUTO 01002KT 9SM BKN070 10/09 A3033 RMK SLP284 KEEO 230653Z AUTO 00000KT 10SM BKN095 BKN120 13/09 A3008 RMK AO2 SLP101 T01330094 402390117 KCVX 230715Z AUTO 11004KT 10SM SCT085 21/19 A3007 RMK AO2 T02120185 CYSF 230702Z AUTO 07005KT 9SM -RA BKN027 OVC038 10/08 A3042 RMK SLP312 CYQX 230700Z 34011KT 2SM -RA BR BKN002 OVC005 11/11 A3002 RMK FG3SF3SF2 SLP168 CZHY 230700Z AUTO 19007KT 10/02 RMK AO1 SLP261 T01020022 51002 CYQY 230700Z 11003KT 070V150 8SM SHRA BKN005 16/15 A3004 RMK SC6 CU EMBD SLP173 CYRQ 230700Z AUTO 05007KT 9SM CLR 15/14 A3014 RMK SLP206 CYQZ 230700Z AUTO VRB02KT 9SM CLR 08/06 A3020 RMK SLP238 EGSH 230650Z 26009KT 9999 FEW045 11/09 Q1013 NOSIG KDPA 230652Z AUTO 00000KT 5SM BR BKN036 23/22 A2997 RMK AO2 SLP141 T02330222 KDNS 230715Z AUTO 00000KT 10SM FEW055 21/21 A2993 RMK AO2 CYSJ 230700Z 02004KT 15SM 15/14 A3012 RMK SLP201 KEET 230653Z AUTO 00000KT 10SM CLR 24/23 A3001 RMK AO2 SLP153 T02440228 KEFK 230715Z AUTO 00000KT 1/2SM FG VV005 14/14 A3015 RMK AO2 T01400140 CYSK 222200Z 20009KT 15SM SKC 25/13 A3008 RMK 26.4/15.9/M/M LASTOBS/NXT251200Z SLP188 CYRT 230700Z 34012KT 15SM BKN040 07/04 A3039 RMK SC6 SLP294 EGTC 221620Z 31007KT 9999 FEW045 16/08 Q1011 KCWV 230715Z AUTO 00000KT 7SM CLR A2994 RMK AO2 KDNV 230715Z AUTO 00000KT 1 1/2SM RA VV007 21/21 A2995 RMK AO2 VIS 1/2V4 T02070207 CYSM 230700Z 14006KT 15SM FEW060 08/04 A3038 RMK SC1 SLP297 CYRV 230700Z AUTO 00000KT 9SM OVC110 14/13 A3018 RMK SLP222 EHKD 230725Z AUTO 29003KT 9999 -SHRA SCT042 OVC051 11/10 Q1012 RERA BLU 27005KT 9999 FEW030 SCT040 TEMPO 4000 SHRA TSRA SCT012 SCT020CB BKN028 KEGE 230715Z AUTO 12006KT 10SM OVC090 13/09 A3013 RMK AO1 CYSN 230100Z 04003KT 8SM FEW020 19/18 A2999 RMK SC1 FG BNK N / LAST OBS / NEXT 231100 UTC SLP156 DENSITY ALT 700FT CYTE 230717Z AUTO 02006KT 320V050 9SM SCT020 06/04 A3006 RMK SLP182 EGTE 230650Z VRB01KT 9999 FEW030 10/09 Q1016 KCXO 230653Z AUTO 00000KT 10SM CLR 23/22 A3002 RMK AO2 SLP161 T02330222 KCXP 230715Z AUTO 00000KT 10SM CLR 16/04 A3008 RMK AO2 CYSP 222100Z 24004KT 190V300 15SM FEW020 SCT026 SCT100 BKN250 21/17 A3004 RMK CU2SC2AC1CI1 LAST OBS/NEXT 231200UTC SLP177 CYTH 230700Z 05007KT 15SM SKC 07/06 A3041 RMK SLP307 KEGI 230658Z AUTO 29002KT 10SM CLR 27/26 A2999 RMK AO2 SLP156 T02650258 $ EHJR 230655Z AUTO 26017G20KT //// ///////// 15/09 Q1010 W17/H12 OSLK 230700Z 26004KT 9999 SCT030 29/23 Q1008 KEHA 230708Z AUTO 19008KT 21/14 RMK AO1 PK WND 10 001 T02110145 EGSS 230650Z 26004KT 230V290 CAVOK 09/08 Q1014 CYUA 230703Z AUTO 22004KT 5/8SM SCT067 05/ A3020 RMK ICG PAST HR KEFT 230715Z AUTO 00000KT 1/4SM FG OVC001 23/22 A2998 RMK AO2 EGTK 230650Z 25004KT CAVOK 11/08 Q1014 EGUB 230650Z 19003KT CAVOK 10/07 Q1015 BLU KEHC 230715Z AUTO 18007KT 10SM CLR 30/24 A3000 RMK A01 CYUB 230500Z 28010G15KT 2 1/2SM -DZ BR OVC006 09/07 A3014 RMK FG3SC5 13.3/8.6/0.6 LASTOBS/NXT 231300Z SLP208 KDPL 230715Z AUTO 00000KT 7SM CLR 22/21 A2994 RMK AO2 T02200212 CYTL 230700Z AUTO 02007KT 350V050 9SM SCT009 OVC019 08/07 A3022 RMK SLP239 KDOV 230658Z AUTO 01003KT 10SM CLR 19/19 A2999 RMK AO2 SLP159 T01930185 KCXY 230656Z AUTO 11009KT 10SM OVC022 21/17 A3001 RMK AO2 SLP161 T02110167 KDQH 230715Z AUTO 29003KT 10SM CLR 27/22 A2998 RMK AO2 VGHS 230650Z 21008KT 4000 HZ SCT012 FEW025CB BKN120 31/26 Q1006 TEMPO TS CYTQ 221900Z 21008KT 15SM FEW022 29/16 A3013 RMK CU2 LAST OBS/NXT 251200Z SLP203 CYTR 230700Z 07004KT 10SM OVC008 19/18 A3003 RMK ST8 SLP170 KCYS 230653Z AUTO 21008KT 10SM BKN007 OVC090 14/13 A3005 RMK AO2 RAE53 CIG 005V010 SLP100 P0002 T01390128 402280139 $ KDRA 230652Z AUTO 24017G28KT 10SM CLR 26/07 A2987 RMK AO2 PK WND 21036/0557 SLP061 T02610067 CYTS 230700Z 00000KT 15SM MIFG BKN083 16/15 A3010 RMK AC6 SLP196 DENSITY ALT 1000FT EHMA 230655Z AUTO 30014KT 9999 FEW033/// 15/08 Q1010 EGVA 230658Z AUTO 23006KT 9999 CLR 10/08 A2997 RMK AO2 SLP152 T00970075 EICK 230700Z 30006KT 9999 FEW025 08/06 Q1018 NOSIG CYVC 230700Z 00000KT 15SM SKC 10/09 A3036 RMK SLP292 CYUL 230700Z 00000KT 15SM SKC 16/15 A3012 RMK SLP198 EGUL 230658Z AUTO 25008KT 9999 CLR 10/10 A2992 RMK AO2 SLP135 T01010101 KEGV 230715Z AUTO 00000KT 2SM DZ OVC002 20/20 A3004 RMK AO2 T02030203 CZMD 230700Z AUTO 02007KT 6SM BR BKN008 OVC021 09/08 A3024 RMK SLP248 EHKV 230655Z AUTO 27006KT 230V010 9999 -RA FEW023/// SCT026/// BKN034/// 15/10 Q1011 KEHO 230715Z AUTO 00000KT 10SM CLR 24/22 A2996 RMK AO2 T02370215 EGUN 230658Z AUTO 25008KT 9999 FEW075 10/10 A2992 RMK AO2 SLP135 T01020102 EGUO 221050Z 31010KT 9999 BKN025 14/07 Q1013 BLU EHMG 230655Z AUTO 27016KT 9999 FEW026/// SCT038/// 15/09 Q1010 CYTZ 230700Z AUTO 06011KT 9SM OVC019 21/18 A3001 RMK SLP161 DENSITY ALT 800FT KEHR 230715Z AUTO 14006KT 10SM CLR 25/22 A2996 RMK AO1 LTG DSNT E KDRI 230715Z AUTO 00000KT 7SM CLR 24/23 A3003 RMK AO2 T02420227 CZMJ 230700Z AUTO 06005KT 13/10 RMK AO1 SLP249 T01280095 51003 CYUS 230700Z AUTO 20005KT 9SM CLR 03/ A3032 RMK SLP274 CYWA 230713Z AUTO 00000KT 9SM OVC024 16/15 A3009 KEIK 230715Z AUTO 31003KT 10SM SCT021 SCT042 15/14 A3003 RMK AO2 T01470139 KCZT 230715Z AUTO 14009G14KT 10SM CLR 27/20 A2997 RMK AO2 CYUT 222200Z 35016G22KT 25SM FEW030 09/01 A3024 RMK SF1 9.0/4.3/0.0/NIL LAST OBS/NXT 231400Z SLP243 EIDL 230700Z 36009KT 9999 FEW030 12/07 Q1018 KDRM 230715Z AUTO 00000KT 2 1/2SM BR 14/14 A3007 RMK AO2 SKY OBSCURED VIS 1 1/4V3 T01430143 CYVM 230700Z AUTO 02012KT 9SM SCT026 OVC032 04/03 A3001 RMK SLP163 CYWE 230700Z AUTO 16007KT 9SM BKN055 09/05 A3031 RMK SLP279 EHLW 230655Z AUTO 21004KT 9999 NCD 13/11 Q1010 BLU KDRO 230653Z AUTO 00000KT 10SM OVC085 12/11 A3021 RMK AO2 SLP169 T01170106 402060111 EGVN 230650Z 25003KT CAVOK 10/07 Q1015 BLU NOSIG KFAF 230658Z AUTO 07002KT 10SM CLR 23/23 A2993 RMK AO2 SLP138 T02330233 $ EGUW 230650Z AUTO 26009KT 9999 NCD 10/07 Q1013 CYVO 230700Z AUTO 00000KT 9SM CLR 13/13 A3014 RMK SLP212 EGVO 230650Z 23004KT CAVOK 10/07 Q1015 BLU KEHY 230715Z AUTO 00000KT 10SM SCT011 OVC018 11/09 A3005 RMK AO2 CYUX 230700Z AUTO 34014KT 9SM OVC017 04/01 A3021 RMK SLP232 EGUY 221250Z 32006KT 9999 FEW032CB BKN060 16/08 Q1011 BLU CYVP 230700Z 18003KT 15SM FEW080 SCT240 14/12 A3009 RMK AC1CI2 SLP189 CYUY 230700Z 06002KT 15SM SKC 13/12 A3013 RMK SLP205 CYWG 230700Z 34007KT 15SM OVC011 14/13 A3016 RMK ST8 SLP215 KCZZ 230652Z AUTO 04006KT 13/06 A3001 RMK AO1 SLP131 T01330056 EGVP 230650Z AUTO 24001KT 9999 // FEW043/// 09/06 Q1015 CYWH 230400Z 24005KT 15SM FEW230 14/11 A3007 RMK CI0 LAST OBS/NEXT 231300 UTC SLP184 CYVQ 230700Z 04003KT 30SM FEW040 SCT090 SCT240 10/09 A3015 RMK SC2AC1CI1 SLP214 KEIR 230715Z AUTO 00000KT 10SM 29/24 A3002 RMK A01 CYVR 230700Z 09005KT 20SM SKC 17/15 A3009 RMK SLP188 KDTA 230715Z AUTO 16012KT 10SM SCT075 SCT090 14/11 A3002 RMK AO1 T01440110 CYWJ 222300Z 12006KT 40SM FEW048 FEW080 FEW250 20/08 A3016 RMK CU1AC1CI1 FU TCU ASCTD S 19.8/6.0/0/NIL LAST OB/NEXT 231300UTC SLP225 KDRT 230653Z AUTO 13009KT 10SM CLR 29/18 A2996 RMK AO2 SLP127 T02940183 CZMT 230000Z 33009KT 15SM FEW020 FEW040 OVC200 17/14 A3022 RMK SC1SC1CS6 LAST OBS/NEXT 231300 UTC SLP232 CYVT 230400Z 26002KT 15SM FEW040 SCT080 SCT240 10/05 A3036 RMK SC2AC1CI1 LAST STFD OBS/NEXT 231200UTC SLP294 CYWK 230700Z 17006KT 15SM SKC 11/10 A3020 RMK SLP233 KH21 230715Z AUTO 20005KT 10SM CLR 27/20 A2997 RMK AO2 CZMU 230600Z AUTO 01001KT 05/04 RMK AO1 T00490042 CYWL 230700Z 31005KT 15SM SKC 12/04 A3021 RMK SLP235 DENSITY ALT 3100FT CYXC 230700Z 24003KT 25SM BKN065 OVC130 12/07 A3023 RMK SC6AC2 SLP240 DENSITY ALT 3100FT KFAM 230715Z AUTO 19004KT 10SM CLR 25/23 A3000 RMK AO1 KDSM 230704Z 10005KT 6SM BR FEW002 FEW150 26/24 A2993 RMK AO2 T02560239 EGXC 230650Z 28009KT CAVOK 11/07 Q1012 BLU CYVV 230700Z 00000KT 1/4SM FG SKC 16/16 A3004 RMK FG6 SLP173 CYXD 230700Z AUTO 08002KT 9SM SCT062 09/04 A3037 RMK SLP296 EGXD 230650Z AUTO 35002KT 9999 // FEW046/// 10/07 Q1012 CYXE 230700Z 03008KT 15SM SCT050 OVC085 13/12 A3030 RMK SC3AC5 SLP270 EGXE 230650Z AUTO 29007KT 9999 FEW043/// 10/06 Q1012 EIDW 230700Z 28011KT 9999 FEW022 08/07 Q1016 NOSIG KFBG 230658Z AUTO 29002KT 10SM CLR 25/21 A2994 RMK AO2 SLP139 T02530214 $ CYXH 230723Z AUTO 01005KT 5SM RA BR OVC008 09/09 A3026 RMK PCPN 1.0MM PAST HR SLP261 KFAR 230653Z AUTO 36011KT 10SM OVC006 19/17 A3004 RMK AO2 SLP170 T01890172 TSNO KDUA 230715Z AUTO 17005KT 10SM CLR 25/21 A2997 RMK AO2 CYXJ 230700Z 12007KT 15SM SKC 07/01 A3030 RMK SLP277 KFAT 230653Z 31012KT 10SM CLR 26/13 A2984 RMK AO2 SLP101 T02560128 KDUB 230715Z AUTO 33004KT 10SM CLR 07/05 A3008 RMK AO2 CYYB 230700Z AUTO 07006KT 9SM CLR 17/16 A3010 RMK SLP194 DENSITY ALT 1500FT KFBL 230714Z AUTO 00000KT 7SM CLR 21/18 A3000 RMK AO2 KDTL 230715Z AUTO 00000KT 5SM BR OVC002 20/18 A3005 RMK AO2 KEKM 230050Z 00000KT 7SM OVC025 27/23 A2997 RMK AO2 CZOL 230600Z AUTO 10001KT 07/04 RMK AO1 T00670039 EGWU 230650Z 28006KT CAVOK 11/07 Q1014 BLU NOSIG CYXL 230700Z 07002KT 15SM BKN070 18/17 A3009 RMK AC5 SLP194 DENSITY ALT 1600FT CZPC 230721Z AUTO 12004KT 7SM -RA SCT009 BKN014 BKN026 OVC039 07/07 A3034 RMK SLP289 CYYC 230700Z CCA 07004KT 10SM BKN050 09/07 A3033 RMK SC6 SLP293 KDSV 230704Z AUTO 30003KT 10SM OVC004 19/18 A3002 RMK AO2 T01890183 KELD 230653Z AUTO 00000KT 10SM CLR 23/22 A3001 RMK AO2 SLP158 T02330222 EGYD 230650Z AUTO 27012KT 9999 // OVC050/// 10/07 Q1013 CYYD 230700Z AUTO 00000KT 9SM CLR 10/07 A3019 RMK SLP230 KEKN 230717Z AUTO 00000KT 3SM BR SCT019 BKN025 BKN120 20/19 A3003 RMK AO2 T02000194 TSNO KDTN 230653Z AUTO 20005KT 10SM CLR 27/22 A3000 RMK AO2 SLP154 T02720217 CYXN 222100Z 35018G23KT 15SM BKN025 11/03 A3029 RMK SC6 11.0/7.0/0.0MM/LAST OB/NEXT 251300Z SLP258 CYYE 230700Z 00000KT 15SM SKC 09/05 A3023 RMK SLP247 KDTO 230653Z AUTO 18008KT 10SM CLR 29/18 A2996 RMK AO2 SLP133 T02890183 KEKO 230656Z AUTO 00000KT 10SM FEW090 SCT110 13/02 A3004 RMK AO2 SLP126 T01280022 CYYF 230700Z 34006KT 15SM SCT110 17/11 A3013 RMK AC4 SLP204 DENSITY ALT 1300FT OTHH 230700Z 11007KT 5000 HZ FEW015 35/28 Q1002 TEMPO 4000 KFAY 230653Z AUTO 31009KT 10SM SCT018 SCT070 25/21 A2994 RMK AO2 SLP131 T02500211 KDUG 230656Z AUTO 14005KT 10SM CLR 18/16 A3012 RMK AO2 SLP139 T01780161 402780156 CYWY 222200Z 14011KT 10SM FEW040TCU SCT290 21/09 A3019 RMK TCU1CI1 21.3/8.0/0/0/LAST OBS/NXT 251400Z SLP231 CYXP 222100Z 12004KT 090V160 15SM FEW020 BKN030 14/12 A2989 RMK SC2SC5 SLP123 EGXP 230650Z AUTO 25006KT 9999 // SCT060/// 10/09 Q1012 CYYG 230700Z 34003KT 15SM OVC031 14/12 A3010 RMK SC8 SLP194 KDUH 230715Z AUTO 00000KT 10SM SCT055 21/18 A3000 RMK AO2 KEKQ 230713Z AUTO 00000KT 2 1/2SM BR CLR 23/22 A3003 RMK AO2 EHPG 230655Z AUTO VRB13KT 9999 FEW025/// SCT035/// BKN048/// 15/09 Q1011 CYXQ 222200Z 07004KT 30SM FEW045 BKN210 18/08 A3013 RMK CU1CI2 CLIMAT 18.5/5.5/0/LAST OBS/NEXT 231600UTC SLP221 EGYH 220950Z 32010KT 9999 FEW025 SCT150 14/09 Q1009 BLU CYYH 230700Z 27007KT 15SM BKN022 04/02 A3033 RMK SC7 SLP274 KFCI 230655Z AUTO 00000KT 10SM BKN075 22/17 A2998 RMK AO1 KFBR 230715Z AUTO 00000KT 09/09 A3016 RMK AO2 LTG DSNT S T00900090 PWINO CYXR 230700Z AUTO 32004KT 1/8SM FG VV001 14/14 A3012 RMK SLP202 KDTS 230653Z AUTO 00000KT 10SM CLR 29/25 A2999 RMK AO2 SLP153 T02940250 TSNO KDUJ 230653Z AUTO 09004KT 1/4SM FG VV002 19/18 A3001 RMK AO2 SLP148 T01890183 EGXS 230650Z AUTO 26006KT 9999 // NCD 10/08 Q1012 CYYJ 230700Z 14003KT 30SM OVC250 13/11 A3008 RMK CS8 SLP187 CYXS 230700Z AUTO 34007KT 9SM CLR 11/04 A3021 RMK SLP241 KELK 230715Z AUTO 20012G15KT 10SM CLR 27/12 A3000 RMK AO2 CYXT 230700Z 35003KT 15SM BKN220 16/07 A3015 RMK CI5 SLP212 EGXT 230650Z AUTO 26009KT 9999 SCT060/// 09/08 Q1013 EGXU 230650Z AUTO 30003KT 9999 // NCD 09/06 Q1012 CYXU 230700Z 03004KT 8SM FEW030 17/17 A3002 RMK SC1 SLP163 DENSITY ALT 1200FT CYYL 230700Z AUTO /////KT 9SM OVC027 10/07 A3042 RMK SLP315 KELM 230653Z AUTO 06005KT 10SM OVC010 21/19 A3001 RMK AO2 SLP155 T02060189 KFCM 230653Z AUTO 06003KT 9SM CLR 21/19 A2998 RMK AO2 SLP148 T02060194 EGYM 230650Z AUTO 27009KT 9999 NCD 10/08 Q1013 KDTW 230653Z 08004KT 10SM FEW030 OVC050 22/16 A3001 RMK SLPNO T02220156 KELN 230653Z AUTO 33014KT 10SM OVC100 17/11 A3010 RMK AO2 SLP182 T01670106 EGXV 230650Z AUTO 27008KT 9999 NCD 10/08 Q1011 CYZE 230700Z AUTO 05003KT 9SM BKN026 OVC085 19/18 A3006 RMK SLP179 DENSITY ALT 1000FT CYYN 230715Z AUTO 07010KT 9SM -RA OVC090 12/12 A3021 RMK SLP238 KELO 230713Z AUTO 00000KT 10SM BKN025 OVC060 18/17 A3008 RMK AO2 EGXW 230650Z 26005KT 9999 FEW040 10/08 Q1013 BLU NOSIG EHQE 230655Z AUTO 22014KT 9999 FEW016/// SCT029/// 14/09 Q//// CYZF 230700Z 13006KT 15SM SKC 09/04 A3031 RMK SLP273 CYXX 230700Z 33002KT 15SM FEW220 16/14 A3010 RMK CI2 SLP192 KELP 230651Z 21009KT 10SM FEW120 SCT170 22/17 A3008 RMK AO2 SLP120 T02220167 402670178 CYZG 221900Z 23025G42KT 15SM FEW080 FEW100 24/12 A2996 RMK ACC1AC2 LAST OBS/NEXT 251200UTC/VIA CZNB FIC SLP153 CYXY 230719Z VRB04KT 15SM -TSRA BKN060CB OVC093 11/09 A3012 RMK CB6AC2 SLP217 EGYP 230650Z 28014KT 9999 BKN020 01/M00 Q1021 WHT CYXZ 230000Z 00000KT 15SM FEW025TCU FEW100 FEW350 22/17 A3004 RMK TCU1AC0CI0 TR TCU WND ESTD LAST OBS/NEXT 231100UTC SLP176 CYYQ 230700Z 36010KT 15SM OVC035 09/06 A3043 RMK SC8 SLP306 EGXZ 230650Z AUTO 33005KT 9999 NCD 10/06 Q1012 CYYR 230700Z 33003KT 15SM BKN019 BKN030 11/08 A3016 RMK SC5SC2 SLP213 KFCS 230658Z AUTO 00000KT 10SM FEW021 15/13 A3007 RMK AO2 SLP132 CZPS 230600Z AUTO 08005KT 08/04 RMK AO1 T00750040 KDVK 230715Z AUTO 00000KT 5SM BR CLR 21/21 A3002 RMK AO2 KEMK 230715Z AUTO 15013KT 10SM CLR 29/24 A2999 RMK A01 KFDK 230720Z AUTO 00000KT 4SM HZ SCT012 OVC022 A3003 RMK AO2 LTG DSNT W CYYT 230700Z 35009G16KT 15SM -DZ OVC009 12/11 A2995 RMK SF8 SLP145 KDVL 230715Z AUTO 04011KT 10SM SCT010 OVC020 16/12 A3011 RMK AO1 CYYU 230700Z 15003KT 10SM SKC 14/14 A3009 RMK BR SLP193 KEND 230658Z AUTO 17011KT 10SM CLR 25/18 A2991 RMK AO2 SLP113 T02530179 $ KEMM 230715Z AUTO 21005KT 10SM BKN003 BKN012 OVC038 07/07 A3015 RMK AO2 KDVN 230652Z AUTO 00000KT 8SM BKN110 23/22 A2995 RMK AO2 SLP135 T02330222 EHRD 230655Z AUTO 01004KT 300V040 4400 +TSRA BKN015CB BKN039 OVC043 10/09 Q1012 BECMG 24007KT 9999 NSW KDUX 230715Z AUTO 20010KT 10SM CLR 20/17 A2998 RMK AO2 T01990173 KDVO 230715Z AUTO 00000KT 10SM BKN013 13/12 A2992 RMK AO2 KDVP 230713Z AUTO 00000KT 7SM CLR 21/20 A3001 RMK AO2 T02050201 KEMP 230653Z AUTO 18011KT 10SM CLR 24/22 A2990 RMK AO2 SLP114 T02440217 KELY 230653Z AUTO 20003KT 10SM BKN110 12/11 A3006 RMK AO2 SLP083 T01220106 CYYY 230700Z 15002KT 10SM FEW220 11/11 A3016 RMK CI1 SLP213 CYZP 230700Z AUTO 26005KT 9SM BKN110 BKN130 BKN160 17/14 A3017 RMK SLP217 KDWH 230653Z AUTO 24003KT 10SM CLR 24/24 A3001 RMK AO2 SLP159 T02440239 KELZ 230718Z AUTO 00000KT 1 1/2SM BR BKN009 OVC013 18/17 A3005 RMK AO2 T01780167 CYYZ 230700Z 03005KT 10SM FEW006 OVC011 20/19 A3003 RMK ST2ST6 SLP166 DENSITY ALT 1100FT KFDR 230653Z AUTO 19006KT 10SM CLR 24/09 A2992 RMK AO2 SLP112 T02440089 CYZR 230700Z AUTO 36004KT 3/4SM R33/P6000FT/N BR VV002 19/18 A3001 RMK SLP161 DENSITY ALT 1000FT KFFA 230715Z AUTO 00000KT 10SM CLR 24/22 A2992 RMK AO2 T02420219 KEMT 230245Z 23005KT 10SM CLR 24/17 A2994 CYZS 230700Z 32007KT 15SM FEW210 01/M01 A3024 RMK CI1 SLP246 EHSA 230655Z AUTO 29016G20KT 9999 ///////// 15/09 Q1012 W18/H10 KDVT 230653Z AUTO 00000KT 10SM CLR 25/19 A2990 RMK AO2 SLP103 T02500194 403220206 CYZT 230700Z 16003KT 120V200 15SM SCT180 12/10 A3015 RMK AC4 SLP210 KFFC 230653Z AUTO 00000KT 8SM CLR 23/22 A3002 RMK AO2 SLP155 T02280222 KENL 230715Z AUTO 00000KT 5SM BR BKN090 25/24 A2996 RMK AO2 T02500235 TSNO CYZU 230400Z 09002KT 15SM BKN050 OVC070 11/08 A3036 RMK SC5AC3 LAST OBS/NEXT 231200Z SLP298 EHSC 230655Z AUTO 29015G19KT 9999 ///////// 15/10 Q1011 W19/H9 KEMV 230715Z AUTO 00000KT 5SM BR OVC085 22/21 A2996 RMK AO2 CYZV 230700Z 35004KT 15SM SCT083 11/09 A3013 RMK AC3 SLP205 KFDW 230715Z AUTO 35005KT 10SM CLR 23/22 A2994 RMK AO1 KEOE 230715Z AUTO 00000KT 10SM CLR 24/22 A2997 RMK AO2 CYZW 230100Z 20005KT 20SM SCT035 OVC045 18/09 A3012 RMK CU3SC1 CLIMAT 19.5/4.0/0.0MM/LAST OBS/NEXT 231300Z SLP218 CYZX 230700Z 00000KT 15SM FEW020 BKN060 16/15 A3010 RMK SC2SC6 WNDY HILL 05008G15KT SLP192 KFDY 230653Z AUTO 05004KT 5SM BR CLR 22/21 A2998 RMK AO2 SLP143 T02220206 KFEP 230715Z AUTO 00000KT 5SM BR SCT031 BKN039 BKN048 23/22 A2999 RMK AO2 T02280221 CZRP 230700Z AUTO 21007KT 03/03 RMK AO1 SLP246 T00340027 54000 CYZY 230700Z AUTO 00000KT 9SM CLR 07/04 A3026 RMK SLP262 KDYA 230655Z AUTO 00000KT 7SM CLR 23/ A2999 RMK AO2 T0230 KDYB 230715Z AUTO 21003KT 7SM CLR 26/26 A2992 RMK AO1 KEOK 230715Z AUTO 00000KT 4SM BR CLR 24/24 A2993 RMK AO2 KFET 230715Z AUTO 31004KT 10SM -TSRA SCT055 SCT075 SCT100 21/20 A2999 RMK AO2 LTG DSNT ALQS T02120201 CZTB 230700Z AUTO 00000KT 17/16 RMK AO1 SLP184 T01690163 50002 KDWU 230715Z AUTO 00000KT 1SM OVC006 21/20 A2996 RMK AO1 KFFL 230715Z AUTO 13003KT 2SM BR CLR 24/23 A2994 RMK AO2 KFFM 230714Z AUTO 00000KT 5SM BR SCT011 18/17 A3003 RMK AO2 KENV 230715Z 01018KT 10SM FEW029 SCT085 BKN120 16/08 A3003 RMK AO1 CZSM 230700Z AUTO 15006KT 10/04 RMK AO1 SLP290 T00960044 51002 KFEW 230656Z AUTO 22009KT 10SM -SHRA BKN009 BKN080 14/13 A3002 RMK AO2 CIG 009V075 SLP093 P0001 T01380125 KENW 230718Z AUTO 00000KT 1/4SM FG VV002 21/21 A3000 RMK AO2 T02110211 VHHH 230713Z 14010KT 110V180 9999 FEW022 SCT030 32/25 Q1008 NOSIG KFFO 230708Z 00000KT 6SM R23R/5000FT BR CLR 22/22 A2999 RMK AO2A KDWX 230715Z AUTO 32013KT 10SM OVC025 11/09 A3014 RMK AO2 T01060085 PLCH 230600Z 15008KT 9999 FEW020 27/23 Q1011 CZSP 230700Z AUTO 02003KT 15/12 RMK AO1 SLP197 T01490121 56008 KEPH 230653Z AUTO 35012KT 10SM OVC100 19/09 A3006 RMK AO2 SLP174 T01890094 ZUUU 230700Z VRB02MPS CAVOK 29/18 Q1010 NOSIG KDXR 230653Z AUTO 07005KT 10SM OVC065 18/16 A3008 RMK AO2 SLP183 T01830156 KH78 221055Z 00000KT 12SM BKN009 28/24 A3010 RMK SEAS 0-1 KEQA 230715Z AUTO 17008KT 10SM CLR 26/18 A2992 RMK AO2 KFFT 230653Z AUTO 00000KT 7SM FEW029 21/21 A2999 RMK AO2 SLP147 T02110206 KDZB 230720Z AUTO 18006KT 10SM CLR 26/17 A3002 RMK AO2 T02560165 KFHB 230715Z AUTO 22004KT 10SM CLR 27/22 A2995 RMK AO1 CZST 230100Z 00000KT 15SM FEW060 BKN250 20/13 A3016 RMK CU1CS3 /LAST OBS/NEXT 231300Z/ SLP212 KDYL 230654Z AUTO 00000KT 10SM FEW070 SCT100 18/17 A3003 RMK AO2 SLP165 T01780167 FABL 230716Z 03003KT 350V090 CAVOK 07/M05 Q1023 NOSIG KFGN 230714Z AUTO 32007KT 10SM OVC005 19/17 A3008 RMK AO2 KDXX 230714Z AUTO 00000KT 7SM CLR 23/22 A2999 RMK AO2 KFFX 230714Z AUTO 09003KT 10SM BKN070 19/17 A3001 RMK AO2 T01920171 EIKN 230700Z 28008KT 9999 -SHRA FEW016CB SCT023 09/07 Q1017 NOSIG KFFZ 230147Z 25006KT 40SM FEW100 31/12 A2988 PKMJ 222255Z 06010KT 15SM FEW016 30/25 A2983 KDYR 230715Z 00000KT 10SM CLR 25/19 A2998 RMK AO1 KDYS 230658Z AUTO 18013G20KT 10SM CLR 28/13 A2999 RMK AO2 SLP101 T02800130 $ KDYT 230713Z AUTO 04006KT 10SM CLR 17/16 A3005 RMK AO2 EIME 230700Z 26011KT 9999 FEW009 SCT040 09/08 Q1017 KFGX 230715Z AUTO 26003KT 1 1/2SM BR VV007 22/22 A3001 RMK AO2 T02160215 KFIG 230719Z AUTO 00000KT 1/4SM FG BKN004 OVC016 19/19 A3001 RMK AO2 T01890189 EIKY 221030Z 34003KT 270V060 9999 SCT021 BKN025 14/10 Q1016 PKMR 230652Z 07006KT 20SM FEW016 SCT300 29/24 A2979 RMK SLP090 T02900244 KERI 230713Z AUTO 00000KT 6SM BR BKN008 18/17 A2998 RMK AO2 KFHR 230653Z AUTO 00000KT 9SM CLR 11/10 A3010 RMK AO2 SLP193 T01060100 $ FACT 230700Z 15006KT 9999 FEW040 12/07 Q1024 NOSIG EHVK 230709Z AUTO 22006KT 6000 BR NCD 12/12 Q1012 WHT KESC 230715Z 00000KT 10SM SCT028 OVC045 20/17 A3002 RMK AO1 KFHU 230656Z AUTO 21006KT 10SM CLR 19/16 A3015 RMK AO2 SLP154 T01890156 402500161 $ CZVL 230700Z AUTO 20002KT 9SM CLR 05/03 A3037 RMK SLP300 EHVL 230655Z AUTO 23013KT 9999 FEW094 13/07 Q1010 BLU KGAD 230715Z 00000KT 10SM CLR 22/20 A3002 RMK AO1 FACV 230645Z 08005KT CAVOK 04/01 Q1023 KESF 230717Z AUTO 00000KT 3SM BR CLR 24/22 A3001 RMK AO2 T02390222 KGAF 230715Z AUTO 02012KT 10SM BKN006 OVC010 16/16 A3009 RMK AO2 VIAR 220930Z VRB00KT 4500 HZ SCT030 FEW035CB 35/25 Q1003 KGAG 230653Z AUTO 22013KT 10SM CLR 27/09 A2996 RMK AO2 SLP107 T02720089 KEQY 230653Z AUTO 32003KT 10SM CLR 23/22 A2994 RMK AO2 RAE01 SLP132 P0000 T02330217 KI16 230715Z AUTO 7SM OVC006 21/21 A3009 RMK AO2 T02110211 KGAI 230715Z AUTO 11005KT 10SM OVC017 20/18 A3004 RMK AO1 KFKA 230716Z AUTO 02003KT 4SM BR CLR 20/20 A3000 RMK AO2 T01960197 KFIT 230652Z AUTO 33003KT 10SM OVC090 16/14 A3013 RMK AO2 SLP202 T01610139 KETB 230715Z AUTO 00000KT 1/4SM FG OVC002 19/18 A2999 RMK AO2 VIBN 230630Z 28005KT 6000 SCT200 34/26 Q1005 KETC 230715Z AUTO 00000KT 10SM BKN050 BKN055 OVC070 23/22 A2994 RMK AO2 T02320221 FAEL 230700Z 27025G38KT 9999 FEW030 16/03 Q1016 KGBD 230715Z AUTO 17011KT 10SM SCT100 26/14 A2987 RMK AO1 KERV 230715Z AUTO 11003KT 10SM CLR 25/19 A3006 RMK AO2 T02470190 KESN 230733Z AUTO 00000KT 10SM CLR 20/20 A3003 RMK AO2 T01950195 EINN 230700Z 02001KT 9999 FEW001 07/06 Q1019 NOSIG FAEO 230654Z 25012KT CAVOK 06/M08 Q1022 EHWO 230655Z AUTO 22007KT 9999 NCD 13/11 Q1012 BLU KERY 230714Z AUTO 00000KT 7SM OVC065 17/16 A3007 RMK AO2 T01700161 KGBG 230715Z AUTO 00000KT 7SM CLR 24/23 A2995 RMK AO2 T02400230 FADY 230650Z 06002KT CAVOK 08/M03 Q1022 KETH 230716Z AUTO 36007KT 1/2SM FG OVC002 18/17 A3004 RMK AO2 KEST 230652Z AUTO 09006KT 5SM BR FEW060 21/21 A2998 RMK AO2 SLP145 T02110206 KGBK 230715Z AUTO 11005G11KT 10SM CLR 29/23 A3001 RMK A01 KGCC 230718Z AUTO 10008KT 5SM RA BR FEW029 BKN075 OVC090 15/14 A2999 RMK AO2 P0013 T01500144 KFKL 230715Z 01003KT 1/4SM OVC001 17/16 A3001 RMK AO1 FAGC 230700Z AUTO 21009KT //// // ////// 09/M07 Q1022 KFLD 230707Z AUTO 00000KT 3/4SM +RA BR FEW006 BKN019 OVC037 22/21 A3000 RMK AO2 P0027 T02220206 KGCD 230715Z AUTO 29007KT 10SM SCT048 SCT065 BKN075 15/06 A3010 RMK AO2 T01460060 KFKN 230715Z AUTO 00000KT 1/4SM BKN001 OVC100 21/21 A2994 RMK AO1 KEUF 230658Z AUTO 00000KT 9SM CLR 24/23 A2998 RMK AO2 SLP145 T02390228 KEUG 230654Z AUTO 06004KT 10SM CLR 16/10 A3006 RMK AO2 SLP177 T01610100 KFLG 230657Z AUTO 24004KT 10SM FEW029 11/09 A3024 RMK AO2 SLP156 T01110094 401940111 TSNO KI35 230715Z AUTO 4SM SCT001 BKN024 OVC100 22/22 A3004 RMK AO1 FAGG 230700Z 31010KT 9999 BKN033 13/05 Q1023 KFKR 230715Z AUTO 00000KT 1 1/4SM BR VV007 A2999 RMK AO2 KFKS 230713Z AUTO 14003KT 10SM OVC070 22/18 A3002 RMK AO2 T02210180 KEVB 222347Z 12007KT 10SM SKC 30/24 A3000 KGDB 230714Z AUTO 08004KT 7SM BKN029 22/21 A3001 RMK AO2 T02170210 KGCK 230654Z AUTO 22018G24KT 10SM -RA BKN120 21/18 A2996 RMK AO2 LTG DSNT E RAB37 SLP103 P0001 T02110178 KI39 230715Z AUTO 00000KT 5SM CLR 21/20 A3001 RMK AO2 KFLL 230653Z 13004KT 10SM FEW027 29/21 A2995 RMK AO2 SLP142 T02940211 KEUL 230715Z AUTO 30011KT 10SM CLR 15/04 A3000 RMK AO1 KGCM 230715Z AUTO 17006KT 10SM CLR 24/21 A2999 RMK AO2 FAGM 221600Z 23613KT CAVOK 11/M16 Q1022 VIDP 230700Z 29010KT 4000 HZ FEW040 38/19 Q1006 NOSIG KGCN 230654Z RMK AO2 SLPNO $ KFME 230721Z AUTO 00000KT 10SM OVC050 20/18 A3002 RMK AO1 KFLO 230653Z AUTO 00000KT 9SM CLR 25/23 A2991 RMK AO2 SLP126 T02500233 KFLP 230715Z AUTO 19004KT 10SM CLR 26/21 A2999 RMK AO1 KFMH 230715Z AUTO 01004KT 10SM FEW017 FEW023 17/16 A3006 RMK AO2 KGDJ 230715Z AUTO 17008KT 10SM CLR 29/18 A2998 RMK AO2 T02910178 CZZJ 230700Z AUTO 06003KT 09/07 RMK AO1 SLP290 T00900069 58003 KEWB 230653Z AUTO 35003KT 10SM FEW025 SCT043 18/16 A3006 RMK AO2 SLP179 T01780161 KFNB 230653Z AUTO 11005KT 7SM BKN095 24/23 A2988 RMK AO2 SLP107 T02440233 URFF 230700Z 04003MPS 350V110 CAVOK 22/16 Q1018 01010065 NOSIG KEVM 230711Z AUTO 00000KT 5SM BR OVC005 17/16 A3007 RMK AO2 KGED 230654Z AUTO 08007KT 10SM CLR 19/18 A2999 RMK AO2 SLP154 T01890178 KFMM 230715Z AUTO 36003KT 10SM OVC014 16/15 A3000 RMK AO2 T01600150 PWINO KFMN 230653Z AUTO 09006KT 10SM CLR 13/11 A3013 RMK AO2 SLP154 T01330106 402440133 KGDP 230651Z AUTO 23008KT 210V270 10SM FEW070 BKN090 19/14 A3020 RMK AO2 SLP142 T01940144 402940172 $ KGEG 230653Z 02006KT 10SM FEW070 BKN200 16/09 A3009 RMK AO2 SLP179 T01610089 KFLY 230715Z AUTO 00000KT 10SM CLR 12/11 A3013 RMK AO2 T01170113 KGFA 230656Z AUTO 33012G20KT 10SM OVC003 10/10 A3014 RMK AO2 SLP218 T00990095 401470098 KFOA 230715Z AUTO 14003KT 4SM BR CLR 25/24 A2997 RMK AO2 T02450240 KEWK 230715Z AUTO 18013KT 10SM CLR 27/16 A2994 RMK AO1 FAJB 230700Z AUTO 22004G15KT //// // ////// 09/M08 Q1022 KFNL 230715Z AUTO 16004KT 10SM BKN020 OVC038 16/14 A3004 RMK AO1 KEVV 230654Z AUTO VRB03KT 10SM CLR 25/22 A2998 RMK AO2 LTG DSNT SE AND S SLP146 T02500222 KFOD 230715Z AUTO 06004KT 10SM BKN022 OVC026 23/22 A2998 RMK AO1 KGDV 230715Z AUTO 05011G16KT 7SM OVC004 16/16 A3003 RMK AO1 DRRM 230700Z 00000KT CAVOK 23/22 Q1014 KEVW 230653Z AUTO 31012G26KT 5SM -RA BR FEW020 BKN033 OVC042 08/06 A3015 RMK AO2 PK WND 31026/0642 RAB38 SLP139 P0004 T00780061 402170078 KFOE 230653Z AUTO 17006KT 10SM CLR 26/21 A2990 RMK AO2 SLP109 T02560211 KEWN 230654Z AUTO 00000KT 10SM CLR 26/23 A2994 RMK AO2 SLP138 T02560233 DRRN 230700Z 13006KT 100V180 CAVOK 23/21 Q1012 NOSIG KFMY 230653Z AUTO 00000KT 10SM CLR 26/23 A2996 RMK AO2 SLP147 T02560228 EISG 230700Z 33009KT CAVOK 12/07 Q1017 EKAH 230720Z AUTO 25008KT 200V280 9999NDV NCD 14/09 Q1005 KEWR 230651Z 06008KT 10SM FEW030 SCT045 BKN090 21/14 A3004 RMK AO2 SLP172 T02060144 FAIR 230639Z 21010KT CAVOK 09/M06 Q1022 KGFK 230653Z AUTO 36009KT 10SM OVC006 17/16 A3007 RMK AO2 SLP183 T01720161 TSNO KI69 230714Z AUTO 00000KT 7SM CLR 23/22 A2999 RMK AO1 KFNT 230653Z AUTO 08004KT 10SM BKN060 20/16 A3003 RMK AO2 SLP163 T02000161 KFOK 230653Z AUTO 06006KT 10SM FEW075 18/16 A3006 RMK AO2 SLP179 T01830156 TSNO KGEU 230247Z 19004KT 20SM FEW120 31/18 A2988 RMK LAST DRRT 230700Z 22006KT 9999 FEW030 BKN100 24/21 Q1014 KGFL 220853Z AUTO 06005KT 10SM OVC025 17/16 A3003 RMK AO2 RAE0756 SLP169 P0000 60004 T01720156 51002 $ KGEV 230715Z AUTO 28014KT 10SM CLR 21/16 A3009 RMK AO2 T02060155 KGGE 230715Z AUTO 22004KT 10SM CLR 26/26 A2992 RMK AO2 KEYE 230653Z AUTO 00000KT 10SM CLR 22/21 A2998 RMK AO2 SLP144 T02220211 KEYF 230715Z AUTO 00000KT 10SM CLR 23/22 A2992 RMK AO2 T02280223 KGEY 230653Z AUTO 32004KT 8SM -RA FEW060 OVC090 16/14 A2995 RMK AO2 SLP119 P0005 T01560144 402170133 $ KGGG 230653Z AUTO 18006KT 10SM CLR 25/21 A2999 RMK AO2 SLP147 T02500211 KI75 230715Z AUTO 05004KT 5SM BR OVC090 24/23 A2993 RMK AO2 T02440234 KGEZ 230653Z AUTO 06003KT 6SM BR CLR 22/20 A2998 RMK AO2 SLP145 T02170200 KGGI 230715Z AUTO 09006KT 10SM SCT023 SCT030 BKN065 23/21 A2995 RMK AO2 T02310206 EKBI 230720Z 24008KT 210V280 9999 SCT027CB 14/11 Q1006 FALA 230706Z 20010KT 150V260 CAVOK 11/M07 Q1024 NOSIG KFPK 230715Z AUTO 00000KT 10SM BKN017 BKN031 OVC039 22/20 A3001 RMK AO2 T02210200 KFOT 230715Z AUTO 00000KT 9SM OVC005 14/13 A2995 RMK AO1 KGHB 230720Z AUTO 17006KT 10SM FEW023 FEW035 30/25 A3000 RMK A01 KFQD 230715Z AUTO 00000KT 10SM CLR 22/22 A2998 RMK AO2 T02230215 FAKM 230700Z 24007KT CAVOK 11/M03 Q1023 EKAV 230720Z AUTO 25014KT 9999NDV FEW064/// 13/10 Q1005 FALE 230700Z 24006KT CAVOK 17/08 Q1015 NOSIG FAKN 230700Z 27004KT 9999 FEW020 14/M04 Q1020 NOSIG KEXX 230715Z AUTO 00000KT 10SM SCT100 22/22 A2995 RMK AO2 T02200220 KEZF 230715Z AUTO 00000KT 7SM SCT010 BKN027 BKN095 22/22 A2997 RMK AO2 T02220222 KGGP 230715Z AUTO 00000KT 1/4SM FG OVC002 20/20 A2998 RMK AO2 KGHG 230710Z AUTO 04003KT 10SM BKN110 18/16 A3009 RMK AO2 KFOZ 230713Z AUTO 00000KT 7SM BKN036 20/19 A3006 RMK AO2 WAAA 230700Z 28006KT 230V330 9999 FEW020 32/22 Q1008 NOSIG EKCH 230720Z 25014KT 9999 SCT013 15/11 Q1006 NOSIG KFPR 230653Z AUTO 00000KT 7SM CLR 24/22 A2998 RMK AO2 SLP151 T02390222 PKWA 230720Z AUTO 07012KT 10SM SCT026 29/23 A2981 KGIC 230715Z AUTO 13005KT 10SM CLR 09/07 A3011 RMK AO1 T00900066 KEZM 230715Z AUTO 00000KT 7SM CLR 24/24 A2999 RMK AO2 T02420242 FALM 221200Z 30010KT CAVOK 29/// Q1015 KGGW 230653Z AUTO 06015KT 10SM SCT030 OVC037 16/12 A3008 RMK AO2 SLP183 T01610117 402000144 KEYW 230653Z AUTO 07005KT 10SM CLR 29/22 A2995 RMK AO2 SLP143 T02940217 KGIF 230653Z AUTO 11004KT 10SM CLR 26/21 A2999 RMK AO2 SLP153 T02560211 TSNO KFRG 230653Z AUTO 02003KT 10SM SCT110 18/15 A3005 RMK AO2 SLP176 T01780150 TSNO URKA 230700Z 34004MPS 310V010 9999 BKN030 28/19 Q1016 NOSIG RMK QFE758/1011 SC070 WABB 230500Z 25002KT 9999 FEW016CB BKN018 28/26 Q1010 TEMPO TL0500 FEW016CB BKN017 KFRI 230658Z AUTO 20007KT 10SM BKN160 27/20 A2987 RMK AO2 SLP101 T02720203 KEZS 230715Z AUTO 09005KT 1 1/2SM BR OVC003 22/21 A3001 RMK AO2 T02180205 EKEB 230720Z AUTO 24009KT 9999NDV FEW062/// 15/10 Q1006 KFRM 230715Z 07003KT 3SM CLR 17/17 A2999 RMK AO1 KFSD 230656Z AUTO 08006KT 10SM CLR 22/20 A2996 RMK AO2 SLP133 T02220200 VIJP 230630Z 26004KT 4000 HZ FEW030 35/19 Q1009 NOSIG KHAE 230655Z AUTO 00000KT 10SM CLR 26/25 A2993 RMK AO2 LTG DSNT NW FAMM 230718Z 14005KT CAVOK 12/M07 Q1023 NOSIG KGHW 230713Z AUTO 00000KT 7SM CLR 20/19 A3003 RMK AO2 KFSE 230716Z AUTO 01003KT 7SM BKN006 OVC011 19/18 A3005 RMK AO2 FALW 221000Z AUTO 17004KT //// // ////// 15/10 Q1024 KHAF 230715Z AUTO 15004KT 9SM OVC011 16/14 A2994 RMK AO2 PMDY 230656Z AUTO 20006KT 10SM CLR 29/24 A3006 RMK AO2 TSNO T02880238 SLP485 $ EIWF 230700Z 33004KT 270V020 9999 FEW030 09/07 Q1018 URKK 230700Z 24003MPS 160V300 9999 FEW030 28/20 Q1015 NOSIG RMK QFE758 SC070 KFRR 230715Z AUTO 00000KT 5SM OVC050 21/20 A2997 RMK AO1 KHAI 230715Z AUTO 00000KT 2 1/2SM BR SCT022 SCT034 OVC042 23/22 A3000 RMK AO2 T02260220 KFSI 230658Z AUTO 19009KT 10SM CLR 28/14 A2994 RMK AO2 SLP123 T02800138 USCC 230700Z VRB02MPS 9999 VCTS BKN010CB OVC070 18/16 Q1012 27000070 TEMPO VRB16MPS 1400 TSRA SQ BKN003 RMK QFE739 FAOB 220900Z 28012KT 9999 SCT025 17/// Q1023 KFSM 230653Z AUTO 00000KT 10SM CLR 26/24 A2997 RMK AO2 SLP143 T02610239 KHAO 230653Z AUTO 00000KT 5SM BR CLR 22/22 A2999 RMK AO2 SLP149 T02170217 KFSO 230715Z AUTO 00000KT 7SM CLR 15/14 A3011 RMK AO2 T01460143 KHBG 230653Z AUTO 00000KT 3/4SM BR CLR 25/24 A3001 RMK AO2 SLP159 T02500239 KFTG 230717Z AUTO 11004KT 10SM OVC012 17/15 A3005 RMK AO2 VILK 230700Z 29009KT 5000 HZ FEW020 37/25 Q1004 NOSIG KHBI 230715Z AUTO 35003KT 10SM CLR 23/21 A2998 RMK AO2 T02300208 KGKJ 230711Z AUTO 03003KT 1/2SM FG VV002 17/17 A3000 RMK AO2 T01720167 TSNO WADD 230700Z 11012KT 090V150 9999 SCT016 28/23 Q1010 NOSIG USCM 230700Z 10004MPS 4100 BR OVC014 18/16 Q1011 NOSIG 01090065 RMK QFE720 KFST 230653Z AUTO 20010KT 10SM BKN120 27/08 A3004 RMK AO2 SLP116 T02720078 KGJT 230653Z AUTO 12012KT 10SM OVC080 18/11 A3000 RMK AO2 SLP094 T01830106 402720172 KFTK 230658Z AUTO 00000KT 10SM FEW033 22/22 A2999 RMK AO2 SLP151 T02230223 EKGC 230720Z AUTO 27015KT 9999NDV 13/09 Q1008 KGLD 230653Z AUTO 12009KT 10SM CLR 18/17 A2993 RMK AO2 SLP090 T01830172 403170161 KHCD 230713Z AUTO 06003KT 10SM CLR 21/20 A3001 RMK AO2 T02060200 KFTN 230815Z AUTO 14009KT 10SM CLR 28/20 A2999 RMK AO1 KFSW 230715Z AUTO 00000KT 4SM BR SCT120 24/24 A2995 RMK AO2 KGLE 230715Z AUTO 12003KT 10SM CLR 24/20 A2998 RMK AO2 T02430196 FAPE 230723Z 27019KT 9999 BKN024 13/09 Q1019 NOSIG EKGF 230720Z 29024KT 9999 VCSH SCT019CB 12/09 Q1007 KGLH 230653Z AUTO 00000KT 9SM CLR 24/22 A2999 RMK AO2 SLP160 T02390217 KHBR 230653Z AUTO 19007KT 10SM CLR 22/09 A2996 RMK AO2 SLP122 T02220089 URML 230700Z 10004MPS 070V130 9999 SKC 31/19 Q1013 NOSIG RMK QFE760/1013 SC070 FAOR 230700Z 20013KT CAVOK 08/M07 Q1023 NOSIG WADL 230700Z 13009KT 9999 SCT016 29/20 Q1011 NOSIG DRZA 230700Z 10010KT CAVOK 25/23 Q1015 URMM 230700Z 29004G06MPS 9999 FEW130 27/13 Q1016 R30/CLRD70 NOSIG RMK QFE733/0978 EKHA 230720Z AUTO 28020KT 9999NDV 13/09 Q1008 KGKT 230715Z AUTO 00000KT 10SM FEW049 SCT060 SCT070 22/21 A3001 RMK URMN 230700Z 36002MPS 9999 BKN110 28/13 Q1016 NOSIG RMK QFE725 SC07 FBFT 230700Z 14011KT CAVOK 15/M12 Q1021 KFUL 230653Z 15005KT 10SM OVC014 21/17 A2995 RMK AO2 SLP139 T02110172 KHDC 230715Z AUTO 00000KT 10SM CLR 26/23 A3002 RMK AO2 URMO 230700Z 25003MPS 220V300 9999 SCT130 27/14 Q1016 NOSIG RMK QFE718/0958 SC070 KHBV 230710Z AUTO 13006KT 10SM CLR 25/22 A3001 RMK AO2 T02530219 ZWSH 230700Z 11004MPS 080V150 CAVOK 32/M01 Q1013 NOSIG EKHD 230720Z AUTO 28019KT 9999NDV 12/09 Q1006 KFTW 230653Z 17008KT 10SM CLR 29/19 A2996 RMK AO2 SLP131 T02940189 KFVE 230653Z AUTO 34003KT 1/4SM FG VV002 12/12 A3015 RMK AO2 SLP207 T01170117 KHDE 230715Z AUTO 01009KT 10SM -RA SCT003 SCT039 SCT050 19/19 A2989 RMK AO2 T01930185 KHCO 230713Z AUTO 01011KT 5SM BR SCT012 BKN037 OVC090 17/15 A3008 RMK AO2 KFTY 230653Z 00000KT 10SM CLR 24/22 A3001 RMK AO2 SLP151 T02390222 KGKY 230653Z AUTO 10SM CLR 28/19 A2997 RMK AO2 SLP137 T02830189 FAPP 230700Z 20009KT CAVOK 13/M13 Q1021 NOSIG URMT 230700Z 31004G07MPS CAVOK 27/11 Q1016 NOSIG RMK QFE723 SC070 KGLR 230653Z AUTO 00000KT 10SM CLR 18/16 A3007 RMK AO2 SLP176 T01830161 KGLS 230652Z AUTO 17011KT 10SM CLR 29/25 A3000 RMK AO2 SLP160 T02890250 KFWA 230654Z 00000KT 10SM -RA BKN070 BKN085 BKN110 OVC140 22/21 A2999 RMK AO2 RAB0555E19B46 SLP150 P0000 T02220211 $ KGNA 230656Z AUTO 06005KT 17/16 A3006 RMK AO1 SLP175 T01670156 KGMJ 230715Z AUTO 17005KT 10SM CLR 26/23 A2997 RMK AO2 KFWB 230715Z AUTO 21003KT 10SM CLR 26/23 A3002 RMK AO2 KFWC 230715Z AUTO 00000KT 7SM SCT090 26/25 A2996 RMK AO2 KGNC 230715Z AUTO 00000KT 10SM CLR 22/20 A3006 RMK AO2 T02170195 KHDN 230715Z AUTO 28005KT 10SM SCT060 OVC090 13/09 A3009 RMK AO1 KGLW 230715Z AUTO 00000KT 7SM BKN110 24/24 A3000 RMK AO2 LTG DSNT W T02410237 EKHN 230720Z AUTO 29016G29KT 270V340 9999NDV -SHRA NCD 13/08 Q1008 KHDO 230651Z AUTO 15007KT 10SM CLR 26/20 A3004 RMK AO2 SLP153 T02560200 KHEF 230715Z 10004KT 10SM OVC011 23/22 A2999 RMK AO1 KGNF 230715Z AUTO 00000KT 7SM CLR 22/22 A3000 RMK AO2 KGLY 230715Z AUTO 00000KT 9SM CLR 26/23 A2994 RMK AO2 ZYCC 230700Z 35002MPS 260V040 9999 SCT026 FEW026CB 30/16 Q1005 NOSIG KHEI 230653Z AUTO 08013G23KT 9SM OVC004 18/17 A3002 RMK AO2 SLP153 T01830167 402280139 DRZR 230700Z 06004KT 9999 FEW040TCU SCT140 BKN300 23/21 Q1014 EKHR 230720Z AUTO 27012KT //// FEW027/// SCT055/// BKN170/// 14/09 Q1006 FASB 230643Z 02006KT CAVOK 12/M04 Q1022 KGMU 230653Z AUTO 00000KT 10SM CLR 25/21 A2999 RMK AO2 SLP141 T02500211 KHFD 230653Z AUTO 02007KT 10SM OVC017 18/16 A3007 RMK AO2 SLP183 T01830161 KFWN 230653Z AUTO 00000KT 10SM SCT020 BKN050 19/17 A3006 RMK AO2 SLP176 T01890167 KFXE 230653Z 12003KT 10SM CLR 28/23 A2996 RMK AO2 SLP146 T02780233 KHFF 230656Z AUTO 01003KT 12SM SCT060 BKN120 BKN140 25/22 A2996 RMK AO2 SLP143 T02500221 KFVX 230715Z AUTO 00000KT 5SM BR BKN027 BKN036 OVC080 23/22 A2994 RMK AO2 KGNR 230656Z AUTO 04004KT 14/13 A3014 RMK AO1 SLP208 T01390128 FASI 230700Z AUTO /////KT //// // ////// 06/M06 Q1023 KHFJ 230715Z AUTO 18005KT 10SM CLR 25/22 A3000 RMK AO2 KFWS 230715Z AUTO 17007KT 10SM CLR 28/19 A2998 RMK AO2 T02820191 DTKA 230000Z 07004KT CAVOK 23/20 Q1014 NOSIG EKKA 230720Z 25010KT 9999 -SHRA SCT023CB SCT030 14/11 Q1005 KGOK 230653Z AUTO 18009KT 10SM CLR 27/16 A2993 RMK AO2 SLP121 T02720161 FCBB 230700Z 23003KT 190V310 7000 FEW010 22/19 Q1016 NOSIG KGNV 230653Z AUTO 00000KT 10SM CLR 23/22 A2999 RMK AO2 SLP151 T02280222 KGON 230656Z AUTO 03006KT 10SM FEW085 BKN100 17/16 A3005 RMK AO2 SLP177 T01720161 USHH 230700Z 24002MPS 9999 FEW033 SCT080 23/09 Q1013 NOSIG RMK QFE756 24////60 FBKE 230700Z 14011KT CAVOK 21/M13 Q1020 KGOO 230720Z AUTO 10006KT 10SM CLR 20/07 A3000 RMK AO1 KHEY 230653Z AUTO 00000KT 10SM CLR 24/23 A2999 RMK AO2 SLP042 T02440233 KFYG 230715Z AUTO 00000KT 8SM CLR 25/24 A2992 RMK AO2 KGOP 230715Z AUTO 19011KT 8SM CLR 28/18 A3002 RMK AO2 KGPH 230715Z AUTO 12004KT 10SM VCTS CLR 26/24 A2990 RMK AO2 LTG DSNT N KHEZ 230715Z AUTO 00000KT 10SM CLR 24/22 A3002 RMK AO1 KFWZ 230715Z AUTO 31005KT 7SM RA OVC043 07/06 A3009 RMK AO2 P0002 KGPI 230655Z AUTO 01014KT 10SM OVC110 13/04 A3016 RMK AO2 SLP212 T01330039 401780122 KFYJ 230715Z AUTO 00000KT 5SM SCT015 22/20 A2997 RMK AO2 T02160202 KGOV 230715Z AUTO 00000KT 4SM BR CLR 17/17 A3008 RMK AO2 T01710170 KGPM 230715Z AUTO 14006KT 10SM CLR 29/19 A2998 RMK AO2 T02850186 KFYM 230715Z AUTO 00000KT 10SM CLR 23/21 A3003 RMK KHHF 230715Z AUTO 21003KT 10SM CLR 23/16 A2997 RMK AO2 T02340163 KFXY 230715Z AUTO 05005KT 7SM CLR 21/21 A2998 RMK AO2 KFZG 230715Z AUTO 00000KT 10SM CLR 27/23 A2999 RMK AO2 T02650228 KHHG 230715Z AUTO 00000KT 1SM BR BKN002 22/22 A2998 RMK AO2 T02150215 UTAA 230700Z 34005MPS 310V010 9999 SKC 37/08 Q1011 NOSIG KHGR 230719Z AUTO 07004KT 5SM -RA BR BKN015 BKN026 OVC035 22/20 A2999 RMK AO2 P0005 T02170200 KGPT 230653Z AUTO 00000KT 9SM CLR 27/24 A2999 RMK AO2 SLP155 T02670244 KGRB 230718Z AUTO 00000KT 5SM -RA BR SCT007 20/19 A3001 RMK AO2 P0000 T02000194 KHIB 230714Z AUTO 00000KT 10SM FEW008 OVC018 18/17 A3006 RMK AO2 T01830167 DTMB 230030Z 20003KT 9999 FEW020 26/24 Q1014 NOSIG KFYV 230653Z AUTO 00000KT 10SM CLR 24/23 A3002 RMK AO2 SLP147 T02390228 KGRD 230656Z AUTO 28003KT 10SM CLR 24/21 A2997 RMK AO2 SLP138 T02440206 KHIE 230703Z AUTO 00000KT 10SM SCT001 SCT031 14/13 A3014 RMK AO2 T01440133 KHIF 230719Z AUTO 09010KT 10SM -DZ FEW036 SCT060 13/09 A3003 RMK AO2 LTG DSNT SE AND NW RAE0714 KGRF 230658Z AUTO 26002KT 10SM CLR 16/13 A3010 RMK AO2 SLP196 T01640126 PWINO $ URRR 230700Z 28003G06MPS 250V340 CAVOK 26/14 Q1014 22CLRD70 NOSIG FAUP 230700Z 07001KT CAVOK 10/M05 Q1023 NOSIG KGPZ 230715Z AUTO 15005KT 10SM BKN010 OVC015 18/17 A3006 RMK AO1 UTAK 230700Z 28005MPS 240V320 CAVOK 33/18 Q1012 NOSIG KGRI 230721Z AUTO 33005KT 9SM -RA FEW033 SCT090 BKN110 21/19 A2992 RMK AO2 P0003 T02060194 KHHR 230653Z 00000KT 10SM OVC014 21/17 A2996 RMK AO2 SLP143 T02110172 KHII 230710Z AUTO 14009KT 10SM FEW050 30/11 A2983 RMK AO2 UTAM 230700Z 29005MPS CAVOK 35/06 Q1008 NOSIG ZWWW 230700Z 34003MPS 300V020 CAVOK 31/07 Q1010 NOSIG KGRK 230655Z 19009KT 7SM CLR 27/18 A3001 RMK SLP154 KGSB 230658Z AUTO 00000KT 10SM FEW065 BKN180 24/24 A2992 RMK AO2 SLP134 T02390235 $ KIAB 230658Z AUTO 16014KT 10SM CLR 27/18 A2991 RMK AO2 SLP113 T02710180 FAWB 230700Z AUTO 23004KT //// // ////// 11/M06 Q1022 FAUT 230700Z 23010KT CAVOK 15/M06 Q1017 KIAD 230652Z 13003KT 10SM OVC014 22/20 A2999 RMK AO2 SLP153 T02170200 KHHV 230715Z AUTO 15013KT 10SM CLR 29/23 A3000 RMK A01 KHHW 230715Z AUTO 18004KT 10SM CLR 26/21 A2998 RMK AO2 T02600212 FBMN 230700Z 13010KT CAVOK 17/M12 Q1021 KHIO 230653Z AUTO 30006KT 10SM CLR 16/11 A3006 RMK AO2 SLP176 T01610106 KIAG 230711Z AUTO 06007KT 3/4SM R28R/2800VP6000FT BR VV002 19/18 A3000 RMK AO2 T01890183 KFZY 230654Z AUTO VRB05KT 10SM FEW020 OVC027 18/16 A3003 RMK AO2 SLP166 T01830156 URSS 230700Z 28002MPS 210V020 9999 FEW040 SCT100 28/20 Q1014 NOSIG RMK R06/29003MPS MT OBSC QFE759 02000070 06000070 ZYHB 230700Z 15003MPS 100V180 CAVOK 24/18 Q1005 NOSIG KIAH 230653Z 20003KT 10SM CLR 26/24 A3000 RMK AO2 SLP158 T02610239 KGSH 230653Z AUTO 22004KT 3SM BR CLR 24/23 A2998 RMK AO2 SLP146 T02390228 KHJH 230715Z AUTO 08005KT 10SM SCT110 23/19 A2990 RMK AO2 LTG DSNT N THRU E T02250192 UTAT 230500Z 33003MPS CAVOK 29/11 Q1008 NOSIG KGRR 230653Z AUTO 06005KT 10SM BKN060 21/21 A3002 RMK AO2 SLP160 T02110206 KHKA 230653Z AUTO 21004KT 10SM CLR 26/24 A2997 RMK AO2 SLP146 T02560239 UTAV 230500Z 32005MPS CAVOK 31/05 Q1006 NOSIG KGTB 230708Z AUTO 15009KT 10SM BKN029 OVC037 18/14 A3005 RMK AO2 FAWK 230700Z AUTO 20010KT //// // ////// 11/// Q1023 EKOD 230650Z 23010KT 9999 FEW020 14/12 Q1007 FAVV 230700Z AUTO 20007KT //// // ////// 06/M09 Q1024 KGTF 230653Z 32017G21KT 8SM OVC003 09/09 A3013 RMK AO2 SLP203 T00940089 401500094 KHJO 230653Z AUTO 00000KT 10SM CLR 24/11 A2986 RMK AO2 SLP112 T02440106 KGSO 230654Z 00000KT 10SM BKN060 OVC085 25/23 A2996 RMK AO2 SLP131 T02500228 KGSP 230653Z AUTO 00000KT 10SM CLR 24/22 A2996 RMK AO2 SLP132 T02390217 KGRY 230715Z AUTO 19004KT 10SM CLR 29/24 A3001 RMK A01 WALL 230600Z 21003KT 9999 FEW020 30/25 Q1009 NOSIG UTDD 230700Z 24002MPS 190V330 9999 FEW200 35/02 Q1009 09CLRD70 NOSIG RMK QFE689/0919 KHLC 230653Z AUTO 00000KT 10SM CLR 21/19 A2990 RMK AO2 SLP096 T02060194 KGUC 230715Z AUTO 00000KT 10SM BKN060 10/07 A3024 RMK AO1 KIBM 230715Z AUTO 00000KT 10SM SCT007 OVC023 16/15 A3001 RMK AO2 T01550150 KHLG 230653Z AUTO 10003KT 7SM FEW002 19/19 A2998 RMK AO2 SLP146 T01940189 URWA 230700Z 25002G05MPS 180V330 CAVOK 33/11 Q1013 NOSIG RMK QFE762/1016 SC070 KGTR 230715Z 00000KT 10SM CLR 23/19 A3000 RMK AO1 UTDL 230700Z 22002G05MPS 170V260 9999 SKC 36/08 Q1007 NOSIG RMK QFE716/0955 88CLRD70 KIDA 230710Z AUTO 31003KT 1 3/4SM BR CLR 09/08 A3004 RMK AO2 T00890078 KHKS 230653Z AUTO 00000KT 10SM CLR 24/22 A3002 RMK AO2 SLP156 T02440222 WAMM 230700Z 17013KT 9999 SCT022 32/20 Q1009 NOSIG KGTU 230715Z 18009KT 10SM CLR 27/21 A3003 RMK AO1 KICL 230715Z AUTO 17014KT 3SM BR SCT003 BKN045 OVC070 25/24 A2990 RMK AO2 KGUL 230715Z AUTO 10SM CLR 29/24 A3000 RMK A01 KHME 230650Z 05012KT CAVOK 33/M00 Q1015 KHLN 230653Z AUTO 29005KT 5SM RA BR BKN020 OVC033 10/09 A3014 RMK AO2 SLP207 P0004 T01000089 402000100 KGVE 230715Z AUTO 00000KT 3SM OVC003 21/21 A2998 RMK AO1 T02130210 URWI 230700Z 28005MPS 9999 FEW046CB BKN100 29/08 Q1013 TEMPO 3000 -TSRA KGUP 230653Z AUTO 22008KT 10SM CLR 16/09 A3020 RMK AO2 SLP083 T01560089 402390111 KHKY 230653Z AUTO 01005KT 10SM CLR 23/21 A2999 RMK AO2 SLP131 T02280211 UTFA 230430Z VRB01MPS 9999 NSC 30/11 Q1008 R88/09//70 KICR 230653Z AUTO 06005KT 10SM -RA FEW120 22/21 A2993 RMK AO2 LTG DSNT S RAB06 SLP119 P0002 T02220206 KIDI 230715Z AUTO 00000KT 4SM BR OVC009 20/20 A3003 RMK A01 KHLR 230656Z 17009KT 10SM CLR 29/18 A3001 RMK AO2 SLPNO T02890183 KGUR 230715Z AUTO 10012KT 10SM SCT090 20/17 A2996 RMK AO2 T02000165 PWINO ZYJM 230300Z 07002MPS 9999 FEW030CB SCT026 26/20 Q1006 NOSIG KGUS 230718Z AUTO 00000KT 9SM R23/5500FT CLR 22/22 A2998 RMK AO2 KICT 230653Z 17011KT 10SM SCT180 27/18 A2990 RMK AO2 SLP105 T02720178 KGWB 230715Z AUTO 00000KT 3/4SM BR VV005 21/20 A3000 RMK AO2 USNN 230700Z 35002MPS 300V020 CAVOK 21/11 Q1013 NOSIG RMK QFE756 030///65 KGVL 230653Z AUTO 31005KT 10SM CLR 24/21 A3004 RMK AO2 SLP153 T02440211 UTFF 230700Z VRB01MPS 9999 NSC 35/08 Q1007 R18/CLRD70 KHND 230656Z AUTO 18013KT 10SM CLR 27/10 A2988 RMK AO2 T02720100 403440183 SLP091 KHMN 230658Z AUTO 00000KT 10SM CLR 19/17 A3009 RMK AO2 SLP130 KHLX 230715Z AUTO 28003KT 10SM BKN120 20/19 A3008 RMK AO2 T01990188 KGUY 230653Z AUTO 21014KT 10SM FEW065 BKN120 21/17 A2995 RMK AO2 RAE21 SLP086 P0004 T02110167 KIDP 230715Z AUTO 19008KT 10SM CLR A2993 RMK AO2 WBGB 230700Z 34006KT 280V030 9999 SCT014 FEW015CB SCT150 BKN300 30/25 Q1007 KGXA 230655Z AUTO 30006KT 10SM CLR 20/06 A2998 RMK AO2 SLP104 T02040062 TSNO $ KIFA 230715Z AUTO 07004KT 10SM BKN019 OVC025 24/22 A2997 RMK AO2 T02370221 KHOB 230715Z AUTO 11006KT 10SM SCT110 22/18 A3006 RMK AO2 LTG DSNT S KGVT 230715Z AUTO 17005KT 10SM CLR 27/20 A2998 RMK AO2 EKSB 230651Z 21008KT 180V250 9999 FEW031CB 13/11 Q1007 URWW 230700Z 22003G06MPS CAVOK 31/11 Q1011 NOSIG RMK SC070 EKRK 230720Z AUTO 25011KT 9999NDV FEW011/// 14/11 Q1006 WAOO 230700Z 08010KT 9999 SCT018 34/22 Q1007 NOSIG WBGG 230700Z 14010KT 9999 SCT020 BKN300 33/25 Q1007 NOSIG KIEN 230652Z AUTO 10009KT 7SM RA OVC095 17/17 A2997 RMK AO2 SLP124 P0007 T01720167 402560139 KHOE 230715Z AUTO 00000KT 10SM CLR 26/23 A2997 RMK AO2 KGXF 230355Z 23001KT 10SM CLR 29/18 A2988 RMK SLP104 LAST EKRN 230720Z AUTO 24017KT 9999NDV SCT015/// BKN055/// BKN069/// 15/12 Q1008 KGWO 230653Z AUTO 00000KT 10SM CLR 23/22 A3000 RMK AO2 SLP158 T02280217 TSNO KGVX 230715Z AUTO 16014KT 10SM SCT022 29/25 A3000 RMK A01 KGWR 230715Z AUTO 04010KT 10SM OVC008 19/19 A3005 RMK A01 P000 KIER 230715Z AUTO 00000KT 10SM CLR 24/23 A3001 RMK AO2 T02410231 KHNR 230715Z AUTO 04006KT 10SM FEW004 OVC070 22/22 A2996 RMK AO2 DTTA 230700Z 00000KT CAVOK 29/18 Q1013 NOSIG KGYB 230715Z AUTO 21005KT 10SM CLR 25/23 A3005 RMK AO2 T02530231 DTTB 230700Z 21006KT 180V240 CAVOK 26/23 Q1014 FDBB 230700Z AUTO /////KT //// // ////// 11/04 Q//// FBSK 230600Z VRB02KT CAVOK 08/M13 Q1022 NOSIG DTTD 230700Z 00000KT CAVOK 29/13 Q1016 WAPP 230600Z 15010KT 9000 BKN017 27/24 Q1011 NSW USPP 230700Z 10004MPS 060V130 9999 FEW033 SCT210 23/14 Q1009 21090060 NOSIG RMK QFE746/0995 KGWW 230715Z AUTO 00000KT 7SM SCT060 23/23 A2993 RMK AO2 T02270225 KHON 230655Z AUTO 08011KT 9SM CLR 22/20 A2994 RMK AO2 SLP128 T02220200 EKSN 221350Z 21010KT 9999 SCT020 17/10 Q1004 EKTE 230720Z AUTO 30023KT 9999NDV -DZ FEW019 SCT031 12/09 Q1008 DTTF 230000Z /////KT CAVOK 28/// Q//// NOSIG WBGR 230700Z 32007KT 9999 SCT014 FEW015CB SCT150 BKN300 30/23 Q1007 KIFP 230715Z AUTO 20003KT 10SM CLR 28/14 A2983 RMK AO2 PWINO KHOP 230658Z AUTO 20003KT 9SM BKN140 26/26 A2999 RMK AO2 SLP150 T02560256 DTTG 230700Z 09008KT 060V130 4000 BR FEW020 BKN030 27/25 Q1014 NOSIG WBGS 230700Z 15003KT 9999 SCT018 BKN150 33/27 Q1006 FBSP 230700Z 11010KT CAVOK 17/07 Q1022 EKSP 230720Z 23008KT 9999 FEW025TCU 14/10 Q1007 KHNZ 230715Z AUTO 00000KT 5SM BR SCT034 SCT044 BKN060 23/22 A2995 RMK AO2 T02300220 KGYH 230715Z AUTO 30004KT 10SM CLR 23/23 A2997 RMK AO2 KGYI 230715Z AUTO 17010KT 10SM CLR 28/20 A2998 RMK AO2 T02750200 DTTJ 230030Z 04007KT 6000 FEW016 27/25 Q1013 NOSIG KHOT 230653Z AUTO 27003KT 10SM CLR 26/23 A3001 RMK AO2 SLP155 T02560228 DTTK 230700Z 20002KT CAVOK 27/20 Q1014 KGYL 230713Z AUTO 00000KT 7SM CLR 20/19 A3000 RMK AO2 T02030186 KHOU 230653Z 21003KT 10SM FEW120 26/23 A2999 RMK AO2 SLP160 T02560233 DTTL 230700Z 18007KT 120V240 9999 FEW020 26/25 Q1013 KIGM 230651Z AUTO 15007KT 10SM CLR 19/13 A3000 RMK AO2 SLP096 T01890133 402890144 WBGY 230700Z 21003KT 9999 FEW015CB SCT024 BKN150 33/25 Q1006 KHPN 230656Z 06004KT 10SM BKN015 BKN020 19/17 A3005 RMK AO2 SLP172 T01890167 DTTN 230700Z 20006KT CAVOK 26/20 Q1014 KGXY 230715Z AUTO 00000KT 10SM OVC019 17/12 A3002 RMK AO1 KGZH 230653Z AUTO 00000KT 6SM BR CLR 25/23 A3000 RMK AO2 SLP155 T02500233 KIGQ 230715Z AUTO 00000KT 1SM BR VV007 22/22 A2997 RMK AO2 T02200217 KGYR 230347Z VRB03KT 10SM FEW180 28/20 A2989 RMK LAST. KHQI 230715Z AUTO 15009KT 3/4SM HZ 30/25 A3001 RMK A01 DTTR 230700Z 15010KT CAVOK 31/M06 Q1015 KIIB 230715Z AUTO 00000KT 5SM RA SCT021 BKN026 OVC050 23/23 A2997 RMK AO2 P0002 KGZL 230655Z AUTO 14005KT 10SM CLR 25/19 A2998 RMK AO2 KHQM 230653Z AUTO 00000KT 5SM BR OVC003 13/13 A3012 RMK AO2 SLP203 T01330133 EKVD 221450Z 21010KT 9999 FEW007 SCT020CB BKN059 13/11 Q1005 WARQ 230700Z 12004KT 8000 SCT017 33/23 Q1009 NOSIG KIGX 230656Z AUTO 00000KT 9SM SCT075 24/23 A2996 RMK AO2 SLP138 T02440233 TSNO DTTX 222300Z 04008KT 9999 FEW023 27/24 Q1015 NOSIG WARR 230700Z 09012KT 9999 FEW020 30/21 Q1009 USRR 230700Z VRB01MPS 7000 FEW033 21/10 Q1013 NOSIG RMK QFE755 07////60 KGYY 230715Z AUTO 00000KT 1 3/4SM BR VV007 23/22 A2998 RMK AO2 T02260218 WARS 230630Z 09011KT 8000 SCT020 34/21 Q1008 NOSIG EKVG 230720Z AUTO 35013KT 9999NDV FEW042/// 09/06 Q1014 RMK BKN022/// WIND 850FT 36011KT 320V070 DTTZ 222200Z 10017KT 8000 NSC 31/20 Q1013 NOSIG KHRI 230653Z AUTO 01009KT 10SM SCT110 21/09 A3000 RMK AO2 SLP153 T02110094 KHSA 230050Z 00000KT 10SM CLR A3001 KHRJ 230715Z AUTO 00000KT 10SM CLR 23/23 A2993 RMK AO2 T02300226 EKVJ 221350Z 21016KT 9999 SHRA BKN014 BKN040 15/12 Q1005 KHSB 230715Z AUTO 00000KT 7SM SCT095 25/25 A2997 RMK AO2 LTG DSNT SE T02470247 KHRL 230652Z 13005KT 10SM CLR 27/25 A2998 RMK AO2 SLP151 T02670250 KJAC 230715Z AUTO 00000KT 10SM FEW039 SCT050 BKN060 08/08 A3010 RMK AO1 KHQU 230715Z AUTO 00000KT 10SM CLR 24/24 A3000 RMK AO1 T02380238 KIJD 230711Z AUTO 01003KT 10SM BKN013 OVC080 18/16 A3008 RMK AO2 T01780156 KHSE 230704Z AUTO 06004KT 10SM SCT019 BKN043 24/22 A2993 RMK AO2 T02440222 TSNO KHRO 230653Z AUTO 19005KT 10SM CLR 26/23 A3002 RMK AO2 SLP147 T02560228 ELLX 230650Z 24007KT 180V270 9999 FEW008 BKN100 12/11 Q1014 NOSIG USSS 230700Z 11004MPS 9999 OVC014 18/17 Q1012 080///60 580///70 NOSIG RMK QFE739 KHQZ 230715Z AUTO 17008KT 10SM CLR 27/21 A2998 RMK AO1 T02720206 WBKK 230700Z 33006KT 9999 FEW014 FEW017CB BKN280 32/25 Q1007 NOSIG KHSI 230653Z AUTO 35008KT 10SM -RA FEW047 FEW070 OVC085 20/18 A2993 RMK AO2 LTG DSNT NE TSB06E21 SLP119 P0010 T02000183 WBKL 230700Z 31005KT 9999 FEW010 FEW014CB BKN290 31/25 Q1007 KL18 230715Z AUTO 00000KT 2SM BR OVC002 17/17 A2997 RMK AO2 KHRT 230658Z AUTO 29002KT 10SM FEW060 28/23 A2998 RMK AO2 SLP154 T02810227 $ UUBP 230700Z 27002MPS 220V300 CAVOK 18/08 Q1019 NOSIG RMK QFE746 KJAN 230654Z AUTO 00000KT 10SM CLR 23/23 A3001 RMK AO2 SLP157 T02330228 KHRX 230715Z AUTO 20007KT 10SM SCT095 20/18 A3005 RMK AO2 T01980179 USTR 230700Z 07004MPS 360V110 9999 BKN033 22/17 Q1012 NOSIG RMK QFE749/0999 30CLRD65 03////99 KIIY 230715Z AUTO 31003KT 10SM CLR 27/25 A2997 RMK AO2 KHSP 230715Z AUTO 30007KT 5SM HZ BKN005 A3012 RMK AO2 WBKS 230700Z 24005KT 9999 SCT016 BKN290 34/24 Q1007 WATT 230600Z 09010 KT 8000 FEW020 30/15 Q1012 NSW WBKT 230700Z 06005KT 9999 SCT014 SCT140 BKN270 30/24 Q1007 KHUA 221955Z 28003KT 7SM SCT065 35/18 A3006 RMK LAST KJAS 230715Z AUTO 00000KT 7SM CLR 23/22 A3003 RMK AO2 T02280217 UUDD 230700Z 33003MPS 290V020 CAVOK 18/08 Q1017 NOSIG KHST 230658Z AUTO 08003KT 10SM CLR 27/22 A2994 RMK AO2 SLP142 T02740215 KIKK 230715Z AUTO 00000KT 1 3/4SM BR VV007 21/21 A2997 RMK AO2 VIS 3/4V3 T02090207 UUBW 230700Z 29003MPS CAVOK 19/07 Q1017 NOSIG WBKW 230700Z 16008KT 9999 FEW017 BKN300 31/24 Q1008 KHTL 230653Z AUTO 00000KT 10SM FEW065 17/16 A3006 RMK AO2 SLP176 T01670161 KHSV 230653Z AUTO 00000KT 10SM CLR 25/23 A3002 RMK AO2 SLP157 T02500228 KILE 230715Z AUTO 18009KT 10SM CLR 27/17 A3000 RMK AO1 KHTO 222255Z 00000KT 10SM BKN080 20/17 A3007 KHUF 230714Z 00000KT 3/4SM BR VV018 22/21 A2997 RMK AO2 T02170211 KJAX 230656Z 25005KT 10SM CLR 25/23 A2996 RMK AO2 SLP147 T02500233 KIJX 230715Z AUTO 14004KT 5SM BR CLR 26/25 A2995 RMK AO2 T02550246 KILG 230651Z AUTO 06007KT 10SM FEW090 20/17 A3002 RMK AO2 SLP164 T02000172 KL35 230715Z AUTO 26004KT 10SM CLR 11/01 A3022 RMK AO2 KJBR 230653Z AUTO 23004KT 10SM CLR 27/23 A2996 RMK AO2 SLP142 T02670233 UUDL 230700Z 27003MPS 240V320 CAVOK 18/10 Q1015 NOSIG RMK QFE753 23000060 KHTS 230651Z 22003KT 10SM SCT004 OVC055 22/22 A2998 RMK AO2 SLP144 T02170217 KL38 230715Z AUTO 00000KT 10SM CLR 26/26 A3000 RMK AO2 T02640264 KIKT 230715Z AUTO VRB03KT 10SM CLR 30/24 A2999 RMK A01 UUEE 230700Z VRB02MPS CAVOK 18/08 Q1017 NOSIG KHUL 230653Z AUTO 00000KT 10SM OVC060 14/13 A3013 RMK AO2 SLP204 T01440133 KILM 230653Z AUTO 00000KT 9SM CLR 23/23 A2992 RMK AO2 SLP130 T02330228 KJDD 230715Z AUTO 00000KT 10SM CLR 27/22 A3000 RMK AO2 KHUM 230715Z AUTO 00000KT 1/2SM FG VV005 25/23 A3001 RMK AO2 T02500233 KIKV 230715Z AUTO 10006KT 3SM BR OVC003 25/24 A2994 RMK AO2 KIKW 230714Z AUTO 00000KT 10SM CLR 18/17 A3004 RMK AO2 T01770172 KILN 230654Z AUTO 34004KT 9SM CLR 22/21 A2999 RMK AO2 SLP143 T02220211 KHVE 230715Z AUTO 29008KT 10SM SCT080 SCT090 BKN120 22/08 A2998 RMK AO2 FCPP 230700Z 14002KT 4000 BR SCT006 OVC020 22/20 Q1015 BECMG 6000 NSW OYAA 230700Z 31005KT 9999 FEW018 SCT070 33/21 Q1005 KHUT 230652Z AUTO 18010KT 10SM CLR 27/18 A2989 RMK AO2 SLP092 T02670178 KJCT 230651Z AUTO 20006KT 10SM CLR 26/17 A3004 RMK AO2 SLP132 T02560167 UTNN 230700Z 32004MPS CAVOK 34/04 Q1008 R33/CLRD60 NOSIG EKYT 230720Z 24013KT 9999 FEW016 SCT022TCU 15/12 Q1003 KIML 230653Z AUTO 10005KT 10SM OVC008 19/18 A2992 RMK AO2 SLP098 T01890178 403000189 KIMM 230715Z AUTO 00000KT 10SM CLR 23/ A2998 RMK A01 P000 KHWD 230654Z 32004KT 10SM FEW014 17/15 A2993 RMK AO2 SLP143 T01720150 KIND 230654Z 34003KT 10SM CLR 23/21 A2998 RMK AO2 SLP143 T02280211 KJDN 230648Z AUTO 07013KT 15/14 A3004 RMK AO1 SLP166 P0005 T01500139 402060139 KHVN 230653Z AUTO 03006KT 10SM OVC075 20/16 A3006 RMK AO2 SLP180 T02000161 KJEF 230653Z AUTO 00000KT 10SM CLR 25/23 A2992 RMK AO2 SLP116 T02500233 KINF 230715Z AUTO 00000KT 7SM CLR 22/18 A2999 RMK AO2 ZYTL 230700Z 15004MPS 3000 HZ SCT033 30/22 Q1005 NOSIG KHVR 230653Z AUTO 07013KT 10SM FEW027 OVC038 13/12 A3013 RMK AO2 SLP198 T01330122 401830133 UTNU 230700Z 29004MPS 260V320 CAVOK 34/10 Q1007 R31/CLRD70 NOSIG KHVS 230715Z AUTO 02004KT 10SM CLR 26/15 A2993 RMK AO2 KINJ 230715Z AUTO 17009KT 10SM CLR 28/19 A2999 RMK AO2 T02810191 KINK 230653Z AUTO 26009KT 10SM SCT090 SCT100 24/19 A3002 RMK AO2 LTG DSNT W SLP114 T02440194 KIMT 230704Z AUTO 00000KT 4SM -RA BR SCT005 OVC011 20/19 A3003 RMK AO2 RAB0655 P0000 T02000189 TSNO KIOB 230715Z AUTO 00000KT 10SM CLR 21/21 A3002 RMK AO2 KINL 230714Z AUTO 00000KT 3SM BR CLR 15/15 A3006 RMK AO2 T01500150 KHXD 230715Z AUTO 20003KT 10SM CLR 27/24 A2994 RMK AO2 P0000 KHWO 230653Z AUTO 00000KT 10SM CLR 27/22 A2997 RMK AO2 SLP148 T02670222 OYAR 230700Z 06006KT 9999 FEW030 24/06 Q//// KJER 230653Z AUTO 05008KT 10SM BKN120 11/09 A3002 RMK AO2 SLP140 T01060089 402220100 OYAT 230700Z 00000KT 9999 FEW025 33/14 Q1013 KHYA 230656Z AUTO 04003KT 10SM CLR 16/15 A3005 RMK AO2 SLP176 T01610150 KJES 230715Z AUTO 00000KT 7SM 26/25 A2995 RMK AO2 KINS 230658Z AUTO 11012KT 10SM CLR 26/09 A2986 RMK AO2 SLP061 T02600092 VISNO RWY08 $ KJFK 230651Z 06006KT 10SM FEW025 BKN060 BKN100 19/15 A3005 RMK AO2 SLP175 T01940150 $ KINT 230654Z AUTO 30003KT 10SM SCT060 24/20 A2998 RMK AO2 SLP137 T02440200 ZYTX 230700Z 22005MPS CAVOK 27/21 Q1005 NOSIG ENAL 230650Z 06010KT 9999 SCT017 BKN022 13/10 Q1002 KHWV 230656Z AUTO 00000KT 10SM OVC090 17/16 A3005 RMK AO2 SLP175 T01720156 TSNO KINW 230656Z AUTO 17003KT 10SM CLR 17/12 A3011 RMK AO2 SLP132 T01670117 402890133 ENAN 230650Z 03014KT 9999 FEW020 BKN030 09/05 Q1008 NOSIG KHWY 230715Z AUTO 00000KT 10SM BKN010 OVC018 23/23 A2998 RMK AO2 T02260226 KJGG 230715Z AUTO 00000KT 7SM CLR 23/22 A2996 RMK AO1 KHYI 230715Z 20007KT 10SM BKN014 26/21 A3003 RMK AO1 FDJR 230700Z AUTO 34002KT //// // ////// ///// Q1019 KIPJ 230715Z AUTO 00000KT 10SM CLR 23/22 A2996 RMK AO2 T02300221 ENAT 230650Z 04003KT 010V080 9999 FEW025 SCT036 09/05 Q1008 RMK WIND 700FT 08003KT KIPL 230653Z AUTO 26006KT 10SM CLR 26/13 A2982 RMK AO2 SLP099 T02560133 FDLB 230700Z AUTO 32003KT //// // ////// 18/01 Q//// ENBL 230650Z VRB01KT 9999 FEW/// SCT008 BKN047 10/09 Q1000 KIOW 230652Z AUTO 00000KT 7SM BKN090 24/24 A2995 RMK AO2 LTG DSNT W AND NW SLP134 T02440244 KHZE 230715Z AUTO 07009KT 10SM OVC013 17/15 A3008 RMK AO2 KIPN 230715Z AUTO 00000KT 10SM 31/24 A3000 RMK A01 KJFX 230715Z AUTO 00000KT 2 1/2SM BR CLR 22/22 A3002 RMK A02 P-128 ENBN 230650Z VRB01KT CAVOK 13/12 Q1005 ENBO 230650Z 08005KT 9999 VCSH FEW008 FEW025TCU BKN080 12/11 Q1006 UTSA 2306630Z 32002MPS 220V360 7000 NSC 36/09 Q1006 R07/CLRD70 NOSIG KJFZ 230715Z AUTO 25004KT 10SM SCT030 BKN039 OVC050 22/20 A3010 RMK AO2 T02150203 UTSB 230700Z 33002MPS CAVOK 34/12 Q1006 R01/CLRD70 NOSIG WBSB 230700Z 31010KT 9999 FEW016 FEW017CB BKN300 31/26 Q1007 NOSIG KHYR 230719Z AUTO 03005KT 8SM BKN006 OVC010 18/17 A3004 RMK AO2 CIG 003V007 T01780172 ENBR 230650Z VRB02KT 9999 VCSH FEW015TCU FEW020 BKN050 12/10 Q1001 RMK WIND 1200FT 14011KT KHYS 230715Z 34003KT 10SM BKN095 22/18 A2990 RMK AO1 LTG DSNT NW ENBS 230650Z 30014KT 9999 VCSH FEW010 BKN026 06/M01 Q1007 KIPT 230712Z AUTO 05010KT 10SM BKN006 BKN012 OVC017 20/18 A3000 RMK AO2 T02000178 OYDM 230700Z 00000KT 9999 FEW030 23/06 Q//// KHZL 230715Z AUTO 12004KT 7SM -RA BKN006 OVC014 17/16 A3008 RMK AO2 P0002 FDLM 230700Z AUTO 00000KT //// // ////// 20/M04 Q//// KHYW 230715Z AUTO 00000KT 3SM BR CLR 25/25 A2991 RMK AO2 ENBV 230650Z 26010KT 9999 BKN034 08/03 Q1007 ENCN 230650Z VRB01KT 9999 VCFG FEW010 FEW030TCU SCT060CB 10/09 Q1002 KHYX 230715Z AUTO 36003KT 7SM CLR 16/16 A3003 RMK AO2 UTSK 230700Z 23002MPS 190V260 CAVOK 37/04 Q1007 R16/CLRD70 KHZR 230715Z AUTO 00000KT 10SM CLR 25/24 A3001 RMK AO2 T02450240 KIRK 230655Z AUTO 13005KT 7SM CLR 25/24 A2994 RMK AO2 LTG DSNT NW SLP131 T02500239 KJHW 230715Z AUTO 00000KT 5SM CLR 18/17 A3001 RMK AO1 FDND 230700Z AUTO /////KT //// // ////// 15/07 Q//// KHZX 230707Z AUTO 00000KT 4SM SCT001 BKN011 17/16 A3005 RMK AO2 KHZY 230708Z AUTO 00000KT 3/4SM BR VV003 17/17 A2999 RMK AO2 T01670167 UTSS 230700Z 36003MPS 9999 NSC 35/06 Q1009 R88/CLRD70 NOSIG UTST 230700Z 26003MPS 230V300 CAVOK 35/10 Q1007 R88/CLRD70 NOSIG FDNH 230700Z AUTO 34002KT //// // ////// ///// Q//// ENDR 230650Z AUTO 04015KT 14/08 Q1004 KIRS 230714Z AUTO 08003KT 3SM BR SCT036 BKN050 22/21 A2999 RMK AO2 KJKA 230715Z AUTO 00000KT 10SM CLR 26/25 A2999 RMK AO2 T02630248 FDMS 230700Z 28004KT CAVOK 15/M04 Q1018 NOSIG KM19 230656Z AUTO 16007KT 10SM CLR 26/24 A2998 RMK AO2 T02610244 SLP147 ENFB 230650Z AUTO 36024KT 9999NDV FEW015/// 12/10 Q1003 W///S4 ENEK 230650Z 30019KT 9999 VCSH SCT018CB SCT050 13/08 Q1007 W15/S4 KISM 230150Z 00000KT 10SM SCT150 BKN250 24/23 A3002 RMK LAST ENDU 230650Z 04004KT 9999 FEW015 SCT050 BKN070 10/06 Q1007 NOSIG KISN 230720Z AUTO 05011KT 10SM BKN014 OVC020 16/13 A3011 RMK AO2 T01610133 KISO 230715Z AUTO 00000KT 10SM SCT070 24/22 A2994 RMK AO2 T02400221 FEFF 230700Z VRB02KT 9999 FEW010 BKN150 25/22 Q1015 NOSIG KM25 230715Z AUTO 21003KT 10SM CLR 25/23 A2999 RMK AO2 KISP 230656Z AUTO 07005KT 10SM BKN090 18/16 A3003 RMK AO2 SLP169 T01830156 LBBG 230700Z 09004MPS 9999 SCT015 FEW030CB BKN043 27/23 Q1016 NOSIG ENFG 221420Z 30007KT 240V360 9999 5000N -RA BR FEW001 SCT009 BKN026 07/05 Q1004 KISQ 230714Z AUTO 07004KT 10SM SCT039 OVC050 20/18 A3003 RMK AO2 T01980178 KITH 230656Z AUTO 13007KT 10SM OVC013 19/18 A3005 RMK AO2 T01940177 SLP168 UTTT 230700Z 24002MPS CAVOK 36/06 Q1007 R08R/CLRD70 NOSIG KJKJ 230714Z AUTO 01007KT 10SM OVC004 19/19 A3005 RMK AO2 KM30 230715Z AUTO 21003KT 7SM CLR 26/23 A2996 RMK AO2 T02640229 KJKL 230719Z AUTO 00000KT 2SM BR SCT001 BKN019 BKN030 22/21 A3003 RMK AO2 VIS 1V4 T02170206 OYHD 230700Z 22009KT CAVOK 34/26 Q1005 ENGC 230650Z 02024KT 9999 FEW012CB SCT040 13/10 Q1003 W12/S4 ENFL 230650Z VRB01KT 9999 FEW003 BKN039 12/11 Q1001 ENEV 230650Z 34005KT 310V010 9999 FEW020 SCT074 11/08 Q1007 RMK WIND 1400FT 02009KT KISW 230654Z AUTO 06004KT 6SM BR OVC010 23/22 A3000 RMK AO2 SLP151 T02280217 FDNY 230700Z AUTO 12003KT //// // ////// 19/M01 Q1027 OYHJ 230700Z 24004KT 9999 FEW020 25/14 Q//// KITR 230653Z AUTO 17004KT 10SM SCT110 17/16 A2997 RMK AO2 SLP092 T01670161 403060167 OYIB 230700Z 04003KT 9999 SCT025 25/11 Q1020 KM40 220935Z AUTO 00000KT 6SM HZ CLR 23/13 A3009 RMK AO2 FEFT 230700Z 32006KT 9999 FEW004 BKN150 22/21 Q1014 FDOT 230700Z AUTO /////KT //// // ////// 16/M04 Q1019 UUMO 230700Z 32003MPS 020V260 CAVOK 17/08 Q1017 NOSIG RMK QFE747/0997 SC060 ENHD 230650Z 17003KT 130V210 9999 FEW008 FEW015CB BKN045 13/10 Q1001 ENGM 230650Z 10004KT 060V120 9999 -RA FEW004 SCT006 OVC020 11/10 Q1001 TEMPO BKN006 KJLN 230653Z AUTO 18010KT 10SM CLR 27/22 A2997 RMK AO2 SLP133 T02720217 ENHE 230650Z 06008KT 9999 FEW025 BKN040 12/07 Q1005 W///S4 ENHF 230704Z 24003KT 9999 SCT027 BKN033 07/03 Q1008 RMK WIND 1254FT VRB02KT FDPP 230700Z AUTO 25015KT //// // ////// 12/M06 Q1006 UUOB 230700Z 36005MPS 9999 BKN026 BKN070 18/10 Q1016 NOSIG RMK SC060 KIWA 230715Z AUTO 16006KT 10SM CLR 26/15 A2993 RMK AO2 ENHK 221350Z 35007KT 9999 FEW025 11/04 Q1008 KIWD 230155Z AUTO 27005KT 1/2SM OVC002 16/16 A3002 RMK AO1